ENHM 011120Z 11007KT 070V130 9999 FEW020 18/11 Q1007 W16/S4 UUOK 011100Z 10005MPS 9999 SCT033 33/05 Q1015 NOSIG RMK KJMR 011133Z AUTO 00000KT 1 3/4SM BR VV007 13/12 A3006 RMK AO2 VIS 1V3 KIWI 011053Z AUTO 00000KT 8SM CLR 16/15 A3020 RMK AO2 SLP228 T01610150 KIXA 011135Z AUTO 01003KT 5SM -RA SCT035 BKN090 OVC120 20/20 A3014 RMK AO2 P0001 KJMS 011056Z AUTO 29003KT 10SM FEW090 16/13 A3007 RMK AO2 SLP176 T01560133 PPIT 011056Z AUTO 24012KT 6SM -RA BR BKN018 OVC024 12/12 A3022 RMK AO2 RAB37 SLP232 P0000 T01220117 UUOO 011130Z 13003G06MPS 090V190 CAVOK 35/01 Q1016 NOSIG RMK 12090070 KIXD 011053Z 18004KT 10SM OVC110 18/16 A3008 RMK AO2 SLP176 T01830161 ENHV 010950Z 25015KT 9999 SCT023 14/09 Q1000 KM63 011139Z AUTO 32006KT 10SM -SHRA FEW003 BKN006 OVC008 18/17 A3019 RMK AO2 LTG DSNT SE PPIZ 011056Z AUTO 23014KT 10SM OVC004 08/08 A2997 RMK AO2 TSNO T00830077 SLP153 $ KIYA 011135Z AUTO 12003KT 7SM VCTSRA SCT022 BKN045 OVC120 26/24 A2996 RMK AO2 LTG DSNT SW THRU N P0001 T02560236 ENKB 011120Z 26012KT 9999 FEW037 BKN051 15/09 Q1008 KJNX 011135Z AUTO 04004KT 10SM OVC100 22/21 A3010 RMK AO2 LTG DSNT SE AND S OYMB 311500Z 12002KT 9999 BKN030 37/10 Q1004 ENLA 011120Z AUTO 17016KT 9999NDV FEW035/// 18/16 Q1007 W///S3 KJOT 011135Z AUTO 00000KT 5SM VCTS BR SCT050 17/16 A3010 RMK AO2 LTG DSNT W THRU NE T01700156 FDST 011100Z AUTO 27003KT //// // ////// ///// Q//// KJQF 011055Z 03009G16KT 4SM RA BR BKN014 OVC023 19/18 A3011 LBGO 011100Z 27003MPS 240V320 9999 SCT030 BKN050 24/19 Q1009 NOSIG KIZG 011054Z AUTO 00000KT 7SM CLR 14/13 A3020 RMK AO2 SLP228 T01390128 ENKR 011120Z 20007KT 9999 SCT021TCU 19/14 Q1001 RMK WIND 775FT 22011KT ENLK 011120Z 17015KT 9999 VCSH FEW020 SCT030 15/11 Q1002 KN03 011135Z AUTO 00000KT M1/4SM FG OVC002 13/13 A3020 RMK AO2 ENMH 011050Z 26010KT 9999 SCT030 16/11 Q1000 KLAA 011053Z AUTO 22003KT 8SM CLR 13/12 A3018 RMK AO2 SLP178 T01330122 ENNA 011120Z 31012KT 9999 FEW045 SCT082 20/10 Q1000 RMK WIND 1800FT 29023KT ENML 011120Z 29011KT 9999 SCT020 BKN035 17/10 Q1008 ENNE 011120Z 28027KT 9999 -DZ BKN015 13/11 Q1002 W13/S/ KLAF 011058Z 00000KT 10SM MIFG CLR 14/13 A3010 RMK AO2 T01390133 ENMS 011120Z 17006KT 9999 VCSH FEW028 BKN040 16/09 Q1005 RMK WIND 412FT VRB04KT ENOA 011120Z 12009KT 9999 FEW025 14/11 Q1008 W///S4 KLBB 011053Z 00000KT 10SM FEW140 FEW260 SCT300 17/14 A3017 RMK AO2 SLP169 T01720144 ENNK 010650Z VRB04KT 9999 VCSH FEW030 BKN040 16/13 Q1001 KLAL 011050Z 00000 10SM SCT040 23/22 A2998 KJTC 011135Z AUTO 23004KT 10SM BKN090 15/11 A3034 RMK AO2 KLAM 011135Z AUTO 23007KT 10SM CLR 12/12 A3038 RMK AO2 T01200115 ENNM 011120Z 22005KT 9999 -RA SCT035 BKN046 13/10 Q1007 KLBE 011050Z 00000KT 6SM BR BKN150 14/14 A3017 RMK 70009 KLAN 011053Z 23004KT 5SM BR CLR 17/14 A3007 RMK AO2 SLP178 T01670144 KLBF 011053Z AUTO 00000KT 10SM CLR 12/09 A3012 RMK AO2 SLP178 T01170094 KJSO 011135Z AUTO 34004KT 3SM BR OVC002 21/20 A3000 RMK AO2 T02100205 ENNO 011050Z VRB03KT 9999 FEW060 SCT080 23/12 Q1008 LATI 011150Z 28008KT 250V310 9999 SCT030CB 25/18 Q1008 NOSIG KLAR 011053Z AUTO 25003KT 10SM CLR 07/06 A3034 RMK AO2 SLP188 T00720056 VMMC 011130Z 21015KT 9999 FEW020 31/28 Q0998 NOSIG KLAS 011056Z 36004KT 10SM SCT140 BKN250 32/11 A2988 RMK AO2 SLP085 T03170106 $ KJST 011054Z AUTO 00000KT 9SM CLR 15/13 A3020 RMK AO2 SLP217 T01500133 KLBL 011135Z AUTO 28004KT 10SM CLR 15/11 A3017 RMK AO1 ENOL 011120Z 27004KT 9999 FEW014 SCT025 BKN050 15/11 Q1007 NOSIG KJSV 011135Z AUTO 00000KT 7SM OVC031 20/18 A3007 RMK AO2 KLAW 011053Z 00000KT 6SM BR CLR 18/17 A3007 RMK AO2 SLP174 T01830172 KLAX 011059Z 24004KT 9SM BKN008 19/17 A2991 RMK AO2 KLCG 011135Z AUTO 00000KT M1/4SM FG OVC001 12/12 A3009 RMK AO2 T01240121 KLCH 011053Z AUTO 22003KT 10SM FEW070 BKN095 OVC110 26/22 A2994 RMK AO2 SLP145 T02560217 KLCI 011135Z AUTO 24005KT 1 1/2SM 16/15 A3021 RMK AO1 KLBR 011135Z AUTO 03004KT 4SM OVC005 20/19 A3002 RMK AO1 T01970193 KN38 011135Z AUTO 19004KT M1/4SM FG VV000 12/12 A3022 RMK AO2 ENQA 011120Z AUTO 16005KT 9999NDV NCD 18/11 Q1009 W15/S4 KLBT 011101Z AUTO 11007KT 3SM RA BR SCT008 BKN036 BKN043 23/21 A3005 RMK AO2 P0000 T02280211 KLCK 011135Z AUTO 00000KT 4SM HZ CLR 17/14 A3013 RMK AO2 T01690143 ENQC 011120Z AUTO 14007KT 9999NDV FEW018/// 16/10 Q1008 W///S4 ENOV 011050Z VRB05KT 9999 VCSH FEW020 SCT035 BKN045 14/10 Q1008 RMK WIND 2175FT 28007KT KLBX 011053Z AUTO 00000KT 10SM -RA FEW023 SCT055 BKN110 24/23 A2995 RMK AO2 TSE16 SLP142 P0004 T02390228 KLCQ 011135Z AUTO 10SM CLR 21/20 A2997 RMK AO2 LTG DSNT NE AND S VLVT 011130Z 22002KT 7000 SCT020 FEW200 33/25 Q1000 NOSIG KLDJ 011155Z AUTO 32004KT 10SM CLR 23/20 A3020 RMK AO2 T02250195 10230 20214 KKLS 011135Z AUTO 02005KT 10SM CLR 17/12 A3007 RMK AO1 ENRA 011120Z 29008KT 9999 VCSH FEW020 SCT030 BKN040 14/10 Q1006 KLEB 011134Z 00000KT 5SM BR OVC002 16/14 A3021 RMK AO2 T01610144 KJVL 011045Z 00000KT 10SM CLR 15/13 A3006 RMK FIRST OYRN 011000Z 21006KT 7000 SCT030 BKN080 28/23 Q1002 KLDM 011135Z AUTO 00000KT 2 1/2SM BR CLR 13/12 A3005 RMK AO2 T01250120 KLEE 011053Z 00000KT 9SM CLR 23/21 A2998 RMK AO2 SLP151 T02280206 OYSH 010900Z 18010KT 7000 SCT025 28/12 Q//// KJWG 011135Z AUTO 00000KT 4SM BR CLR 16/16 A3011 RMK AO2 T01600160 ENQR 011120Z AUTO 13004KT 9999NDV /// 16/09 Q1008 W///S4 KN60 011052Z AUTO 06003KT 14/12 A3006 RMK AO1 SLP174 T01390122 UUWW 011130Z 23004MPS 180V260 CAVOK 32/10 Q1016 NOSIG ENSB 011050Z 31003KT 280V350 9999 SCT020 SCT060 05/01 Q1000 NOSIG RMK WIND 1400FT 29004KT OYSN 011000Z 34021KT 8000 TS SCT025CB SCT030 24/10 Q1022 TEMPO RA ENRM 011050Z 22015KT 9999 SCT022 SCT050 14/10 Q1006 ENSD 011120Z VRB01KT 9999 FEW010 SCT030 BKN040 16/11 Q1008 RMK WIND 1138FT 05004KT UWGG 011130Z 14003MPS 090V220 6000 FEW033 BKN100 30/15 Q1017 NOSIG 18090070 RMK QFE756 LCEN 011120Z 15006KT CAVOK 36/18 Q1005 NOSIG KJVW 011135Z AUTO 00000KT 6SM HZ FEW060 BKN080 20/18 A3003 RMK AO2 ENSE 011120Z AUTO 14002KT 9999NDV NCD 15/08 Q1009 W///S4 OYSQ 011100Z 21042G52KT 9999 FEW018 BKN200 32/22 Q1005 ENRO 011120Z 02004KT 310V090 9999 VCSH FEW034 SCT054CB 13/09 Q1006 ENSF 011120Z AUTO 09003KT 030V130 9999NDV NCD 15/09 Q1011 W///S4 ENSG 011050Z 25007KT 9999 VCSH FEW004 SCT040 BKN060 12/10 Q1009 RMK WIND 3901FT /////KT ENSH 011050Z 21025KT 9999 -SHRA SCT014 BKN025 13/11 Q1003 KLFI 011123Z AUTO 02002KT 8SM -DZ FEW090 22/22 A3015 RMK AO2 RAB1105E1116DZB1116E1118 $ KJXI 011135Z AUTO 04003KT 2 1/2SM BR OVC002 19/19 A3001 RMK AO2 P0001 KLGA 011051Z 23006KT 10SM FEW170 BKN250 23/18 A3017 RMK AO2 SLP217 T02280178 ENRS 010650Z 19018KT 9999 FEW020 SCT070 13/10 Q0999 KLFK 011053Z AUTO 28006KT 6SM BR OVC003 24/23 A2994 RMK AO2 SLP132 T02440228 $ KLGB 011053Z 16003KT 10SM BKN010 20/18 A2991 RMK AO2 SLP127 T02000178 ENSK 011050Z 21008KT 9999 VCSH FEW020 SCT030 BKN035 16/12 Q1002 KLGC 011135Z AUTO 06003KT 5SM BR OVC005 22/22 A3005 RMK AO2 T02220215 EPBC 011100Z 06008KT 9999 BKN018 22/18 Q1014= ENTC 011120Z 22014KT 9999 FEW045 SCT055 17/08 Q1002 NOSIG RMK WIND 2600FT 21010KT ENSL 011120Z 14010KT 9999 FEW020CB SCT068 17/14 Q1006 W15/S3 KLGD 011135Z AUTO 00000KT 10SM CLR 13/04 A3008 RMK AO1 LBPD 011100Z VRB02MPS 9999 SCT030 SCT100 27/19 Q1007 NOSIG KLEW 011135Z AUTO 00000KT 1/2SM OVC002 15/14 A3021 RMK AO1 KJXN 011056Z 25003KT 5SM BR CLR 15/14 A3009 RMK AO2 SLP184 T01500139 ENSN 011050Z 21009G19KT 140V290 9999 SCT050 23/08 Q1009 OYSY 011000Z AUTO 26006KT 200V360 //// ////// 40/12 Q1004 KLEX 011054Z 00000KT 5SM BR CLR 16/14 A3012 RMK AO2 SLP191 T01560139 $ ENSO 011120Z 19005KT 140V250 9999 SCT028TCU SCT100 20/11 Q1009 KJYG 011135Z AUTO 00000KT 10SM CLR 13/12 A3008 RMK AO2 KJWY 011135Z AUTO 36006KT 7SM OVC007 21/19 A3003 RMK AO2 T02050188 ENRY 011120Z 19017KT 9999 SCT030 21/12 Q1010 NOSIG ENSR 010750Z 30004KT 9999 FEW020 BKN051 15/13 Q1000 RMK WIND 1119FT 25003KT ENSS 011050Z 20014KT 9999 FEW015CB 17/12 Q1000 RMK WIND 500FT 20017KT KLFT 011053Z 00000KT 10SM FEW070 24/23 A2996 RMK AO2 SLP145 T02440233 KLHB 011135Z AUTO 33004KT 10SM OVC015 22/20 A3000 RMK AO2 T02200197 ENST 011120Z 19017KT 9999 VCSH SCT011 SCT024TCU 16/11 Q1005 RMK WIND 300FT 19024KT KJYL 011135Z AUTO 36003KT 1 1/2SM BR OVC002 23/23 A3002 RMK AO2 LTG DSNT E AND SE T02340234 KJYM 011135Z AUTO 00000KT 7SM SCT100 17/17 A3011 RMK AO2 T01710168 UUYY 011130Z VRB02MPS CAVOK 22/07 Q1019 NOSIG 19CLRD61 RMK QFE756/1008 EPCE 011130Z 36004KT 330V030 9999 SCT053 OVC065 23/11 Q1016 RMK 232 047 8/4= KJYO 011135Z AUTO 00000KT 10SM CLR 21/21 A3018 RMK AO2 OYTZ 010900Z 26014KT 8000 FEW030 29/15 Q1015 ENTO 011120Z 21016KT 9999 FEW030 22/12 Q1010 KJZI 011155Z AUTO 00000KT 3SM HZ FEW002 SCT042 24/21 A3000 RMK A02 LTG DSNT NE-S P000 KJYR 011135Z AUTO 01006KT 5SM BR CLR 13/13 A3006 RMK AO2 EPDA 011130Z 36006KT 310V040 9999 FEW034 SCT200 22/14 Q1016 RMK 221 060 4/1= ENVA 011120Z 34007KT 9999 6000E -DZ FEW007 BKN029 13/12 Q1008 TEMPO 4000 SHRA BKN012 RMK WIND 670FT 33010KT FGBT 011100Z 18006KT 9999 SCT010 BKN120 27/21 Q1015 NOSIG KLGU 011051Z AUTO 20004KT 10SM CLR 17/09 A3016 RMK AO2 SLP157 T01670094 KLIC 011055Z AUTO 00000KT 5SM BR CLR 10/09 A3027 RMK AO2 SLP197 T01000094 KLHM 011135Z AUTO 15005KT 10SM CLR 21/10 A2982 RMK AO1 ENVD 011050Z 11006KT 9999 VCSH SCT022 BKN060 16/14 Q1000 EPDE 011130Z 01006KT 9999 SCT017 BKN200 24/20 Q1013 RMK 242 080 5/3= EPBY 011130Z 08007KT 030V130 CAVOK 24/13 Q1015 KLHQ 011140Z AUTO 00000KT 1SM BR CLR 16/15 A3013 RMK AO2 T01610150 ENVH 011120Z AUTO 18015KT 9999NDV FEW010/// 20/16 Q1008 W///S3 UWKD 011130Z 36004G08MPS 9999 FEW033 SCT070 25/11 Q1018 R29/CLRD70 NOSIG RMK QFE752/1003 UWKE 011130Z 03005MPS 9999 SCT026 20/11 Q1018 NOSIG RMK QFE746/0995 03090070 KMAE 011053Z AUTO 24003KT 10SM CLR 21/13 A2982 RMK AO2 SLP095 T02060128 $ KLHW 011140Z AUTO 02004KT 3/4SM R33/3500FT BR VV002 23/23 A2998 RMK AO2 KLHX 011053Z AUTO 06004KT 10SM CLR 16/14 A3021 RMK AO2 SLP179 T01560139 $ KMAF 011053Z AUTO 07008KT 10SM CLR 21/16 A3013 RMK AO2 SLP157 T02060161 TSNO KLJF 011133Z AUTO 00000KT 10SM 18/16 A3007 RMK AO2 LBSF 011130Z 26003MPS 230V310 9999 BKN029 BKN051 OVC060 23/17 Q1009 NOSIG DXNG 011100Z 23007KT 200V260 9999 BKN006 25/21 Q1018 NOSIG KLHZ 011135Z AUTO 01005KT 7SM OVC100 20/19 A3014 RMK AO2 VOCB 011130Z 22010KT 5000 DZ FEW010 SCT015 BKN080 25/23 Q1009 TEMPO 3000 RA KMAI 011053Z AUTO 00000KT 10SM CLR 21/20 A2997 RMK AO2 SLP146 T02060200 VOBL 011130Z 26017KT 9999 SCT012 SCT020 31/23 Q1009 NOSIG KLIT 011053Z 36004KT 10SM OVC049 21/18 A3005 RMK AO2 SLP176 T02060183 KO22 011135Z AUTO 34004KT 10SM OVC100 25/07 A2993 RMK AO1 KMAN 011135Z AUTO 12003KT 10SM OVC046 17/12 A3008 RMK AO1 KMAO 011135Z AUTO 08006KT 10SM SCT007 BKN020 BKN025 22/22 A3004 RMK AO2 LTG DSNT SE AND S VOCI 011130Z 25004KT 4000 DZ SCT010 SCT015 OVC080 25/24 Q1010 NOSIG KMBG 011052Z AUTO 11006KT 10SM CLR 16/13 A3004 RMK AO2 SLP164 T01560128 UWKS 011130Z 35002MPS 9999 FEW020 27/11 Q1018 NOSIG RMK QFE748 06CLRD60 VNKT 011050Z 21011KT 8000 FEW020 FEW025CB SCT030 BKN100 26/20 Q1006 NOSIG CB TO N AND W VOCL 011130Z 33004KT 3000 -RA SCT006 SCT012 OVC080 25/24 Q1008 NOSIG KMCB 011053Z AUTO 00000KT 7SM FEW090 BKN110 22/19 A3001 RMK AO2 RAE16 SLP158 P0000 T02170194 KMBL 011135Z AUTO 09003KT 3SM CLR 12/11 A3005 RMK AO1 KMCC 011130Z AUTO 15006KT 10SM CLR 20/12 A2984 RMK AO2 KMCD 011137Z AUTO 00000KT M1/4SM FG OVC003 14/14 A3003 RMK AO2 T01400140 KMCE 011053Z AUTO 29004KT 10SM CLR 24/11 A2980 RMK AO2 SLP090 T02390106 EPGD 011130Z 09006KT 030V150 9999 FEW040 24/13 Q1016 KMCF 011058Z AUTO 10002KT 10SM CLR 23/21 A2998 RMK AO2 SLP155 T02250208 KLKR 011135Z AUTO 02003KT 3SM -RA OVC005 20/20 A3007 RMK AO2 KMCI 011053Z 00000KT 10SM SCT070 OVC110 20/16 A3008 RMK AO2 RAB40E51 SLP175 P0000 T02000161 KMBS 011053Z 22007KT 10SM CLR 17/14 A3005 RMK AO2 SLP174 T01720144 KMCJ 011135Z AUTO 00000KT 10SM SCT100 23/22 A2992 RMK AO1 KLLJ 011055Z AUTO 00000KT 10SM CLR 16/08 A3023 RMK AO2 SLP168 T01610083 KMCK 011053Z AUTO 31005KT 10SM CLR 13/12 A3011 RMK AO2 SLP176 T01330122 LCLK 011130Z 21016KT 9999 FEW014 31/22 Q1005 NOSIG UWLW 011100Z 36003G06MPS 8000 FEW033 26/12 Q1017 20CLRD60 NOSIG RMK QFE758 KLKU 011135Z AUTO 00000KT 4SM DZ CLR 21/19 A3018 RMK AO2 KLKV 011135Z AUTO 30008KT 10SM FEW100 14/08 A3019 RMK AO1 KMDD 011135Z AUTO 07003KT 10SM CLR 20/17 A3014 RMK AO2 T02030166 KMCN 011053Z AUTO 03007KT 10SM OVC007 22/21 A3002 RMK AO2 SLP161 T02170211 TSNO KMCO 010953Z 17003KT 10SM FEW040 24/22 A2996 RMK AO2 SLP144 T02390222 KMDH 011133Z AUTO 00000KT 1SM BR VV002 16/14 A3009 RMK AO2 T01560144 KLLQ 011053Z AUTO 09004KT 8SM -RA FEW060 OVC070 21/19 A3003 RMK AO2 RAB10 SLP166 P0000 T02110194 KMDJ 011135Z AUTO 00000KT 10SM CLR 28/20 A3001 RMK A01 KMEB 011052Z AUTO 08006KT 6SM BR FEW007 BKN041 OVC080 22/21 A3006 RMK AO2 SLP175 T02220211 TSNO KLNC 011135Z AUTO 00000KT 7SM OVC007 20/19 A3002 RMK AO2 T02020187 KLND 011053Z AUTO VRB06KT 10SM CLR 17/02 A3023 RMK AO2 SLP167 T01670022 TSNO KMCW 011137Z AUTO 00000KT 2SM BR CLR 13/13 A3009 RMK AO2 VIS 1/2V5 T01280128 KO54 011135Z AUTO 00000KT 10SM CLR 13/01 A3001 RMK AO1 KLMO 011134Z AUTO 00000KT 10SM CLR 15/10 A3026 RMK AO2 T01490096 KMCX 011135Z AUTO 00000KT 7SM CLR 14/14 A3011 RMK AO2 T01410136 KMDQ 011135Z AUTO 00000KT 7SM CLR 16/13 A3008 RMK AO2 KMEH 011056Z AUTO 00000KT 10SM CLR 12/10 A3012 RMK AO2 SLP173 T01220100 KMEI 011058Z 00000KT 10SM SCT100 18/17 A3002 RMK AO2 SLP160 P0001 T01830167 KMDS 011130Z AUTO 00000KT 10SM CLR 10/10 A3010 RMK AO2 KLMT 011053Z AUTO 36006KT 10SM CLR 16/10 A3012 RMK AO2 SLP145 T01610100 KLNK 011054Z 12004KT 10SM CLR 19/14 A3004 RMK AO2 SLP161 T01890139 KMDT 011056Z 00000KT 4SM BR SCT100 BKN250 20/18 A3016 RMK AO2 SLP211 T02000178 LDDU 011130Z 20008KT 160V250 9999 FEW020TCU FEW023 24/20 Q1009 NOSIG KLNL 011135Z AUTO 00000KT 1/4SM FG OVC001 08/08 A3007 RMK AO2 T00770077 UWOO 011130Z 33008MPS P5000 BKN040CB 28/11 Q1014 08CLRD65 NOSIG RMK QFE750/1000 KMFD 011052Z 00000KT 7SM CLR 15/14 A3014 RMK AO2 SLP201 T01500139 KMEM 011054Z 03003KT 9SM -RA FEW075 BKN100 BKN120 22/19 A3006 RMK AO2 RAB33 SLP174 P0000 T02220189 $ ENZV 011120Z 20008KT 170V230 9999 FEW028 SCT035 20/12 Q1009 NOSIG KMDW 011051Z 24007KT 6SM HZ FEW050 SCT100 SCT300 20/17 A3007 RMK AO2 SLP173 CB DSNT S-SW T02000172 KMFE 011053Z AUTO 15006KT 7SM CLR 27/24 A2990 RMK AO2 SLP124 T02670244 LBWN 011130Z 07007MPS 040V110 9999 FEW030 30/19 Q1006 NOSIG UWOR 011100Z 03003MPS 9999 TS BKN043CB 30/17 Q1012 25CLRD65 NOSIG RMK QFE735/0980 KLNP 011135Z AUTO 19003KT 10SM BKN034 BKN100 BKN120 16/15 A3019 RMK AO2 KMDZ 011135Z AUTO 00000KT M1/4SM FG VV000 11/11 A3006 RMK AO2 T01140114 KMFI 011054Z AUTO 00000KT 7SM CLR 16/14 A3004 RMK AO2 SLP166 T01610139 KLNR 011056Z AUTO 00000KT 1/4SM FG VV002 14/12 A3006 RMK AO2 SLP171 T01440122 KMER 011135Z AUTO 36004KT 10SM CLR 21/09 A2982 RMK AO1 EPIR 011130Z 09010KT 9999 -RA SCT030 BKN060 BKN100 21/15 Q1016 RMK 212 068 7/4 KLNS 011139Z 00000KT 2 1/2SM BR FEW110 21/19 A3018 RMK AO2 T02060194 KO69 011135Z AUTO 32003KT M1/4SM OVC002 12/12 A2991 RMK AO1 DXSK 010900Z 00000KT 9999 BKN010 BKN120 24/23 Q//// KLOL 011053Z AUTO 31007KT 10SM CLR 17/08 A3009 RMK AO2 SLP147 T01720078 KLPC 011135Z AUTO 7SM OVC004 16/13 A2992 RMK AO1 KMGC 011135Z AUTO 00000KT 5SM BR CLR 15/15 A3009 RMK AO2 KMEV 011135Z AUTO 16004KT 10SM FEW110 13/09 A3019 RMK AO2 KLOM 011135Z AUTO 00000KT 7SM CLR 22/20 A3018 RMK AO1 KMGE 011142Z VRB04KT 5SM BR OVC007 19/19 A3008 RMK AO2A $ KMGG 011138Z AUTO 00000KT 7SM CLR 16/15 A3006 RMK AO2 T01580146 KMEZ 011135Z AUTO 00000KT 4SM OVC025 20/19 A3007 RMK AO2 LCPH 011130Z 24008KT 210V280 9999 SCT012 30/25 Q1006 KLOR 011053Z AUTO 00000KT 6SM BR CLR 18/17 A2998 RMK AO2 SLP148 T01830172 $ KMFR 011053Z AUTO 00000KT 8SM CLR 21/13 A2998 RMK AO2 SLP138 T02060133 KMGJ 011054Z AUTO 00000KT 6SM BR CLR 16/15 A3019 RMK AO2 SLP220 T01610150 TSNO $ KLOT 011135Z AUTO 13007G14KT 10SM -RA BKN049 OVC060 18/14 A3009 RMK AO2 P0015 T01840141 TSNO EPLB 011130Z 09008KT CAVOK 29/18 Q1012 KLOU 011053Z 00000KT 6SM BR CLR 17/15 A3011 RMK AO2 SLP191 T01670150 EPKK 011130Z VRB01KT 9999 FEW020 BKN040 25/20 Q1013 KMGM 011053Z AUTO 04003KT 10SM CLR 23/20 A3000 RMK AO2 SLP156 T02330200 KMFV 011135Z AUTO 00000KT 7SM 21/20 A3017 RMK AO2 KMHE 011053Z AUTO 00000KT 7SM CLR 14/13 A3008 RMK AO2 SLP178 T01390133 KMGN 011135Z AUTO 00000KT 3SM BR OVC003 15/14 A3004 RMK AO2 T01510143 FHAW 010850Z 12010KT 9999 FEW020 SCT045 25/23 Q1018 BLU VOHS 011110Z 23012KT 6000 SCT015 SCT025 BKN200 31/18 Q1004 NOSIG KLOZ 011053Z AUTO 00000KT 5SM BR CLR 17/15 A3012 RMK AO2 SLP187 T01670150 KO86 011135Z AUTO 00000KT 10SM CLR 14/00 A3003 RMK AO1 KLPR 011053Z AUTO 20003KT 8SM OVC120 17/14 A3012 RMK AO2 SLP194 T01720144 TSNO KMGR 011135Z AUTO 00000KT 5SM BR SCT065 22/22 A2999 RMK AO2 LTG DSNT E LCRA 011050Z 22012KT 9999 FEW018 30/23 Q1006 NOSIG KMIA 011053Z 12006KT 10SM FEW020 SCT250 27/24 A2995 RMK AO2 SLP143 CB DSNT E-W TCU DSNT SE T02670239 EPKS 011130Z AUTO 10008KT 0000 ///098 ///100 24/12 Q1015 RMK 242 047= KMHK 011052Z AUTO 00000KT 10SM BKN090 19/16 A3004 RMK AO2 SLP164 T01940161 KLQK 011135Z AUTO 06006KT 10SM OVC100 18/ A3010 RMK AO2 T0181 KMIB 011058Z AUTO 03003KT 10SM CLR 13/12 A3006 RMK AO2 SLP181 T01260124 $ EPMB 011130Z 11004KT 070V140 9999 FEW050 BKN200 25/09 Q1015 RMK 251 037 6/2= EPLK 011130Z 03008KT 9999 SCT010 OVC020 18/16 Q1015 RMK 176 089 8/3= KMIC 011053Z AUTO 00000KT 9SM CLR 17/14 A3003 RMK AO2 SLP164 T01720144 EPKT 011130Z 02005KT 320V050 9999 FEW007 BKN009 BKN023 22/20 Q1014 EPLL 011130Z 03009KT 360V060 9999 FEW009 BKN017 19/16 Q1015 KLRD 011116Z 09006KT 9SM BKN018 27/23 A2994 RMK AO2 VOHY 011040Z 27010KT 6000 SCT015 SCT020 31/19 Q1005 NOSIG KMGW 011053Z 00000KT 7SM CLR 17/14 A3017 RMK AO2 SLP208 T01670139 KMIE 011053Z 00000KT 5SM BR CLR 14/12 A3012 RMK AO2 SLP190 T01440122 KLRF 011058Z AUTO 03002KT 10SM FEW041 BKN055 20/19 A3006 RMK AO2 SLP180 T02030192 KMGY 011053Z AUTO 00000KT 10SM BKN100 17/16 A3011 RMK AO2 SLP191 T01670156 KMHR 011050Z 17004KT 10SM SKC 18/11 A2983 EPMI 011130Z 11004KT 9999 SCT050 SCT200 26/09 Q1015 RMK 260 034 4/3= KMHS 011056Z AUTO 00000KT 10SM CLR 13/03 A3007 RMK AO2 SLP161 T01330033 KLRJ 011135Z AUTO 00000KT 9SM FEW065 12/11 A3009 RMK AO2 KMHT 011143Z 00000KT 1/2SM R35/P6000FT FG BKN003 17/16 A3020 RMK AO2 T01720161 KLSB 011135Z AUTO 16009KT 10SM BKN048 21/15 A3020 RMK AO2 LEAB 011100Z 29008KT 250V310 CAVOK 28/10 Q1014 NOSIG KMHV 011135Z AUTO 29015G19KT 10SM CLR 29/07 A2996 RMK AO1 EPMM 011130Z 03008KT 9999 BKN016 BKN070 24/19 Q1014 RMK 241 071 7/5= KLSE 011053Z 16004KT 10SM CLR 17/16 A3004 RMK AO2 SLP165 T01720161 KLRO 011135Z AUTO 00000KT 2 1/2SM BR BKN024 24/24 A2999 RMK AO2 KLSF 011058Z AUTO 04006KT 10SM OVC011 22/20 A3000 RMK AO2 SLP159 T02240198 EPMO 011130Z 02008KT 9999 -SHRA SCT021CB BKN027 21/16 Q1014 LEAG 011130Z AUTO 28013G27KT 200V340 9999 SCT038 25/15 Q1015 EPLY 011130Z 02006KT 8000 -RA SCT008 BKN018 OVC030 19/18 Q1015 RMK 185 095 8/3= UWSS 011130Z 15003MPS 9999 BKN050CB 31/13 Q1016 120///60 TEMPO TSRA RMK QFE750 LEBA 011100Z 26007KT 230V290 9999 OVC032 22/15 Q1016 KMIS 011135Z AUTO 00000KT 10SM CLR 30/18 A2998 RMK A01 LEBB 011130Z 36003KT 310V050 9999 FEW025 BKN047 24/18 Q1011 NOSIG KNAK 011054Z AUTO 17005KT 8SM FEW037 23/19 A3016 RMK AO2 SLP215 T02330189 KMKC 011054Z 00000KT 10SM BKN120 21/17 A3006 RMK AO2 SLP172 T02110167 KNBC 011138Z 06003KT 1/4SM FG VV002 23/23 A3000 RMK AO2 T02330228 KLRU 011135Z AUTO 00000KT 10SM BKN002 BKN050 OVC110 18/17 A3022 RMK AO2 P0002 T01750171 PWINO LEAL 011130Z 09008KT 060V120 CAVOK 30/21 Q1009 NOSIG LEAM 011130Z 22017KT 190V250 9999 FEW020 28/19 Q1009 KMIV 011054Z AUTO 00000KT 9SM CLR 21/19 A3018 RMK AO2 SLP217 T02110189 KMKE 011052Z 26004KT 10SM FEW250 18/14 A3005 RMK AO2 SLP173 T01830139 KMIW 011138Z AUTO 29003KT 1 3/4SM BR CLR 13/13 A3008 RMK AO2 T01330128 LEAO 011100Z 25010KT 200V300 9999 FEW045 26/12 Q1015 LEBG 011100Z 04008KT 340V110 9999 FEW030 21/14 Q1013 KNBG 011055Z 00000KT FEW020 SCT150 BKN250 23/21 A2998 RMK AO2 SLP150 T02330211 $ KMKG 011055Z 00000KT 8SM CLR 16/14 A3005 RMK AO2 SLP175 T01560139 KMJQ 011134Z AUTO 00000KT 10SM CLR 14/12 A3009 RMK AO2 LEAS 011130Z 30004KT 260V050 8000 FEW008 BKN029 20/17 Q1013 NOSIG KNCA 011133Z AUTO 14008KT 1 1/2SM +RA BR FEW007 BKN018 OVC043 23/23 A3008 RMK AO2 TSB1058E32 P0043 T02330228 KLUA 011135Z AUTO 00000KT 7SM OVC100 19/19 A3018 RMK AO2 KP28 011056Z AUTO 01003KT 15/14 A3009 RMK AO1 SLP178 T01500144 KMKJ 011135Z AUTO 10008KT 10SM -RA OVC100 16/14 A3023 RMK AO2 T01600139 KMLB 011053Z 19003KT 10SM CLR 25/23 A2997 RMK AO2 SLP149 T02500233 EPOK 011130Z 09009KT 9999 FEW043 SCT100 BKN220 23/16 Q1016 RMK 228 065 6/2= KMKL 011053Z AUTO 00000KT 10SM OVC090 19/18 A3006 RMK AO2 SLP176 T01940183 KMLC 011053Z AUTO 08003KT 10SM FEW016 BKN035 BKN060 19/18 A3006 RMK AO2 SLP172 T01940178 LEBL 011130Z 17009KT 140V200 9999 FEW030 27/20 Q1010 NOSIG KLSV 011058Z AUTO 04010KT 10SM FEW180 32/12 A2989 RMK AO2 SLP092 T03150117 $ KLUD 011135Z AUTO 01006KT 10SM OVC012 20/18 A3006 RMK AO2 T01960182 KMKN 011135Z AUTO 32003KT 18/18 A3007 RMK AO2 T01820175 PWINO KMLE 011135Z AUTO 08003KT 10SM SCT085 19/16 A3005 RMK AO2 T01860162 KMLF 011052Z AUTO 18003KT 10SM CLR 16/12 A3018 RMK AO2 SLP168 T01560122 KMKO 011053Z AUTO 00000KT 9SM OVC034 19/18 A3007 RMK AO2 SLP176 T01940183 KMJX 011135Z AUTO 22003KT 10SM CLR 22/19 A3019 RMK AO1 KLUF 011058Z AUTO 36010KT 350V080 10SM CLR 27/21 A2992 RMK AO2 SLP116 T02710205 $ KMLI 011052Z 19013KT 10SM -RA SCT045 BKN060 OVC100 18/14 A3007 RMK AO2 PK WND 25027/1024 WSHFT 1023 RAB23 SLP180 P0020 T01780139 KMKS 312215Z AUTO 36004KT 7SM DZ 25/25 A3003 RMK AO2 LEDA 011130Z 06006KT 330V110 9999 FEW040 30/14 Q1010 UWUU 011130Z 34005MPS 310V020 9999 OVC026 18/13 Q1017 320///60 NOSIG RMK QFE750/1001 KMLJ 011135Z AUTO 04004KT 10SM OVC008 15/15 A3005 RMK AO2 LTG DSNT SE KLTS 011058Z AUTO 32003KT 10SM CLR 18/18 A3009 RMK AO2 SLP177 T01760176 $ VOMM 011110Z 25008G18KT 9999 FEW020 SCT100 37/23 Q1000 NOSIG KLUK 011142Z 00000KT 1SM R21L/4500VP6000FT BR BKN002 16/16 A3013 RMK AO2 T01610156 KMKT 011135Z AUTO 00000KT 10SM CLR 14/12 A3007 RMK AO1 KNBT 011138Z AUTO 08014KT 9SM SCT023 27/24 A3007 RMK AO2 PK WND 08028/1122 T02720239 PNO KLUM 011135Z AUTO 00000KT 7SM CLR 15/14 A3004 RMK AO2 T01500142 LDLO 011100Z 03014KT CAVOK 27/19 Q1009 LECO 011130Z 29008KT 250V350 9999 FEW020 BKN030 20/15 Q1014 NOSIG DXXX 011130Z 22009KT 8000 BKN010 BKN030 25/24 Q1016 NOSIG KMLP 011053Z AUTO 32003KT 10SM CLR 21/M03 A3027 RMK AO2 SLP129 T02061028 KMKY 011135Z AUTO 07003KT 10SM CLR 24/23 A2996 RMK AO1 LTG DSNT W EPPO 011130Z 08009KT CAVOK 25/11 Q1015 LEBZ 011100Z 26007KT 210V330 9999 SCT033 23/13 Q1015 KMMH 011135Z AUTO 00000KT 10SM BKN100 11/06 A3034 RMK AO1 KMMI 011135Z AUTO 00000KT 7SM BKN044 17/17 A3012 RMK EPPR 011130Z 06008KT 9999 FEW050 BKN200 25/13 Q1015 RMK 253 045 6/2= KLVJ 011053Z AUTO 27004KT 10SM BKN090 OVC110 24/22 A2996 RMK AO2 RAE25 SLP145 P0001 T02440222 KMLS 011053Z AUTO 29006KT 10SM CLR 16/07 A3001 RMK AO2 SLP140 T01560067 $ KLWA 011136Z AUTO 00000KT 4SM BR CLR 15/15 A3008 RMK AO2 T01510151 EPRA 011130Z 36004KT 9999 BKN017 BKN100 24/20 Q1013 RMK 242 080 7/5= KLVK 011053Z AUTO 00000KT 10SM CLR 19/12 A2988 RMK AO2 SLP114 T01940122 TSNO KMLT 011053Z AUTO 00000KT 3/4SM BR OVC002 16/15 A3020 RMK AO2 SLP231 T01560150 KMMK 011053Z AUTO 22004KT 6SM BR OVC012 22/19 A3019 RMK AO2 SLP221 T02170194 TSNO KLWB 011135Z AUTO 03003KT 1/4SM FG OVC001 17/16 A3021 RMK AO2 T01660155 LEEC 011100Z 21008KT 180V250 9999 FEW028 BKN035 24/14 Q1015 KLWC 011052Z AUTO 00000KT 8SM BKN100 18/16 A3007 RMK AO2 SLP175 T01830161 KMLU 011053Z 00000KT 6SM -RA BR BKN031 BKN110 21/19 A3000 RMK AO2 SLP158 P0011 T02060194 KMML 011135Z AUTO 25003KT 10SM CLR 14/12 A3007 RMK AO1 KLVL 011135Z AUTO 00000KT 3SM SCT039 OVC110 20/20 A3016 RMK AO1 T02010197 LECV 011100Z 22013KT 9999 FEW050CB 25/08 Q1014 KLVM 011053Z AUTO 00000KT 10SM CLR 12/04 A3021 RMK AO2 SLP189 T01170044 $ KLWD 011053Z AUTO 30005KT 10SM BKN120 18/15 A3009 RMK AO2 SLP181 T01780150 KLVN 011133Z AUTO 25003KT 10SM CLR 15/14 A3006 RMK AO2 KMNE 011135Z AUTO 05004KT 10SM 20/18 A2999 RMK AO2 P0001 KP53 011056Z AUTO 20003KT 09/07 A3002 RMK AO1 SLP167 T00940072 EPPW 011130Z 07008KT 9999 SCT020 SCT050 BKN100 21/14 Q1016 RMK 212 065 7/3= KLUX 011135Z AUTO 06003KT 10SM OVC004 18/ A3011 RMK AO2 KMNH 011133Z AUTO 19004KT 10SM BKN075 08/07 A3035 RMK AO2 KMNI 011135Z AUTO 00000KT 5SM SCT003 22/ A3002 RMK AO2 LTG DSNT SE KLVS 011135Z AUTO 00000KT 10SM BKN013 OVC065 11/09 A3037 RMK AO2 T01110094 KP58 011051Z AUTO 24005KT 16/14 A3003 RMK AO1 SLP163 T01610144 KP60 011056Z AUTO 32003KT 03/02 A3044 RMK AO1 SLP245 T00330022 KMOB 011056Z 35004KT 7SM FEW060 BKN120 OVC250 22/19 A3000 RMK AO2 SLP153 T02170189 KP59 011051Z AUTO 25005KT 12/09 A3002 RMK AO1 SLP161 T01170094 KMMT 011138Z VRB02KT 4SM BR BKN007 OVC120 22/22 A3004 RMK AO2A SLP172 UWWW 011130Z 36004G07MPS 9999 SCT033 BKN100 26/07 Q1017 05CLRD60 15//99// NOSIG RMK QFE750/1000 KMMU 011055Z 00000KT 3SM BR OVC008 18/17 A3019 EPSC 011130Z 05004KT CAVOK 26/10 Q1014 KMOD 011053Z 31004KT 10SM CLR 23/09 A2981 RMK AO2 SLP094 T02330089 KMMV 011053Z AUTO 33009KT 10SM CLR 20/13 A2996 RMK AO2 WSHFT 0959 LTG DSNT SE AND S RAE11 SLP144 P0000 T02000133 KMNM 011135Z AUTO 00000KT 8SM CLR 12/11 A3002 RMK AO1 KLWM 011054Z VRB04KT 8SM CLR 18/17 A3022 RMK AO2 SLP230 T01830172 KMNN 011110Z AUTO 00000KT 3SM BR CLR 15/14 A3013 RMK AO2 T01500139 TSNO KNFE 011056Z AUTO 00000KT 10SM CLR 23/21 A3015 RMK AO2 SLP210 T02330206 KNFG 011054Z AUTO 00000KT 6SM HZ OVC013 21/17 A2990 RMK AO2 SLP125 T02110172 $ KNDZ 011056Z AUTO 00000KT 10SM CLR 22/18 A2998 RMK AO2 SLP136 T02170178 $ LEGA 011100Z 32003KT CAVOK 25/11 Q1016 KP68 011053Z AUTO 21006KT 09/06 A3026 RMK AO1 SLP171 T00940061 KLWS 011056Z AUTO 15003KT 10SM CLR 26/07 A2997 RMK AO2 SLP133 T02610072 KP69 011052Z AUTO 00000KT 17/12 A3007 RMK AO1 SLP155 T01670122 $ KLWT 011054Z AUTO 12007KT 10SM CLR 13/06 A3017 RMK AO2 SLP174 T01330061 KLXL 011138Z AUTO 00000KT 4SM BR SCT050 13/12 A3006 RMK AO2 KNFL 011056Z AUTO 00000KT 10SM CLR 17/07 A3009 RMK AO2 SLP157 T01720072 KLWV 011123Z AUTO 00000KT 1/4SM FG VV003 16/15 A3010 RMK AO2 T01560150 FGSL 011100Z 23013KT 9999 FEW004 SCT010 BKN100 26/22 Q1016 NOSIG KNEW 011053Z AUTO 07005KT 9SM SCT120 27/22 A2999 RMK AO2 SLP150 T02670217 TSNO KLXN 011135Z AUTO 32003KT 5SM BR CLR 13/12 A3012 RMK AO2 T01250118 LEGE 011130Z 19009KT 160V230 9999 FEW055 29/17 Q1010 EPSN 011130Z 05004KT 9999 BKN050 25/12 Q1015 RMK 247 045 5/5= KMOP 011136Z AUTO 00000KT 2 1/2SM BR CLR 15/14 A3005 RMK AO2 T01460142 KLYH 011119Z 00000KT 2SM -RA BR FEW065 BKN100 OVC110 18/18 A3021 RMK AO2 P0003 KMNZ 011135Z AUTO 33005KT 10SM OVC006 19/19 A3006 RMK AO2 T01920192 KMOR 011135Z AUTO 07003KT 10SM CLR 17/16 A3013 RMK EPRZ 011130Z 18004KT 100V240 9999 BKN023 26/20 Q1013 LDOS 011130Z 09004KT 050V150 9999 FEW027 25/17 Q1010 KLXT 011053Z AUTO 00000KT 10SM FEW110 18/15 A3008 RMK AO2 SLP178 T01830150 KMOT 011054Z AUTO 00000KT 10SM CLR 13/12 A3006 RMK AO2 SLP174 T01330122 KMQB 011135Z AUTO 00000KT 7SM SCT110 15/15 A3010 RMK AO2 LTG DSNT NE AND NW T01490148 LEHC 011100Z 12003KT 9999 FEW030 27/15 Q1011 LDPL 011130Z 32005KT 260V070 9999 FEW040 28/18 Q1010 NOSIG KLXV 011108Z AUTO 00000KT 10SM BKN007 BKN011 OVC021 08/07 RMK AO2 CIG 005V010 T00780067 $ EPTM 011130Z 35008KT 9999 BKN007 OVC010 20/19 Q1014 RMK 197 094 8/6= KNFW 011057Z 36009KT 10SM OVC011 22/18 A3006 RMK AO2 T02220183 CHINO N VISNO N $ KMQE 011054Z AUTO 24008KT 18/17 A3021 RMK AO1 SLP236 T01830172 KMPO 011053Z AUTO 00000KT 6SM BR CLR 17/15 A3021 RMK AO2 SLP223 T01720150 KMOX 011128Z AUTO 00000KT 3SM BR CLR 13/13 A3006 RMK AO2 KLXY 011135Z AUTO 34003KT 10SM OVC007 21/20 A2999 RMK AO2 T02050196 KNGP 011056Z 18006KT 9SM FEW014 OVC250 27/26 A2992 RMK AO2 SLP131 T02720256 LEGR 011130Z 25009KT 220V290 CAVOK 25/14 Q1015 KMQJ 011136Z AUTO 00000KT 1/4SM VV002 14/ A3012 RMK AO1 LEGT 011100Z 25019KT 9999 FEW045TCU 26/13 Q1013 KNHK 011052Z 00000KT 8SM BKN120 OVC200 22/19 A3016 RMK AO2 SLP214 T02170189 $ KMRB 011053Z 00000KT 4SM BR CLR 17/15 A3016 RMK AO2 SLP210 T01720150 LEIB 011130Z 20011KT 9999 FEW020 BKN025 28/22 Q1010 NOSIG KMRC 011135Z AUTO 00000KT 5SM CLR 17/17 A3007 RMK KNGU 011059Z 00000KT 8SM -RA BKN090 OVC180 23/19 A3016 RMK AO2 RAB53 SLP213 P0000 T02330194 KP92 011053Z AUTO 00000KT 28/23 A2996 RMK AO1 SLP144 T02830233 KMPV 011100Z AUTO 00000KT 3SM BR SCT001 12/12 A3023 RMK AO2 T01220122 KLYV 011134Z AUTO 00000KT 1/4SM FG OVC001 12/11 A3010 RMK AO2 KNID 011056Z AUTO 22005KT 10SM CLR 26/07 A2990 RMK AO2 SLP099 T02560067 KMRF 011135Z AUTO 29014KT 10SM OVC028 18/15 A3026 RMK AO1 LTG DSNT N KMPZ 011135Z AUTO 00000KT 10SM SCT060 17/16 A3008 RMK AO2 T01720163 KMRH 011140Z AUTO 00000KT 1 3/4SM +RA BR SCT050 BKN075 OVC100 26/24 A3008 RMK AO2 P0010 T02560239 TSNO LDRI 011130Z 02007KT 300V090 9999 FEW050 26/18 Q1010 KMQS 011135Z AUTO 00000KT 1/4SM FG OVC001 20/20 A3020 RMK AO2 KMRJ 011135Z AUTO 19003KT 7SM CLR 15/13 A3007 RMK AO2 LDSB 011100Z 05008KT 360V070 CAVOK 23/16 Q1010 EPWA 011130Z 02007KT 360V060 9999 -SHRA SCT018CB 20/18 Q1014 RESHRA NOSIG KLZU 011145Z 0606KT 5SM BR OVC005 19/15 A3008 RMK ATIS D RWY 25 LL KMRN 011135Z AUTO 00000KT 5SM RA SCT019 BKN027 OVC034 17/17 A3019 RMK AO2 P0001 T01700170 KNIP 011053Z 22005KT 9SM FEW020 SCT060 BKN250 28/24 A2996 RMK AO2 SLP140 T02780239 KMQY 011056Z AUTO 00000KT 8SM CLR 16/16 A3009 RMK AO2 T01610161 SLP195 KLZZ 011135Z AUTO 00000KT 10SM CLR 19/18 A3004 RMK AO2 T01860175 KOAJ 011135Z AUTO 04006KT 5SM VCTS FEW024 SCT048 BKN065 22/20 A3008 RMK AO1 LTG DSNT SE TSB1059 P0004 LFBA 011130Z AUTO 06003KT 020V140 9999 NSC 27/16 Q1010 KOAK 011053Z 33003KT 8SM FEW005 15/12 A2990 RMK AO2 SLP125 T01500122 KMRT 011134Z AUTO 00000KT 7SM CLR 16/14 A3014 RMK AO2 T01600142 KNJK 011056Z AUTO 12013KT 10SM CLR 31/24 A2977 RMK AO2 SLP098 T03060244 $ LFBC 011130Z AUTO 23004KT 9999 TS ///CB 23/17 Q1011 KMSL 011053Z AUTO 00000KT 6SM BR CLR 18/17 A3007 RMK AO2 SLP176 T01830167 KMTC 011058Z AUTO 17002KT 10SM CLR 13/13 A3007 RMK AO2 SLP185 T01340128 KNJM 011127Z AUTO 08008G18KT 3SM +TSRA BR FEW013 BKN023 OVC040 23/21 A3007 RMK AO2 TSB06 P0041 T02330211 LFBD 011130Z AUTO VRB03KT 9999 BKN037 BKN043 BKN054 25/15 Q1011 KMSN 011053Z 00000KT 5SM BR CLR 14/13 A3005 RMK AO2 SLP173 FIRST AUGMENTED OBS OF THE DAY VIS N-NE 1 T01440133 KOBE 011135Z AUTO 23/23 A2999 RMK AO2 LTG DSNT SW LFBE 011130Z AUTO 29005KT 230V010 9999 NSC 25/17 Q1011 KMSO 011053Z AUTO 00000KT 10SM CLR 15/06 A3014 RMK AO2 SLP179 T01500061 TSNO VOTR 011110Z 27012G22KT 8000 FEW016 SCT100 37/22 Q1004 NOSIG KMSP 011053Z 00000KT 9SM CLR 18/16 A3004 RMK AO2 SLP169 T01830156 KMRY 011054Z AUTO 18004KT 10SM OVC003 14/13 A2992 RMK AO2 SLP144 T01390128 LDSP 011130Z VRB03KT 9999 SCT055 28/19 Q1008 TEMPO 23007KT LFBG 011130Z AUTO 26009KT 9999 BKN035 OVC042 23/14 Q1011 KMTH 011053Z AUTO VRB04KT 10SM SCT028 SCT033 BKN050 29/24 A2995 RMK AO2 SLP140 T02940244 $ LFBH 011130Z AUTO 25009KT 9999 OVC046 23/16 Q1011 LFAQ 011130Z AUTO 23005KT 190V280 9999 FEW042 24/14 Q1010 LEJR 011130Z 23013KT 190V270 9999 FEW022 BKN041 25/15 Q1016 LFBI 011130Z AUTO 18013KT 9999 BKN038 BKN047 BKN054 25/16 Q1010 KMSS 011053Z AUTO 21003KT 10SM FEW110 14/13 A3011 RMK AO2 SLP196 T01440133 KMTJ 011053Z AUTO 11005KT 10SM BKN120 19/11 A3023 RMK AO2 SLP148 T01890106 EPWR 011130Z 05005KT 9999 -RA BKN020 22/18 Q1015 VOTV 011110Z 31005KT 4000 HZ FEW008 SCT012 OVC080 27/23 Q1008 TEMPO 2000 RA LFAT 011130Z AUTO 25008KT 200V280 9999 SCT017 SCT027 20/15 Q1010 LELC 011100Z 12005KT 060V160 CAVOK 30/22 Q1009 NOSIG KNLC 011056Z AUTO 30005KT 10SM CLR 21/09 A2982 RMK AO2 SLP096 T02110094 LFBL 011130Z AUTO 20006KT 170V260 9999 FEW036 BKN056 24/15 Q1011 KMSV 011135Z AUTO 00000KT 6SM FEW055 BKN120 16/15 A3023 RMK AO1 LFBM 011130Z AUTO 35003KT 310V040 9999 TS FEW037/// BKN048/// BKN092/// ///CB 24/16 Q1011 KMTN 011050Z 18005KT 10SM FEW100 BKN200 24/22 A3017 KMTO 011053Z AUTO 22005KT 10SM 19/17 A3008 RMK AO2 SLP183 T01890167 $ KOCF 011050Z 00000KT 10SM CLR 21/16 A2998 LFBO 011130Z AUTO VRB03KT 9999 NSC 27/16 Q1010 KMTP 011054Z AUTO 00000KT 22/19 A3021 RMK AO1 SLP228 T02220194 KMSY 011053Z 00000KT 9SM FEW025 BKN160 BKN250 26/20 A2998 RMK AO2 SLP155 T02560200 $ LFBP 011130Z 33003KT 270V010 9999 BKN025 BKN038 22/17 Q1011 TEMPO SHRA KOCH 011135Z AUTO 33005KT 4SM OVC006 22/22 A2996 RMK AO1 KMUI 011058Z AUTO 00000KT 9SM CLR 17/17 A3017 RMK AO2 SLP217 T01680168 $ LFCK 011130Z AUTO 23003KT 170V320 9999 NSC 27/15 Q1011 KNKT 011054Z 08009KT 10SM SCT020 BKN150 BKN200 25/22 A3007 RMK AO2 SLP179 T02500222 LFBT 011130Z AUTO 28006KT 250V310 9999 FEW019/// OVC031/// ///CB 22/18 Q1012 LELL 011130Z 09005KT 050V140 9999 VCTS FEW030CB 28/20 Q1011 LFBU 011130Z AUTO 22007KT 160V270 9999 FEW037 BKN045 BKN058 24/14 Q1011 KMTV 011135Z AUTO 02003KT 5SM -RA BKN080 OVC110 18/18 A3020 RMK AO2 LTG DSNT S P0002 T01830180 LEMD 011130Z 19011KT CAVOK 27/12 Q1012 NOSIG LELN 011100Z 26006KT 180V320 9999 BKN030 23/14 Q1013 KMVE 011134Z AUTO 00000KT 10SM CLR 14/13 A3008 RMK AO2 KMTW 011056Z AUTO 00000KT 4SM BR CLR 16/16 A3003 RMK AO2 SLP187 T01610156 LELO 011100Z 24004KT 130V280 9999 FEW032 25/16 Q1011 KNKX 011055Z 00000KT 10SM OVC010 20/17 A2991 RMK AO2 SLP121 T02000167 KMUO 011058Z AUTO 35005KT 10SM CLR 19/09 A3009 RMK AO2 SLP160 T01920089 $ LFBY 011100Z AUTO VRB02KT 9999 // FEW034/// BKN045/// 24/16 Q1011 LEMG 011130Z 30013KT 260V330 9999 FEW035 29/13 Q1012 NOSIG EPZG 011130Z 13008KT 090V170 CAVOK 26/11 Q1014 LEMH 011130Z 19010KT 140V230 9999 SCT015 28/21 Q1012 KOCQ 011135Z AUTO 00000KT 7SM CLR 11/11 A3003 RMK AO1 T01080108 LFBZ 011130Z VRB02KT 9999 SCT026CB BKN040 BKN130 24/16 Q1011 RETS NOSIG LFCR 011130Z AUTO 30003KT 250V010 9999 NSC 25/13 Q1012 KMWA 011115Z AUTO 00000KT M1/4SM FG OVC002 16/16 A3010 RMK AO2 KOEB 011135Z AUTO 21003KT 5SM BR CLR 18/17 A3010 RMK AO2 T01780165 KMUT 011135Z AUTO 00000KT 7SM FEW085 BKN110 18/17 A3007 RMK AO2 KMVL 311744Z AUTO 25014G22KT 2SM -TSRA FEW041 BKN055 20/13 A3009 RMK AO2 LTG DSNT SW-N RAB43 TSB43 PRESRR P0011 T02000128 KMWC 011135Z AUTO 00000KT 10SM CLR 16/13 A3007 RMK AO2 KNMM 011056Z AUTO 00000KT 8SM CLR 17/16 A3002 RMK AO2 SLP172 T01720161 $ KMVN 011135Z AUTO 00000KT 1 1/4SM OVC001 14/12 A3010 RMK AO1 KOCW 011135Z AUTO 03005KT 7SM CLR 21/20 A3011 RMK AO2 T02050197 LEMO 011100Z 27010KT 230V330 9999 BKN038 24/15 Q1016 NOSIG KODO 011053Z AUTO 10008KT 10SM CLR 21/16 A3014 RMK AO2 SLP162 T02060156 KMWH 011052Z AUTO 33005KT 10SM CLR 18/07 A2995 RMK AO2 SLP131 T01830067 KMWK 011135Z AUTO 00000KT 7SM -RA SCT027 BKN040 OVC110 19/17 A3016 RMK AO2 P0002 T01860171 KMWL 011145Z AUTO 36008KT 10SM BKN008 BKN031 19/18 A3004 RMK AO2 T01890178 KMWM 011133Z AUTO 00000KT 1/2SM FG OVC001 12/11 A3009 RMK AO2 KMWN 011053Z 28023KT 3/4SM OVC001 07/06 RMK CAP CLOUD OHD EDGES BLO STA LIMITING VIS TO 3/4SM KODX 011141Z AUTO 00000KT 3SM BR CLR 13/12 A3009 RMK AO2 T01280122 KMWO 011135Z AUTO 00000KT 5SM BR SCT110 16/14 A3014 RMK AO2 T01600140 KMXF 011058Z AUTO 04003KT 10SM BKN160 23/22 A3000 RMK AO2 SLP160 T02270215 KOFF 011058Z AUTO 12006KT 10SM BKN065 18/18 A3004 RMK AO2 SLP169 T01820181 $ KOEO 011135Z AUTO 00000KT 10SM CLR 14/14 A3007 RMK AO2 T01380138 KMVY 011053Z 31003KT 9SM CLR 18/18 A3021 RMK AO2 SLP228 T01830178 KNOG 011056Z AUTO 06003KT 10SM OVC013 27/24 A2994 RMK AO2 SLP119 T02720239 KMWS 011130Z 23500G00KT MM/03 RMK SNOW DEPTH M PTKK 011052Z 32008KT 15SM SCT014 OVC120 27/25 A2986 RMK SLP113 T02660245 KNPA 011056Z 00000KT 10SM BKN170 BKN250 22/19 A2996 RMK AO2 SLP147 T02170189 KOGA 011135Z AUTO 00000KT 10SM CLR 11/09 A3015 RMK AO2 T01080091 LEPA 011130Z 23012KT 200V270 9999 FEW014 28/21 Q1011 NOSIG KMWT 011121Z AUTO 00000KT 5SM BR SCT023 OVC039 19/18 A3004 RMK AO2 T01940183 KOGB 011128Z AUTO 06003KT 1 1/4SM BR OVC002 22/21 A3002 RMK AO2 T02220211 KOFK 011115Z AUTO 00000KT 1/4SM FG VV003 12/11 A3007 RMK AO2 T01170111 KOGD 011053Z AUTO 17008KT 10SM CLR 19/10 A3013 RMK AO2 SLP143 T01890100 KMYF 011053Z AUTO 00000KT 10SM OVC012 21/17 A2991 RMK AO2 SLP125 T02060172 TSNO KMXO 011135Z AUTO 00000KT 9SM CLR 13/13 A3007 RMK AO2 KOFP 011054Z AUTO 00000KT 3SM -RA BR OVC100 21/19 A3019 RMK AO2 RAB33 SLP222 P0000 T02060194 PTKR 011052Z 24005KT 14SM BKN016TCU OVC290 28/25 A2983 RMK TCU ALQDS SLP101 T02830253 KNQA 011050Z 03003KT 10SM BKN090 21/20 A3006 LDZA 011130Z 04006KT 360V120 9999 FEW022 BKN048 25/20 Q1011 NOSIG LFGJ 011130Z AUTO 29004KT 210V360 9999 FEW033 SCT052 26/17 Q1010 KMYL 011051Z AUTO 00000KT 10SM CLR 13/08 A3020 RMK AO2 SLP179 T01330083 LDZD 011130Z VRB03KT 9999 FEW040 28/16 Q1009 NOSIG LEPP 011130Z 03004KT 9999 FEW035CB SCT040 26/16 Q1011 KMYP 011140Z AUTO 18007KT 10SM SCT050 05/03 A3072 RMK AO2 ESCF 011120Z 26009KT 9999 BKN046 22/14 Q1013 KMZG 011135Z AUTO 21013KT 10SM CLR 29/24 A2994 RMK A01 KMZH 011135Z AUTO 00000KT 2 1/2SM BR CLR 11/11 A3003 RMK AO2 KMYR 011045Z 13006KT 10SM FEW015 SCT046 BKN060 25/22 A3002 KNQI 011056Z AUTO 16006KT 10SM CLR 26/25 A2991 RMK AO2 SLP124 T02610250 GABS 011130Z 24012KT 9999 FEW025 BKN096 31/23 Q1016 NOSIG KNRB 011105Z 22004KT 10SM SCT025CB BKN250 26/23 A2996 RMK AO2 TSE1057 CB DSNT NE T02560233 $ KMYV 011053Z AUTO 00000KT 10SM CLR 20/12 A2982 RMK AO2 SLP102 T02000122 $ ESDF 011120Z 20010KT 9999 FEW030 BKN050 23/17 Q1014 FJDG 011130Z 15013G20KT 8000 -SHRA FEW015 BKN050 BKN080 27/23 A2985 RMK SLP105 KMYZ 011135Z AUTO 14006KT 10SM CLR 19/15 A3003 RMK AO2 LERI 011100Z VRB03KT CAVOK 35/10 Q1009 NOSIG WIBB 011000Z 00000KT 9999 SCT013 FEW017CB 33/23 Q1006 KOJA 011135Z AUTO 00000KT 3SM HZ CLR M02/M33 A3011 RMK AO2 LESA 011130Z 28009KT 230V310 CAVOK 25/13 Q1013 KOJC 011053Z AUTO 00000KT 10SM OVC110 18/17 A3007 RMK AO2 SLP171 T01830167 LGAD 011120Z 30007KT 9999 FEW020 29/15 Q1007 KPAE 011053Z 00000KT 10SM CLR 15/10 A3006 RMK AO2 SLP175 T01500100 KNSE 011056Z 35005KT 8SM BKN130 BKN250 21/17 A2998 RMK AO2 SLP137 T02060172 $ KNQX 011053Z 13009KT 10SM SCT022 SCT250 29/24 A2995 RMK AO2 SLP139 T02890239 $ KPAH 011053Z 00000KT 8SM SCT080 BKN110 17/16 A3008 RMK AO2 SLP181 T01720156 $ KMZZ 011135Z AUTO 00000KT 13/13 A3013 RMK AO2 T01300125 PWINO FIMP 011100Z 11009KT 9999 SCT017 BKN050 24/17 Q1020 KNSI 011057Z AUTO 29013KT 5SM HZ OVC002 A2992 RMK AO2 SLPNO $ LERS 011130Z 16008KT 110V210 9999 SCT015 SCT025 28/19 Q1011 FIMR 011100Z 09015KT 9999 FEW025 26/19 Q1019 KNRS 011056Z AUTO 28004KT 10SM OVC011 21/18 A2991 RMK AO2 SLP127 T02060178 $ LERT 011100Z 25014KT 9999 FEW025 BKN040 24/16 Q1016 NOSIG KOKB 011052Z AUTO 17004KT 10SM OVC013 21/18 A2990 RMK AO2 SLP125 T02110178 LFKB 011130Z 10008KT 070V150 9999 FEW023 27/20 Q1011 NOSIG LFKC 011130Z 24009KT 200V270 9999 FEW060 SCT073 31/14 Q1010 NOSIG LGAL 011120Z 05012KT 9999 FEW030 SCT180 32/19 Q1003 KOKC 011111Z 32004KT 6SM BR SCT019 BKN250 19/18 A3008 RMK AO2 $ LFJL 011130Z AUTO 03003KT 280V080 9999 BKN049 BKN056 25/14 Q1011 KPAM 011058Z AUTO VRB02KT 10SM CLR 20/19 A2998 RMK AO2 SLP155 T02010193 $ KNTD 011056Z AUTO 00000KT 9SM OVC006 19/16 A2991 RMK AO2 SLP128 T01890161 $ KPAN 011135Z AUTO 01005KT 10SM FEW075 BKN090 OVC110 20/12 A3024 RMK AO2 LESO 011130Z 36005KT 300V050 9999 SCT040 BKN048 23/17 Q1011 KPAO 010347Z 33010KT 30SM SCT200 18/16 A2991 KPBF 011053Z AUTO 04003KT 10SM OVC070 20/18 A3004 RMK AO2 SLP169 T02000178 LFKF 011130Z AUTO 24016KT 200V270 9999 NCD 28/20 Q1011 KPBG 011053Z AUTO 00000KT 9SM CLR 12/12 A3014 RMK AO2 SLP206 T01220117 KPBH 011135Z AUTO 00000KT M1/4SM FG OVC002 13/13 A3005 RMK AO2 T01280128 KPBI 011053Z 31004KT 10SM FEW025 SCT130 BKN250 25/24 A2995 RMK AO2 SLP142 CB DSNT SE TCU DSNT N T02500239 LFJR 011130Z AUTO 15007KT 090V200 9999 FEW039 26/15 Q1009 LFKJ 011130Z 23009KT 9999 FEW025 27/21 Q1012 NOSIG LEST 011130Z 26003KT 210V010 9999 SCT022 BKN036 20/14 Q1015 NOSIG WIDD 011130Z AUTO 20004KT 160V230 9999NDV OVC150 28/25 Q1008 KOKK 011135Z AUTO 00000KT 3SM CLR 13/13 A3012 RMK AO1 LFLB 011130Z 36004KT 9999 FEW036 26/19 Q1010 NOSIG LGBL 011120Z 29010KT 9999 FEW035 34/10 Q1003 NOSIG KNUC 010056Z 27016KT 10SM OVC007 21/17 A2990 RMK SLP123 LAST T02060172 LFLC 011130Z VRB02KT 9999 FEW053 BKN260 25/13 Q1011 NOSIG LETL 011130Z AUTO 22016KT CAVOK 30/03 Q1013 LGAV 011120Z 20013KT 160V250 9999 FEW020 SCT040 34/13 Q1003 NOSIG PTPN 010850Z 25009KT 10SM -RA BKN016CB BKN110 OVC270 25/24 A2984 RMK CB ALQDS MOV E KOKM 011135Z AUTO 30004KT 7SM OVC032 19/19 A3008 RMK AO2 T01900187 KOLE 011135Z AUTO 20005KT 5SM BR CLR 13/13 A3020 RMK AO2 KOLF 011053Z AUTO 03011KT 10SM FEW080 FEW110 21/14 A3002 RMK AO2 SLP151 T02110139 LETO 011100Z 22015KT 190V260 CAVOK 28/09 Q1012 NOSIG ESGG 011120Z 22010KT 190V250 9999 SCT036 21/12 Q1013 KNUI 011053Z AUTO 00000KT 9SM SCT120 22/18 A3016 RMK AO2 SLP212 T02220178 KOMA 011052Z 12007KT 10SM SCT080 19/16 A3005 RMK AO2 SLP168 T01890156 LFKS 011130Z AUTO 14009KT 9999 NSC 27/20 Q1011 ESGJ 011120Z AUTO 22011KT 9999 FEW041/// 23/12 Q1013 KNTU 011056Z 00000KT 10SM BKN170 OVC280 22/19 A3014 RMK AO2 SLP209 T02220194 KPDC 011135Z AUTO 00000KT M1/4SM FG OVC002 15/14 A3006 RMK AO2 T01450136 LFMC 011100Z 29005KT 210V360 9999 SCT046 30/16 Q1010 LFLL 011130Z 01006KT 340V060 9999 FEW036 BKN260 25/16 Q1011 NOSIG LEVC 011130Z 09006KT 030V140 9999 FEW028 29/21 Q1009 NOSIG KPCM 311955Z AUTO 28003KT 10SM SCT055 33/16 A2998 RMK AO2 LEVD 011130Z 24009KT 200V280 9999 FEW035 26/12 Q1012 KOLM 011054Z AUTO 00000KT 10SM CLR 14/10 A3004 RMK AO2 SLP172 T01390100 KOKV 011135Z AUTO 00000KT 7SM SCT110 18/17 A3017 RMK AO2 LFMD 011130Z AUTO 14008KT 060V180 9999 FEW016 25/19 Q1010 LFLN 011130Z AUTO VRB02KT 9999 FEW045 25/14 Q1011 LFLP 011130Z AUTO 22004KT 140V270 9999 NSC 25/18 Q1011 ESGP 011020Z 23008KT 190V260 9999 FEW031 SCT044 21/13 Q1012 KNUQ 011056Z 00000KT 10SM CLR 17/14 A2990 RMK AO2 SLP129 T01720144 KOKZ 011135Z AUTO 04004KT 10SM OVC006 21/20 A3006 RMK AO2 T02120202 KOMH 011135Z AUTO 00000KT 5SM -RA SCT039 BKN047 OVC060 20/18 A3020 RMK AO2 LFMH 011130Z 01002KT 9999 FEW046 BKN260 25/14 Q1012 NOSIG PTSA 010250Z 17007KT 10SM SCT020CB BKN130 OVC300 29/24 A2980 RMK CB DSNT SW-N LFMI 011130Z AUTO VRB03KT 9999 NSC 29/14 Q1010 ESGR 011120Z AUTO 24010KT 9999 FEW044/// 23/15 Q1012 KONA 011135Z AUTO 00000KT 10SM CLR 15/14 A3006 RMK AO2 KOLS 011054Z AUTO 00000KT 10SM CLR 22/17 A3014 RMK AO2 LTG DSNT E AND SE AND NW RAE17 SLP129 P0000 T02170172 KPEA 011135Z AUTO 00000KT 7SM CLR 16/15 A3009 RMK AO2 T01580154 LFLS 011130Z AUTO 00000KT 9999 FEW032 SCT040 25/17 Q1011 KOMK 011053Z AUTO 35011KT 10SM CLR 22/03 A2998 RMK AO2 SLP140 T02170033 KPDK 011053Z VRB04KT 7SM OVC006 19/17 A3007 RMK AO2 CIG 005V009 SLP174 T01890172 KNY0 011135Z AUTO 05003KT 4SM CLR 15/14 A3020 RMK AO2 T01460142 LFMK 011130Z AUTO VRB02KT 9999 NSC 28/16 Q1010 ESIB 011120Z AUTO 24014KT 9999NDV FEW062/// 23/13 Q1012 KOLU 011135Z AUTO 00000KT 5SM CLR 14/12 A3007 RMK AO1 LFML 011130Z 25006KT CAVOK 30/15 Q1010 NOSIG KOLV 011135Z AUTO 04004KT 7SM FEW065 SCT075 SCT100 20/20 A3007 RMK A01 P000 KOMN 011050Z 00000KT 10SM SKC 25/24 A2997 RMK FIRST LFLW 011130Z AUTO VRB02KT 9999 NSC 24/14 Q1012 PTRO 011050Z 21004KT 14SM SCT016 BKN120 OVC300 29/27 A2982 KPCW 011133Z AUTO 00000KT 10SM CLR 19/17 A3011 RMK AO2 $ KNUW 011056Z 20004KT 10SM CLR 12/09 A3005 RMK AO2 SLP178 T01220094 $ LFMN 011130Z 14006KT 9999 FEW020 SCT036 25/19 Q1011 NOSIG LFMO 011130Z AUTO 24005KT 170V310 9999 ////// 29/16 Q1010 LFLX 011130Z 23008KT 190V280 9999 SCT046 26/14 Q1010 NOSIG KOLY 011135Z AUTO 00000KT 1/2SM FG OVC100 15/15 A3010 RMK AO2 LFMP 011130Z 11010KT 080V150 9999 SCT040 SCT180 29/14 Q1010 NOSIG LFLY 011130Z AUTO VRB04KT 9999 FEW041 SCT230 27/16 Q1010 KPCZ 011135Z AUTO 00000KT 10SM CLR 15/14 A3004 RMK AO2 T01480140 KOLZ 011135Z AUTO 00000KT 1 1/2SM BR CLR 14/14 A3008 RMK AO2 LEVS 011130Z 21015KT 170V250 CAVOK 26/10 Q1013 KOOA 011135Z AUTO 00000KT 10SM CLR 16/15 A3007 RMK AO2 T01550148 LFOA 011130Z AUTO 17005KT 9999 NSC 26/16 Q1010 KPDT 011053Z AUTO 14004KT 10SM CLR 22/08 A2995 RMK AO2 SLP122 T02220083 LFMT 011130Z 16010KT CAVOK 25/17 Q1010 NOSIG LFOB 011130Z AUTO 36004KT 310V050 9999 NSC 24/14 Q1010 LEVT 011130Z 36004KT 300V070 9999 BKN032 23/15 Q1012 LGEL 011120Z 21014KT 9999 SCT020 34/11 Q1003 NOSIG KONL 011135Z AUTO 24003KT 1/4SM FG OVC001 13/13 A3010 RMK AO2 T01260126 LFOC 011130Z AUTO 18006KT 130V200 9999 NSC 25/15 Q1009 LFMU 011130Z AUTO 15007KT 110V180 9999 NSC 26/17 Q1010 KONM 011135Z AUTO 00000KT 10SM SCT110 17/16 A3024 RMK AO2 T01700155 LFMV 011130Z AUTO 27003KT 200V010 9999 NSC 29/15 Q1010 ETAD 011138Z AUTO 10005KT 9999 SCT048 24/14 A2988 RMK AO2 LFOE 011130Z AUTO VRB03KT 9999 FEW045 24/13 Q1010 KONO 011053Z AUTO 00000KT 10SM CLR 18/11 A3005 RMK AO2 SLP158 T01780111 KPDX 011053Z 08006KT 10SM -RA FEW060 FEW100 SCT170 OVC250 22/11 A3002 RMK AO2 RAB51 SLP163 P0000 T02170111 KPEO 011053Z AUTO 22007KT 6SM BR SCT110 16/14 A3015 RMK AO2 SLP204 T01610144 KNXF 011056Z AUTO 11006KT 8SM OVC014 21/18 A2990 RMK AO2 SLP209 T02110178 $ LEVX 011130Z 26012KT 230V290 9999 FEW018 BKN034 19/16 Q1015 NOSIG RCKH 011130Z 23006KT 200V270 9999 FEW015 BKN025 BKN050 30/26 Q1000 NOSIG RMK A2955 KONP 011135Z AUTO 35006KT 5SM BR SCT007 BKN011 12/11 A3006 RMK AO2 LFMY 011130Z AUTO 27007G17KT 190V340 9999 NSC 29/15 Q1010 KPEQ 011135Z AUTO 08008KT 10SM BKN065 OVC080 23/16 A3013 RMK AO2 LTG DSNT SW AND W T02270160 LFOH 011130Z AUTO 26004KT 230V300 9999 NSC 20/11 Q1010 LEXJ 011130Z 33005KT 280V020 9999 SCT018 OVC031 21/17 Q1012 KPGA 011053Z AUTO 20005KT 10SM CLR 23/12 A3012 RMK AO2 SLP126 T02280117 LFOJ 011130Z AUTO 18007KT 150V250 9999 FEW044 26/17 Q1009 KONT 011053Z 00000KT 10SM CLR 21/15 A2992 RMK AO2 SLP111 T02110150 LFOK 011130Z AUTO 18006KT 130V220 9999 NSC 26/14 Q1010 LFPB 011130Z AUTO VRB03KT 9999 NSC 26/14 Q1009 KNYC 011051Z AUTO VRB03KT 7SM CLR 22/18 A3021 RMK AO2 SLP218 T02220178 LFPC 011130Z AUTO 36004KT 310V050 9999 SCT048 SCT060 25/17 Q1010 KPGD 011053Z AUTO 01004KT 10SM CLR 24/22 A2998 RMK AO2 SLP153 T02440222 WIHH 011100Z 24005KT 5000 HZ SCT017 29/23 Q1010 NOSIG PTTP 011053Z 19004KT 15SM BKN017TCU OVC120 25/24 A2991 RMK TCU ALQDS SLP127 T02480235 KOPF 011053Z 17003KT 10SM CLR 25/23 A2996 RMK AO2 SLP145 T02500233 KPEX 011134Z AUTO 21004KT 4SM BR CLR 11/11 A3007 RMK AO2 T01080109 KONX 011135Z AUTO 07003KT 10SM CLR 24/19 A3015 RMK AO2 T02390194 VQPR 010720Z 16012KT 9999 SCT040 SCT200 30/13 Q1011 NOSIG KNXP 011056Z AUTO 04003KT 10SM CLR 28/06 A2998 RMK AO2 SLP108 T02830056 KNYG 011056Z AUTO 19012KT 10SM -RA SCT012 SCT120 23/21 A3018 RMK AO2 RAB54 SLP219 P0000 T02330206 $ LFPG 011130Z 07003KT 010V150 9999 FEW043 BKN260 26/15 Q1010 NOSIG LFOP 011130Z AUTO 18003KT 100V250 9999 NSC 23/14 Q1010 KONZ 011134Z AUTO 00000KT 10SM SCT080 120 18/16 A3009 RMK AO2 KPEZ 011135Z AUTO 04007KT 10SM BKN065 25/18 A2998 RMK AO2 T02510177 ETAR 011058Z AUTO 10005KT 9999 FEW049 26/14 A2986 RMK AO2 SLP107 T02590137 $ LFQA 011130Z AUTO 17005KT 130V230 9999 NSC 26/14 Q1010 LFQB 011130Z AUTO 17007KT 9999 NSC 28/15 Q1010 LFOT 011130Z AUTO 19009KT 150V240 9999 SCT044 BKN054 27/15 Q1009 KNYL 011057Z AUTO 17004KT 10SM CLR 32/20 A2981 RMK AO2 SLP089 T03220200 KOPL 011135Z AUTO 12003KT 10SM VCTS OVC110 23/22 A2995 RMK AO2 LTG DSNT ALQS T02300221 KPHD 011125Z AUTO 00000KT 3SM BR CLR 14/14 A3016 RMK AO2 T01440144 KOPM 011135Z AUTO 15010KT 7SM CLR 28/25 A2993 RMK A01 LFOV 011130Z AUTO VRB04KT 9999 BKN044 BKN050 BKN190 24/16 Q1009 LFPM 011130Z AUTO VRB03KT 9999 NSC 27/15 Q1010 KOPN 011135Z AUTO 05007KT 2SM BR OVC004 21/21 A3006 RMK AO2 LFPN 011130Z AUTO VRB02KT 9999 FEW047 26/15 Q1010 ESKN 011120Z 23013KT 9999 SCT049 25/11 Q1012 KPHF 011054Z 00000KT 6SM HZ OVC110 23/19 A3016 RMK AO2 SLP212 T02280194 KQA4 011055Z 34022G33KT 9999 CLR 35/M06 A2972 RMK SLP988 WND DATA ESTMD ALSTG/SLP ESTMD Q1006 LFPO 011130Z VRB03KT 9999 SCT046 26/15 Q1010 NOSIG LFQG 011130Z AUTO 22003KT 170V300 9999 FEW047 SCT076 26/16 Q1010 WIII 011130Z 35002KT 8000 FEW020 28/22 Q1009 NOSIG LEZG 011130Z 08004KT CAVOK 29/16 Q1009 LGHI 011050Z 16007KT 9999 FEW020 29/24 Q1002 KPIA 011054Z 00000KT 8SM CLR 19/17 A3008 RMK AO2 SLP180 T01940167 KORB 011133Z AUTO 00000KT 4SM BR CLR 08/07 A3003 RMK AO2 KPIB 011135Z AUTO 25003KT 8SM CLR 21/18 A3004 RMK AO1 LFRB 011130Z 22012KT 9999 SCT019 BKN066 19/14 Q1010 NOSIG LFPT 011130Z AUTO VRB02KT 9999 NSC 25/14 Q1009 LEZL 011130Z 24006KT 9999 FEW035 BKN040 24/13 Q1015 NOSIG GAMB 010900Z 20010KT CAVOK 29/22 Q1013 KPHL 011054Z 20005KT 10SM FEW110 BKN180 BKN250 23/19 A3017 RMK AO2 SLP216 T02280189 $ KORC 011135Z AUTO 00000KT 10SM SCT065 17/14 A3009 RMK AO2 LFRC 011130Z AUTO 23009KT 180V290 9999 BKN035 BKN210 21/12 Q1010 KORD 011051Z 25005KT 10SM FEW050 FEW090 FEW150 SCT250 17/14 A3006 RMK AO2 SLP176 CB DSNT S T01720139 KPGV 011135Z AUTO 04007KT 10SM SCT120 22/20 A3012 RMK AO2 LTG DSNT S LFPV 011130Z AUTO VRB03KT 9999 FEW045 26/15 Q1010 LFRD 011130Z AUTO 01004KT 300V080 9999 BKN035 OVC041 21/14 Q1010 KORE 011052Z AUTO 00000KT 7SM OVC011 17/16 A3021 RMK AO2 SLP227 T01670156 KPIE 011053Z 00000KT 10SM FEW012 24/21 A2997 RMK AO2 SLP148 T02390211 KPHN 011135Z AUTO 00000KT 3SM BR SCT055 14/14 A3009 RMK AO2 KORF 011051Z AUTO 00000KT 10SM FEW110 23/19 A3015 RMK AO2 SLP208 T02330189 TSNO RCMQ 011130Z 21012KT 8000 FEW010 SCT020 BKN060 29/25 Q1000 NOSIG RMK A2953 KPHP 011055Z AUTO 00000KT 10SM CLR 12/09 A3006 RMK AO2 SLP161 T01220094 KORG 011135Z AUTO 00000KT 10SM SCT027 BKN065 OVC120 25/25 A2995 RMK AO2 LTG DSNT SE T02470247 LFRG 011130Z AUTO 03005KT 350V070 9999 FEW027 21/16 Q1010 GAKY 010000Z 00000KT CAVOK 28/26 Q1015 KPIH 011053Z AUTO 00000KT 10SM CLR 16/11 A3017 RMK AO2 SLP165 T01560111 KORH 011054Z 24008KT 7SM OVC009 19/17 A3023 RMK AO2 SLP232 T01890172 LFQQ 011130Z VRB04KT 9999 SCT038 SCT260 24/15 Q1010 NOSIG LFRH 011130Z AUTO 24008KT 210V300 9999 NSC 21/13 Q1010 LFRI 011130Z AUTO 27006KT 220V310 9999 BKN030 BKN037 BKN050 23/15 Q1010 KOSA 011135Z AUTO 03003KT 3SM BKN005 OVC009 20/19 A3002 RMK AO1 T01960192 LFRJ 011130Z AUTO 24012KT 9999 FEW028 BKN050 BKN190 19/14 Q1010 KOQT 011053Z AUTO 00000KT 7SM CLR 18/17 A3011 RMK AO2 SLP182 T01830172 KPHT 011135Z AUTO 04004KT 10SM BKN090 18/16 A3009 RMK LFSB 011130Z VRB02KT 9999 FEW036 25/16 Q1011 NOSIG LFRK 011130Z AUTO VRB03KT 9999 FEW040 BKN047 23/13 Q1010 KOQU 312150Z 23018KT 15SM FEW250 25/13 A3012 KORL 011053Z 00000KT 10SM CLR 26/22 A2997 RMK AO2 SLP152 T02560222 KPIL 011139Z AUTO 16004KT 5SM HZ SCT020 26/23 A2992 RMK AO2 KOSC 011134Z AUTO 24003KT 10SM CLR 12/12 A3004 RMK AO2 T01270123 LFRL 011130Z AUTO 23009KT 9999 BKN018 BKN023 BKN038 19/15 Q1010 ETEB 011058Z AUTO 05007KT 9999 BKN049 BKN060 23/13 A2993 RMK AO2 SLP131 T02280132 LFRM 011130Z AUTO 16005KT 060V230 9999 FEW040 27/16 Q1009 LFSD 011130Z AUTO 03003KT 350V070 9999 SCT048 SCT054 27/15 Q1010 LFRN 011130Z AUTO VRB04KT 9999 FEW041 24/14 Q1009 KPHX 011051Z 16018G24KT 10SM -RA FEW085 BKN100 OVC180 28/19 A2988 RMK AO2 RAE19B38 SLP095 P0000 T02780194 LGIO 011120Z AUTO VRB03KT //// // ////// 26/12 Q1007 RE// LFRO 011130Z AUTO 28009KT 9999 FEW028 BKN039 BKN049 20/14 Q1009 KNZY 011052Z 30004KT 10SM BKN013 21/18 A2990 RMK AO2 SLP124 T02110178 $ LFSG 011130Z AUTO VRB03KT 9999 NSC 25/14 Q1011 ESNG 011120Z 24010KT CAVOK 19/06 Q1004 KOSH 011053Z 20003KT 7SM CLR 16/14 A3003 RMK AO2 SLP161 T01560144 $ LFRQ 011130Z AUTO 23007KT 210V290 9999 FEW027 OVC043 20/13 Q1010 PTYA 011052Z 21007KT 12SM FEW016 BKN130 OVC300 28/25 A2982 RMK SLP098 T02820251 ESMQ 011120Z 16016KT 9999 FEW046 23/17 Q1014 LGIR 011120Z 32022KT 9999 FEW025 30/20 Q1005 NOSIG KPIR 011053Z AUTO 10005KT 10SM FEW110 16/15 A3004 RMK AO2 SLP162 T01610150 LFSI 011130Z AUTO 16004KT 120V180 9999 NSC 27/15 Q1010 KORS 011135Z AUTO 00000KT 10SM CLR 13/12 A3002 RMK AO2 LFRS 011130Z 32003KT 270V360 9999 BKN028 22/16 Q1009 NOSIG LFRT 011130Z AUTO 24006KT 150V310 9999 FEW038 22/12 Q1009 KPIT 011051Z 00000KT 6SM BR OVC250 16/14 A3015 RMK AO2 SLP210 T01610144 $ ESMS 011120Z 20010KT 170V240 9999 FEW047 25/13 Q1015 KPKB 011053Z 00000KT 1/16SM R03/0700FT FG VV001 16/15 A3015 RMK AO2 SLP206 T01560150 LGKC 311450Z 25017G27KT 9999 SCT006 27/21 Q1007 LHBC 011045Z 01003KT 9999 FEW023 27/22 Q1010 ESNK 011120Z AUTO 15011KT 9999 FEW000/// SCT100/// 21/14 Q1005 ESMT 011120Z 25009KT 9999 SCT022 22/14 Q1013 LFSL 011130Z AUTO VRB03KT 9999 BKN044 OVC050 25/13 Q1011 ESNL 011050Z 25006KT CAVOK 20/08 Q1006 KPKD 011053Z AUTO 00000KT 8SM BKN043 BKN080 14/13 A3005 RMK AO2 SLP174 T01440133 TSNO LFRV 011130Z AUTO 29005KT 240V010 9999 SCT035 22/14 Q1010 LFSN 011130Z AUTO 13004KT 010V170 9999 NSC 26/15 Q1011 KQBF 011055Z AUTO VRB06KT 9999 FEW200 30/22 A2998 RMK AO2 SLP138 T02970216 LGKF 011050Z 31011KT 9999 SCT016 28/18 Q1008 ESOE 011120Z AUTO 24013KT 9999NDV FEW036/// SCT056/// BKN068/// 22/13 Q1011 ESNN 011120Z AUTO 13010KT 9999 SCT064/// BKN098/// 23/13 Q1005 LFSO 011130Z AUTO 35005KT 300V030 9999 NSC 24/14 Q1011 ESNO 011120Z 13010KT CAVOK 21/11 Q1006 ESMX 011120Z AUTO 28006KT 250V310 9999 FEW040/// SCT051/// 23/14 Q1014 KS25 011135Z AUTO 10005KT 9SM CLR 14/14 A3002 RMK AO2 KOTG 011135Z AUTO 26003KT 7SM CLR 13/11 A3010 RMK AO1 KOTH 011135Z 35006KT 1 1/4SM OVC002 12/12 A3006 RMK AO1 LFRZ 011130Z AUTO 29007KT 250V330 9999 FEW032 SCT038 BKN046 23/15 Q1009 LFTH 011130Z AUTO 14009KT 9999 NSC 27/18 Q1010 ESNQ 011120Z 24009KT 9999 SCT049 17/07 Q1003 KQAR 011055Z AUTO 35013G24KT 310V020 8000 CLR 33/M04 A2982 RMK AO2 SLP038 T03251042 GANR 010900Z 26004KT CAVOK 30/24 Q//// ESPA 011120Z 19011KT CAVOK 22/13 Q1006 ESNS 011120Z AUTO 16006KT 120V230 9999 NCD 23/05 Q1006 LFST 011130Z AUTO VRB02KT 9999 NSC 27/15 Q1010 KQCC 011055Z AUTO 20009G21KT 9999 -SHRA FEW011 29/21 A2968 RMK AO2 RAB1012E1028SHRAB1028 SLP991 P0000 T02870207 $ ESOK 011120Z AUTO 21013KT 9999 FEW048/// SCT060/// 22/11 Q1010 LGKL 011120Z 33009KT 9999 FEW025 31/13 Q1006 KOSU 011053Z 32004KT 4SM BR SCT110 16/16 A3012 RMK AO2 SLP196 T01610156 KQBL 011056Z AUTO 36002KT 10SM CLR 22/18 A2998 RMK AO2 SLP159 T02150180 ESNU 011120Z 17006KT CAVOK 22/10 Q1007 KOTM 011137Z AUTO 00000KT 8SM SCT004 16/15 A3006 RMK AO2 T01610150 ESPE 011120Z AUTO 29011KT 260V320 9999NDV BKN060/// 21/08 Q1005 LGKO 011120Z 16009KT 9999 SCT018 28/21 Q1004 LFSX 011130Z AUTO VRB02KT 9999 FEW041 26/16 Q1011 LGKP 011050Z 27015KT 9999 FEW020 29/20 Q1004 ESNX 011120Z AUTO 24007KT 200V260 9999NDV FEW046/// SCT061/// BKN096/// 18/08 Q1006 KQAY 011055Z AUTO 04007G12KT 9999 CLR 44/04 A2948 RMK AO2 SLP978 T04430036 $ LHBP 011130Z 05004KT 9999 FEW030TCU SCT033 28/19 Q1010 NOSIG KQAZ 011130Z AUTO 33005KT 9999 CLR 37/15 A2986 RMK CDP03565 CLR ETGG 011120Z 19008KT 9999 FEW050 SCT250 26/12 Q1012 BLU+ ESNZ 011120Z VRB02KT 9999 -RA FEW064 BKN088 17/10 Q1005 LGKR 011120Z 31013KT 9999 SCT018 SCT030 BKN180 27/17 Q1006 NOSIG WIMM 011130Z 06006KT 7000 FEW018 30/25 Q1007 ETHA 011120Z 07006KT 9999 FEW025 BKN250 20/15 Q1013 BLU+FCST CANCEL VRMM 011100Z 24012KT 9999 FEW018TCU BKN260 31/26 Q1009 NOSIG ETHB 011120Z 14007KT 9999 FEW050 SCT300 27/12 Q1011 BLACKBLU+FCST CANCEL LHDC 011115Z 07012G22KT CAVOK 31/16 Q1010 NOSIG KQCL 011055Z AUTO 23007KT 190V250 9999 CLR 29/17 A2978 RMK AO2 SLP011 T02920165 LGKV 011120Z 14008KT 9999 FEW025TCU SCT080 29/18 Q1004 ETHC 011120Z 12007KT 9999 FEW060 SCT250 26/11 Q1012 BLU+FCST CANCEL LGLM 011120Z 04006KT 9999 FEW014TCU SCT018 31/19 Q1003 KPMD 011053Z AUTO 21007KT 10SM CLR 24/08 A2996 RMK AO2 SLP109 T02440078 KPKV 011135Z AUTO 00000KT 10SM SCT022 SCT120 26/24 A2997 RMK AO2 T02560241 KOVE 011053Z AUTO 14005KT 10SM CLR 24/12 A2984 RMK AO2 SLP105 T02440122 KPLN 011120Z AUTO 00000KT 1/4SM FG VV002 11/11 A3004 RMK AO2 T01110106 KOUN 011135Z AUTO 00000KT M1/4SM FG BKN003 17/17 A3009 RMK AO2 LFTW 011130Z AUTO VRB03KT 9999 NSC 30/14 Q1010 ETHE 011120Z AUTO 11003KT 9999 // ////// 25/14 Q1010 /// ESOW 011120Z 22013KT 9999 SCT042 SCT050 25/13 Q1011 ETHF 011120Z 13004KT 9999 FEW050 BKN250 25/13 Q1012 BLU+BLU+ LGKZ 011050Z 35006KT 9999 SCT025TCU SCT070 25/11 Q1007 ETGQ 010420Z AUTO 13003KT //// // ////// 16/14 Q1013 /// LGLR 011050Z 00000KT 9999 FEW030 33/11 Q1004 NOSIG BLU KQEA 011055Z AUTO 07004KT 9999 FEW000 29/24 A2979 RMK AO2 SLP086 T02880235 KOWA 011135Z AUTO 00000KT 10SM CLR 12/11 A3008 RMK AO2 KPNA 011135Z AUTO 00000KT 10SM SCT090 BKN120 10/06 A3037 RMK AO2 LGMK 011120Z 02008KT 9999 FEW018 30/21 Q1004 KQEB 011055Z AUTO 00000KT 9999 BKN055 22/07 Q1024 RMK AO2 SLP193 T02220073 KOWB 011056Z 00000KT 5SM BR FEW100 17/17 A3009 RMK AO2 T01720166 SLP187 KPNC 011140Z AUTO 00000KT 1SM BR VV002 16/16 A3008 RMK AO2 T01610156 KOVL 011133Z AUTO 00000KT 7SM CLR 14/12 A3006 RMK AO2 KPLU 011135Z AUTO 00000KT 10SM CLR 13/13 A3005 RMK AO2 ETHL 011120Z 04007KT 9999 FEW030 BKN210 21/15 Q1013 BLU+ KOWD 011106Z 00000KT 6SM BR SCT014 18/17 A3021 RMK AO2 T01830167 ETIC 011058Z AUTO VRB01KT 9999 FEW050 SCT060 23/12 A2993 RMK AO2 SLP127 T02320121 KPNE 011054Z 00000KT 10SM CLR 23/18 A3019 RMK AO2 SLP220 T02280183 ETHN 011120Z 06005KT 9999 FEW050 BKN260 24/12 Q1013 BLU+ LFVP 011100Z 24003KT 220V280 0800 R26/0900V1100U FG OVC001 19/19 Q1026 NOSIG KPMP 011053Z 10SM CLR A2995 RMK AO2 SLP144 $ ETIH 011058Z AUTO VRB02KT 9999 CLR 23/13 A2994 RMK AO2 SLPNO PWAK 011126Z AUTO 36007KT 8000 TS BR FEW013 SCT028 BKN070 BKN100 27/25 A2991 RMK AO2 LTG DSNT N-SE RAB1101E1124 TSE1056B1127 $ KOVS 011130Z AUTO 00000KT 3/4SM BR BKN002 14/13 A3007 RMK AO2 T01440133 LGMT 011120Z 22009KT 130V300 CAVOK 33/19 Q1003 ETHS 011120Z 14005KT 9999 FEW058 SCT350 25/13 Q1012 BLU+ ESSA 011120Z 22013KT 9999 SCT044 23/12 Q1011 NOSIG KOXB 011053Z AUTO 00000KT 5SM BR SCT110 22/20 A3016 RMK AO2 SLP214 T02170200 TSNO KPOB 011058Z AUTO 03005KT 10SM BKN060 BKN080 22/21 A3008 RMK AO2 SLP187 T02150207 KOXC 011045Z 00000KT 3SM BR OVC004 20/18 A3022 ESSB 011120Z 24012KT 9999 FEW048 24/12 Q1011 KPOC 010147Z 26009KT 10SM CLR 30/15 A2989 ETIK 011137Z AUTO 05007KT 9999 -RA FEW060 SCT210 25/11 A2991 RMK AO2 WIOO 011000Z 20008KT 8000 SCT012 31/24 Q1007 NOSIG KPNM 011134Z AUTO 00000KT 3/4SM BR BKN050 14/13 A3005 RMK AO2 VIS 1/4V4 KPMV 011135Z AUTO 11006KT 10SM OVC065 18/17 A3005 RMK AO2 T01810165 ESSD 011120Z AUTO 23011KT 180V260 9999 FEW047/// 21/12 Q1009 KPOE 011143Z AUTO 00000KT 4SM BR BKN012 BKN017 OVC070 23/23 A2994 RMK AO2 RAE17 P0000 KPOF 011132Z AUTO 00000KT 1/4SM FG BKN002 OVC065 17/16 A3007 RMK AO2 T01720156 KQFG 011055Z AUTO 08017G28KT 9999 FEW049 BKN150 32/18 A2956 RMK AO2 PK WND 09029/1013 SLP961 T03160180 KOWP 011135Z AUTO 00000KT 7SM OVC017 20/19 A3009 RMK AO2 T01970190 RCSS 011130Z 27010KT 9999 FEW025 SCT120 BKN200 31/25 Q0997 NOSIG RMK 26008KT/R10 A2945 KOXI 011135Z AUTO 00000KT 4SM CLR 14/13 A3010 RMK AO1 T01440133 KPNS 011053Z 00000KT 10SM CLR 20/18 A2997 RMK AO2 SLP149 T02000178 LGPA 011120Z AUTO 15008KT 130V190 //// // ////// 30/20 Q1004 RE// KPPA 011135Z AUTO 26005KT 10SM CLR 14/13 A3018 RMK AO2 T01430126 ESTA 011120Z 23007KT 170V270 9999 SCT040TCU BKN120 25/15 Q1013 KPNT 011135Z AUTO 00000KT 4SM VCTSBR CLR 16/16 A3009 RMK AO2 LTG DSNT N AND NE ESSL 011120Z AUTO 21006KT 180V250 9999NDV FEW043/// SCT055/// BKN092/// 23/13 Q1012 RWY CLSD DUE WIP WIPP 011100Z 16005KT 9999 FEW015 30/23 Q1008 FKKD 011100Z 24004KT 6000 SCT003 BKN013 FEW016CB 25/24 Q1015 TEMPO 4000 -RADZ LGNX 011050Z 36008KT 9999 FEW020 30/22 Q1004 RCTP 011130Z 24013KT 8000 FEW020 SCT200 29/26 Q0997 NOSIG RMK A2946 KPPF 011136Z AUTO 00000KT 3/4SM BR VV003 17/16 A3010 RMK AO2 T01670156 KQFQ 011055Z AUTO VRB04KT 10SM CLR 27/23 A2970 RMK AO2 SLP054 T02690234 $ ESSP 011120Z 24009KT 9999 SCT046 24/12 Q1012 WIPT 011130Z 36006KT 9000 FEW020 28/23 Q1010 KOXR 011051Z AUTO 00000KT 8SM OVC009 18/16 A2990 RMK AO2 SLP124 T01780156 KOZA 011135Z AUTO 00000KT 10SM CLR 21/16 A3012 RMK AO2 KPOU 011053Z 00000KT 4SM BR CLR 18/17 A3017 RMK AO2 SLP213 T01780167 KPOV 011136Z AUTO 00000KT 4SM HZ CLR 15/ A3015 RMK AO2 T0151 KOXV 011135Z AUTO 29004KT 4SM BR CLR 16/15 A3007 RMK AO2 ESUD 011120Z AUTO 25006KT 9999 SCT046/// BKN059/// OVC076/// 18/09 Q1006 ESSV 011120Z 22013KT CAVOK 24/12 Q1014 FKKN 011100Z 22008KT 9999 BKN016 FEW026CB BKN110 23/19 Q1018 KPPO 011135Z AUTO 00000KT 1SM BR VV007 14/14 A3010 RMK AO2 LTG DSNT W T01390139 KPOY 011135Z AUTO 29009KT 10SM CLR 15/03 A3021 RMK AO2 KPPQ 011135Z AUTO 00000KT 7SM SCT080 OVC120 16/14 A3009 RMK AO2 T01580143 KPQI 011135Z AUTO 18004KT 1/2SM OVC002 14/12 A3020 RMK AO1 LFYR 011130Z AUTO 22005KT 180V250 9999 SCT049 BKN076 BKN150 27/15 Q1009 FKKR 011100Z 32006KT 9999 FEW016 BKN020 BKN120 30/23 Q1013 NOSIG KPRB 011053Z AUTO 00000KT 10SM CLR 18/11 A2990 RMK AO2 SLP116 T01780106 KPQL 011053Z AUTO 00000KT 8SM FEW120 22/21 A2998 RMK AO2 SLP152 T02170206 TSNO KPRC 011053Z AUTO 33005KT 10SM BKN100 OVC120 19/13 A3021 RMK AO2 SLP138 T01940133 KQGV 011055Z 33010G16KT 9999 CLR 45/00 A2949 RMK SLPNO QNH999INS PA +865 KPQN 011134Z AUTO 00000KT 7SM CLR 12/11 A3010 RMK AO2 KQGX 011058Z AUTO 29011KT 9999 CLR 43/14 A2943 RMK AO2 SLPNO T04300136 $ KPRG 011135Z AUTO 00000KT 1/4SM FG BKN001 14/14 A3011 RMK AO2 LTG DSNT NW T01430141 LGPZ 011120Z 27013KT 9999 SCT025 28/17 Q1007 NOSIG KOZR 011058Z AUTO 03003KT 10SM CLR 20/19 A2999 RMK AO2 SLP155 T02020189 LGSA 011120Z 30022G32KT 9999 FEW025 29/17 Q1006 VTBD 011130Z 24016KT 9000 -SHRA FEW014 FEW018CB SCT025 BKN100 26/24 Q1005 RESHRA WS RWY03 NOSIG ESUT 011120Z AUTO 22005KT 190V260 9999 BKN051/// BKN130/// 15/08 Q1006 KPSC 011053Z AUTO 00000KT 10SM CLR 20/16 A2990 RMK AO2 SLP121 T02000156 KRAC 011053Z AUTO 27004KT 10SM CLR 17/14 A3007 RMK AO2 SLP178 T01720139 ETND 011020Z 18006KT 9999 FEW045 26/13 Q1011 BLU+ KOZW 011135Z AUTO 22003KT 5SM BR CLR 16/15 A3008 RMK AO2 T01610150 KPRN 011056Z AUTO 00000KT 8SM CLR 22/20 A3000 RMK AO2 SLP151 T02220200 ETMN 011120Z 16008KT 9999 FEW040 SCT280 27/13 Q1011 BLU+BLU+ KPSF 011139Z AUTO 00000KT 2 1/2SM BR BKN001 BKN030 OVC120 16/16 A3022 RMK AO2 T01560156 KPRO 011135Z AUTO 00000KT 5SM BR CLR 13/13 A3009 RMK AO2 T01310129 LGRP 011120Z 26012KT 9999 FEW018 29/22 Q1005 NOSIG KQHY 011056Z AUTO 02005KT 10SM CLR 22/20 A2999 RMK AO2 SLP162 T02180195 KQL5 011055Z 03009G18KT 6000 BLDU SCT050 BKN120 BKN180 32/17 A2954 RMK PK WND 02026/1017 SLP960 T03190168 ETNG 010550Z 00000KT CAVOK 18/16 Q1012 ETNH 011120Z 15007KT 9999 SCT055 26/12 Q1012 BLU+BLU+ KQIR 011058Z AUTO VRB02KT 9999 CLR 44/13 A2943 RMK AO2 SLP966 T04400134 $ LIBA 011055Z 34015KT 9999 FEW025TCU SCT030 28/20 Q1008 RMK BKN VIS MIN 9999 WIND THR29 31013G23KT BLU VTCC 011130Z 20010KT 9999 BKN035 32/21 Q1004 A2965 NOSIG KPRS 011135Z AUTO 28007KT 10SM VCTS SCT033 BKN050 OVC070 24/20 A3011 RMK AO2 LTG DSNT ALQS P0010 T02360203 LGSK 011050Z 01014KT 9999 FEW018TCU 29/19 Q1005 KPSK 011135Z AUTO 10004KT 2 1/2SM -RA OVC004 18/18 A3022 RMK AO2 P0001 T01800180 KPTB 011135Z 33003KT 3SM SCT100 23/22 A3017 RMK AO2 LTG DSNT S PWINO KT20 011135Z AUTO 00000KT 10SM SCT028 SCT036 BKN100 25/20 A2998 RMK AO2 T02470203 LIBC 011050Z 13009G19KT 100V160 9999 FEW020 27/17 Q1009 KRAL 011053Z AUTO 00000KT 10SM CLR 22/16 A2992 RMK AO2 SLP113 T02170161 LGSM 011120Z 20010KT CAVOK 29/22 Q1004 VTBO 011100Z 21012KT 8000 SCT025 29/25 Q1006 ETNL 011120Z 14009KT 9999 FEW050 26/12 Q1014 BLU+FCST CANCEL LIBD 011120Z 30005KT 240V350 9999 SCT030 22/20 Q1009 KRBD 011053Z 02005KT 10SM OVC008 22/19 A3000 RMK AO2 SLP152 T02170189 KPSM 011058Z 24001KT 4SM BR SCT250 17/16 A3019 RMK AO2A SLP227 T01710160 LHKE 011115Z 07002MPS 9999 SCT030 28/19 Q1010 NOSIG RMK BLU LIBF 011050Z 33015KT 290V360 9999 SCT025 30/17 Q1009 ETNN 011120Z AUTO VRB02KT 4400 // ////// 26/13 Q1010 /// VTCH 011100Z 00000KT 9999 SCT028 31/25 Q1002 A2959 LGRX 011120Z 26011KT 9999 FEW020 28/17 Q1007 NOSIG KPRX 011135Z 05007KT 2SM OVC004 19/16 A3003 RMK AO1 P0002 KPSO 011135Z AUTO 00000KT 10SM BKN060 BKN120 12/12 A3039 RMK AO2 LTG DSNT W T01200115 LGSO 011120Z AUTO 14006KT 090V190 //// // ////// 32/19 Q1004 RE// LIBG 011050Z 35010KT 9999 FEW043 25/17 Q1008 KRAP 011052Z AUTO 23004KT 10SM CLR 16/09 A3010 RMK AO2 SLP164 T01610094 KPSP 011053Z AUTO 00000KT 10SM CLR 33/14 A2982 RMK AO2 SLP091 T03280139 TSNO KRBG 011053Z AUTO 00000KT 10SM CLR 21/13 A3000 RMK AO2 SLP153 T02060133 LGTG 011020Z 30007KT 9999 SCT035 32/11 Q1004 NOSIG RMK FEW080 BLU LIBH 010855Z 27005KT 9999 -RA SCT015 FEW020TCU 28/18 Q1008 RMK BKN SCT080 QUK / QUL / VIS MAR 15 KM VIS MIN 9999 VTBS 011130Z 17008KT 140V270 7000 -RA FEW018CB SCT030 BKN110 28/23 Q1005 TEMPO FM1135 TL1220 VRB15G25KT 2000 +TSRA LGSR 011120Z 25011KT 9999 FEW035 30/20 Q1004 NOSIG VTCL 011100Z 18004KT 140V210 9999 SCT025 BKN120 31/25 Q1002 A2959 INFO VTBU 011130Z 25008KT 8000 FEW020 SCT040 BKN300 29/25 Q1005 A2969 LICA 011050Z 26012KT 9999 FEW025 SCT075 26/20 Q1010 KRCA 011058Z AUTO 26007KT 10SM CLR 17/09 A3009 RMK AO2 SLP167 T01670092 $ KRAS 011135Z AUTO 00000KT 7SM SCT020 26/25 A2995 RMK AO2 T02600250 LICB 011050Z 24006KT 160V310 CAVOK 31/14 Q1011 ETNS 011120Z AUTO 19008KT 7000 // ////// 26/10 Q1012 /// KPTK 011053Z 00000KT 6SM BR FEW110 16/14 A3007 RMK AO2 SLP180 T01560139 KPUB 011053Z AUTO 08003KT 10SM OVC110 17/16 A3023 RMK AO2 SLP186 T01670156 ETNT 011120Z 17007KT 9999 FEW045 SCT200 26/12 Q1011 BLU+ VTCN 011100Z 21007KT 9999 SHRA FEW023TCU BKN025 BKN100 31/22 Q1001 A2958 RWY/02 INFO/I LICC 011120Z 11012KT CAVOK 30/15 Q1009 KPUC 011053Z AUTO 01009KT 10SM FEW090 15/09 A3023 RMK AO2 SLP150 T01500094 KRBL 011054Z AUTO 32005KT 10SM CLR 23/13 A2984 RMK AO2 SLP100 T02330133 LICD 010950Z 31010KT 280V340 CAVOK 27/19 Q1013 LIBN 011055Z 33007KT 9999 SCT020 23/20 Q1008 RMK BKN BKN090 VIS MIN 9999 WIND THR14 36008KT BLU VTCP 010600Z 21007KT 9999 SCT025 BKN300 33/23 Q1004 KPTN 011135Z AUTO 00000KT 10SM CLR 25/23 A3001 RMK AO1 KRCE 011135Z AUTO 00000KT M1/4SM FG OVC001 17/17 A3011 RMK AO2 ETNW 011120Z 16008KT 9999 SCT060 SCT230 27/13 Q1011 BLU+FCST CANCEL LICF 011055Z 31006KT 9999 FEW015TCU SCT020 28/20 Q1010 RMK BKN QUK 3 QUL 1 NW VIS MAR 16 KM MON CIME INC NC VIS MIN 9999 KPSX 011109Z AUTO 01005KT 10SM -RA FEW050 BKN100 24/21 A2995 RMK AO2 LTG DSNT SE TSE03 T02390211 PNO $ LICG 011055Z 35008KT CAVOK 25/23 Q1012 LIBP 011050Z 01009KT 9999 FEW060 27/18 Q1010 LGSY 011050Z 27014KT 9999 FEW020TCU SCT030 30/21 Q1002 NOSIG RMK FEW180 BLU KT35 011135Z AUTO 33004KT 10SM BKN021 22/20 A3001 RMK AO2 T02160195 LIBQ 010455Z 27012KT 0000 FG VV/// 10/10 Q1015 RMK MON INVIS VAL INVIS VIS MIN 0000 VTCT 011100Z 17005KT 9999 BKN025 OVC080 27/23 Q1002 A2960 RMK/RWY03 INFO L LIBR 011115Z 33014KT 9999 FEW018 22/17 Q1009 NOSIG LGTS 011120Z 09015KT 9999 TS FEW018CB FEW020TCU SCT035 BKN090 27/16 Q1004 NOSIG LICJ 011120Z 32007KT 9999 FEW030 26/21 Q1012 KPUJ 011135Z AUTO 09005KT 7SM OVC005 20/20 A3008 RMK AO2 KPTS 011135Z AUTO 00000KT 1/2SM VV005 16/16 A3009 RMK AO2 T01610162 KPTT 011135Z AUTO 23005KT 10SM CLR 16/13 A3011 RMK AO2 KPVB 011135Z AUTO 00000KT 4SM CLR 14/13 A3008 RMK AO1 T01380130 LICL 011055Z 25009KT 9999 FEW020 25/23 Q1010 RMK FEW QUK 1 QUL 0 VIS MAR 18 KM VIS MIN 9999 KPVC 011135Z 00000KT 10SM CLR 22/19 A3023 RMK AO1 LIBV 011055Z 32007KT 9999 FEW030 SCT035 21/16 Q1008 RMK BKN VIS MIN 9999 WIND THR32 33007KT WIND THR14 33006KT BLU KRCM 011115Z AUTO 00000KT 10SM SCT120 16/15 A3007 RMK AO2 KPVD 011051Z 00000KT 10SM FEW120 SCT250 20/18 A3021 RMK AO2 SLP228 T02000178 KRDD 011053Z AUTO 00000KT 10SM CLR 22/11 A2985 RMK AO2 SLP098 T02220106 TSNO KPTV 011135Z AUTO 15004KT 10SM CLR 22/11 A2986 RMK AO1 ETOU 011058Z AUTO VRB03KT 9999 FEW042 26/17 A2988 RMK AO2 SLP116 T02560167 GCGM 011100Z 20006KT 150V280 9999 FEW035 24/17 Q1021 RMK CAB09 16003KT 090V260 GCFV 011130Z 04016KT 9999 FEW025 SCT032 26/18 Q1020 KPTW 011054Z AUTO 00000KT 7SM OVC008 21/19 A3019 RMK AO2 SLP219 T02110194 KPVE 011135Z AUTO 00000KT 10SM FEW100 18/17 A3007 RMK KRBW 011135Z AUTO 00000KT 1/2SM FG OVC002 22/ A3002 RMK AO2 LTG DSNT SE AND S KPVF 010155Z AUTO 31003KT 10SM CLR 34/06 A3001 RMK AO1 LIBY 011055Z 26015KT 9999 FEW020TCU SCT025 24/17 Q1007 RMK BKN QUK 2 QUL 1 NW VIS MAR 20 KM VIS MIN 9999 KPVG 011135Z AUTO 00000KT 4SM FEW120 19/18 A3018 RMK AO1 KRDG 011142Z 00000KT 6SM BR OVC008 20/18 A3018 RMK AO2 CIG 007V012 T02000178 KQLQ 011055Z 18012G20KT 9999 SCT100 27/11 A2997 RMK AO2A SLP024 WND DATA ESTMD ALTSG/SLP DATA ESTMD T02670114 LICR 011050Z 35015KT 9999 SCT030 29/18 Q1010 KRCR 011135Z AUTO 00000KT 7SM CLR 17/15 A3012 RMK AO2 LTG DSNT W GCHI 011100Z 01016KT 9999 SCT027 25/17 Q1021 LIEA 011120Z 20010KT 160V240 9999 FEW020 28/21 Q1012 KPWA 011133Z AUTO 00000KT 1/4SM FG CLR 18/18 A3009 RMK AO2 KPVJ 011135Z AUTO 00000KT 3SM BR OVC027 18/18 A3006 RMK AO2 T01800180 LIEB 011055Z 14005KT CAVOK 33/19 Q1012 RMK SKC QUK 1 QUL 0 VIS MAR 30 KM MON LIB VIS MIN 9999 LICT 011055Z 32009KT 9999 FEW015 28/18 Q1011 KRDK 011135Z AUTO 00000KT 9SM BKN070 OVC080 18/17 A3007 RMK AO2 LIEC 011055Z 22010KT 9999 FEW020 28/22 Q1011 RMK FEW QUK 2 QUL 0 VIS MAR 25 KM VIS MIN 9999 KPWC 011134Z AUTO 00000KT 5SM BR CLR 12/11 A3009 RMK AO2 KQND 011055Z AUTO 00000KT 9999 FEW023 SCT170 30/21 A2993 RMK AO2 SLP120 T03000210 $ LIED 011055Z 32015KT 9999 FEW030 30/17 Q1011 RMK FEW VIS MIN 9999 WIND THR35 35013KT WIND THR17 34013KT BLU KRCV 011135Z AUTO 00000KT 10SM -RA SCT075 BKN085 BKN100 12/11 A3040 RMK AO2 T01160105 KRDM 011056Z AUTO 16008KT 10SM FEW060 FEW090 19/10 A3007 RMK AO2 RAE45 SLP150 P0001 T01890100 LIEE 011120Z 34013KT CAVOK 32/14 Q1011 KPUW 011053Z AUTO 00000KT 10SM CLR 21/07 A3005 RMK AO2 SLP152 T02060072 FLHN 311500Z 11007KT CAVOK 25/06 Q1023 NOSIG KRCX 011135Z AUTO 00000KT 1/4SM FG OVC001 14/13 A3006 RMK AO2 T01350130 KPWG 011135Z AUTO 33006KT 10SM OVC016 22/17 A3004 RMK AO1 LICZ 011055Z 05003KT 9999 FEW025 32/17 Q1009 RMK FEW VIS MIN 9999 WIND THR28 10004KT A2982 BLU KRCZ 011134Z AUTO 10008KT 10SM 23/22 A3006 RMK AO2 KRDR 011058Z AUTO 29005KT 10SM CLR 15/15 A3005 RMK AO2 SLP179 T01540154 ETSA 011120Z 07006KT 9999 FEW028 BKN250 21/14 Q1013 BLU+BLU+ KPWK 011052Z 00000KT 10SM CLR 17/14 A3008 RMK AO2 LTG DSNT S SLP180 T01720144 $ ETSB 011120Z AUTO 17005KT 9999 // ////// 23/13 Q1012 /// KPVU 011135Z AUTO 16004KT 10SM CLR 18/12 A3018 RMK AO1 KRDU 011051Z 04007KT 5SM BR FEW025 SCT060 BKN100 BKN150 OVC250 21/19 A3013 RMK AO2 RAE03 SLP197 P0000 T02110194 KPWM 011051Z VRB03KT 6SM BR CLR 17/16 A3020 RMK AO2 SLP225 T01720161 KRFD 011054Z 17004KT 10SM SCT090 BKN250 15/13 A3009 RMK AO2 SLP185 T01500133 KPVW 011135Z AUTO 00000KT 10SM CLR 14/12 A3017 RMK AO2 T01430123 ETSE 010820Z 09007G17KT 9999 FEW016 20/17 Q1014 BLU+ LIEO 011120Z VRB05KT 9999 FEW040 32/15 Q1011 KREO 011052Z AUTO 06011KT 20/09 A3013 RMK AO1 SLP157 T02000089 KT65 011135Z AUTO 15005KT 7SM CLR 27/23 A2991 RMK AO2 T02650230 ETSH 011120Z 12006KT 9999 SCT060 BKN250 26/11 Q1013 BLU+ KRFI 011135Z AUTO 01005KT 1 3/4SM BR OVC003 20/20 A2998 RMK AO2 T01950195 ETSI 011130Z 08006KT 9999 SCT038 BKN300 23/14 Q1012 BLU+FCST CANCEL LHPA 011115Z 34003MPS 9999 SCT017 SCT083 25/19 Q1012 NOSIG RMK BLU KPWT 011135Z 00000KT 10SM CLR 11/09 A3008 RMK AO1 ETSL 011120Z 06008KT 9999 FEW025 BKN260 21/15 Q1013 BLU+ ETSN 011120Z 06007KT 9999 FEW037 BKN280 23/14 Q1012 BLACKBLU+ LGZA 011120Z 30015KT 9999 FEW020 31/11 Q1007 GCLA 011130Z 02009KT 340V050 9999 SCT030 27/18 Q1022 KRGK 011135Z AUTO 00000KT 7SM CLR 14/13 A3004 RMK AO2 FLKK 312000Z 14004KT CAVOK 14/10 Q1026 KPYM 011052Z AUTO VRB03KT 10SM CLR 19/17 A3021 RMK AO2 SLP230 T01940167 $ KT82 011135Z AUTO 04006KT 10SM OVC050 22/16 A3006 RMK AO2 T02150163 LHPP 011115Z 14005KT 9999 SCT030 BKN083 26/17 Q1011 FMCH 011100Z 18009KT 120V210 9999 FEW022 SCT028 30/20 Q1017 NOSIG KRHI 011053Z AUTO 00000KT 1/4SM FG VV002 11/11 A3005 RMK AO2 SLP173 T01060106 LHPR 011115Z 30003KT 9999 BKN033 26/20 Q1012 FLLI 311500Z 11007KT CAVOK 25/06 Q1023 NOSIG AGGH 011100Z 14002KT 9999 HZ FEW016 SCT030 BKN300 24/23 Q1012 KRIC 011133Z 00000KT 5SM BR SCT027 SCT085 OVC110 22/20 A3018 RMK AO2 RAE21 P0000 KPYX 011135Z AUTO 26004KT 10SM CLR 15/13 A3016 RMK AO2 T01520130 KRHP 011135Z AUTO 00000KT 5SM BR BKN110 16/16 A3013 RMK AO2 T01580156 KPZQ 011134Z AUTO 24003KT 10SM CLR 14/14 A3005 RMK AO2 T01380138 KQRH 011055Z AUTO 27009G18KT 9999 FEW200 39/14 A2967 RMK AO2 SLP045 T03940141 GCLP 011130Z 02026KT 9999 FEW028 27/16 Q1020 NOSIG KQQS 011055Z AUTO 04019G26KT 9999 CLR 27/08 A2993 RMK AO2 PK WND 04029/1035 SLP969 T02700083 KSAA 011135Z AUTO 00000KT 10SM CLR 07/04 A3034 RMK AO2 KQSA 011058Z 21012G17KT 9999 FEW070 SCT110 SCT280 33/11 A2968 RMK AO2A SLP942 T03320114 $ KRIL 011053Z AUTO 00000KT 10SM CLR 17/11 A3021 RMK AO2 SLP154 T01720111 KSAC 011053Z AUTO 00000KT 10SM CLR 19/13 A2982 RMK AO2 SLP097 T01940133 KSAD 011051Z AUTO 13007KT 10SM BKN110 22/18 A3010 RMK AO2 RAE17 SLP134 P0000 T02220183 KRHV 010448Z VRB03KT 10SM FEW100 22/16 A2994 RMK LAST FMEE 011130Z 10013KT 070V130 9999 FEW030 SCT040 25/15 Q1019 NOSIG KSAF 011053Z AUTO 13005KT 10SM CLR 13/11 A3032 RMK AO2 SLP175 T01330111 $ KQQY 011055Z AUTO 01001KT 9999 BKN050 21/20 A3002 RMK AO2 SLP151 T02130199 $ KU16 010958Z AUTO 19005KT CLR 18/09 A3011 RMK AO2 SLP816 T01780094 $ FMCZ 011100Z 16013KT 9999 SCT026 27/20 Q1017 NOSIG KSBA 011053Z AUTO 09009KT 7SM OVC005 18/16 A2989 RMK AO2 SLP122 T01780156 KQRU 010955Z AUTO 24008G17KT 210V270 9999 CLR 32/M04 A2991 RMK AO2 SLP979 T03201041 LHSM 011115Z 32006KT 9999 BKN024 25/20 Q1012 NOSIG KSBD 312350Z 23009KT 10SM FEW080 38/10 A2985 KRKD 011135Z AUTO 00000KT 10SM CLR 19/17 A3020 RMK AO1 KRIV 011058Z AUTO 12002KT 10SM CLR 21/15 A2994 RMK AO2 SLP122 T02050148 ETWM 011120Z 19005KT 9999 FEW045 SCT230 26/13 Q1010 BLU+ KQSN 011055Z 24012G18KT 6000 HZ FEW150 34/M01 A2990 RMK AO2A SLP925 WND DATA ESTMD ALSTG/SLP ESTMD T03361008 LHSN 011115Z 09002MPS 9999 SCT030TCU 28/20 Q1009 NOSIG RMK BLU KSAN 011051Z 29003KT 10SM OVC014 21/17 A2992 RMK AO2 SLP131 T02110172 KRIW 011053Z AUTO 32011KT 10SM CLR 13/08 A3024 RMK AO2 SLP174 T01330078 KQTF 011055Z AUTO 30005KT 10SM FEW220 23/17 A2999 RMK AO2 SLP154 T02280167 KQRY 011055Z AUTO 22010G17KT 7000 FEW042 32/M04 A2989 RMK AO2 SLP970 T03201043 $ FMEP 011130Z AUTO 26007KT 9999 NCD 25/15 Q1019 KQTH 011055Z AUTO 16021G27KT 9999 CLR 35/20 A2961 RMK AO2 SLP994 T03510200 $ KSAR 011135Z AUTO 00000KT 10SM CLR 15/15 A3009 RMK AO2 KSAT 011051Z 04007KT 10SM OVC030 26/17 A3000 RMK AO2 SLP138 T02610172 KSAV 011144Z 01004KT 1/2SM R10/1800V2200FT FG VV002 23/23 A3000 RMK AO2 KSBM 011053Z AUTO 25003KT 10SM CLR 15/14 A3003 RMK AO2 SLP168 T01500139 KSCD 011135Z AUTO 00000KT 10SM OVC010 23/21 A3004 RMK AO2 T02310209 KQUD 011055Z AUTO 19002KT 10SM CLR 29/18 A3022 RMK AO2 SLP181 T02880175 LHUD 011115Z 32005KT 9999 SCT040 28/19 Q1010 GBYD 011100Z 31006KT 9999 BKN012 30/25 Q1013 KSAW 011045Z 00000KT 10SM SKC 08/06 A3003 KSBN 011054Z 24003KT 6SM BR CLR 17/15 A3009 RMK AO2 SLP187 T01720150 LJCE 011130Z 07003KT 020V170 9999 FEW030 SCT040 24/18 Q1012 KSCF 011135Z AUTO 16009KT 10SM CLR 29/21 A2997 RMK A01 KSBO 011135Z AUTO 02004KT 5SM BR OVC005 24/24 A3003 RMK AO2 LTG DSNT E KRKP 011132Z AUTO 00000KT 10SM FEW022 BKN033 BKN043 27/24 A2996 RMK AO2 T02720244 KSBP 011056Z AUTO 29005KT 10SM OVC005 16/14 A2991 RMK AO2 SLP127 T01560144 $ KSCH 311745Z 36005KT 10SM -RA SCT027 BKN040 BKN050 19/17 A3005 KSAZ 011121Z AUTO 31000KT 3SM CLR 13/13 A3006 RMK AO2 KRKR 011135Z AUTO 00000KT 10SM BKN008 BKN019 OVC025 20/18 A3006 RMK AO2 T01950181 LIMA 011050Z 03005KT 320V100 9999 SCT028 25/19 Q1011 KRKS 011054Z AUTO 08004KT 10SM CLR 14/01 A3031 RMK AO2 SLP178 T01390011 KSBS 011134Z AUTO 00000KT 10SM CLR 10/08 A3030 RMK AO1 T01010076 KSDA 011135Z AUTO 06006KT 7SM -RA FEW006 SCT045 BKN075 18/17 A3007 RMK AO2 KSDB 011048Z AUTO 35014G20KT 10SM CLR 26/06 A3012 RMK AO2 PK WND 33027/0956 SLP125 T02560061 KSCK 011055Z AUTO 00000KT 10SM CLR 21/12 A2982 RMK AO2 SLP097 T02060122 TSNO LIMC 011120Z 35008KT 9999 FEW040 SCT070 23/21 Q1012 NOSIG LIME 011120Z 15005KT 100V200 9999 SCT050 SCT100 28/17 Q1011 KRME 011053Z 14003KT 5SM BR CLR 13/13 A3016 RMK AO2 SLP212 T01330128 $ KQVF 011055Z AUTO 19009G18KT 9999 FEW027 28/19 A3007 RMK AO2 SLP181 T02780194 LIMF 011120Z 07008KT 9999 FEW020 BKN045 25/21 Q1011 KSDF 011056Z 12003KT 7SM FEW080 FEW250 18/15 A3010 RMK AO2 SLP188 T01780150 LIMG 011050Z 11006KT 9999 BKN040 23/19 Q1011 KRMG 011053Z AUTO 00000KT 10SM OVC019 20/18 A3007 RMK AO2 SLP173 T02000183 KSBY 011054Z 00000KT 7SM CLR 22/19 A3017 RMK AO2 SLP218 T02170189 LIMH 011055Z /////KT 0800 RA FG VV/// 04/02 Q1026 RMK MON INVIS VAL INVIS VIS MIN 0800 KQTZ 011055Z 30009G19KT 9000 HZ CLR 44/06 A2946 RMK SLP973 WND DATA ESTMD ALSTG/SLP ESTMD LIMJ 011120Z 19005KT 170V240 9999 FEW022 SCT026 26/20 Q1011 KSEA 011053Z 34004KT 10SM CLR 18/09 A3004 RMK AO2 SLP177 T01780089 LIMK 011055Z 02003KT 9999 SCT020 20/19 Q1013 RMK BKN SCT080 VAL FOSCHIA VIS MIN 9999 FKYS 011100Z 25007KT 220V290 9999 BKN013 23/19 Q1019 BECMG BKN016 LIML 011120Z 09004KT 020V140 9999 BKN045 27/20 Q1010 NOSIG KSDL 011053Z VRB05KT 10SM FEW110 29/17 A2996 RMK AO2 SLP115 T02890172 KRNC 011135Z AUTO 00000KT 8SM FEW044 BKN060 17/17 A3010 RMK KSDM 011053Z AUTO 00000KT 10SM OVC008 20/17 A2991 RMK AO2 SLP122 T02000172 TSNO $ KRND 011138Z AUTO 04008KT 10SM SCT030 SCT042 OVC049 25/17 A3001 RMK AO2 $ LIMN 011055Z 35008KT 9999 FEW020 SCT040 BKN060 23/21 Q1011 RMK BKN VIS MIN 9999 BLU KSEE 011135Z AUTO 28003KT 9SM CLR 19/18 A2992 RMK AO2 KRMN 011135Z AUTO 00000KT 5SM BR SCT120 21/21 A3022 RMK AO2 T02120212 LIMP 011050Z 07004KT 360V120 9999 FEW025 28/19 Q1011 KSEG 011133Z AUTO 00000KT 3/4SM BR OVC002 16/16 A3018 RMK AO2 T01610156 KRNH 011135Z AUTO 00000KT 4SM BR CLR 15/14 A3005 RMK AO2 T01470143 LIMS 011055Z 34006KT 330V030 9999 SCT023 26/22 Q1010 KROA 011139Z 00000KT 6SM -RA BR FEW005 SCT048 OVC100 18/17 A3021 RMK AO2 P0003 LIMT 010555Z 19012KT 7000 NSC 14/12 Q1013 RMK SKC MON LIB VAL FOSCHIA VIS MIN 7000 KSFB 011053Z 19004KT 10SM CLR 26/24 A2997 RMK AO2 SLP148 T02560239 LIMU 011055Z 02008KT 9999 FEW013 SCT026 24/20 Q1012 RMK OVC QUK 2 QUL 1 SE VIS MAR 15 KM VIS MIN 9999 KROC 011054Z 19003KT 10SM FEW055 BKN090 BKN110 BKN250 16/14 A3012 RMK AO2 DZE00RAB00E32 SLP200 P0002 T01610144 KQWM 011055Z 36006KT 9999 CLR 45/00 A2951 RMK SLP978 QNH999 KRNM 011105Z AUTO 00000KT 7SM FEW007 16/14 A2993 RMK AO2 T01560144 TSNO $ KSEM 011135Z AUTO 00000KT 9SM CLR 22/20 A3000 RMK AO2 VTPH 011100Z 26008KT 9999 FEW030 BKN100 32/22 Q1004 NOSIG KSFF 011053Z AUTO 00000KT 10SM CLR 19/06 A3002 RMK AO2 SLP143 T01890056 KRNO 011055Z 27003KT 10SM SCT110 21/09 A3015 RMK AO2 SLP147 T02110094 LIMY 011055Z 34005KT 9999 BKN018 21/18 Q1012 RMK BKN SCT060 VAL FOSCHIA VIS MIN 9999 KRMY 011134Z AUTO 20007KT 5SM BR CLR 16/15 A3009 RMK AO2 T01550149 KSDY 011135Z AUTO 02007KT 10SM CLR 16/13 A3002 RMK AO1 KRNP 011134Z AUTO 00000KT 7SM CLR 17/16 A3007 RMK AO2 T01650160 KSEP 011135Z AUTO 00000KT 10SM OVC028 19/17 A3008 RMK AO2 T01860168 KROG 011138Z 00000KT M1/4SM FG BKN002 OVC024 18/17 A3011 RMK AO2 LIMZ 011050Z 02004KT 8000 SCT015TCU SCT025 24/21 Q1012 LIPA 011055Z 22002KT 9999 FEW040TCU SCT050 27/20 Q1010 RMK SCT VIS MIN 9999 A2984 BLU KU68 011135Z AUTO 29005KT 10SM CLR 16/05 A3015 RMK AO2 PWINO GCRR 011130Z 02015KT 9999 BKN030 25/17 Q1020 LIPB 011050Z 18005KT 150V230 9999 FEW060 26/20 Q1010 KRNT 011053Z AUTO 30005KT 10SM CLR 19/12 A3002 RMK AO2 SLP172 T01940122 KSET 011054Z AUTO 00000KT 7SM FEW003 SCT075 17/16 A3007 RMK AO1 SLP179 T01670156 FLSK 311900Z 00000KT CAVOK 15/09 Q1024 LIPC 011055Z 07008KT 9999 FEW040 28/21 Q1010 FNBC 011100Z 33004KT 9999 BKN012 22/// Q1018 VTPO 011000Z 23013KT 9999 FEW022 FEW030 SCT120 33/25 Q1001 KSFM 011135Z AUTO 00000KT 8SM CLR 18/15 A3021 RMK AO1 KRNV 011135Z AUTO 03003KT 10SM SCT047 BKN055 OVC090 21/21 A3004 RMK AO2 T02110207 KRPD 011135Z AUTO 00000KT 2SM BR CLR 14/14 A3006 RMK AO2 T01410135 VTPP 011100Z 21006KT 9999 FEW021CB FEW025 BKN300 32/24 Q1002 LIPE 011120Z 09011KT 060V120 CAVOK 30/17 Q1009 LIPF 011055Z 00000KT 9999 FEW045 30/21 Q1010 KSGF 011052Z 18003KT 1/4SM FG VV002 17/17 A3009 RMK AO2 SLP179 T01720167 KSFO 011056Z 29011KT 10SM FEW006 BKN200 16/14 A2990 RMK AO2 SLP125 T01560139 $ FNBG 011100Z 33010KT 9999 BKN020 22/17 Q1017 LIPH 011045Z /////KT 8000 SCT030 27/19 Q1011 KSGH 011056Z AUTO 00000KT 7SM CLR 16/16 A3014 RMK AO2 T01550155 SLP200 KRPH 011135Z AUTO 02003KT 10SM CLR 18/17 A3005 RMK AO2 T01770167 KSEZ 011135Z AUTO 08006KT 10SM VCTS SCT090 19/13 A3020 RMK AO2 LTG DSNT W KSFQ 011135Z AUTO 00000KT 7SM -RA SCT100 SCT120 20/19 A3016 RMK AO2 LTG DSNT SW T02020191 LIPI 011055Z 23007KT 9999 FEW050 27/20 Q1010 RMK FEW VIS MIN 9999 WIND THR06 20004KT BLU KROS 011135Z AUTO 00000KT 10SM BKN049 BKN080 15/15 A3005 RMK AO2 T01510145 KRPJ 011135Z AUTO 00000KT 7SM SCT050 SCT070 SCT080 16/14 A3009 RMK AO2 LTG DSNT SE T01560144 KSGJ 010958Z AUTO 19004KT 10SM CLR 26/23 A2995 RMK AO2 SLP142 T02560228 $ LIPK 011050Z VRB03KT CAVOK 29/20 Q1010 FNCA 011100Z 15004KT 7000 SCT008 OVC023 22/20 Q1018 EVLA 011120Z AUTO 25006KT 220V280 9999 FEW040 24/15 Q1015 KRQB 011135Z AUTO 00000KT 1/2SM FG OVC002 13/13 A3006 RMK AO2 T01320132 KQXT 011055Z 29008G19KT 9999 SKC 45/M02 A2955 RMK SLP927 T04461019 PA2792 DA6698 LIPL 011055Z 11005KT 9999 SCT040 29/18 Q1010 RMK BKN SCT110 VIS MIN 9999 BLU LIQC 010955Z ///02KT CAVOK 25/22 Q1011 RMK SKC QUK 1 QUL 0 VIS MAR 20 KM VIS MIN 9999 KSHD 011135Z AUTO 17005KT 10SM -RA SCT037 BKN055 OVC090 20/17 A3022 RMK AO2 T01960170 KROW 011051Z AUTO 29005KT 10SM -RA SCT070 BKN085 OVC120 20/17 A3017 RMK AO2 SLP158 P0000 T02000172 KRQE 011053Z AUTO 00000KT 10SM BKN120 16/13 A3030 RMK AO2 SLP154 T01610128 TSNO LIPO 011050Z 12007KT 080V180 CAVOK 28/18 Q1011 KROX 011134Z AUTO 00000KT 7SM CLR 13/10 A3005 RMK AO2 KSFY 011135Z AUTO 5SM TS BR BKN120 17/16 A3007 RMK AO2 T01700156 LIPQ 011120Z VRB03KT 9999 FEW030 28/18 Q1010 KSFZ 011135Z 00000KT 5SM CLR 20/17 A3022 RMK AO1 VTSB 011100Z 24013KT 9999 FEW020 SCT300 31/22 Q1007 A2974 LIPR 011115Z /////KT CAVOK 25/20 Q1010 KSGR 011053Z 25007KT 10SM FEW110 23/22 A2995 RMK AO2 SLP142 T02330222 VTSC 010500Z 29006KT 9999 SCT020 BKN120 OVC200 33/23 Q1009 A2979 RWY20 INFO D LIPS 011055Z 21004KT 9999 FEW030 29/20 Q1010 RMK FEW VIS MIN 9999 WIND THR26 21004KT WIND THR08 24003KT BLU LIRA 011115Z 32003KT 270V340 9999 SCT018 28/17 Q1009 KSGS 011131Z AUTO 00000KT 10SM CLR 19/15 A3005 RMK AO2 T01850148 KSGT 011135Z AUTO 05006KT 10SM OVC060 21/18 A3006 RMK AO1 GCTS 011130Z 09011KT 060V120 9999 FEW035 27/16 Q1020 NOSIG LIPU 011050Z 20005KT 120V240 9999 SCT030 28/20 Q1010 KSGU 011135Z 03005KT 10SM CLR 25/11 A3005 RMK AO1 KSHL 011135Z AUTO 00000KT 9SM SCT060 11/11 A3009 RMK AO2 VTSF 011100Z 25005KT 9999 FEW018 BKN300 31/22 Q1006 A2972 INFO L / RWY 19 KSHM 011057Z AUTO 01005KT 10SM CLR 13/12 A3033 RMK AO2 SLP216 T01330115 LIQN 011050Z 33004KT CAVOK 26/17 Q1010 VTSG 011100Z 27009KT 9999 FEW020 30/21 Q1008 A2977 INFO B RWY32 LIRE 011055Z 27012KT 9999 FEW020 27/22 Q1009 RMK FEW VIS MIN 9999 WIND THR31 30013KT BLU KSHN 011053Z AUTO 31004KT 10SM CLR 14/11 A3002 RMK AO2 SLP165 T01390106 TSNO VTSH 010500Z 24008KT 9999 FEW020 BKN300 32/22 Q1008 A2977 LIPX 011115Z 18004KT 9999 FEW090 29/17 Q1011 LIRF 011120Z 27011KT 240V300 9999 FEW025 28/20 Q1009 NOSIG KSIF 011135Z AUTO 00000KT 7SM -RA OVC090 19/19 A3016 RMK AO2 T01850185 LIRG 011055Z 26005KT 9999 FEW030 30/18 Q1010 LIPY 011050Z 33008KT 290V350 9999 FEW025 26/21 Q1010 LIRH 011055Z 31003KT 9999 SCT030 27/17 Q1009 WMBA 011100Z 19003KT 6000 FEW025 SCT150 BKN280 30/26 Q1007 LIPZ 011120Z 16004KT 9999 FEW025 28/17 Q1010 LIRI 011050Z 26007KT 9999 SCT030 27/19 Q1010 KSHR 011053Z AUTO 19005KT 10SM CLR 12/06 A3013 RMK AO2 SLP167 T01220061 FMMI 011130Z VRB04KT 9999 FEW023 23/10 Q1023 NOSIG VTSM 011100Z 30010KT 9999 FEW020 BKN300 32/24 Q1007 A2975 LIRL 011055Z 24003KT 9999 SCT025 28/21 Q1009 KSJC 011053Z AUTO 29003KT 9SM CLR 16/15 A2990 RMK AO2 SLP123 T01610150 KRRL 011135Z AUTO 00000KT M1/4SM FG OVC001 11/11 A3006 RMK AO2 T01050105 LIRM 011055Z 27006KT 9999 SCT025 29/24 Q1009 KTAD 011054Z AUTO 28003KT 10SM CLR 14/12 A3028 RMK AO2 SLP188 T01440122 $ KSHV 011056Z 07005KT 5SM -DZ OVC006 20/19 A2996 RMK AO2 SLP143 P0000 T02000189 LIQW 010955Z 15005KT 9999 FEW030 25/19 Q1010 VTSP 011130Z 27013KT 9999 FEW020 BKN300 29/23 Q1008 A2979 LIRN 011120Z 19006KT 110V210 9999 BKN045 27/20 Q1010 VTSR 011100Z 22012KT 8000 BKN025 BKN150 28/24 Q1006 A2972 ILS DME RWY02 INFO Y LIRP 011115Z 27005KT 9999 SCT020 26/19 Q1011 NOSIG VTSS 011130Z 25008KT 9999 FEW020 BKN300 31/22 Q1007 A2975 NOSIG LIRQ 011120Z 28005KT 200V350 9999 FEW030 28/20 Q1010 VTST 011100Z 26007KT 9999 FEW020 BKN300 31/23 Q1007 RWY26 INFO I WMAU 011100Z 14007KT 9999 FEW020 SCT140 BKN270 30/27 Q//// QFF1008 LIRS 011055Z /////KT 9999 FEW025 30/16 Q1010 KSKA 011058Z AUTO 17004KT 10SM CLR 20/03 A3003 RMK AO2 SLP149 T02030025 VTUD 011100Z 29005KT 9999 VCSH FEW032TCU SCT048 32/24 Q1001 A2958 TCU W INFO M RWY30 LIRT 010855Z 33008KT 9999 BKN010 18/15 Q1013 RMK BKN MON W CIME INC VAL LIB VIS MIN 9999 KRRT 011133Z AUTO 00000KT 7SM CLR 12/10 A3005 RMK AO2 LIRU 011050Z VRB03KT 9999 FEW025 28/19 Q1009 FMMT 011100Z 12006KT 9999 FEW017 25/16 Q1019 NOSIG KRSL 011053Z AUTO 22008KT 10SM CLR 17/14 A3004 RMK AO2 SLP157 T01670144 LIRV 011055Z 02004KT 9999 FEW026 28/18 Q1011 FMNM 011100Z 18006KT CAVOK 30/14 Q1016 NOSIG KTAN 011052Z AUTO 00000KT 8SM CLR 17/16 A3020 RMK AO2 SLP225 T01720161 KSJN 011054Z AUTO 33005KT 10SM CLR 17/15 A3023 RMK AO2 RAB0958E18 SLP136 P0000 T01670150 KRSN 011135Z AUTO 00000KT 2 1/2SM +RA BKN004 OVC012 20/20 A3003 RMK AO2 P0005 T02000200 LIRX 011055Z 36004KT 9999 FEW003 23/19 Q1011 RMK FEW VIS MIN 9999 VIS MAR 30 KM FMNN 010900Z 02006KT 9999 SCT020 29/19 Q1017 KSKF 011138Z AUTO 04007KT 10SM BKN060 26/18 A2998 RMK AO2 $ KRSP 011054Z AUTO 00000KT 6SM HZ CLR 19/17 A3020 RMK AO2 SLP220 T01940167 $ VTUI 010200Z VRB02KT 9999 FEW010 SCT025 BKN100 30/26 Q1005 A2969 RWY23 INFO C KSIY 011053Z AUTO 00000KT 10SM OVC043 18/06 A3003 RMK AO2 SLP150 T01830056 LIRZ 011050Z 34003KT 9999 FEW040 28/21 Q1010 VTUK 011100Z 29006KT 250V320 9999 FEW020CB SCT025 BKN300 28/22 Q1002 A2959 CB SW RWY21 INFO N VTUL 010900Z 32006KT 9999 BKN025 BKN300 33/23 Q0999 A2953 NOSIG KSJS 011135Z AUTO 00000KT 10SM BKN090 18/17 A3013 RMK AO2 T01830171 KSJT 011051Z AUTO 07003KT 10SM CLR 19/17 A3008 RMK AO2 SLP165 T01890167 KRST 011054Z 26006KT 10SM CLR 15/12 A3008 RMK AO2 SLP181 T01500117 KSLB 011135Z AUTO 23003KT 10SM CLR 15/15 A3009 RMK AO2 KSLC 011053Z 14007KT 10SM FEW170 19/11 A3012 RMK AO2 SLP146 T01890111 KTCC 011053Z AUTO 18005KT 10SM OVC085 20/13 A3021 RMK AO2 SLP171 T02000128 KRSV 011135Z AUTO 00000KT M1/4SM FG OVC001 15/15 A3011 RMK AO2 LTG DSNT NW T01540151 KRSW 011053Z 00000KT 10SM CLR 24/23 A2996 RMK AO2 SLP144 T02440228 KRTN 011108Z AUTO 05006KT 9SM FEW004 BKN019 OVC031 14/13 A3032 RMK AO2 T01390128 TSNO KRUE 011053Z AUTO 00000KT 4SM BR OVC048 21/19 A3006 RMK AO2 SLP172 T02060194 KSLE 011112Z AUTO 33006KT 10SM FEW041 19/14 A2998 RMK AO2 LTG DSNT NE AND E RAE03 TSE06 P0000 T01890144 KTBN 011143Z AUTO 15003KT 3/4SM R14/P6000FT BR CLR 15/15 A3010 RMK AO2 VIS 3/4V1 3/4 VIS 1/4 RWY32 KSJX 011135Z AUTO 10003KT M1/4SM FG OVC001 11/11 A3004 RMK AO2 T01120112 GCXO 011130Z 32018KT 300V360 9999 BKN020 20/15 Q1023 NOSIG VVCR 011130Z VRB02KT 9999 -RA FEW013 FEW015CB BKN050 26/25 Q1005 TEMPO 4000 RA KRUG 011135Z AUTO 09007KT 5SM BR CLR 14/14 A3007 RMK AO2 KSLG 011135Z AUTO 00000KT 5SM BKN026 18/14 A3011 RMK AO1 KSLH 011135Z AUTO 29003KT M1/4SM FG OVC002 12/12 A3004 RMK AO2 T01240124 KTAZ 011135Z AUTO 00000KT 4SM BR SCT070 15/14 A3009 RMK AO2 LTG DSNT N VVCT 011030Z 23005KT 9999 FEW015 BKN040 27/25 Q1006 NOSIG KSLI 011058Z AUTO 19003KT 10SM OVC010 20/18 A2991 RMK AO2 SLP131 T01980178 KTBR 011135Z AUTO 02003KT 3/4SM BR OVC002 23/23 A3000 RMK AO2 LTG DSNT E AND SE T02300230 FNGI 011100Z 09009KT CAVOK 28/04 Q1019 VTUU 011100Z 16002KT 9000 FEW023 BKN110 28/25 Q1002 A2961 NOSIG KRTS 011135Z AUTO 00000KT 10SM SCT110 15/05 A3019 RMK AO2 LJLJ 011130Z 11005KT 050V170 9999 SCT030 26/18 Q1012 NOSIG VTUV 010000Z 24008KT 8000 SCT025 BKN300 27/24 Q1003 A2964 INFO A RWY 18 KSLK 011141Z AUTO 00000KT 7SM SCT001 11/11 A3017 RMK AO2 T01110106 LJMB 011130Z 03005KT 350V080 9999 FEW033 24/18 Q1012 LIVC 311355Z 34008KT 8000 BKN000 14/12 Q1021 RMK BKN MON CLD SCT VAL CLD SCT VIS MIN 8000 VTUW 010900Z 28005KT 9999 SCT022 SCT300 32/26 Q1000 A2953 RWY15 INFO I VVDN 011130Z 25003KT 230V300 8000 FEW010 FEW015CB BKN050 25/24 Q1003 NOSIG KTCL 011053Z AUTO 36003KT 8SM CLR 21/18 A3002 RMK AO2 SLP164 T02060183 LIVD 011055Z 27004KT 9999 FEW040CB 22/10 Q1014 RMK SCT SCT200 VIS MIN 9999 KTCM 011058Z AUTO 18002KT 10SM CLR 14/11 A3004 RMK AO2 SLP175 T01400105 $ LIVE 011055Z 18007KT 9999 BKN020 19/12 Q1013 RMK BKN SCT060 VIS MIN 9999 KSLN 011053Z AUTO 15005KT 10SM CLR 17/13 A3003 RMK AO2 SLP156 T01670128 KSME 011135Z AUTO 00000KT 7SM CLR 16/16 A3012 RMK AO2 KSMF 011053Z 17007KT 10SM FEW200 19/13 A2981 RMK AO2 SLP094 T01940133 $ KSKX 011135Z AUTO 13004KT OVC011 11/09 A3038 RMK AO1 KTBX 011135Z AUTO 31010KT 10SM CLR 17/00 A3044 RMK AO2 KSLO 011135Z AUTO 00000KT M1/4SM FG VV000 16/15 A3010 RMK AO2 T01550152 KTDF 011135Z AUTO 04004KT 7SM SCT025 BKN100 OVC110 19/19 A3017 RMK AO2 LTG DSNT S KRUQ 011135Z AUTO 01005KT 4SM +RA BKN008 BKN022 OVC048 18/18 A3013 RMK AO2 P0036 T01770175 KSLR 011135Z AUTO 04005KT 3SM BR OVC004 20/20 A3004 RMK AO2 T01980195 KTCS 011053Z AUTO 00000KT BKN120 18/15 A3023 RMK AO2 SLP150 T01780150 TSNO $ KSNA 011053Z AUTO 18004KT 10SM OVC013 22/17 A2991 RMK AO2 SLP127 T02220167 TSNO EVRA 011120Z 21004KT 140V270 9999 SCT045 25/14 Q1015 NOSIG KTEB 011051Z 00000KT 7SM CLR 22/18 A3017 RMK AO2 SLP216 T02220183 KRUT 011135Z 14006KT 10SM CLR 15/13 A3019 RMK AO1 KSNC 011135Z AUTO 27005KT 5SM BR BKN008 22/21 A3021 RMK AO2 LIVM 010955Z 08006KT CAVOK 28/23 Q1010 RMK SKC QUK 1 QUL 1 E VIS MAR 25 KM VIS MIN 9999 LKCV 011100Z 03004KT 360V090 9999 OVC032 22/17 Q1014 NOSIG RMK BLU BLU KSMN 011135Z AUTO 00000KT 10SM CLR 14/09 A3017 RMK AO1 LIVO 011055Z 09006KT 9999 FEW025TCU SCT030 24/15 Q1012 RMK BKN VIS MIN 9999 KSMO 011051Z AUTO 00000KT 9SM BKN008 BKN014 19/17 A2991 RMK AO2 SLP127 T01940167 KRWF 011053Z AUTO 29003KT 10SM CLR 16/13 A3006 RMK AO2 SLP174 T01560128 KSMP 311956Z AUTO VRB05KT 10SM CLR 24/09 A3021 RMK AO2 SLP198 T02390094 $ LIVP 011055Z VRB03KT 0900 FG VV/// 14/11 Q1019 RMK MON INVIS VAL INVIS VIS MIN 0900 KSMQ 011053Z AUTO 00000KT 4SM BR OVC014 17/16 A3017 RMK AO2 SLP215 T01720156 KSNH 011135Z AUTO 00000KT 5SM BKN110 18/18 A3007 RMK LIVR 011055Z 13008KT 9999 BKN020 15/10 Q1017 RMK BKN MON CIME INC VIS MIN 9999 KRWI 011053Z AUTO 03004KT 8SM FEW085 BKN110 21/19 A3012 RMK AO2 SLP197 T02110189 KTDR 011056Z AUTO 23001KT 9SM CLR 20/19 A2996 RMK AO2 SLP149 T02000194 KRVS 011053Z AUTO 00000KT 7SM BKN024 OVC032 19/19 A3007 RMK AO2 SLP187 T01890189 TSNO KSMS 011135Z AUTO 00000KT 5SM BR OVC005 23/23 A3004 RMK AO2 LTG DSNT SE AND S KSOA 011135Z AUTO 04004KT 10SM CLR 21/17 A3012 RMK AO2 LIVT 011055Z 31001KT 9999 FEW025 26/20 Q1009 RMK FEW QUK 1 QUL 0 VIS MAR 20 KM VIS MIN 9999 KSNK 011135Z AUTO 00000KT 10SM CLR 18/16 A3014 RMK AO2 T01800163 KRWL 011053Z AUTO 04004KT 10SM CLR 09/06 A3032 RMK AO2 SLP178 T00890056 KSNL 011135Z AUTO 00000KT 10SM OVC028 22/22 A3009 RMK AO2 FNHU 011000Z 08007KT CAVOK 22/05 Q1027 FMSD 011100Z VRB02KT 9999 FEW020 24/15 Q1017 KRXE 011053Z AUTO 00000KT 10SM CLR 12/08 A3020 RMK AO2 SLP184 T01170078 KSMX 011130Z AUTO 29004KT 1SM BR VV002 16/14 A2992 RMK AO2 TSNO KTDZ 011053Z AUTO 00000KT 7SM FEW110 17/14 A3010 RMK AO2 SLP190 T01670144 TSNO KSPA 011135Z AUTO 02008KT 4SM RA SCT006 BKN040 OVC049 18/18 A3010 RMK AO2 P0001 KSNS 011053Z AUTO 00000KT 5SM BR OVC004 14/13 A2991 RMK AO2 SLP137 T01440133 $ KSNT 011051Z AUTO 14003KT 08/06 A3035 RMK AO1 SLP180 T00780061 KSPB 011100Z AUTO 01004KT 10SM -RA FEW100 BKN120 17/16 A3000 RMK AO2 P0000 T01720156 $ KSPD 011056Z AUTO 24005KT 14/13 A3022 RMK AO1 SLP182 T01440133 KRWV 011135Z AUTO 32004KT 10SM BKN046 22/20 A3003 RMK AO2 KTEW 011134Z AUTO 00000KT 5SM BR CLR 15/14 A3009 RMK AO2 T01480140 KSPF 011115Z AUTO 22019G27KT 10SM CLR 23/05 A3012 RMK AO2 KTEX 011136Z AUTO 12005KT 10SM BKN070 OVC100 11/09 A3044 RMK AO2 KSNY 011053Z AUTO 29006KT 10SM CLR 10/07 A3019 RMK AO2 SLP180 T01000072 KSPG 011053Z 00000KT 10SM CLR 28/21 A2996 RMK AO2 SLP143 T02780211 KSOP 011135Z AUTO 05007KT 7SM OVC047 21/18 A3009 RMK AO1 KTFP 011135Z AUTO 15003KT 10SM SCT017 BKN022 BKN031 28/24 A2995 RMK AO2 T02820242 KSPI 011052Z 00000KT 9SM R04/1800VP6000FT CLR 16/14 A3009 RMK AO2 SLP185 T01560144 KTHA 011135Z AUTO 00000KT 10SM FEW120 17/14 A3010 RMK KSPL 011135Z AUTO 17005KT 25/25 A2993 RMK AO1 KRYN 010245Z 00000KT 10SM CLR 33/12 A2996 KSOW 011135Z AUTO 19007KT 10SM BKN110 15/12 A3031 RMK AO2 KSQI 011135Z 10003KT 5SM BKN100 14/12 A3009 RMK AO1 LTG DSNT SE KSPR 011135Z AUTO 15007KT 10SM 29/22 A2997 RMK A01 KSPS 011052Z 00000KT 7SM FEW060 SCT120 19/18 A3005 RMK AO2 SLP166 T01890183 MBGT 011000Z 07012KT 9999 TS SCT012 BKN045CB 27/23 Q1014 EVVA 011120Z AUTO 27008KT 240V310 CAVOK 24/15 Q1015 KSRB 011135Z AUTO 00000KT 9SM FEW050 17/16 A3010 RMK KRYT 011053Z AUTO 00000KT 5SM BR BKN090 17/16 A3016 RMK AO2 SLP204 T01720161 $ KSQL 011130Z AUTO 31004KT 10SM CLR 16/13 A2991 RMK AO2 KRZL 011135Z AUTO 00000KT 2 1/2SM BR CLR 13/13 A3011 RMK AO2 LTG DSNT W AND NW KSRC 011056Z AUTO 34004KT 10SM FEW038 OVC048 20/19 A3007 RMK AO2 TSNO T02000188 SLP185 $ KRYV 011135Z AUTO 00000KT 10SM CLR 14/13 A3006 RMK AO2 LTG DSNT S T01380134 KSPW 011053Z AUTO 00000KT 10SM CLR 12/11 A3008 RMK AO2 SLP182 T01220111 LIYW 011058Z AUTO 21004KT 9999 SCT095 SCT150 SCT180 28/21 A2985 RMK AO2 SLP105 T02760210 KRYW 011135Z AUTO 36005KT 10SM OVC050 21/18 A3004 RMK AO2 T02090177 KRZN 011130Z AUTO 00000KT 1/2SM FG BKN001 OVC060 13/12 A3005 RMK AO2 T01280124 KTIF 011135Z 00000KT 10SM CLR 13/11 A3014 RMK AO2 T01260114 PWINO KRYY 011047Z 12005KT 8SM OVC010 19/18 A3009 WMKA 011100Z 32004KT 9999 FEW017CB SCT140 BKN280 28/24 Q1007 LJPZ 011130Z 32006KT 260V010 9999 FEW040 29/19 Q1009 WMKB 011100Z 31004KT 270V010 6000 FEW020 SCT140 BKN270 31/26 Q1007 NOSIG KRZR 011135Z AUTO 00000KT M1/4SM OVC006 17/16 A3010 RMK WMKC 011100Z 13004KT 060V200 9999 FEW018 BKN140 BKN240 30/26 Q1007 WMKD 011100Z 12004KT 9999 FEW025 BKN280 30/26 Q1007 NOSIG KRZT 011134Z AUTO 00000KT M1/4SM FG OVC001 14/14 A3013 RMK AO2 KTIK 011058Z AUTO 14002KT 10SM -DZ CLR 18/18 A3008 RMK AO2 DZB1015 SLP184 P0000 T01840181 $ WMKE 011100Z 15007KT 9999 FEW016CB SCT140 BKN260 29/26 Q1007 KSSC 011144Z 04004KT 4SM BR FEW003 OVC004 23/23 A3002 RMK AO2A GEML 011130Z 27013KT 240V320 9999 FEW025 26/16 Q1015 FNLU 011000Z 31005KT 5000 BR FEW019 BKN022 24/19 Q1018 KTHV 011053Z AUTO 00000KT 4SM BR SCT100 18/17 A3016 RMK AO2 SLP213 T01780167 KW13 011135Z AUTO 00000KT 7SM SCT050 OVC060 18/17 A3020 RMK AO1 P0004 T01770170 KSSF 011053Z AUTO 05007KT 10SM BKN031 OVC050 26/18 A2997 RMK AO2 SLP135 T02610178 FNMO 011100Z 31012KT 9999 FEW022 20/15 Q1016 WMKI 011100Z 18001KT 5000 HZ FEW028 SCT140 BKN280 32/24 Q1007 KTIP 011135Z AUTO 00000KT 5SM BR CLR 17/15 A3011 RMK AO2 T01730150 WMKJ 011100Z 18005KT 140V240 9999 FEW017CB SCT140 BKN280 30/25 Q1008 KSRQ 011053Z 09003KT 10SM CLR 24/21 A2996 RMK AO2 SLP145 T02390211 WMKK 011130Z 17002KT 9999 FEW017CB BKN280 30/24 Q1008 NOSIG KSRR 011135Z AUTO 20004KT 4SM -RA FEW001 BKN023 OVC050 13/13 A3037 RMK AO2 P0003 KSSI 011140Z AUTO 34003KT 10SM BKN020 27/24 A2997 RMK AO2 LTG DSNT E AND SE RAE00 P0000 T02720244 WMKL 011100Z 04003KT 9999 -RA FEW012 SCT120 BKN260 27/26 Q1007 RETSRA WMKM 011100Z 13004KT 9999 FEW022 BKN140 30/25 Q1008 LKKB 011100Z 10010KT 020V150 9999 FEW036 BKN080 23/14 Q1014 NOSIG WMKN 011100Z 07003KT 9999 FEW020 BKN140 30/26 Q1007 KSTC 011137Z AUTO 00000KT 1SM BR CLR 15/13 A3005 RMK AO2 KTKC 011133Z AUTO 24005KT 10SM CLR 16/13 A3009 RMK AO2 T01590132 WMKP 011130Z 21006KT 7000 FEW020 SCT140 BKN270 30/25 Q1007 NOSIG KTIW 011053Z AUTO 00000KT 10SM CLR 17/09 A3004 RMK AO2 SLP169 T01670089 KUBE 011135Z AUTO 00000KT 1/4SM FG BKN004 13/12 A3005 RMK AO2 KSTE 011135Z AUTO 00000KT 2 1/2SM BR SCT002 12/12 A3006 RMK AO2 T01170116 KTIX 010047Z 00000KT 7SM SCT050 28/24 A2997 RMK VCSH. LAST. KSTF 011135Z AUTO 00000KT 5SM BR CLR 18/17 A3004 RMK AO2 KUAO 011133Z AUTO 00000KT 10SM VCTS FEW075 FEW090 BKN110 20/13 A3002 RMK AO2 T02000128 LLBG 011120Z 28009KT 250V320 CAVOK 32/21 Q1007 NOSIG KTKI 011136Z 03007KT 4SM BR OVC005 20/19 A3002 RMK AO2 RAE25 P0000 T02000194 KSUA 011050Z 18003KT 6SM BR SCT025 24/23 A2998 KSTJ 011053Z AUTO 02005KT 7SM -RA BKN080 OVC100 18/17 A3009 RMK AO2 SLP181 P0001 T01830172 KSTK 011130Z AUTO 20003KT 5SM BR CLR 13/13 A3018 RMK AO2 KW29 011140Z AUTO 19006KT 10SM 24/18 A3018 RMK AO1 KSTL 011051Z 00000KT 10SM FEW100 21/17 A3008 RMK AO2 SLP175 ACC N T02060172 KW31 011135Z AUTO 00000KT 4SM SCT095 BKN120 21/20 A3017 RMK AO1 P0001 KSUE 011135Z AUTO 00000KT 5SM CLR 14/12 A3004 RMK AO1 KSTP 011053Z 00000KT 10SM CLR 18/16 A3004 RMK AO2 SLP168 T01780161 KTLH 011053Z 00000KT 10SM FEW070 SCT250 21/18 A2996 RMK AO2 SLP146 T02060183 VVNB 011130Z 13007KT 9999 FEW023 BKN200 33/25 Q0999 NOSIG KSTS 011128Z AUTO 00000KT 4SM BR CLR 11/11 A2988 RMK AO2 KTMA 011130Z AUTO 02003KT 5SM BR SCT003 22/22 A2998 RMK AO2 T02220218 TSNO KTMB 011053Z 00000KT 10SM CLR 27/24 A2995 RMK AO2 SLP142 T02720239 KSVC 011135Z AUTO 19007KT 10SM SCT006 BKN011 OVC016 17/17 A3029 RMK AO2 KTKV 011135Z AUTO 00000KT M1/4SM FG OVC001 09/09 A3007 RMK AO2 T00900085 LKKV 011130Z 07008KT 040V100 9999 SCT046 22/12 Q1015 LKLN 011100Z AUTO 08002KT 9999 BKN048 23/14 Q1014 KSUN 011135Z AUTO 32010KT 10SM CLR 15/10 A3025 RMK AO2 KTME 011135Z AUTO 28003KT 10SM SCT009 OVC013 24/24 A2998 RMK AO2 KW43 011135Z AUTO 10SM CLR 21/06 A3015 RMK AO2 KUDG 011135Z AUTO 08006KT 7SM SCT019 BKN029 OVC035 22/20 A3005 RMK AO1 KUCP 011103Z AUTO 00000KT 3SM BR CLR 14/14 A3017 RMK AO2 TSNO $ KSVH 011135Z AUTO 03010KT 5SM -RA SCT006 SCT018 OVC065 17/17 A3011 RMK AO2 P0004 T01720167 KSUS 011101Z 00000KT 3SM R08R/3500VP6000FT BR CLR 16/15 A3007 RMK AO2 LKNA 011100Z 04005KT 350V080 9999 SCT017 BKN029 20/17 Q1014 NOSIG RMK BLU BLU KSUT 011135Z AUTO 10006KT 7SM -DZ SCT029 SCT065 BKN100 24/22 A3004 RMK AO2 T02350223 KTMK 011135Z AUTO 00000KT 10SM CLR 12/11 A3006 RMK AO2 KTNB 011135Z AUTO 00000KT 3SM BR OVC008 13/13 A3023 RMK AO2 LTG DSNT SE P0001 T01310131 KSUU 011058Z AUTO 23014KT 10SM CLR 17/16 A2980 RMK AO2 SLP097 T01680155 PWINO PNO $ KSVN 011118Z AUTO 35005KT 1/2SM R28/3000FT FG VV001 24/24 A2997 RMK AO2 VIS 1/2V1 1/4 $ KSUW 011135Z AUTO 04004KT 3SM BR CLR 11/11 A3005 RMK AO2 T01110111 KSWF 011145Z 00000KT 8SM SCT150 19/17 A3022 RMK HAZY KSUX 011052Z 00000KT 1/4SM R31/2000V2800FT FG VV002 12/12 A3007 RMK AO2 SLP181 T01220117 KUCY 011135Z AUTO 03003KT 8SM BKN100 19/18 A3007 RMK VVPB 011130Z 23005KT 9999 FEW015 FEW017CB SCT060 28/26 Q1002 NOSIG KTOA 010154Z 29015KT 10SM FEW080 FEW200 24/19 A2986 KTOB 011134Z AUTO 25004KT 10SM CLR 14/12 A3008 RMK AO2 LKMT 011130Z 36006KT 330V030 4500 BR OVC005 19/18 Q1014 NOSIG KTOC 011135Z AUTO 00000KT 10SM OVC100 20/19 A3011 RMK AO2 T02000194 KW63 011135Z AUTO 5SM SCT005 SCT024 BKN041 20/20 A3015 RMK AO1 KSWO 011103Z AUTO 00000KT 1/4SM FG VV001 18/17 A3008 RMK AO2 KTOI 011053Z AUTO 00000KT 6SM BR CLR 20/19 A3000 RMK AO2 SLP155 T02000189 KUES 011145Z 00000KT 10SM SKC 14/13 A3008 KTPA 011053Z 00000KT 10SM FEW055 FEW200 SCT300 26/21 A2998 RMK AO2 SLP150 T02610206 LLET 011050Z 06011KT 030V090 CAVOK 40/10 Q1004 KTOL 011052Z 21003KT 6SM BR BKN110 16/15 A3009 RMK AO2 SLP187 T01610150 KTNU 011135Z AUTO 00000KT 9SM FEW055 14/13 A3009 RMK AO2 LKPD 011100Z VRB02KT 9999 SCT027 OVC037 22/16 Q1014 NOSIG RMK BLU BLU KSWW 011135Z AUTO 32003KT 7SM SCT110 18/18 A3015 RMK AO2 T01800180 VVPQ 011130Z 26012KT 9999 SCT017 28/24 Q1006 NOSIG KSYF 011135Z AUTO 23006KT 10SM CLR 14/11 A3016 RMK AO2 T01400114 FNSO 011100Z 00000KT 9999 BKN016 OVC090 ///// Q1018 KTOP 011053Z AUTO 00000KT 8SM BKN090 OVC110 19/18 A3007 RMK AO2 SLP174 T01890178 KW75 011135Z AUTO 00000KT 7SM SCT046 SCT070 BKN120 21/20 A3016 RMK AO1 T02090199 KTPH 011056Z AUTO 01012KT CLR 19/08 A3019 RMK AO2 SLP137 T01940083 $ KTOR 011053Z AUTO 07004KT 10SM CLR 10/08 A3018 RMK AO2 SLP178 T01000078 KSYI 011135Z AUTO 11003KT 10SM CLR 17/16 A3009 RMK LLHA 011050Z 27009KT 220V310 9999 FEW025 31/20 Q1007 KSXS 011056Z AUTO 02002KT 6SM BR CLR 20/19 A3001 RMK AO2 SLP161 T01980190 KW78 011135Z AUTO 02003KT 5SM OVC110 19/18 A3017 RMK AO1 P0003 T01900180 KSXT 011056Z AUTO 35010KT 10SM CLR 16/12 A3010 RMK AO2 SLP133 T01610117 FNUB 011100Z 12010KT 9999 FEW018 23/04 Q1020 KTPL 011135Z AUTO 34006KT 10SM OVC023 21/16 A3001 RMK AO1 KW81 011135Z AUTO 00000KT 2SM SCT030 SCT050 OVC100 22/21 A3018 RMK AO1 P0001 T02210212 KSYM 011130Z AUTO 15004KT 5SM BR SCT070 OVC080 16/15 A3015 RMK AO2 KUGN 011052Z AUTO 00000KT 9SM CLR 17/14 A3005 RMK AO2 SLP168 T01670139 KSYN 011131Z AUTO 00000KT 10SM CLR 15/13 A3005 RMK AO2 T01460126 KTQE 011054Z AUTO 01004KT 10SM CLR 16/14 A3006 RMK AO2 SLP168 T01560139 FNUE 011100Z 16009KT CAVOK 26/// Q1023 WMSA 011100Z 19005KT 9999 FEW020 SCT140 BKN280 32/21 Q1008 KTQH 011135Z AUTO 00000KT 7SM OVC030 18/17 A3009 RMK AO2 KSYR 011054Z 07003KT 7SM FEW110 SCT200 15/14 A3013 RMK AO2 SLP199 T01500139 $ LKPR 011130Z 11010KT 9999 SCT040 22/15 Q1014 NOSIG LLIB 011050Z VRB03KT CAVOK 34/19 Q1007 KSZL 011058Z AUTO M 10SM BKN130 BKN160 16/12 A3006 RMK AO2 SLP176 T01640116 $ MBPV 011100Z 10006KT 9999 SCT015 27/24 Q1014 GFLL 011130Z 21007KT 9999 SCT012 FEW027CB 27/24 Q1015 RMK CB-NE KW96 011135Z AUTO 29005KT 3SM SCT050 SCT070 OVC110 21/20 A3017 RMK AO1 P0001 T02050201 KTRI 011053Z 00000KT 10SM BKN065 OVC140 18/16 A3013 RMK AO2 SLP179 T01830156 $ MDAB 312200Z 09005KT 9999 BKN018 33/25 Q1013 KTRK 011135Z AUTO 00000KT 10SM SCT090 BKN110 09/07 A3028 RMK AO2 KSZT 011135Z AUTO 00000KT 10SM CLR 12/08 A3004 RMK AO2 KW99 011135Z AUTO 00000KT 7SM BKN090 OVC120 16/14 A3019 RMK AO2 T01600138 KUIL 011135Z AUTO 15003KT 3/4SM BR VV002 12/12 A3007 RMK AO2 T01220117 KTRL 011121Z AUTO 01007KT 10SM OVC005 22/21 A3001 RMK AO2 CIG 004V010 T02170211 KTRM 011052Z AUTO 00000KT 10SM CLR 27/21 A2976 RMK AO2 SLP081 T02720206 TSNO KVAD 011058Z AUTO 00000KT 10SM CLR 22/21 A2996 RMK AO2 SLP145 T02200207 $ KUIN 011054Z AUTO 15003KT 10SM BKN085 19/14 A3007 RMK AO2 SLP177 T01890144 KVAF 011135Z AUTO 16015KT 5SM HZ SCT026 BKN033 BKN040 29/24 A2995 RMK A01 KTTA 011135Z AUTO 03004KT 4SM BR 21/21 A3010 RMK AO2 T02130210 LKTB 011130Z 06006KT 9999 BKN022 BKN034 23/18 Q1013 NOSIG KTTD 011053Z AUTO 00000KT 10SM CLR 19/16 A3001 RMK AO2 LTG DSNT NW RAE0956B29E40 SLP162 P0000 T01940156 KTTF 011130Z AUTO 00000KT 5SM BR SCT090 120 16/15 A3009 RMK AO2 KUKF 011135Z AUTO 02004KT 7SM -RA SCT065 SCT075 OVC090 16/16 A3021 RMK AO2 LTG DSNT N AND S P0003 KTSP 011135Z AUTO 36003KT 10SM CLR 20/07 A3010 RMK AO2 KVBG 011139Z AUTO 32003KT 2 1/2SM BR OVC002 15/14 A2993 RMK AO2 TSNO $ MDBH 312300Z 10012KT 9999 FEW016CB SCT020 29/23 Q1014 CB/SW/W/NW FOOG 011100Z 20008KT 9999 SCT008 BKN026 24/21 Q1016 VVTS 011130Z 23007KT 9999 FEW017 BKN070 28/24 Q1006 NOSIG KUKI 011056Z AUTO 00000KT 10SM CLR 18/08 A2991 RMK AO2 SLP117 T01780083 KVCB 011053Z AUTO 00000KT 10SM CLR 18/11 A2982 RMK AO2 SLP097 T01780111 FOOL 312354Z 17006KT 140V200 9000 SCT010 BKN033 23/20 Q1017 NOSIG KTTN 011053Z 00000KT 4SM BR CLR 21/19 A3017 RMK AO2 SLP210 T02060189 FOON 011100Z 22006KT 9999 BKN016 OVC020 24/19 Q1015 KVAY 011054Z AUTO 00000KT 4SM BR CLR 21/19 A3017 RMK AO2 SLP217 T02060194 KVBS 011135Z AUTO 00000KT 10SM FEW046 SCT070 BKN095 28/23 A2994 RMK A01 KTTS 011058Z AUTO 20004KT 10SM CLR 25/25 A2997 RMK AO2 SLP152 T02510251 KVBT 011135Z AUTO 00000KT 1 3/4SM BKN026 18/16 A3011 RMK AO1 KUKT 011130Z AUTO 00000KT 4SM OVC005 20/20 A3020 RMK AO1 KTUL 011053Z 00000KT 10SM OVC023 21/19 A3006 RMK AO2 SLP171 T02060189 KTVC 011053Z 00000KT 7SM CLR 15/13 A3002 RMK AO2 SLP164 FIRST AUGMENTED OBS OF DAY T01500133 KULM 011134Z AUTO 00000KT 10SM CLR 13/13 A3007 RMK AO2 KTVF 011135Z AUTO 00000KT 10SM CLR 14/13 A3006 RMK AO1 KVDF 011135Z AUTO 00000KT 5SM BR SCT050 23/22 A2999 RMK AO2 KTUP 011053Z 05004KT 9SM FEW110 21/18 A3003 RMK AO2 SLP167 T02060183 RJAA 011130Z 23007KT 200V270 9999 FEW030CB BKN160 29/23 Q1010 NOSIG KTVI 011135Z AUTO 34003KT 7SM CLR 21/21 A2998 RMK AO2 KVDI 011135Z AUTO 02004KT 1/4SM FG 23/23 A3001 RMK AO2 LTG DSNT SE KTUS 011053Z AUTO 00000KT 10SM -RA FEW110 24/19 A3007 RMK AO2 LTG DSNT SW AND NW SLP134 P0010 T02390189 KVCT 011051Z AUTO 00000KT 9SM FEW085 SCT110 28/24 A2997 RMK AO2 SLP146 T02780244 KTVK 011135Z AUTO 00000KT 10SM BKN070 17/17 A3009 RMK AO2 KTVL 011053Z AUTO 20003KT 10SM FEW095 12/07 A3028 RMK AO2 SLP186 T01220072 KVCV 011135Z AUTO 16007KT 10SM CLR 24/11 A2999 RMK AO2 RJAF 010726Z VRB01KT 9999 TS FEW030 BKN050 FEW050CB 26/21 Q1013 RMK 1CU030 5CU050 2CB050 A2992 FBL TS 20KM N MOV E SAAG 011115Z 18002KT 0100 +FG OVC003 17/17 Q1013 LKVO 010700Z 36003KT 290V070 CAVOK 19/14 Q1015 KTWF 011053Z AUTO 29005KT 10SM CLR 18/07 A3014 RMK AO2 SLP147 T01780072 MDCY 011100Z 00000KT 9999 FEW016 24/23 Q1014 RJAH 011119Z 36005KT 9999 FEW020 SCT140 BKN/// 23/21 Q1010 RMK 1CU020 3AC140 A2984 LIGHTNING W RJAI 010446Z 09004G14KT 9999 FEW030 BKN240 33/19 Q1010 RMK 1CU030 5CI240 A2983 SAAJ 312230Z 05002KT 0200 +FG NSC 16/16 Q1011 KTVR 011053Z AUTO 05004KT 6SM RA BR FEW050 OVC065 22/20 A3003 RMK AO2 SLP173 P0002 T02170200 TSNO KUNI 011135Z AUTO 00000KT 7SM CLR 14/13 A3013 RMK AO2 T01390133 RJBB 011130Z 22004KT 9999 -SHRA FEW020 SCT045 BKN100 29/23 Q1010 NOSIG RJBD 011000Z 13006KT 9999 FEW020 SCT150 BKN/// 28/22 Q1011 KVEL 011053Z AUTO VRB03KT 10SM CLR 17/03 A3017 RMK AO2 SLP152 T01670033 RJBE 011100Z 26009KT 9999 -SHRA FEW020 SCT100 BKN150 27/24 Q1010 KTWM 011134Z AUTO 01004KT 10SM CLR 12/08 A3004 RMK AO2 SABE 011100Z 20005KT 4500 BR OVC007 18/16 Q1012 KUNO 011116Z AUTO 00000KT 3/4SM BR OVC002 15/14 A3011 RMK AO2 T01500139 SAAR 011100Z 18004KT 0100 FG VV/// 16/16 Q1012 KVER 011135Z AUTO 00000KT 10SM SCT065 17/16 A3007 RMK AO2 T01650159 RJAT 010016Z 16005KT 9000 FEW000 BKN020 25/21 Q1017 RMK 1ST000 5CU020 A3005 RJCB 011100Z 11005KT 9999 FEW030 SCT050 25/19 Q1008 KVES 011135Z AUTO 00000KT 2 1/2SM BR CLR 13/13 A3013 RMK AO2 RJCC 011130Z 01006KT 9999 FEW020 23/19 Q1008 KTXK 011053Z 08005KT 4SM BR OVC006 18/18 A3001 RMK AO2 CIG 003V008 SLP159 T01830183 EYKA 011120Z 35004KT 320V030 CAVOK 22/13 Q1016 KUNU 011135Z AUTO 00000KT 10SM CLR 14/13 A3007 RMK AO2 LTG DSNT S T01420129 RJAW 010900Z RTD 15006KT 9999 FEW015 BKN150 BKN230 29/25 Q1011 RMK 2CU015 5AC150 A2988 KUNV 011053Z 00000KT 1/8SM FG OVC001 14/14 A3018 RJCH 011100Z 05004KT 350V080 CAVOK 22/20 Q1008 RJCK 011100Z 04002KT 8000 PRFG FEW001 SCT020 BKN080 23/20 Q1008 RJBT 010900Z 19007KT 160V230 9999 FEW030 SCT120 BKN150 28/18 Q1010 RJDC 011100Z 08025KT 9999 FEW015 SCT035 BKN060 27/23 Q1006 RJCM 011100Z 12002KT 9999 FEW030 SCT070 BKN/// 22/19 Q1008 RJCN 010900Z 03003KT 350V070 9999 FEW050 SCT/// 23/21 Q1007 SADF 011100Z 23003KT 2000 DZBR OVC004 17/17 Q1013 SACO 011100Z 23002KT 4000 BR FEW015 SCT200 10/09 Q1015 KUOX 011115Z AUTO 00000KT 8SM CLR 20/18 A3007 RMK AO2 KTYQ 011135Z AUTO 00000KT 5SM BR CLR 15/13 A3012 RMK AO2 LTG DSNT NW T01470132 FQCH 011000Z /////KT 9999 FEW015 26/10 Q1025 KTYR 011134Z 04005KT 5SM BR OVC003 21/19 A2999 RMK AO2 FQBR 011100Z 08009KT CAVOK 27/18 Q1019 RJEB 010700Z 11006KT 080V140 9999 FEW050 24/20 Q1007 KTYS 011053Z 00000KT 8SM SCT110 BKN250 18/17 A3009 RMK AO2 SLP179 T01780172 RJEC 011100Z 34002KT 9999 FEW010 SCT/// 22/19 Q1008 KVGT 011053Z 07006KT 10SM CLR 32/09 A2991 RMK AO2 SLP111 T03220094 RJDM 010640Z 06015KT 9999 -RA FEW025 SCT050 BKN100 30/24 Q1002 RMK 2CU025 3SC050 6AC100 A2961 MAX WIND 24KT RJCW 010900Z 19010KT 9999 FEW020 24/20 Q1006 KVIH 011053Z AUTO 20003KT 7SM CLR 17/16 A3008 RMK AO2 SLP174 T01720161 KTZR 011120Z 00000KT 2 1/2SM BR BKN110 15/15 A3013 RMK FIRST RJDT 011100Z 07013G26KT 340V150 9999 FEW010 BKN060 26/24 Q1004 MDJB 312300Z 00000KT 9999 FEW020CB SCT022 SCT300 29/25 Q1014 CB/NE/E/N RJFE 011027Z 13013G23KT 080V160 4000 SHRA BR FEW006 SCT010 BKN015 25/24 Q1000 RMK 1ST006 4CU010 5CU015 A2955 LLSD 011050Z 27010KT CAVOK 30/22 Q1006 RJFF 011130Z 10009KT 070V130 9999 FEW008 SCT080 BKN120 27/23 Q1003 KUSE 011135Z AUTO 00000KT 5SM BR FEW110 17/16 A3011 RMK AO2 RJFG 010900Z 14021G32KT 3000 -SHRA BR FEW002 SCT003 BKN006 26/25 Q1003 KVJI 011135Z AUTO 08005KT 10SM SCT026 BKN050 OVC110 19/16 A3016 RMK AO2 T01930164 KVIS 011135Z AUTO 21004KT 10SM CLR 22/15 A2983 RMK AO1 KUTA 011135Z AUTO 01004KT 10SM BKN070 21/19 A3006 RMK AO2 RJFK 011137Z 13015G25KT 7000 SHRA FEW003 SCT010 BKN015 26/24 Q1005 RMK 1ST003 3CU010 5CU015 A2968 KY19 011135Z AUTO 10005KT 10SM CLR 15/13 A3007 RMK AO2 KWAL 011054Z AUTO 00000KT 10SM SCT110 23/21 A3017 RMK AO2 SLP214 T02280206 RJFM 011100Z 13017KT 6000 FEW008 SCT020 BKN030 28/26 Q1005 KY23 011135Z AUTO 00000KT 4SM BR BKN050 BKN065 15/15 A3004 RMK AO2 T01460146 RJFO 011125Z 08014KT 2500 SHRA FEW003 BKN020 BKN030 24/23 Q1007 RMK 1ST003 6CU020 7CU030 A2974 RJGG 011130Z 12005KT 9999 FEW015 SCT160 27/25 Q1011 NOSIG SAEZ 011140Z 00000KT 1500 R11/1000N MIFG BR BKN010 BKN100 16/16 Q1013 RJFR 011100Z VRB15G26KT 9999 VCSH FEW010 SCT030 BKN040 27/24 Q1005 RJFS 011100Z 06009KT 9999 FEW030 SCT060 BKN070 28/24 Q1002 RJFT 011100Z 11010KT 080V140 9999 FEW020 SCT050 BKN120 29/23 Q1003 EYPA 011120Z VRB03KT CAVOK 24/14 Q1016 RJFU 011100Z 15006KT 9999 -SHRA FEW015 SCT030 BKN150 26/25 Q1001 KVLD 011053Z 00000KT 9SM BKN070 22/18 A2996 RMK AO2 SLP152 T02170183 RJFY 011123Z 12010G20KT 5000 -SHRA BR FEW003 BKN015 OVC025 FEW025CB 27/25 Q1003 RMK 1ST003 5CU015 8CU025 1CB025 A2964 CB 5KM NW MOV NW KUTS 011124Z AUTO 31005KT 7SM OVC005 22/21 A2998 RMK AO2 T02170206 KUVA 011135Z AUTO 06006KT 10SM CLR 25/19 A3000 RMK AO2 T02530194 KVKS 011135Z AUTO 06006KT 4SM BR BKN030 BKN042 OVC080 21/19 A3002 RMK A01 KVLL 011135Z AUTO 00000KT 7SM CLR 17/15 A3010 RMK AO2 T01680151 GGOV 011100Z 01003KT 310V100 9999 FEW005 SCT014TCU 29/25 Q1015 NOSIG KWDG 011115Z 00000KT 10SM SCT200 17/17 A3008 RMK FIRST SBAA 312000Z 12007KT 9999 FEW032 ///// Q1013 MDLR 011100Z 00000KT 9999 FEW016CB SCT018 23/22 Q1014 CB/NE/E/S KY50 011056Z AUTO 00000KT 8SM SCT050 BKN060 13/12 A3005 RMK AO2 TSNO T01330122 SLP169 KY49 011135Z AUTO 00000KT 5SM BR BKN050 12/12 A3005 RMK AO2 LTG DSNT S T01240122 LMML 011115Z 33009KT 280V350 9999 FEW025 29/17 Q1011 NOSIG KUUU 011053Z AUTO 00000KT 10SM CLR 21/18 A3020 RMK AO2 SLP225 T02110183 KY51 011135Z AUTO 00000KT 10SM SCT050 BKN070 15/15 A3008 RMK AO1 T01490145 KVNC 011135Z AUTO 05004KT 10SM CLR 25/22 A2999 RMK AO2 LTG DSNT S SBAF 011020Z 00000KT 4000 BR NSC 14/13 Q1020 KWDR 011135Z AUTO 07003KT 5SM BR OVC004 20/20 A3011 RMK AO2 LTG DSNT SE T02020202 RJKA 011000Z 16030KT 5000 -SHRA BR FEW010 SCT015 BKN020 28/25 Q0997 KVOA 011135Z AUTO 30003KT 10SM CLR 27/19 A2997 RMK A01 EYSA 011050Z VRB02KT 9999 SCT047 25/15 Q1016 NOSIG SBAN 011000Z 08006KT 9999 FEW030 16/10 Q1022 SBBE 011000Z 15002KT 9999 FEW012 24/23 Q1014 KY63 011132Z AUTO 00000KT 10SM CLR 16/15 A3006 RMK AO2 LTG DSNT NE T01570146 SBBG 312200Z 05004KT CAVOK 18/16 Q1014 FQIN 311700Z 00000KT CAVOK 20/18 Q1022 SBBH 011000Z 09003KT CAVOK 14/11 Q1023 SBAQ 011000Z 12005KT CAVOK 16/11 Q1021 SBBI 011000Z 15002KT 5000 BR FEW025 11/10 Q1022 SBAR 011000Z 00000KT 9999 VCSH BKN015 21/20 Q1018 SBCA 011000Z 06010G20KT CAVOK 17/15 Q1019 SBCB 011000Z 05008KT CAVOK 21/18 Q1019 SBAT 011015Z 00000KT CAVOK 18/17 Q1015 SBCC 011000Z 07007KT CAVOK 20/15 Q1016 SBAU 011000Z 15010KT 8000 NSC 17/11 Q1019 KY70 011133Z AUTO 24003KT 7SM CLR 17/15 A3007 RMK AO2 T01660151 KVOK 011058Z AUTO 00000KT 10SM CLR 14/14 A3004 RMK AO2 SLP173 T01400140 MDPC 011100Z 15006KT 9999 FEW020 27/23 Q1014 KVPC 011053Z AUTO 00000KT 10SM BKN013 OVC018 20/18 A3008 RMK AO2 SLP173 T02000183 KUXL 011135Z AUTO 24003KT 10SM RA SCT027 SCT034 OVC070 26/24 A2995 RMK AO2 LTG DSNT SE T02600241 SBAX 312100Z 00000KT 9999 FEW025 22/10 Q1022 SBCF 011000Z 14004KT CAVOK 13/10 Q1023 SBCG 011000Z 05010KT CAVOK 19/10 Q1018 SBBQ 011000Z 11002KT 5000 BR FEW006 10/08 Q1025 SBCH 011000Z 08010KT CAVOK 17/14 Q1018 KVNY 011051Z 13003KT 10SM CLR 21/14 A2991 RMK AO2 SLP116 T02060144 SBCI 011000Z 03001KT CAVOK 18/16 Q1016 SBBR 011000Z 31004KT CAVOK 15/10 Q1022 SBCJ 011015Z 05003KT CAVOK 22/17 Q1018 KUZA 011103Z AUTO 03003KT 5SM -RA BR OVC009 19/19 A3008 RMK AO2 CIG 007V012 P0000 T01940189 SBBU 011000Z 13007KT CAVOK 16/13 Q1020 SBCM 011000Z 00000KT CAVOK 13/13 Q1014 SBBV 011000Z 00000KT 9999 FEW020 BKN080 25/23 Q1014 SBBW 011015Z 00000KT CAVOK 15/14 Q1018 FQLC 011100Z 14006KT 9999 FEW013 BKN015 FEW020CB 22/09 Q1024 RMK CB TO S/NW SAME 011100Z 00000KT CAVOK 08/06 Q1012 SBCO 011000Z 00000KT 0900 R30/0800 R12/1500 FG FEW006 12/12 Q1013 SBCP 011000Z 00000KT 9999 2000SE FEW015 17/17 Q1021 MDPP 011100Z 00000KT 9999 TS FEW016CB FEW016 24/23 Q1014 CB/E/NW/N SBCR 011000Z 16006KT 9999 SCT018 24/19 Q1013 KVPS 011055Z 35002KT 7SM FEW120 SCT250 21/18 A2997 RMK AO2A SLP154 T02050181 $ SBCT 011000Z 00000KT 4500 2000SE BCFG BR FEW003 SCT007 BKN080 1 0/10 Q1022 FQMA 011100Z 13004KT CAVOK 29/10 Q1020 NOSIG KVRB 011053Z AUTO 00000KT 6SM BR CLR 22/22 A2997 RMK AO2 SLP148 T02220222 SANE 311525Z 00000KT 8000 BR OVC020 18/17 Q1011 SBDN 011000Z 13005KT 8000 NSC 16/12 Q1018 SBCX 311500Z 29006KT CAVOK 15/10 Q1022 RJNG 010925Z 23003KT 9999 FEW030 SCT100 BKN230 30/24 Q1010 RMK 1CU030 3AC100 A2983 SBCY 011000Z 34005KT CAVOK 19/16 Q1014 SBEG 011000Z 00000KT CAVOK 24/22 Q1013 SBCZ 312300Z 00000KT 9999 FEW030 28/25 Q1011 KWHP 010247Z 00000KT 10SM SKC 29/15 A2990 KVQQ 011150Z 00000KT 3SM BR CLR 23/23 A2997 KVPZ 011053Z AUTO 00000KT 3SM BR CLR 16/15 A3009 RMK AO2 SLP187 T01560150 TSNO RJOA 011123Z 08012KT 6000 SHRA SCT001 FEW020CB BKN030 BKN050 24/24 Q1012 RMK 3ST001 1CB020 5CU030 6SC050 A2988 CB 15KM SE MOV N SBEK 011015Z 30001KT CAVOK 22/22 Q1012 RJNK 011100Z 13004KT 9999 FEW030 BKN/// 30/23 Q1010 EYVI 011120Z VRB02KT 9999 SCT018CB BKN085 25/19 Q1015 NOSIG RJOB 011100Z 04007KT 020V080 9999 -RA FEW020 SCT060 BKN130 25/24 Q1011 SAOC 011100Z 29004KT 7000 NSC 12/11 Q1012 KVQT 011135Z AUTO 00000KT 10SM 30/23 A2997 RMK A01 RJOC 011100Z 15006KT CAVOK 27/25 Q1009 RJOE 010435Z 18008KT 9999 FEW020 SCT030 BKN160 31/23 Q1011 RMK 1CU020 3CU030 5AC160 A2986 MDSD 011100Z VRB03KT 9999 FEW016CB BKN018 SCT070 24/22 Q1014 CB/SE/S RJOF 010147Z 08008KT 9999 FEW020 BKN040 BKN150 30/24 Q1007 RMK 1CU020 5CU040 7AC150 A2976 KVSF 011054Z AUTO 30004KT 1/2SM FG OVC002 14/14 A3021 RMK AO2 SLP229 T01440139 KWJF 011056Z AUTO 26010KT 10SM CLR 27/07 A2994 RMK AO2 SLP110 T02670072 RJOH 011100Z 18006KT 9999 -RA FEW030 SCT080 BKN120 27/23 Q1009 KVSH 011135Z AUTO 06003KT 10SM SCT120 27/18 A3000 RMK AO1 RJOI 011055Z 03006KT 9999 FEW020 BKN045 OVC070 27/23 A2980 RMK SLP090 P0001 T02670228 SBFI 011000Z 10012KT CAVOK 17/15 Q1016 SBES 011000Z 05006KT CAVOK 17/16 Q1019 RJNS 011100Z 25007KT 9999 FEW010 BKN180 BKN/// 27/24 Q1012 SANT 011100Z 32008KT 5000 BR FU NSC 14/11 Q1013 KVTA 011136Z AUTO 00000KT 2 1/2SM BR FEW003 16/14 A3014 RMK AO2 T01560144 RJNT 011100Z 28003KT 240V310 9999 FEW050 SCT/// 28/24 Q1010 RJOK 011125Z VRB01KT 5000 R32/1000VP1800D +SHRA BR FEW008 SCT020 BKN030 26/26 Q1010 RMK 1ST008 3CU020 7CU030 A2983 RI++ SANU 011030Z 00000KT 0000 FGFU SKC 06/06 Q1012 SBFL 011000Z 34013KT 9999 FEW009 SCT080 18/15 Q1016 RJOM 011100Z VRB02KT 9999 -SHRA FEW006 SCT040 BKN080 26/24 Q1008 SBFN 011000Z 09008KT 9999 FEW021 26/22 Q1016 RJNW 011000Z 12004KT 9999 FEW040 SCT100 26/25 Q1011 LOAN 011100Z 36006KT 25KM FEW030CU SCT050SC BKN070SC RMK BKN RJOO 011100Z 24007KT 200V260 9999 FEW030 SCT120 BKN150 30/22 Q1010 RJNY 011037Z 24007KT 9999 FEW025 BKN180 BKN/// 27/25 Q1011 RMK 1CU025 5AC180 A2986 FQNP 011000Z 18003KT 9999 BKN020 25/18 Q1023 RJOR 011100Z 12005KT 9999 FEW040 SCT080 BKN150 29/20 Q1009 RJOS 312217Z 16011KT 9999 FEW012 SCT015 BKN180 27/25 Q1011 RMK 2CU012 4CU015 7AC180 A2987 SBFS 011015Z 36002KT 5000 BR NSC ///// Q1021 RJOT 011100Z 12003KT 050V180 9999 -SHRA FEW010 SCT050 BKN110 25/23 Q1010 VYMD 011130Z 18005KT 8000 BKN020 FEW025CB SCT110 33/24 Q0999 SBGL 011000Z 00000KT 5000 BR NSC 17/15 Q1019 MDST 011100Z 11004KT 9999 FEW018 SCT300 23/22 Q1015 NOSIG SBGM 312300Z 04002KT 9999 FEW030 26/25 Q1011 FQPB 011100Z 15017KT 9999 FEW020 27/20 Q1018 LOAV 011100Z 33010KT 22KM FEW018CU BKN030SC 22/16 Q1014 RMK BKN KWLD 011143Z AUTO 00000KT 3SM BR BKN002 17/17 A3009 RMK AO2 T01670167 RJOW 011000Z 14005KT 110V180 9999 -SHRA FEW003 SCT045 BKN150 25/24 Q1008 SBGO 011000Z 00000KT 9999 SCT040 14/11 Q1020 KVTN 011052Z AUTO 00000KT 6SM BR CLR 12/12 A3010 RMK AO2 SLP176 T01220117 RJOY 011000Z 29006KT 9999 FEW030 SCT100 BKN150 29/23 Q1010 RJOZ 010745Z 05015G25KT 9999 -SHRA FEW025 SCT040 BKN060 26/24 Q1006 RMK 1CU025 3CU040 5SC060 A2972 KVTP 011133Z AUTO 00000KT 10SM SCT038 BKN048 08/06 A3052 RMK AO2 KXBP 011135Z AUTO 01007KT 10SM OVC012 20/17 A3007 RMK AO2 T02010171 SBFZ 011000Z 13009KT 9999 FEW020 24/18 Q1016 SBGR 011000Z 12002KT 8000 NSC 10/10 Q1022 KVUJ 011135Z AUTO 03010KT 7SM +RA BKN008 BKN011 OVC025 20/20 A3015 RMK AO2 LTG DSNT E SE AND W P0047 T01950195 SBGU 312000Z 01002KT 9999 FEW020 OVC081 20/14 Q1021 SBIC 011015Z 00000KT CAVOK 22/22 Q1014 SARC 011100Z 05004KT 9999 FEW040TCU BKN200 20/19 Q1011 KWMC 011056Z AUTO 08003KT 10SM CLR 15/08 A3013 RMK AO2 SLP153 T01500078 SARE 312200Z 09005KT CAVOK 24/22 Q1009 SBGW 011000Z 00000KT CAVOK 08/07 Q1022 SARF 011100Z 02006KT CAVOK 21/18 Q1012 KVUO 011053Z AUTO 00000KT 10SM CLR 22/10 A3002 RMK AO2 LTG DSNT N SLP164 T02170100 SBIH 011015Z 00000KT 1000 BR BKN006 24/23 Q1013 SARI 011100Z 05008KT 8000 NSC 15/15 Q1018 SASA 011100Z 00000KT CAVOK 07/06 Q1017 RJSA 011100Z 18004KT 9999 FEW030 23/21 Q1010 SBHT 011000Z 00000KT 9999 FEW012 SCT080 21/21 Q1014 RKJB 011100Z 10020KT 8000 -RA BKN030 OVC090 29/23 Q1002 NOSIG SBIL 011000Z 23008KT 9999 SCT025 BKN070 21/19 Q1020 SARL 011100Z 14005KT 9999 TS SCT020 FEW045CB OVC100 18/17 Q1012 RJSC 011000Z 08005KT 9999 FEW040 SCT/// 27/24 Q1010 FQQL 011000Z 00000KT 9999 FEW020 26/19 Q1022 SBJF 312200Z 05003KT CAVOK 16/12 Q1023 RJSF 011000Z 12004KT 100V160 9999 FEW010 BKN/// 22/21 Q1013 SBIP 011000Z 00000KT 9999 BKN020 BKN050 18/14 Q1023 SARP 011100Z 09005KT 9999 SCT035 18/16 Q1015 RJSH 010506Z 23005KT 190V290 5000 -SHRA BR FEW012 SCT020 BKN030 FEW030TCU 27/25 Q1007 RMK 1ST012 3CU020 7CU030 2TCU030 A2976 TCU 5KM N MOV E RJSI 011000Z 23004KT 9999 FEW020 SCT/// 26/22 Q1009 SCBA 011100Z AUTO 36005KT 300V050 9999 03/01 Q0997 SASJ 011100Z 32006KT CAVOK 13/11 Q1014 RKJK 011058Z AUTO 09008KT 10SM CLR 29/23 A2963 RMK AO2 SLP037 T02930227 $ RJSK 011100Z 25004KT 210V280 9999 FEW020 BKN030 BKN070 25/23 Q1011 RJTC 010931Z 13007KT 9999 TS SCT030 FEW035CB SCT120 BKN210 30/22 Q1010 RMK 3CU030 1CB035 3AC120 5CI210 A2984 FBL TS 12KM W MOV SE HAAB 011100Z 12004KT 9999 FEW020 BKN023 OVC070 15/13 Q1027 RJTE 311628Z 18004KT 130V250 9999 FEW007 SCT012 BKN250 26/24 Q1012 RMK 2ST007 4ST012 A2990 KVVV 011134Z AUTO 00000KT 10SM CLR 16/13 A3006 RMK AO2 RJSN 011100Z 02003KT 9999 FEW030 BKN/// 27/24 Q1010 RJSO 312010Z 24006KT 200V270 5000 -SHRA BR FEW008 BKN015 BKN030 FEW030CB 23/22 Q1009 RETS RMK 2ST008 5CU015 7CU030 2CB030 A2980 CB 5KM E MOV E RJTF 010800Z 16009KT 140V210 9999 FEW035 SCT/// 31/22 Q1009 SBJP 011000Z 20004KT 9999 FEW020 22/19 Q1017 SCAP 011100Z AUTO VRB02KT 9999 -RA NSC 05/04 Q1008 SBKG 011000Z 24005KT 9999 FEW014 21/19 Q1019 SBIZ 011000Z 19004KT 9999 FEW040 20/18 Q1015 SBJR 011000Z 36006KT CAVOK 18/18 Q1019 SCAR 011100Z 03003KT 9999 OVC011 14/11 Q1013 RJSR 011000Z 23003KT 170V300 9999 -SHRA FEW005 BKN010 BKN025 25/23 Q1010 RJTI 010700Z 18013KT CAVOK 30/24 Q1009 SCAS 312100Z 00000KT 9999 -SHRA SCT020 BKN030 09/08 Q0999 RJSS 011100Z 26009KT 9999 FEW030 SCT/// 27/23 Q1009 SBLB 011000Z 03012KT 9999 FEW015 22/15 Q1021 W///S2 SCAT 011139Z AUTO 00000KT 9999 // NCD 08/06 Q1013 RJTL 010935Z 18008KT 9999 FEW030 FEW035CB SCT150 BKN230 29/23 Q1010 RETS RMK 1CU030 1CB035 3AC150 A2985 CB W RJSU 010830Z 17003KT 9999 FEW015 SCT170 27/24 Q1009 RMK 1CU015 3CI170 A2980 SBJU 011000Z 13004KT CAVOK 25/19 Q1020 SBJV 011000Z 01002KT 0600 R33/1300 FG VV003 15/15 Q1018 KVWU 011134Z AUTO 00000KT 4SM BR CLR 12/12 A3004 RMK AO2 KXFL 011050Z 17005KT 7SM CLR 24/23 A2997 SBLE 312100Z 12005KT 9999 BKN020 22/18 Q1021 SCCF 011100Z 10023KT CAVOK 03/M21 Q1026 RJTO 010800Z 21017KT 9999 SCT006 SCT/// 29/26 Q1010 SBKP 011000Z 12006KT CAVOK 13/10 Q1021 RJSY 011100Z 28003KT 9999 FEW020 BKN080 26/23 Q1010 SCCH 312200Z 36011KT 9999 BKN008 OVC020 14/12 Q1015 SCCI 011100Z VRB02KT 9999 FEW020 M02/M03 Q0995 NOSIG SBMA 011000Z 06001KT CAVOK 20/20 Q1015 SCDA 011100Z 00000KT 7000 OVC014 14/09 Q1013 RJTT 011141Z 21010KT 9999 VCSH FEW020 FEW030CB BKN160 BKN/// 28/25 Q1011 RMK 1CU020 1CB030 5AC160 A2986 LIGHTNING 60KM W AND 80KM NW MOV S RJTU 010736Z 02013KT 9999 -TSRA FEW030 FEW035CB SCT040 BKN080 28/20 Q1011 RMK 1CU030 2CB035 3CU040 6AC080 A2986 FBL TS 20KM N MOV SE SAVC 011100Z 32007KT CAVOK 08/05 Q0999 SBMD 011000Z 06005KT 9999 SCT010 SCT100 ///// Q1015 SBME 010900Z 03003KT CAVOK 16/15 Q1019 SAVE 011100Z 25004KT 9999 SCT030 08/M01 Q1002 SBLO 011000Z 27002KT CAVOK 15/14 Q1020 SBLP 011000Z 00000KT 9999 FEW030 19/14 Q1020 SBMG 011000Z 04009KT 9999 BCFG NSC 18/// Q1019 RJTY 011121Z AUTO 29013KT 10SM CLR 26/22 A2995 RMK AO2 LTG DSNT SE-SW DZE1121 SBLS 011000Z 16007KT CAVOK 14/11 Q1023 SBMK 011000Z 05002KT CAVOK 16/12 Q1022 KVYS 011135Z AUTO 00000KT 7SM CLR 18/17 A3009 RMK AO2 LTG DSNT N THRU E T01780165 SBML 011000Z 09008KT CAVOK 19/09 Q1020 KWRB 011058Z AUTO 02004KT 10SM OVC008 22/21 A3001 RMK AO2 SLP162 T02210206 PWINO $ FQTT 312000Z 09003KT CAVOK 20/15 Q1022 SAWE 011100Z 00000KT CAVOK M01/M02 Q0997 SBMN 011000Z 05004KT CAVOK 24/21 Q1013 SBMO 011000Z 32002KT 9999 SCT020 17/17 Q1018 SBNF 011140Z 33003KT 4000 BR FEW002 BKN100 19/19 Q1017 SCCY 010000Z 00000KT 9000 -RA FEW026 OVC040 05/04 Q0999 SAWG 011100Z 00000KT 9999 FEW010 SCT200 M02/M03 Q0996 SBMQ 011000Z 12007KT 9999 SCT013 SCT100 25/25 Q1013 SAWH 011100Z 32003KT CAVOK 02/M02 Q0996 LOIH 011100Z 00000KT 25KM FEW006SC BKN150AS 20/18 Q1012 RMK BKN KXIH 011135Z AUTO 25009G14KT 3/4SM HZ BKN004 OVC031 24/22 A2995 RMK A01 SBMS 011015Z 13007KT CAVOK 26/19 Q1016 KWRI 011123Z AUTO 21003KT 10SM BKN180 21/20 A3016 RMK AO2 RAB1111E1124DZB1121E1122 SCFA 011100Z 32006KT 5000 HZ OVC011 12/09 Q1013 NOSIG SBMT 011000Z 00000KT 5000 BR NSC 10/09 Q1022 SCEL 011100Z 00000KT 3000 0300N R17L/P2000U R17R/0350D BCFG SCT004 06/05 Q1018 NOSIG KWRL 011053Z AUTO 20003KT 10SM FEW120 16/06 A3015 RMK AO2 SLP165 T01560061 FQVL 011100Z 05010KT 020V080 CAVOK 23/16 Q1020 SBMY 011015Z 00000KT CAVOK 22/22 Q1013 SBOI 011000Z 21002KT 0150 FG VV010 22/22 Q1014 SBPA 011000Z 00000KT 9999 FEW040 14/14 Q1013 SBPB 011000Z 07016KT 9999 SCT017 ///// Q1015 SBNT 011000Z 21007KT 9999 FEW018 SCT070 22/20 Q1016 SBPC 011015Z 00000KT 9000 NSC 06/06 Q1025 RKPC 011145Z 08028KT 4000 -RA BR FEW010 BKN025 OVC080 26/23 Q0996 WS ALL RWY NOSIG SCGE 312200Z 01012KT 1700 +DZ HZ OVC002 13/12 Q1013 SBPF 312200Z 35005KT 9999 FEW045 SCT070 17/12 Q1019 RKNY 011100Z 19003KT CAVOK 26/23 Q1007 NOSIG LPAR 011100Z 33011KT 9999 SCT030 23/15 Q1016 SBPJ 011000Z 07006KT 9999 FEW035 25/14 Q1016 LPBJ 011100Z 30009KT 260V350 9999 SCT032 23/13 Q1016 SCFT 011100Z AUTO VRB02KT 7000 RA 05/04 Q1003 SBPK 011000Z 23005KT 9999 TS FEW040CB BKN090 17/17 Q1013 RKPK 011100Z 08017KT 9999 -RA SCT030 BKN100 28/22 Q1005 WS ALL RWY NOSIG MGCB 312300Z 07004KT 9999 SCT018 SCT025CB 23/18 QFE 870.4 CB/PCPN SW/W CB SE SBPL 011000Z 16005KT 9999 FEW020 22/21 Q1019 KWST 011053Z AUTO 00000KT 8SM CLR 18/17 A3020 RMK AO2 SLP225 T01830167 SBPN 011000Z 25004KT CAVOK 21/18 Q1015 SBPP 312200Z 03006KT CAVOK 23/16 Q1016 SAZG 011115Z 05001KT 0600 FG 08/08 Q1011 SBPR 011000Z 10006KT CAVOK 14/11 Q1023 LPAZ 011130Z 33004KT 290V010 9999 FEW016 23/17 Q1026 SBPS 011200Z 22004KT 9999 SCT020 22/18 Q1022 SBRB 011000Z 12001KT CAVOK 20/19 Q1013 SCIC 011100Z AUTO VRB02KT 9000 NCD 09/09 Q1018 SBPV 011000Z 00000KT 8000 NSC 23/20 Q1012 KXLL 011135Z AUTO 21004KT 5SM BR OVC006 21/20 A3020 RMK AO2 SAZM 011100Z 32004KT 6000 NSC 09/08 Q1011 SAZN 011100Z 09004KT 9999 SCT050 BKN100 07/06 Q1009 SCIE 011100Z 36010KT 1600 BR OVC001 13/12 Q1015 SBRF 011000Z 20003KT 9999 SCT025 22/20 Q1017 MGCP 311300Z 07004KT CAVOK 25/22 QFE 1007.3 FEW200 SBRJ 011140Z 01006KT 5000 BR BKN010 19/18 Q1020 KWVI 011117Z AUTO 00000KT 1 3/4SM BR OVC002 16/14 A2992 RMK AO2 T01560139 SAZS 011100Z 32011KT 7000 -RA SCT008 SCT040 06/04 Q1007 SAZT 011035Z 25003KT 8000 REFG NSC 07/07 Q1011 KXNA 011053Z 00000KT 7SM OVC024 18/18 A3009 RMK AO2 SLP181 T01830183 SBSC 011000Z 03007KT CAVOK 17/15 Q1019 FSIA 011100Z 14009KT 9999 SCT018 29/23 Q1011 NOSIG SBQV 011000Z 12007KT 5000 1500NE BR SCT004 BKN005 16/16 Q1024 KWVL 011135Z 00000KT M1/4SM OVC002 16/15 A3017 RMK AO1 KWWD 011135Z AUTO 00000KT 10SM CLR 22/18 A3020 RMK AO1 SBSG 010210Z 23003KT 9999 SCT008 BKN033 21/21 Q1017 SBRP 011000Z 11004KT CAVOK 13/10 Q1020 RKSG 011058Z AUTO 08006KT 10SM BKN160 OVC210 31/26 A2968 RMK AO2 SLP053 T03100256 $ SCIP 011100Z 18004KT 9999 SCT020 SCT250 18/12 Q1016 NOSIG SCIR 312100Z 26006G19KT 9999 OVC003 15/15 Q1015 RKSI 011130Z 05004KT CAVOK 31/21 Q1005 NOSIG SBTA 011000Z 27001KT CAVOK 08/07 Q1022 SBSJ 011000Z 13002KT 8000 FEW015 13/11 Q1023 KXMR 011058Z AUTO 20003KT 10SM CLR 25/24 A2997 RMK AO2 SLP152 T02520235 SBTC 312020Z 18004KT 9999 FEW020 BKN070 24/20 Q1019 SBSL 011000Z 06004KT 9999 FEW017 25/22 Q1014 RKSM 011100Z 36001KT 9999 FEW120 BKN200 30/24 A2971 SBSM 011000Z 16003KT 9999 SCT040 SCT100 21/15 Q1013 SBTE 011000Z 19004KT CAVOK 23/22 Q1015 SBSN 011000Z 12005KT 9999 BKN015 23/23 Q1013 SCJO 312300Z 33004KT 9999 SCT015 OVC025 13/13 Q1006 RERA SBTF 312300Z 00000KT 9999 FEW017 30/25 Q1010 RKSO 011058Z AUTO 09006KT 7SM SCT160 30/26 A2968 RMK AO2 SLP053 T03000260 $ SBSP 011000Z 02002KT 6000 NSC 14/09 Q1022 SBSR 011000Z 09005KT 7000 NSC 17/10 Q1021 SBUA 312300Z 34001KT 9999 FEW020 27/25 Q1011 KWWR 011135Z AUTO 22006KT 10SM CLR 16/14 A3016 RMK AO2 RKSS 011100Z 07004KT CAVOK 31/19 Q1005 NOSIG MGES 312300Z 03010KT 9999 SCT020 28/19 QFE 910.6 SBTK 011135Z 00000KT 5000 BR FEW015 22/22 Q1015 SBST 011000Z 00000KT CAVOK 12/12 Q1018 LPFL 011130Z 36007KT 9999 FEW021 BKN037 24/15 Q1028 SBSV 011000Z 16012KT 9999 BKN015 FEW020TCU BKN070 24/21 Q1018 RKTN 011100Z 11011KT 9999 -RA SCT040 BKN100 28/23 Q1006 NOSIG SBUF 011015Z 17005KT 9999 FEW007 BKN010 21/21 Q1019 SBUG 011000Z 03005KT 9999 VCTS FEW040CB BKN083 18/16 Q1012 LPFR 011130Z 24012KT 9999 SCT035 23/16 Q1016 SBTT 312300Z 00000KT 9999 FEW030 27/23 Q1011 SBTU 011000Z 05009KT 0000 FG VV/// 22/22 Q1016 SBUL 011000Z 08007KT CAVOK 14/10 Q1022 RKTU 011100Z 07005KT 9999 FEW040 BKN150 BKN200 29/21 Q1005 NOSIG VYYY 011130Z 23006KT 5000 -RA BKN012 FEW015CB OVC090 26/26 Q1004 TEMPO 5000 -RA SBVH 011015Z 26002KT CAVOK ///// Q1017 SBUR 011000Z 04007KT CAVOK 16/10 Q1021 SCMK 312200Z 33010KT 5000 -RA OVC006 11/10 Q0998 KWYS 011130Z AUTO 00000KT 10SM CLR 03/02 A3035 RMK AO2 MGGT 011100Z 01008KT 9999 FEW004 BKN014 17/15 Q1025 A3027 SBUY 312300Z 00000KT 9999 FEW020 26/23 Q1009 KXPY 011135Z AUTO 00000KT 10SM CLR 28/19 A3000 RMK A01 YABA 011130Z AUTO 03004KT 9999 // NCD 07/04 Q1024 LPHR 011130Z 20003KT 170V240 9999 FEW016 SCT035 23/17 Q1026 KXSA 011135Z AUTO 00000KT 4SM -DZ SCT110 21/19 A3019 RMK AO2 T02100191 SBVT 011000Z 33002KT CAVOK 17/15 Q1021 MGHT 011100Z 00000KT CAVOK 11/11 QFE 818.0 WSAP 011100Z 21008KT 9999 FEW016 BKN150 30/23 Q1008 KYIP 011053Z AUTO 00000KT 4SM HZ BKN110 17/14 A3009 RMK AO2 SLP182 T01670139 TSNO SBYA 311900Z 00000KT 9999 SCT020 32/25 Q1011 SCNT 312300Z VRB02KT 9999 FEW033 02/M01 Q0995 SCON 011100Z AUTO 03008KT 350V050 6000 -RA ///015 11/10 Q1000 MHAM 010500Z 18004KT 9999 FEW028CB 28/21 CB LTNG N LPLA 011100Z /////KT 9999 FEW020 BKN035 22/18 Q1026 RMK ESTMD WND 01007KT MHCA 011100Z 00000KT 9999 FEW030 21/20 LQBK 011130Z 14004KT 9999 FEW030TCU SCT037 23/20 Q1010 NOSIG KYKM 011053Z AUTO 26009KT 10SM CLR 22/12 A2995 RMK AO2 SLP133 T02220117 KYKN 011135Z AUTO 06004KT M1/4SM BKN002 12/12 A3009 RMK AO1 SCPQ 011100Z AUTO 01016KT 3800 RA BKN005 OVC013 09/09 Q1001 MHCH 010600Z 00000KT 9999 FEW030 28/18 HZ SBYS 011000Z 00000KT 8000 NSC 08/08 Q1021 LPMA 011130Z 03008KT 330V070 9999 SCT016 SCT033 25/14 Q1022 RS02007KT 0505009KT 2304009KT SCRD 312200Z 00000KT CAVOK 16/13 Q1019 SCRG 312100Z 16007KT 4000 -RA BKN070 OVC120 13/10 Q1020 SCQP 011100Z 36010KT 9999 -RA FEW020 OVC060 12/12 Q1012 KXVG 011136Z AUTO 00000KT 1 3/4SM BR BKN001 BKN008 12/12 A3005 RMK AO2 VIS 3/4V3 MGMM 312100Z 24004KT 9999 SCT020 35/23 Q1013 A2991 SCSE 011100Z 15004KT CAVOK 09/05 Q1013 LOWG 011120Z 16006KT 140V200 9999 FEW025 SCT055 23/18 Q1012 NOSIG KYNG 011051Z 13003KT 5SM MIFG BR FEW120 SCT220 14/13 A3014 RMK AO2 SLP202 T01440133 $ LPMR 011100Z 33012KT 9999 BKN010 BKN015 19/17 Q1016 LOWI 011120Z 26003KT 210V300 9999 FEW050 BKN300 23/14 Q1011 NOSIG SCTB 312200Z 00000KT 4000 HZ OVC090 13/11 Q1021 MGMT 312300Z 18004KT CAVOK 32/24 Q1004.9 LPMT 011100Z 32009KT 9999 SCT035 23/14 Q1016 LOWK 011120Z 08005KT 020V160 9999 FEW040 FEW040TCU 25/16 Q1012 NOSIG LOWL 011120Z 08009KT 9999 SCT025 SCT035 23/17 Q1013 NOSIG SCSN 010000Z 13003KT CAVOK 14/11 Q1019 SCTE 011100Z 34015KT 5000 -RA SCT013 OVC040 11/09 Q1005 NOSIG LOWS 011120Z 02006KT 9999 SCT029 23/17 Q1012 NOSIG MGPB 011100Z 00000KT 9999 FEW018 25/24 Q1012 A2988 LPPD 011130Z 02008KT 320V080 9999 FEW020 BKN040 23/15 Q1026 LOWW 011120Z 31007KT 280V340 9999 FEW016 BKN020 23/18 Q1012 NOSIG LOWZ 011100Z VRB03KT 50KM SCT060CU 22/16 Q1012 RMK SCT LOXT 010950Z VRB03KT 14KM FEW010ST BKN017SC 20/18 Q1013 RMK OVC SCVD 011100Z AUTO 01007KT 330V060 8000 RA BKN014 BKN020 OVC048 12/11 Q1010 LPOV 011100Z 36008KT 8000 BKN010 BKN018 19/16 Q1015 LOXZ 011120Z 08005KT 30KM FEW040CU SCT110AC 24/15 Q1013 NOSIG RMK SCT LPPR 011130Z 31007KT 280V360 9999 FEW008 SCT015 20/17 Q1015 LPPS 011130Z 02010KT 350V060 9999 FEW015 24/16 Q1022 LPPT 011130Z 33010KT 300V010 9999 SCT035 23/13 Q1016 SCVM 011100Z 00000KT CAVOK 09/08 Q1017 YBAF 011130Z AUTO 00000KT 9999 // NCD 15/07 Q1014 MGQZ 312300Z 05014KT 9999 FEW014 FEW025CB 21/09 QFE 767.0 CB W YBAS 011130Z AUTO 14006KT 9999 // NCD 09/01 Q1026 MGSJ 011100Z 00000KT 8000 SKC 25/24 Q1012 A2988 BR MGRT 312300Z 22004KT 9999 FEW018 FEW025CB SCT090 30/25 Q1012 A2988 CB E/W VOL. STA. MARIA Y SANTIAGUITO EN ACTIVIDAD YBBN 011130Z 31006KT CAVOK 18/13 Q1014 RMK SMOKE LRBC 011130Z 05006KT 350V110 9999 FEW030 31/08 Q1011 YBCG 011130Z AUTO 25006KT 9999 // NCD 13/12 Q1014 YBCK 011130Z AUTO 21008KT //// // ////// 18/M01 Q1020 YAMB 011130Z AUTO 22006KT 9999 // NCD 16/03 Q1014 LRAR 011130Z 36004KT 290V070 9999 BKN026 28/21 Q1009 LPST 011100Z 34015KT 9999 SCT025 21/14 Q1017 MHLC 011100Z 11002KT 9999 FEW028 SCT200 23/22 Q1012 A2989 NOSIG LRBM 011130Z 12008KT 080V170 9999 FEW045 32/12 Q1010 YBDG 011130Z AUTO 25013KT 9999 // NCD 03/02 Q1021 MHLE 010000Z 05010KT 9999 FEW024 21/15 HZ YBCS 011130Z 00000KT 9999 FEW025 19/18 Q1018 LRBS 011130Z 05012KT 010V090 CAVOK 31/12 Q1008 NOSIG SEGU 011100Z 24008KT 9999 BKN020 22/20 Q1010 A2984 NOSIG YBCV 011130Z AUTO 19010KT 9999 // NCD 15/M05 Q1021 LRCK 011130Z 10012KT 070V140 9999 FEW030 30/20 Q1008 NOSIG MGTU 312300Z 00000KT 8000 TS VC SH FEW016 SCT020CB BKN080 31/26 CB/TS/LTNG/PCPN NE CB N/E LRCL 011130Z 16008KT 110V200 9999 FEW045 30/13 Q1011 MHLM 011100Z 15004KT 9999 FEW025 25/25 Q1013 A2991 NOSIG LRCT 011100Z 13007G17KT 9999 SKC 30/09 Q1010 BLU BLU YBDV 011130Z AUTO 17008KT //// // ////// 12/M04 Q1025 LRCV 011130Z 08012KT 040V120 9999 SCT038 28/17 Q1009 LQMO 011130Z 34004KT 280V060 9999 SCT040 28/17 Q1007 BGBW 011050Z 06002KT 9999 FEW015 BKN220 11/07 Q1011 ROAH 011130Z 20024KT 7000 FEW015 SCT020 BKN025 29/26 Q0998 SFAL 311500Z 01025KT 9999 OVC005 XX/XX Q0998 GMAD 011130Z 22006KT CAVOK 27/15 Q1016 NOSIG MHNO 010000Z 36008KT 9999 FEW040TCU 29/19 TCU N HZ GMAG 011100Z 32008KT 9999 FEW016 24/13 Q1016 NOSIG FTTA 011100Z 00000KT 9999 FEW020 26/21 Q1015 FTTC 011100Z 22004KT 9999 FEW030 SCT040 BKN150 28/21 Q1015 FTTD 011100Z 24004KT 9999 FEW040 27/23 Q1015 HDAM 010300Z 26020KT 3000SA BKN150 32/22 Q1007 YBHI 011130Z AUTO 23005KT 9999 // NCD 05/M01 Q1026 KZPH 011135Z AUTO 00000KT 10SM SCT050 21/21 A3000 RMK AO2 LTG DSNT S MGZA 312300Z 08010KT 9999 FEW022 33/21 QFE 986.1 FEW200 FTTJ 011100Z VRB02KT 9999 BKN020 BKN100 28/25 Q1014 NOSIG YBHM 011130Z AUTO 00000KT 9999 // NCD 20/19 Q1018 GMAT 011100Z 02014KT 8000 BKN016 22/15 Q1018 NOSIG MHPL 010000Z 00000KT 9999 FEW028TCU BKN250 29/24 Q1015 TCU N HZ YARG 011130Z AUTO 18004KT 9999 // NCD 29/01 Q1015 BGGH 011050Z 36007KT 9999 BKN002 09/08 Q1014 SELT 011100Z 20001KT 8000 BCFG FEW005 BKN023 08/08 Q1031 LRIA 011130Z 10006KT 360V150 CAVOK 32/12 Q1011 YARM 011130Z AUTO 26018KT 9999 // NCD 04/M02 Q1017 FVBU 011100Z 15004KT 080V250 CAVOK 24/M01 Q1026 NOSIG RODN 011117Z AUTO 19017G28KT 10SM BKN016 BKN026 29/27 A2949 RMK AO2 CIG 016V026 BKN016 V SCT VISNO RWY23 $ FTTY 011100Z 28012KT CAVOK 38/20 Q//// YCBA 011130Z AUTO 24010KT //// // ////// 09/M03 Q1023 YCBB 011130Z AUTO 23012KT //// // ////// 07/M03 Q1020 LQSA 011130Z 30004KT 250V020 9999 FEW025 BKN045 21/16 Q1011 NOSIG WSSL 011100Z 17006KT 9999 FEW015 FEW018TCU BKN150 30/24 Q1008 RMK 1030Z Q1008 SEMT 011100Z 19009KT 9999 SCT023 BKN100 22/21 Q1011 YBKE 011130Z AUTO 25005KT //// // ////// 08/M06 Q1023 MHSC 011058Z 33007KT 9999 BKN047 21/20 A2999 RMK AO2A SLP112 T02140204 $ MHRO 010000Z 08004KT 9999 FEW025CB 30/23 Q1013 A2992 NOSIG YCAR 011130Z AUTO 17011KT 9999 // NCD 20/11 Q1019 WSSS 011130Z 22003KT 180V260 9999 FEW018 SCT160 BKN280 29/24 Q1009 NOSIG YCAS 011130Z AUTO 26007KT //// // ////// 20/M02 Q1014 FVCZ 010600Z 00000KT CAVOK 17/08 Q1027 NOSIG FVFA 010400Z 16002KT CAVOK 11/08 Q1023 NOSIG MHTE 010000Z 03004KT 9999 BKN032CB 30/26 Q1012 CB S TCU TDS HZ YCBP 011130Z AUTO 14006KT //// // SCT063 11/M02 Q1028 MHTG 011100Z 12002KT 9999 SCT026 17/16 Q1018 A3006 NOSIG GMFF 011111Z 32004KT 8000 SCT026 2215 Q1018 NOSIG YBMA 011130Z AUTO 17014KT 9999 // NCD 20/M00 Q1021 YBKT 011130Z AUTO 00000KT //// // ////// 20/11 Q1016 MHSR 010600Z 00000KT 9999 SCT018 21/20 YBLN 011130Z AUTO 15004KT //// // ////// 07/05 Q1023 GMFK 011100Z 13012KT CAVOK 36/M01 Q1017 NOSIG GMFM 011100Z 30003KT 8000 SCT016 23/13 Q1019 NOSIG GMFO 011100Z 36015KT CAVOK 29/18 Q1014 NOSIG BGJN 011050Z 00000KT 9999 -RA SCT003 BKN045 07/07 Q1013 YBNA 011130Z AUTO 25005KT 9999 // NCD 11/09 Q1014 YBLT 011130Z AUTO 25008KT 9999 // SCT025 SCT031 00/00 Q1020 YBMK 011100Z AUTO 00000KT 0350 // ////// 17/17 Q1018 MHTR 010000Z 05010KT 9999 FEW024TCU 30/25 Q1013 TCU S HZ FVHA 011100Z VRB03KT CAVOK 23/02 Q1026 NOSIG YCEE 011130Z AUTO 01005KT //// // ////// 04/02 Q1028 SEQM 011100Z 16002KT CAVOK 07/04 Q1026 NOSIG RMK A3030 YCDO 011130Z AUTO 24012KT //// // ////// 07/01 Q1021 BGKK 011050Z 09008KT 050V130 9999 BKN016 05/01 Q1013 YCCY 011130Z AUTO 19015KT //// // ////// 22/01 Q1020 ROIG 011100Z 21011KT 8000 FEW011 BKN/// 29/27 Q0998 LQTZ 011130Z 23003KT 9999 FEW015 BKN023 OVC030 20/20 Q1010 YCDU 011130Z AUTO 11003KT 9999 // SCT055 07/04 Q1029 YCEM 011130Z AUTO 33004KT //// // ////// 05/04 Q1020 GLRB 011130Z 20004KT 9999 BKN016 27/24 Q1016 NOSIG SESG 011100Z 10014KT CAVOK 38/04 Q1009 YBNS 011130Z AUTO 30015KT 8000 // SCT016 BKN041 OVC079 05/02 Q1015 YBOK 011130Z AUTO 23014KT 9999 // NCD 15/M01 Q1017 YCFL 011130Z AUTO 13008KT //// // ////// 22/19 Q1017 YAYE 011130Z AUTO 10009KT 9999 // NCD 13/M00 Q1025 LROD 011130Z AUTO 25008KT 210V280 9999 -SHRA FEW065 29/17 Q1009 YCFS 011130Z AUTO 24009KT 9999 // NCD 18/M00 Q1015 SGAS 011130Z 03009KT CAVOK 23/17 Q1013 HEBA 011100Z 32011KT CAVOK 35/13 Q1007 NOSIG FVKB 010600Z 00000KT CAVOK 19/12 Q1023 NOSIG YBPN 011130Z AUTO 00000KT 9999 // NCD 16/15 Q1018 LSGC 011120Z 02003KT 310V090 9999 BKN038 21/13 Q1014 LSGG 011120Z 04005KT 350V080 9999 FEW040 SCT280 25/16 Q1011 NOSIG LROP 011130Z 07013KT CAVOK 30/16 Q1008 NOSIG YCHK 011130Z AUTO 11002KT 9999 // NCD 21/05 Q1020 YAYT 011050Z 01010KT CAVOK 42/M02 Q1005 HEAR 011100Z 33006KT CAVOK 33/21 Q1006 NOSIG HECA 011130Z 33006KT CAVOK 36/16 Q1007 NOSIG HEAT 011100Z 32010KT CAVOK 36/16 Q1008 NOSIG HEBL 011100Z 07010KT CAVOK 41/13 Q1007 NOSIG HEAX 011100Z 33008KT CAVOK 30/14 Q1007 NOSIG YBRK 011130Z 36007KT CAVOK 19/15 Q1017 MHYR 010000Z 05003KT 9999 SCT025TCU 28/20 TCU TDS HZ YBRL 011130Z AUTO 04003KT //// // ////// 23/15 Q1016 LSGS 011120Z 25007KT 230V300 9999 SCT070 25/17 Q1010 YBRM 011130Z 14005KT CAVOK 25/12 Q1015 RMK 5AC120 YCIN 011100Z AUTO 17006KT //// // OVC105 26/05 Q1014 GMMB 011100Z 28006KT 240V330 6000 BKN016 23/15 Q1019 NOSIG FWCL 011100Z 25006KT 9999 BKN040 25/13 Q1022 NOSIG GMMC 011100Z 30006KT 9999 BKN016 24/16 Q1017 YBSG 011130Z AUTO 07004KT //// // NCD 24/17 Q1015 GMME 011130Z 27007KT 220V320 8000 BKN026 24/14 Q1017 NOSIG GMMH 011100Z 36027KT 6000 NSC 22/17 Q1017 NOSIG GMMI 011100Z 07009KT 020V100 6000 SCT024 24/14 Q1018 NOSIG LRSB 011130Z 09010KT 9999 FEW050 27/10 Q1011 LTAC 011120Z 20006KT 090V240 9999 SCT040 34/02 Q1008 NOSIG SGEN 011130Z 07012KT 9999 SCT033 17/15 Q1015 KZZV 011053Z AUTO 00000KT 4SM BR CLR 15/13 A3013 RMK AO2 SLP198 T01500133 GMML 011100Z AUTO 03019KT 9999NDV NCD 26/16 Q1019 YBRY 011130Z AUTO 10004KT 9999 // OVC125 20/04 Q1021 ROMY 011100Z 21015KT 6000 SCT012 BKN/// 29/26 Q0998 LTAF 011120Z 21008KT 160V240 9999 SCT035 BKN100 32/23 Q1005 NOSIG GMMN 011130Z 31005KT 260V010 9999 BKN016 24/15 Q1019 NOSIG LTAG 011120Z 20012KT 9999 SCT035 32/23 Q1005 NOSIG SGES 011130Z 12005KT CAVOK 18/16 Q1016 LTAI 011120Z 15008KT 090V190 9999 BKN030 30/23 Q1006 NOSIG YBSU 011130Z AUTO 33009KT 9999 // OVC100 19/13 Q1014 LTBA 011120Z 02012KT 350V060 CAVOK 31/18 Q1004 NOSIG LTAJ 011120Z 27011KT 230V310 CAVOK 39/02 Q1005 NOSIG YBTL 011130Z 00000KT 9999 FEW025 20/18 Q1017 RMK SMOKE YBUD 011130Z AUTO 36011KT 9999 // SCT093 19/17 Q1016 YCKN 011130Z AUTO 12006KT 9999 // SCT022 22/19 Q1017 LRTC 011130Z 09010KT 050V140 9999 FEW045 32/16 Q1008 LRSM 011130Z 15008KT 120V180 CAVOK 32/12 Q1010 FVMV 010600Z 00000KT CAVOK 11/07 Q1027 NOSIG LTAN 011050Z VRB07G17KT CAVOK 34/02 Q1009 NOSIG GMMW 011100Z 35005KT 290V080 CAVOK 27/16 Q1014 NOSIG LTBF 011050Z VRB03KT CAVOK 36/12 Q1002 NOSIG LTAP 011120Z 12004KT 060V220 9999 FEW040 35/09 Q1005 NOSIG GMMX 011130Z 30005KT CAVOK 26/17 Q1018 NOSIG BGSF 011050Z AUTO 32010KT 9999NDV SCT016/// OVC019/// 08/05 Q1013 LTAR 011050Z 31006KT 240V360 9999 FEW040 28/04 Q1014 GMMZ 011000Z VRB01KT CAVOK 31/M05 Q1017 NOSIG LTAS 010524Z VRB02KT 9999 FEW035 22/17 Q1006 RMK RWY18 16005KT LTBJ 011120Z 23011KT 180V270 9999 FEW030 34/14 Q1003 NOSIG LTCA 011050Z 31007KT 250V020 CAVOK 37/02 Q1007 NOSIG LTAT 011120Z VRB06KT CAVOK 38/05 Q1006 NOSIG LTAU 011120Z VRB04KT 9999 FEW040 34/02 Q1010 NOSIG LTCC 011120Z 00000KT CAVOK 40/03 Q1003 NOSIG LTCD 011050Z 30003KT 9999 FEW050 34/M00 Q1010 NOSIG LRTM 011130Z 11012KT 080V140 9999 FEW036 32/10 Q1010 LRSV 011130Z 09006KT 070V160 9999 FEW048 29/17 Q1013 YDBY 011130Z AUTO 14006KT //// // ////// 27/06 Q1014 LTCE 011120Z VRB05KT 9999 FEW030 29/05 Q1014 NOSIG BIBD 011100Z 04003KT 9999 FEW020 BKN050 11/// Q1014 LTCF 011050Z VRB04KT 9999 FEW040 27/09 Q1016 LTBP 010435Z 07010KT CAVOK 24/17 Q1004 RMK RWY26 09010KT LTCG 011120Z 06007KT 010V100 9999 SCT035 28/23 Q1007 NOSIG LTAZ 011120Z 34007KT 280V030 CAVOK 35/02 Q1009 LTBQ 011050Z 08007KT 350V140 9999 FEW040 31/21 Q1004 NOSIG LTBR 011120Z 34009KT 9999 FEW035 37/12 Q1002 NOSIG LTCI 011050Z 22006KT 180V250 9999 FEW040 28/15 Q1013 NOSIG LRTR 011130Z 34003KT 280V040 9999 SCT035 28/20 Q1009 LSMA 011050Z AUTO 04008KT 9999NDV FEW060 21/17 Q1012 RMK BLU LTBS 011120Z 22009KT 180V240 9999 FEW017 SCT080 30/23 Q1005 NOSIG LTCJ 011120Z 20008KT CAVOK 40/06 Q1002 YCMM 011130Z AUTO 00000KT //// // ////// 04/04 Q1029 LTCK 011050Z VRB03KT 9999 FEW040 35/03 Q1009 BIAR 011100Z 02007KT CAVOK 08/04 Q1015 LTBU 011120Z 03016KT 9999 FEW035 29/20 Q1005 LSMD 011050Z AUTO VRB03KT 9999NDV FEW017 21/17 Q1013 RMK BLU LSME 011050Z AUTO VRB02KT 9999NDV SCT057 BKN100 23/17 Q1012 RMK WHT BGTL 011058Z AUTO 00000KT 9999 OVC080 03/01 A3004 RMK AO2 SLP157 T00330005 $ HEGN 011100Z 01013KT CAVOK 39/17 Q1004 NOSIG YCMT 011130Z AUTO 26003KT //// // ////// 15/06 Q1017 YCNK 011130Z AUTO 25007KT //// // ////// 10/M02 Q1017 LTCT 311835Z 12005KT CAVOK 26/09 Q1009 YCNM 011130Z AUTO 24007KT //// // ////// 06/M02 Q1021 YCOE 011130Z AUTO 07005KT //// // ////// 22/18 Q1016 LSMM 011050Z AUTO 26005KT 240V330 9999NDV FEW150 21/16 Q1012 RMK BLU YBWP 011130Z AUTO 00000KT 9999 // NCD 23/21 Q1015 LSMP 011050Z AUTO VRB03KT 9999NDV NCD 24/16 Q1011 RMK BLU RORS 011000Z 21014KT 6000 FEW013 BKN/// 29/27 Q0997 LTFA 010513Z 26005KT 210V300 CAVOK 27/21 Q1003 RMK RWY17 25004KT 230V290 LSMS 011050Z 22005KT 160V250 9999 FEW030 SCT060 25/16 Q1010 YCOM 011130Z AUTO 25009KT 9999 // NCD 00/M05 Q1012 LTFC 011120Z 14018KT 9999 FEW035 34/14 Q1007 YBWX 011130Z AUTO 36005KT //// // ////// 20/13 Q1017 YCNY 011130Z AUTO 19005KT //// // ////// 22/M00 Q1017 LTFE 011120Z 23009G24KT 190V300 9999 FEW035 34/18 Q1003 NOSIG LTFH 011050Z 07008KT 040V120 9999 FEW036 30/21 Q1005 NOSIG BIEG 011100Z 36007KT 9999 VCSH SCT025 BKN031 BKN110 07/04 Q1014 LTFJ 011120Z 03013KT CAVOK 33/18 Q1003 NOSIG RPLB 011100Z 00000KT 8000 -RA SCT018 OVC080 25/24 Q1006 RETS RMK A2971 RPLC 010700Z 2104KT 7000 -RA SCT030 OVC090 26/26 Q1006 A2972 RMK LGT RA INTMT GMTA 011100Z 34010KT 6000 FEW026 26/21 Q1015 NOSIG ROTM 010958Z 19019G26KT 8000 BR SCT020 BKN030 OVC060 29/27 A2947 RMK PK WND 19032/09 SLPNO T2 T02910273 RPLI 010900Z RPLI 22012G18KT 9999 VCSHRA FEW018CB SCT019 OVC100 27/25 Q1003 RMK A2962 CB SW FWKI 011100Z 10010KT 9999 BKN030 24/07 Q1023 NOSIG RPLL 011100Z 24005KT 190V270 9999 SCT023 OVC100 28/26 Q1006 RERA NOSIG RMK A2971 RPMD 011100Z 18006KT 9999 SCT016 BKN090 29/26 Q1009 A2981 LOW CLDS MVNG N GMTN 011100Z 28013KT 230V320 9999 SCT023 27/12 Q1015 NOSIG HEMA 011100Z 02013KT CAVOK 33/16 Q1005 NOSIG GMTT 011130Z 25015KT 9999 BKN016 24/16 Q1017 NOSIG HEMM 011100Z 33012KT 9999 SCT025 29/22 Q1009 NOSIG BIHN 011000Z 34007KT 9999 FEW040 BKN150 11/// Q1014 HELX 011100Z 32003KT CAVOK 40/15 Q1005 NOSIG RPMZ 010900Z 16002KT 9999 FEW017 BKN300 32/26 Q1009 RMK A2980 NCAI 011100Z AUTO 12014KT //// ///// 21/20 Q1018 MKJP 011100Z 31005KT 999 FEW024 26/23 Q1012 MKJS 011100Z VRB02KT 9999 FEW020 26/22 Q1012 YCUN 011130Z AUTO 07004KT //// // ////// 06/04 Q1025 BIIS 011147Z 04008KT 9999 FEW040 10/04 Q1015 LUBL 011130Z 07014KT 050V110 9999 FEW049 31/12 Q1012 YDLQ 011130Z AUTO 27010KT //// // ////// 03/02 Q1021 YCWA 011130Z AUTO 11003KT 9999 // BKN098 22/02 Q1021 LUCH 011130Z 12004KT 9999 SCT049 30/12 Q1009 GOGG 011100Z VRB02KT 9999 BKN016TCU 30/25 Q1015 BIKF 011130Z 02008KT 9999 FEW015 BKN220 12/02 Q1014 GOGK 010900Z VRB02KT 9999 BKN013 BKN130 26/25 Q1014 HEPS 011100Z 34004KT CAVOK 31/24 Q1007 NOSIG GOGS 011100Z 32004KT 9999 BKN013TCU SCT130 28/26 Q1015 YCWR 011130Z AUTO 28009KT //// // ////// 06/03 Q1019 HESC 011100Z 09005KT CAVOK 32/07 Q1017 NOSIG HESH 011100Z 04006KT CAVOK 38/15 Q1004 NOSIG YDPO 011130Z AUTO 23008KT 9999 // NCD 06/M00 Q1014 HESN 011100Z 28010KT CAVOK 41/03 Q1006 NOSIG LSZA 011120Z VRB02KT 9999 FEW015 SCT050 BKN130 21/18 Q1012 NOSIG LSZB 011120Z 30004KT 220V020 9999 FEW035 24/17 Q1011 NOSIG LSZC 011120Z AUTO 07003KT 020V130 CAVOK 21/16 Q1012 LSZG 011120Z 07005KT 010V120 9999 FEW045 25/14 Q1011 NOSIG LSZH 011120Z 06005KT 340V100 9999 FEW024 23/16 Q1012 NOSIG RPVM 011100Z 23004KT 9999 FEW020 BKN250 27/25 Q1009 RMK A2980 LSZL 011050Z AUTO 25006KT 220V280 9999NDV FEW016 21/17 Q1012 RMK BLU LSZR 011120Z VRB02KT 9999 FEW018 BKN150 19/16 Q1012 NOSIG RMK H LSZS 011120Z 18006KT 120V230 9999 VCSH FEW010 BKN060 13/13 Q1018 R03/29//// MMAA 011045Z 00000KT 8SM SCT120 SCT300 27/24 A2988 RMK 8/032 HZY YELD 011130Z AUTO 12008KT //// // ////// 25/22 Q1014 CAHR 011100Z AUTO 22004KT 17/14 RMK AO1 SLP230 T01690136 53007 BIRK 011100Z 34005KT 280V040 CAVOK 11/03 Q1014 GOOD 010900Z 32002KT CAVOK 29/23 Q1014 MMAN 010442Z 11007KT 15SM SKC 29/20 A2998 YFBS 011130Z AUTO 25008KT //// // ////// 05/02 Q1020 GOOG 011100Z 35004KT 8000 -TSRA SCT015TCU FEW030CB BKN120 26/25 Q//// MMAS 011042Z 07004KT 10SM SKC 14/13 A3028 RMK RTS MMCB 312359Z 29002KT 12SM SCT030TCU 29/09 A3005 RMK 8/200 LUKK 011130Z 07009KT 030V130 9999 FEW049 33/04 Q1009 R08/CLRD65 NOSIG GOOK 011100Z 32004KT 9999 FEW016 32/23 Q1017 FYGB 011000Z AUTO 06004KT //// // ////// 25/M02 Q1028 YFDF 011130Z AUTO 12001KT 9999 // NCD 20/06 Q1020 MMCE 011042Z 00000KT 7SM FEW200 27/26 A2990 RMK 8/001 CBBC 011141Z AUTO 00000KT 1 1/2SM BR BKN001 BKN120 10/09 A3017 RMK SLP218 FYGF 011000Z 08007KT 9999 ////// 23/00 Q1029 YEML 011130Z AUTO 00000KT 9999 // BKN097 17/06 Q1017 MMBT 312345Z 00000KT 7SM FEW030 31/24 A2986 RMK 8/100 HZY MMCL 010754Z RTD 00000KT 10SM BKN100 OVC230 29/23 A2987 RMK 8/037 MMCM 011142Z 00000KT 7SM SCT020 26/22 A2991 RMK SLP130 5//// 967 8/500 RTS MMCN 011055Z 08003KT 8SM SCT100 27/24 A2984 RMK 8/030 HZY RTS MMCP 011040Z 00000KT 7SM SKC 25/22 A2992 GOOY 011130Z 33007KT 270V010 9999 SCT008 30/23 Q1016 NOSIG MMCS 010242Z 10015KT 10SM FEW040 SCT080 BKN250 29/16 A3003 RMK SLP054 52009 908 8/462 MMCT 312046Z 36005KT 8SM SCT015 34/21 A2994 RMK 8/400 MSGTX MMMD MMCU 011040Z 23004KT 10SM FEW030 BKN080 BKN200 18/16 A3019 RMK SLP097 5//// 960 60307 8/572 MMCV 011059Z RTD 15007KT 8SM SKC 25/22 A2992 RMK HZY MMDO 011142Z 00000KT 8SM SCT070 15/11 A3025 RMK SLP087 5//// 957 8/060 RTS MMCZ 011141Z 00000KT 8SM FEW015 FEW080 21/21 A2994 RMK SLP133 57011 955 8/530 VC TCU RTS FZAA 010510Z 18006KT 3000 BR SCT014 BKN016 20/17 Q1017 BECMG 1500 BIVM 011100Z 29006KT 9999 FEW025 11/07 Q1013 MMEP 010153Z 00000KT 8SM SCT015 SCT100 24/20 A3011 RMK 8/530 GOSM 011100Z 28008KT CAVOK 29/24 Q1015 GOSP 010900Z 32002KT CAVOK 28/23 Q1015 GOSS 011100Z 36006KT 9999 FEW013 SCT130 30/24 Q1016 GOTK 010900Z 32002KT 8000 RETS SCT008 BKN130 25/24 Q1014 MMGL 011057Z RTD 21003KT 8SM SCT100 BKN300 16/15 A3019 RMK 8/038 MMGM 010143Z 00000KT 10SM FEW060 33/27 A2980 RMK 8/060 FYKM 011000Z 11005KT 9999 FEW030 27/07 Q1024 MMIA 011100Z RTD 00000KT 8SM SCT100 23/20 A3003 RMK 8/030 RTS YERN 011130Z AUTO 11009KT //// // ////// 10/M01 Q1027 FYKT 011000Z 01011KT CAVOK 26/M00 Q1024 GOTT 011100Z 28004KT 240V320 9999 BKN015 SCT130 29/22 Q1015 MMHO 010440Z 18005KT 10SM SCT200 32/23 A2993 RMK 8/008 HZY NCRG 011100Z 11005KT 9999 VCSH BKN016 20/17 Q1020 REHSRA RMK SPECI CEASED NCPY 011100Z AUTO 00000KT //// ///// 27/24 Q1011 FYML 010400Z AUTO 10003KT //// // ////// 13/M01 Q1026 YESP 011130Z AUTO 03005KT 9999 // NCD 09/05 Q1027 MMIO 011140Z 18005KT 10SM SKC 21/12 A3019 RMK CI YGBI 011130Z AUTO 07005KT //// // ////// 25/21 Q1014 YEST 011130Z AUTO 06007KT 9999 // NCD 09/05 Q1027 FYLZ 011000Z AUTO 31013G24KT //// // ////// 14/09 Q1018 MMIT 312300Z 34020KT 6SM SKC 34/20 A2979 RMK HZ FYOA 011000Z 03008KT CAVOK 28/02 Q1023 YGAY 011130Z AUTO 00000KT //// // ////// 15/05 Q1015 YFLI 011130Z AUTO 21017KT 9999 // NCD 09/03 Q1012 MNBL 312300Z 08006KT 9999 FEW025 SCT090 30/24 Q1011 YGDH 011130Z AUTO 31004KT //// // ////// 04/M03 Q1020 FYOO 011000Z AUTO 03008KT //// // ////// ///// Q1025 MNCH 312300Z 23006KT 9999 SCT025 32/22 Q1008 MMMA 010144Z 13016KT 7SM SKC 29/25 A2993 RMK HZY BLDU FU E NE MMLM 011042Z 00000KT 8SM SCT100 SCT220 29/24 A2985 RMK 8/054 RTS MMMD 011045Z 10003KT 7SM SKC 23/21 A2995 RMK HZY CI MMLO 011050Z 00000KT 6SM SCT030 BKN100 OVC200 16/15 A3030 RMK 8/577 BR HZ FYOW 011000Z AUTO 04003KT //// // ////// 26/12 Q1025 MMLP 010440Z 18004KT 10SM FEW220 29/23 A2991 RMK 8/001 YGEL 011130Z 00000KT CAVOK 12/10 Q1022 RMK WBD 0.7 MMLT 010041Z 16006KT 7SM SCT050 BKN120 BKN200 32/27 A2983 RMK 8/928 VCTS OCNL LTGICCG SW MOVG NW MMML 010441Z 12011KT 10SM SCT080 BKN200 32/24 A2976 RMK 8/077 MMMM 011047Z 00000KT 6SM SKC 13/13 A3025 RMK HZY MMMT 011051Z 00000KT 10SM SKC 26/20 A2990 MMNL 011040Z 13005KT 8SM FEW200 28/22 A2990 RMK 8/002 YGFN 011130Z AUTO 25009KT 9999 // NCD 19/M01 Q1015 MMMV 312140Z 02015KT 10SM BKN040 35/14 A2994 RMK8/100 FYRN 011000Z 09020KT 9999 FEW040 25/05 Q1025 SKBG 011100Z 19006KT 9999 FEW012 SCT200 19/18 A2995 MMMX 011045Z 06008KT 10SM FEW200 15/10 A3034 NOSIG RMK 8/002 HZY MMMY 011042Z 00000KT 10SM SKC 24/20 A2992 MMMZ 011043Z 05006KT 10SM SCT015 BKN080 OVC220 25/22 A2988 RMK 8/463 TSE20 OCNL DROPS SKAR 011100Z 00000KT 9999 SCT030 17/15 A3003 MMPA 011131Z 00000KT 3SM BR HZ SCT010 SCT280 26/25 A2995 RMK 8/608 REQ WX TAO310 MMPB 011103Z RTD 25004KT 6SM SKC 10/06 A3037 RMK HZY CI RTS SKCC 011100Z 18013KT 9999 FEW023 SCT200 27/19 A2989 MMPE 311640Z 13012KT 10SM BKN200 35/20 A2986 RMK 8/009 SKBO 011100Z 05005KT 9999 FEW015 BKN200 08/07 A3032 SKCG 011100Z 00000KT 9999 FEW015 SCT200 28/25 A2976 MMPG 312340Z 34005KT 8SM SCT150 35/23 A2990 RMK 8/070 HZY SKBQ 011100Z 02004KT 5000 BR FEW015 SCT200 26/26 A2976 SKCL 011100Z VRB02KT 9999 FEW040 BKN200 17/16 A2994 MMPN 312341Z 00000KT 7SM FEW025CB BKN080 BKN250 22/17 A3017 RMK 8/978 HZY MMOX 011114Z RTD 35003KT 7SM SKC 12/10 A3025 MMPQ 312344Z 09006KT 4SM SKC 33/21 A2984 RMK HZY MSGTX MMMD MMPR 011045Z 00000KT 10SM BKN030 27/25 A2990 RMK 8/500 MMPS 312345Z 24008KT 15SM SKC 31/24 A2997 RMK SLP132 52006 967 TCU N HZY K01M 011135Z AUTO 00000KT 7SM CLR 18/17 A3005 RMK AO2 T01810172 YHBA 011130Z AUTO 34009KT 9999 // NCD 19/18 Q1016 SKEJ 011100Z 00000KT 9999 SCT020 SCT200 24/22 A2981 BKPR 011130Z 03011KT 9999 SCT030 BKN050 22/15 Q1009 NOSIG MMQT 011045Z 00000KT 8SM FEW030 SCT150 14/13 A3031 RMK 8/530 FYWB 011000Z 30003KT 9999 BKN100 17/10 Q1019 MMSD 011106Z RTD 00000KT 15SM SKC 26/21 A2987 RMK RTS FYWE 010900Z 34004KT 9999 FEW050 20/M00 Q1029 MNJG 312300Z 00000KT 9999 SCT020 25/15 Q1013 YGLA 011130Z AUTO 35004KT 9999 // NCD 19/17 Q1017 FYWH 011000Z 24004KT CAVOK 23/M03 Q1028 TAPA 011100Z 08008KT CAVOK 28/22 Q1015 GQNI 010900Z 28008KT 8000 NSC 32/21 Q1013 MMTB 312300Z 36006KT 6SM FEW020 31/20 A2983 RMK 8/100 MMTC 011040Z 36004KT 8SM SCT110 25/13 A3007 RMK 8/060 RTS MMSL 011132Z RTD 27003KT 8SM SKC 27/24 A2995 RMK SC CI RTS YHAY 011130Z AUTO 25013KT //// // ////// 05/02 Q1023 MMRX 011040Z 14005KT 8SM FEW015 25/22 A2990 RMK 8/500 HZY FU GQNN 011130Z 28010KT 8000 FEW013 BKN100 29/21 Q1013 NOSIG YGLI 011130Z AUTO 24017KT //// // ////// 06/01 Q1017 MMSP 011040Z 33004KT 3SM BR HZ SKC 14/13 A3027 MMTG 011040Z 00000KT 3SM BR SCT300 19/18 A2996 RMK 8/002 LTGCC DSTN S RTS MMTJ 011042Z 33003KT 6SM BKN014 20/16 A2993 RMK 8/500 HZY MNJU 312300Z 09006KT 9999 FEW020 SCT300 33/23 Q1011 MMTM 011044Z 00000KT 5SM SKC 27/25 A2993 RMK HZY CI YFTZ 011130Z AUTO 17008KT //// // ////// 28/01 Q1015 MMTO 011045Z 10002KT 6SM SCT070 SCT200 09/07 A3041 RMK 8/032 HZY FYWW 011000Z 32003KT 9999 FEW040 22/M00 Q1028 MMTP 011048Z 00000KT 6SM OVC050CB 27/23 A2988 RMK 8/9// CB OVR STN TS FQT LTGICCG YGLS 011130Z 13008KT CAVOK 13/M02 Q1024 MMVA 011044Z 00000KT 7SM SKC 25/23 A2991 SKIB 011100Z 30006KT 9999 FEW030 SCT100 19/16 A3006 MMUN 011046Z 00000KT 7SM FEW015 22/22 A2994 RMK 8/500 HZY CS K04V 011133Z AUTO 02003KT 10SM SCT025 BKN036 OVC090 11/10 A3040 RMK AO2 PWINO K06D 011135Z AUTO 23004KT 10SM CLR 10/10 A3010 RMK AO2 K04W 011138Z AUTO 00000KT 4SM BR CLR 13/13 A3005 RMK AO2 MNMG 011100Z 00000KT 9999 FEW021 24/22 Q1010 A2984 NOSIG GQPP 011100Z 33012KT 8000 NSC 25/18 Q1016 NOSIG SKIP 011100Z 00000KT 9999 FEW018 05/04 A3045 GQPZ 010900Z 30010KT 8000 NSC 27/12 Q1016 MMVR 011043Z 00000KT 6SM SKC 25/23 A2990 RMK RTS K08D 011135Z AUTO 07004KT 10SM CLR 15/15 A3008 RMK AO2 LWOH 011130Z 13003KT 9999 SCT040 BKN200 20/13 Q1010 SLBJ 311900Z 36004KT 9999 NSC 31/20 Q1005 SLCA 011100Z 00000KT 9999 NSC 12/11 Q1015 SLCB 011100Z 00000KT 4000SE FU NSC 05/M01 Q1026 SKLC 011100Z 35004KT 6000 SCT015 SCT090 26/26 A2976 RMK HZ LXGB 011050Z 27018G28KT 9999 FEW027 SCT034 23/15 Q1015 NOSIG MNPC 312300Z 07008KT 7000 SCT016 SCT300 30/25 Q1011 HZ NFFN 011100Z 11012KT 9999 FEW030 23/17 Q1018 NOSIG YHID 011130Z AUTO 14009KT 9999 // SCT017 24/21 Q1014 SKMD 011100Z 00000KT 9999 NSC 18/14 A3004 MMZC 011044Z 20006KT 10SM SCT200 13/08 A3030 RMK 8/008 SLCO 011100Z 00000KT 5000 BR NSC 21/20 Q1013 SLCP 011100Z 00000KT 9999 NSC 19/19 Q1017 MMZH 010140Z 00000KT 7SM SCT250 27/23 A2985 RMK 8/002 CU NE SKLT 011000Z 00000KT CAVOK 22/22 A2990 MMZO 010145Z 30005KT 10SM SCT020 BKN260 29/24 A2982 RMK 8/609 HZY SKMR 011100Z 00000KT 3000 BR FEW020 SCT100 26/26 A2975 RMK AD OPR IMC K11R 011135Z AUTO 34003KT 10SM CLR 22/20 A2999 RMK AO2 T02210201 YGTE 011130Z AUTO 12003KT 9999 // NCD 22/20 Q1015 YGTH 011130Z AUTO 27007KT 9999 // NCD 04/02 Q1022 K12N 011054Z AUTO 00000KT 17/17 A3019 RMK AO1 SLP218 T01720167 SKMZ 312300Z VRB02KT 9999 SCT100 22/XX A3024 YHLC 011130Z AUTO 13001KT //// // ////// 25/04 Q1017 MNRS 312300Z 07008KT 9999 FEW018 BKN200 31/21 Q1009 SLET 011100Z 34008KT 9999 FEW017 BKN200 22/19 Q1012 TBPB 011100Z 05017KT 9999 FEW018TCU SCT034 27/23 Q1012 NOSIG SKPC 011100Z 00000KT 9999 FEW020 25/24 A2988 LWSK 011130Z 03007KT 9999 TS FEW030CB SCT033 BKN043 23/16 Q1008 NOSIG YGTN 011130Z AUTO 21005KT //// // ////// 23/04 Q1017 SKNV 011100Z VRB02KT 9999 FEW045 24/16 A2989 SKPE 011100Z 10006KT 9999 FEW013 19/16 A3006 LYBE 011130Z 10005KT 070V130 9999 SCT020 22/18 Q1010 NOSIG MPBO 011100Z 26001KT 220V290 9000 -RA SCT015 BKN020 Q1012 SKPS 011100Z 00000KT 9999 FEW030 SCT200 15/08 A3014 YHML 011130Z AUTO 27008KT 9999 // SCT052 SCT069 04/03 Q1023 MPDA 011100Z 00000KT 9999 FEW018CB Q1008 LYBT 011130Z 13006KT 100V170 9999 SCT025 23/18 Q1010 NOSIG SKPV 011100Z 06004KT 9999 FEW017 BKN200 28/24 AXXXX SKRG 011100Z 00000KT 9999 MIFG FEW005 SCT200 13/11 A3025 SKRH 011100Z 11009KT CAVOK 27/23 A2982 K14Y 011137Z AUTO 00000KT 5SM BR CLR 13/13 A3007 RMK AO2 LTG DSNT NW NFNA 011100Z 00000KT 9999 SCT020 SCT045 23/18 Q1021 K0A9 011135Z AUTO 00000KT 10SM OVC110 17/16 A3015 RMK SLJE 011100Z 00000KT 9999 NSC 17/16 Q1016 SKSM 011100Z 00000KT 9999 FEW020 26/22 A2974 YHOO 011130Z AUTO 15003KT //// // ////// 23/03 Q1017 SMAO 312000Z 18004KT 8000 -SHRA SCT015CB 25/24 Q1012 NOSIG SLJO 011100Z 00000KT 9999 FEW020 20/19 Q1012 SKSP 011100Z 06007KT 9999 SCT016 SCT200 27/25 A298E REDZ SKUC 011100Z VRB02KT 9999 SCT025 24/24 A2993 K19A 011135Z AUTO 00000KT 7SM OVC006 20/19 A3009 RMK AO2 TDCF 011100Z 05002KT 9999 FEW022 28/20 Q1013 SKUI 011100Z 00000KT 3000 -TSRA BKN007CB OVC070 24/24 A2980 CB/NW K0E0 011135Z AUTO 00000KT 10SM BKN018 OVC022 15/13 A3034 RMK AO2 T01450127 NGFU 011100Z 00000KT 9999 SCT019TCU BKN310 27/25 Q1012 K21D 011131Z AUTO 00000KT 5SM BR CLR 15/15 A3006 RMK AO2 SLMG 011100Z 00000KT 9999 NSC 22/21 Q1013 SLLP 011100Z 02003KT 9999 NSC M01/M08 Q1038 YJAB 011130Z AUTO 33004KT //// // ////// 27/19 Q1013 K20V 011137Z AUTO 00000KT 10SM CLR 10/07 A3038 RMK AO2 K0F2 011135Z AUTO 00000KT 10SM OVC011 19/19 A3006 RMK AO2 T01920186 SKVP 010100Z 01005KT 9999 FEW020 SCT080 28/23 A2982 K0CO 011135Z AUTO 11010KT 10SM CLR 02/02 A3066 RMK AO2 YHSM 011130Z AUTO 27004KT //// // ////// 02/01 Q1024 SKVV 011100Z 00000KT 9999 FEW023 SCT200 20/19 A2998 HKEL 011100Z VRB02KT 9999 FEW021CB BKN022 22/12 Q1025 HKEM 011100Z 18003KT 9999 BKN023 23/11 YHUG 011130Z AUTO 18010KT //// // ////// 20/M09 Q1019 NFTF 011100Z 12013G27KT 9999 FEW016 21/18 Q1024 SLOR 011100Z 03003KT 9999 NSC M07/M11 Q1037 HKGA 011100Z 16012KT 9999 BKN029 31/17 Q1013 K24J 011135Z AUTO 00000KT 8SM CLR 21/21 A2999 RMK AO1 NFTL 010600Z 09015KT 9999 SCT018 BKN300 24/19 Q1020 SLPO 011100Z 24006KT 9999 NSC M01/M04 Q1038 SLPS 011100Z 09003KT 9999 NSC 23/20 Q1013 SLRB 011100Z 00000KT 9999 NSC 19/18 Q1016 LYKV 011130Z 33003KT 270V020 9999 SCT009 BKN025 20/15 Q1010 NOSIG NFTV 010600Z 13013KT 9999 FEW017 SCT110 23/16 Q1019 K0J4 011058Z AUTO 00000KT 8SM CLR 20/18 A3000 RMK AO2 SLP155 T02000183 $ MPMG 011100Z 00000KT 9000 FEW018 26/24 Q1009 NOSIG SLRI 011100Z 00000KT 2000 BR SCT004 BKN200 22/22 Q1014 K1A5 011135Z AUTO 00000KT 7SM BKN080 17/17 A3016 RMK AO2 T01650165 SLSA 011100Z 32004KT 9999 NSC 22/21 Q1012 K1A6 011135Z AUTO 00000KT 3/4SM BR OVC002 16/16 A3014 RMK AO2 T01600160 K1A9 011135Z AUTO 00000KT 10SM CLR 22/21 A3000 RMK AO2 T02190205 SLRQ 011100Z 00000KT 3000 BR FEW020 19/18 Q1013 SLSI 011100Z 00000KT 9999 NSC 17/17 Q1015 LYNI 011130Z 33010KT 300V360 9999 SCT017 BKN033 22/19 Q1009 NOSIG K1B7 011115Z 14003KT 10SM SKC 25/21 A2998 SLRY 011100Z 00000KT 3000 BR NSC 17/17 Q1013 SMJP 011100Z 00000KT 9999 FEW002 24/23 Q1014 NOSIG SLTJ 011100Z 00000KT 9999 NSC 04/M03 Q1019 MPPA 011117Z 36005KT 9000 FEW010 SCT030TCU Q1009 SLSU 011100Z 00000KT 9999 NSC 06/M02 Q1030 K28J 011135Z AUTO 00000KT 3/4SM BR BKN006 23/23 A2997 RMK AO2 HKJK 011100Z 16007KT 120V200 9999 BKN027 BKN120 24/10 Q1023 LYPG 011130Z 14008KT 110V180 9999 FEW030TCU SCT080 28/16 Q1007 NOSIG HKKG 010700Z 11006KT 9999 FEW019 23/18 SLTR 011100Z 00000KT 9999 NSC 20/19 Q1013 HKKI 010700Z 10004KT CAVOK 23/15 Q1021 ZBAA 011130Z 16002MPS 4500 HZ NSC 30/23 Q1005 NOSIG HKKR 010700Z 05004KT 9999 FEW024 SCT250 19/13 HKMA 010400Z 22008KT CAVOK 24/18 HKKS 011100Z 09003KT 9999 SCT023 BKN270 24/13 LZIB 011130Z 29009KT 260V340 9999 FEW028 SCT060 26/18 Q1011 NOSIG SLVM 011100Z 00000KT 9999 NSC 14/13 Q1011 HKMB 010400Z 18024KT 9999 BKN015 SCT080 15/14 HKKT 010800Z 02005KT 9999 FEW020 22/15 K1F0 011135Z AUTO 00000KT 10SM OVC020 19/18 A3006 RMK AO2 HKME 010700Z 16004KT CAVOK 20/08 HKLO 010400Z 09007KT CAVOK 25/18 SLVR 011100Z 35008KT 9999 FEW013 20/20 Q1013 HKLU 011100Z 18014KT 9999 SCT026 29/22 HKML 011100Z 18016KT 9999 SCT025 28/21 Q1016 HKNC 011100Z 16003KT 9999 BKN022 22/09 Q1025 HKMO 011100Z 16005KT 9999 BKN025 26/20 Q1017 NOSIG GUCY 011100Z 11006KT 9999 FEW015 BKN110 26/24 Q1016 NOSIG SLYA 011100Z 00000KT 9999 NSC 16/15 Q1012 YJLC 011130Z AUTO 17010KT //// // ////// 18/M05 Q1019 HKNI 010700Z 23003KT 9999 FEW019 SCT080 18/12 HKNK 011100Z 06007KT 9999 SCT024 23/10 TDPD 011100Z 08011KT 9999 SCT016 28/23 Q1015 HKMU 010700Z 36004KT 9999 FEW022 22/13 K1H2 011135Z AUTO 00000KT 5SM BR CLR 15/14 A3010 RMK AO2 T01520135 CERM 011100Z AUTO 14001KT 14/14 RMK AO1 2011 SLP215 T01410135 50002 HKNO 010800Z 16007KT 9999 BKN017 18/11 HKMY 010700Z 114006KT 9999 BKN019 20/14 K0R0 011135Z AUTO 33004KT 7SM FEW055 FEW070 OVC095 21/20 A3002 RMK AO2 K33V 011135Z AUTO 12003KT 10SM CLR 03/01 A3040 RMK AO2 HKNW 011100Z 14010KT 9999 BKN022 23/10 Q1023 MPTO 011100Z 00000KT 9999 FEW018 25/// Q1008 NOSIG NGTT 011100Z 13004KT 9999 FEW018 28/23 Q1011 K1J0 011058Z AUTO 00000KT 7SM -RA CLR 19/18 A2999 RMK AO2 RAB55 SLP113 T01890178 PNO YIVO 011130Z AUTO 24009KT //// // ////// 07/00 Q1024 LYTV 011130Z VRB03KT 9999 -RA FEW013 BKN026 23/20 Q1008 NOSIG LZKZ 011130Z 06007KT 030V110 9999 FEW025CB SCT035 28/20 Q1011 NOSIG LYUZ 011130Z 31004KT 280V340 1000 -DZ BR BKN002 OVC013 15/15 Q1012 NOSIG LYVR 011130Z 27003KT 230V340 9999 FEW026 SCT040 24/19 Q1010 NOSIG K1II 011135Z AUTO 00000KT 5SM BR CLR 14/13 A3012 RMK AO2 K1L0 011135Z AUTO 00000KT 7SM SCT120 24/23 A2999 RMK AO2 T02410226 K36U 011135Z AUTO 00000KT 10SM SCT090 BKN110 12/11 A3025 RMK AO2 GVAC 011100Z 08010KT 9999 BKN015 27/20 Q1016 NOSIG SOCA 011130Z AUTO VRB03KT 9999 FEW004 24/23 Q1015 GVBA 011100Z 08006KT 9999 BKN015 27/20 Q1016 NOSIG K2C8 011135Z AUTO 00000KT 6SM BR CLR 14/13 A3005 RMK AO2 K40B 011116Z AUTO 00000KT 11/11 A3018 RMK AO1 SLP223 T01090108 52010 ZBHH 011100Z 16001MPS 9999 FEW040 29/22 Q1008 BECMG FM1250 -TSRA K0V4 011135Z AUTO 00000KT 3SM SCT090 OVC110 20/20 A3019 RMK AO1 P0004 T01970197 K1M4 011056Z AUTO 00000KT 6SM BR CLR 17/17 A3008 RMK AO2 T01660166 SLP198 K40J 011135Z AUTO 00000KT 7SM CLR 19/19 A2998 RMK AO2 LTG DSNT S YKII 011130Z AUTO 15010KT 9999 -SHRA SCT033 SCT043 BKN056 07/03 Q1019 LZPP 011130Z 26004KT 9999 FEW030 29/19 Q1011 K0VG 011135Z AUTO 00000KT 9SM 15/15 A3016 RMK AO2 YLBD 011130Z AUTO 08003KT 9999 // OVC105 25/12 Q1014 K42J 011135Z AUTO 00000KT 4SM CLR 24/24 A2998 RMK AO1 LTG DSNT NE AND S MSAC 312150Z 17009KT CAVOK 34/24 Q1010 A2983 K1P1 011135Z AUTO 00000KT 1/4SM FG OVC001 13/13 A3022 RMK AO2 T01320127 TFFF 011130Z AUTO 04005KT 360V070 9999 FEW024 SCT038 BKN054 27/24 Q1014 HKVO 011100Z 23022KT 9999 BKN024 28/16 K2G4 011140Z AUTO 13004KT 10SM CLR 16/15 A3023 RMK AO1 K2DP 011056Z AUTO 06005KT 12SM BKN130 23/20 A3012 RMK AO2 LTG DSNT SW SLPNO T02290204 HKWJ 010800Z 18009KT 9999 BKN026 27/18 Q1016 LZSL 011130Z VRB03KT 9999 FEW038TCU FEW043 29/18 Q1010 TFFR 011130Z 06005KT 010V090 9999 FEW026 SCT050 27/23 Q1015 MRLB 010200Z 08017KT 9999 FEW040 SCT140 29/20 A2983 K2I0 011135Z AUTO 00000KT 5SM BR SCT100 17/17 A3009 RMK AO2 T01730170 YLEC 011130Z AUTO 20006KT //// // ////// 07/M03 Q1027 K1R7 011135Z AUTO 07003KT 3SM -RA SCT002 20/19 A3004 RMK AO2 P0005 LZTT 011130Z 06006KT 9999 VCTS -SHRA FEW016 FEW030CB SCT080 21/18 Q1014 TEMPO -TSRA MRLM 010000Z 00000KT 9999 BKN010 26/24 A2988 YKMP 011130Z AUTO 26016KT //// // ////// 15/M02 Q1016 K46D 011135Z AUTO 01003KT 8SM CLR 12/12 A3009 RMK AO2 SMZO 011100Z 00000KT 9999 FEW030 26/24 Q1014 NOSIG K2J9 011115Z AUTO 00000KT 5SM CLR 20/19 A2999 RMK AO1 YLEO 011100Z AUTO 08006KT 9999 // NCD 13/M01 Q1026 YKNT 011130Z AUTO 14017KT //// // ////// 18/03 Q1021 MROC 011100Z 10010G20KT 9999 FEW030 SCT120 22/17 A2995 NOSIG AYMO 010600Z 16006KT 9999 SCT018 30/25 Q1009= YKOW 011130Z AUTO 00000KT //// // NCD 21/17 Q1015 YLHI 011130Z AUTO 34011G28KT 9999 // SCT020 OVC100 20/16 Q1014 K1V4 011054Z AUTO 12/12 A3018 RMK AO1 SLP216 T01220122 K1V6 011130Z AUTO 34005KT 10SM SCT085 BKN110 15/12 A3029 RMK AO2 SPCL 011100Z 00000KT 7000 3000NE BCFG SCT012 24/22 Q1014 RMK BIRD HAZARD RWY 02/20 PP000 YLHR 011130Z AUTO 00000KT //// // SCT030 20/19 Q1016 LZZI 011130Z VRB02KT 9999 FEW031 28/20 Q1011 YKSC 011130Z AUTO 25004KT 9999 // NCD 05/03 Q1028 AYNZ 010700Z 09018KT 9999 SCT020 29/23 Q1009= MRPV 010000Z 08014KT 9999 SCT020 BKN100 22/17 A2999 NOSIG YMBA 011130Z AUTO 28004KT //// // ////// 17/16 Q1019 YLIS 011130Z AUTO 24008KT 9999 // NCD 18/M00 Q1014 ZBSJ 011100Z 11001MPS 6000 NSC 30/24 Q1005 NOSIG OAHR 011055Z 36019KT CAVOK 33/M05 Q1010 RMK SKC VIS MIN 9999 BLU YMBD 011130Z AUTO 27009KT //// // ////// 06/03 Q1027 YKRY 011130Z AUTO 18006KT //// // ////// 11/05 Q1017 ZBTJ 011130Z 12003MPS 100V170 8000 NSC 29/24 Q1005 NOSIG AYPY 011100Z 17006KT 9999 BKN050 25/23 Q1012= OAKB 011050Z 30010KT 9000 SCT070CB BKN100 28/10 Q1010 NOSIG RMK BLU BLU YMAV 011130Z AUTO 30010KT 9999 // SCT045 SCT053 05/03 Q1020 YLLE 011100Z AUTO 19011KT //// // ////// 12/M04 Q1024 YMAY 011130Z AUTO 27007KT 9999 // SCT040 05/02 Q1018 GVNP 011100Z 09008KT 9999 FEW018 26/21 Q1016 NOSIG OBBI 011100Z 09009KT CAVOK 37/23 Q0997 NOSIG K54J 011135Z AUTO 36003KT 10SM CLR 20/19 A2999 RMK AO2 T02010185 SPGM 312100Z 06003KT 9999 FEW040 29/19 Q1014 RMK BIRD HAZARD RWY 19 TMX 30.0 PP000 YMCO 011130Z AUTO 26013G24KT //// // ////// 08/01 Q1011 YMDG 011130Z AUTO 26014KT //// // BKN072 07/M00 Q1019 OAKN 011055Z 29017KT 6000 FEW240 39/M07 Q1002 RMK A2959 DA7197 WHT K3I2 011135Z AUTO 00000KT 4SM BR BKN110 16/15 A3014 RMK AO2 NIUE 010300Z 12015KT 9999 SCT018 BKN030 BKN100 24/18 Q1018 SPHI 011100Z VRB01KT 9999 SCT010 15/14 Q1013 RMK PP000 SPHO 011100Z 00000KT CAVOK 10/05 Q1027 RMK PP000 MSLP 011150Z 05004KT CAVOK 24/23 Q1010 A2984 YMEK 011130Z AUTO 10007KT 9999 // NCD 16/M01 Q1023 K4A6 011135Z AUTO 05003KT 1/4SM FG OVC002 18/18 A3009 RMK AO2 K3J7 011135Z AUTO 00000KT 5SM BR OVC004 15/15 A3004 RMK AO2 LTG DSNT SE MSLU 312250Z 11006KT CAVOK 34/23 Q//// A//// YMEN 011130Z AUTO 27018KT 9999 -SHRA SCT029 BKN042 OVC086 06/04 Q1019 K1YT 011056Z AUTO 08010KT 10SM BKN170 23/09 A2997 RMK AO2 SLPNO T02290086 SPIM 011100Z VRB02KT 9999 OVC012 15/13 Q1013 NOSIG RMK PP000 K4A9 011135Z AUTO 00000KT 10SM OVC015 20/16 A3008 RMK AO2 SPJE 311300Z VRB02KT 9999 BKN040 19/17 Q1020 TMIN 13.4 RMK PP000 SPHY 011100Z 19004KT CAVOK M02/M08 Q1036 RMK PP000 YMER 011130Z AUTO 28009KT 9999 // NCD 09/M01 Q1012 YMES 011130Z AUTO 30014KT 9999 // NCD 05/02 Q1016 SPJI 312100Z /////KT CAVOK 33/26 Q1019 RMK T.MAX 33.7 PP000 YMGB 011130Z AUTO 09006KT //// // ////// 26/21 Q1013 OAMS 011050Z 29009KT 9999 3SKC 5/M07 Q1007 BLU+BLU+ YMGD 011130Z AUTO 09006KT 9999 // NCD 25/21 Q1013 SPJL 011100Z 31003KT CAVOK M04/M06 Q1039 RMK PP000 AYVN 010600Z 07008KT 9999 FEW020 SCT300 30/24 Q1008= SPJR 011130Z 35003KT CAVOK 02/01 Q1030 YMHB 011130Z 23017KT 9999 -SHRA FEW025 BKN055 05/M01 Q1013 ZBYN 011130Z 07005MPS 040V100 6000 NSC 28/17 Q1008 NOSIG AYWK 010500Z 09006KT 9999 SCT020 30/24 Q1008= YMIA 011130Z AUTO 24003KT 9999 // NCD 03/02 Q1025 K2V5 011135Z AUTO 25003KT 10SM 15/14 A3017 RMK AO2 T01450135 YLRE 011130Z AUTO 20009KT 9999 // NCD 17/M02 Q1020 SPME 010300Z /////KT 9999 BKN015 22/20 Q1011 RMK BIRD HAZARD RWY 32/14 PP000 SPLO 312100Z 17007KT 9999 FEW025 17/12 Q1011 RMK TMAX 18.5 PP000 K4BM 011131Z AUTO 18005KT 10SM SCT008 SCT014 05/04 A3062 RMK AO2 GVSV 011100Z 05014KT 9999 FEW015 BKN020 26/21 Q1016 NOSIG K3LF 011135Z AUTO 16004KT 4SM BR CLR 15/15 A3009 RMK AO2 LTG DSNT N T01510147 K2W6 011139Z AUTO 00000KT 10SM SCT060 SCT075 22/18 A3020 RMK AO1 YMHU 011130Z AUTO 03008KT 9999 // NCD 26/15 Q1016 K3N8 011135Z AUTO 15003KT 7SM SCT044 OVC050 16/15 A3005 RMK AO2 T01580151 YMIN 011130Z AUTO 15004KT //// // ////// 04/02 Q1028 SPMS 312300Z 00000KT 8000 VCSH BKN015 28/23 Q1013 RMK PP000 MSSA 010050Z 31006KT 9999 FEW037 FEW040CB 29/16 Q1016 A3001 YNAR 011130Z AUTO 26011KT //// // ////// 05/02 Q1021 YLST 011100Z AUTO 09005KT 9999 // NCD 13/M01 Q1024 YLTN 011130Z AUTO 07005KT //// // ////// 09/M01 Q1027 MSSM 010050Z 21005KT 9999 FEW037 29/23 Q1008 A2977 DAAD 011100Z 00000KT 9999 FEW033 36/17 Q1014 YNBR 011130Z AUTO 00000KT //// // ////// 05/M03 Q1021 DAAE 011100Z 12012KT CAVOK 28/23 Q1012 YMMB 011130Z AUTO 29010KT 9999 // SCT017 BKN032 OVC048 07/05 Q1019 DAAG 011130Z 36006KT 300V060 CAVOK 32/18 Q1012 MSSS 011150Z 34005KT CAVOK 22/20 Q1014 A2997 YLTV 011130Z AUTO 29014KT 9999 // SCT051 SCT094 05/04 Q1016 DAAJ 011100Z 18014KT 8000 NSC 37/06 Q1017 DABB 011130Z 02013KT CAVOK 29/21 Q1011 DABC 011130Z 25006KT CAVOK 35/12 Q1016 MUCF 311950Z 23008KT 190V260 9999 SCT025 34/24 Q1014 K4I3 011135Z AUTO 00000KT 4SM BR CLR 16/16 A3015 RMK AO2 K2WX 011056Z AUTO 12004KT 16/09 A3000 RMK AO1 SLP139 T01560089 YMLT 011130Z AUTO 19010KT 9999 // NCD 04/M01 Q1013 DAAP 011100Z 00000KT CAVOK 44/06 Q1012 YMML 011130Z 25015KT 5000 SHRA SCT015 SCT024 BKN090 05/03 Q1021 FM1130 25013KT 9999 -SHRA SCT020 SCT040 INTER 1130/1200 6000 SHRA BKN020 K4I7 011135Z AUTO 00000KT 4SM BR CLR 15/15 A3012 RMK AO2 K3R7 011135Z AUTO 00000KT 7SM SCT028 SCT095 OVC110 25/25 A2995 RMK AO2 LTG DSNT SE AND S T02470245 YMNE 011130Z AUTO 13005KT 9999 // ////// 11/01 Q1025 MUCL 011050Z 12007KT 9000 BKN015TCU 28/24 Q1013 DAAS 011100Z 28007KT 9999 FEW033 31/15 Q1018 DAAT 011130Z 12014KT 090V150 CAVOK 36/05 Q1020 MUCM 011050Z 08005KT 9000 FEW014 23/22 Q1014 YMNG 011130Z AUTO 22008KT 9999 // SCT029 SCT052 BKN074 05/02 Q1021 DAAV 011100Z 34008KT CAVOK 30/20 Q1011 TGPY 011100Z 00000KT 9999 FEW017 BKN045 26/25 Q1013 NOSIG DAAY 010800Z 04012KT CAVOK 27/19 Q1020 AZUH 011050Z 00000KT CAVOK 32/10 Q1009 SPQT 011135Z 00000KT 0400 FG VV003 22/21 Q1014 K65S 011135Z AUTO 00000KT 10SM CLR 15/07 A3008 RMK AO2 SPQU 011100Z 07011KT CAVOK 10/M17 Q1025 RMK PP000 YNEN 011130Z AUTO 12013KT 9999 // SCT017 27/22 Q1013 DABS 011100Z 36010KT CAVOK 33/11 Q1016 MUCU 011050Z 03004KT 9999 FEW020 24/22 Q1013 DABT 011100Z 24008KT 9999 FEW026 33/10 Q1016 YMOG 011130Z AUTO 09006KT //// // ////// 15/M01 Q1024 K3T5 011135Z AUTO 00000KT 10SM OVC032 24/21 A2998 RMK AO2 T02420213 SPRU 011100Z 18002KT 8000 OVC015 17/14 Q1012 RMK BR PP000 K5C1 011135Z AUTO 02004KT 10SM OVC031 22/16 A3005 RMK AO1 SPSO 011100Z 21007KT 4000 BR SCT007 OVC012 16/14 Q1013 RMK BIRD HAZARD RWY 22/04 PP000 YMOR 011130Z AUTO 21009KT 9999 // NCD 08/M05 Q1020 DAEF 011100Z 17014KT 9999 FEW040 45/// Q1011 SPST 011100Z 00000KT 5000 BR SCT015 BKN080 22/20 Q1014 RMK BIRD HAZARD RWY 17/35 PP000 SPTN 011100Z 08003KT 4000 BR BKN006 10/09 Q1010 RMK PP000 DAEN 011100Z 03012KT CAVOK 42/11 Q1009 YMRB 011130Z AUTO 19004KT 9999 // ////// 18/06 Q1017 YNHL 011130Z AUTO 25007KT //// // ////// 04/01 Q1024 DAFH 011100Z 12018KT CAVOK 35/18 Q1016 MUHA 011055Z 00000KT 9000 FEW025TCU 22/20 Q1014 SPTU 011100Z 00000KT CAVOK 20/19 Q1012 RMK BIRD HAZARD RWY 01/19 PP000 K4M9 011135Z AUTO 03003KT 4SM BR OVC065 20/20 A3008 RMK AO2 MUGM 011056Z 36007KT 9999 SCT030CB SCT300 26/23 A2994 RMK SLP137 CB DSNT E-S T02610228 MUHG 011050Z 09004KT 5000 MIFG SKC 23/22 Q1013 K4O4 011135Z AUTO 05004KT 1 3/4SM OVC005 18/17 A3004 RMK AO2 P0001 YMRY 011130Z AUTO 33005KT 9999 // NCD 06/M00 Q1012 YMTG 011130Z AUTO 26006KT 9999 // SCT105 06/02 Q1024 YMTI 011130Z AUTO 00000KT //// // ////// 21/18 Q1016 K4MR 011056Z AUTO 06002KT 10SM SCT065 BKN095 18/15 A3024 RMK AO2 SLP185 T01760147 K5H4 011135Z AUTO 00000KT 1 1/4SM BR CLR 12/12 A3007 RMK AO2 SPZA 312230Z 23005KT 5000 DU NSC 24/11 Q1011 SPYL 312100Z 20009KT CAVOK 24/19 Q1010 RMK TMAX 25.8 PP000 DBBB 011100Z 22013KT 8000 SCT012 BKN120 26/26 Q1015 NOSIG K6A2 011135Z AUTO 05007KT 2 1/2SM OVC003 18/18 A3006 RMK AO2 SPZO 011130Z 00000KT 9999 NSC 02/M01 Q1034 UAAA 011130Z 05003MPS 350V110 9999 FEW050 27/M02 Q1015 R88/CLRD65 NOSIG K6B0 011130Z AUTO 00000KT 10SM SCT021 SCT075 SCT085 17/17 A3017 RMK AO2 T01650165 YMYB 011130Z AUTO 36007KT 9999 // SCT098 18/16 Q1016 UACC 011130Z 14003MPS CAVOK 24/07 Q1019 R22/0/0070 NOSIG RMK QFE733/0977 DAOB 011100Z 29007KT CAVOK 32/06 Q1017 TJBQ 011050Z 14003KT 10SM SKC 23/22 A2999 RMK RWY 08 ATIS I DAOF 011100Z 34016KT CAVOK 37/01 Q1013 YNRC 011130Z AUTO 22004KT //// // ////// 04/03 Q1025 UACK 011130Z 17006MPS CAVOK 26/08 Q1017 R20/010070 NOSIG RMK QFE739/0986 DAOI 010800Z 00000KT CAVOK 25/21 Q1013 K79J 011056Z AUTO 00000KT 10SM CLR 22/19 A2999 RMK AO2 SLP150 T02220194 UADD 011130Z 02007MPS 360V070 9999 NSC 29/M04 Q1012 R13/0///65 NOSIG RMK QFE702/0936 K5M9 011135Z AUTO 02003KT 5SM HZ CLR A3009 RMK AO2 UACP 011130Z 13005MPS CAVOK 24/14 Q1017 R23/0/0060 NOSIG RMK QFE750/1000 DAON 011130Z 36013KT 9999 FEW026 26/19 Q1014 DAOO 011130Z 23018KT CAVOK 30/21 Q1014 YPAD 011130Z 05004KT CAVOK 05/03 Q1027 NOSIG DAOR 011100Z ///10KT 7000 NSC 36/15 Q1014 YPAG 011130Z AUTO 19012KT //// // NCD 10/04 Q1028 DAOV 010800Z 00000KT 7000 NSC 26/18 Q1015 YNSM 011130Z AUTO 00000KT //// // ////// 04/M00 Q1027 OEAB 011100Z 21016KT 9999 SCT025 FEW030CB 28/17 Q1020 NOSIG OEAH 011100Z 35017KT CAVOK 47/07 Q0997 NOSIG YPCC 011130Z AUTO 11014KT //// // NCD 26/23 Q1013 OEBA 011100Z 35014KT CAVOK 35/07 Q1015 NOSIG YOLD 011130Z AUTO 20005KT 9999 // NCD 08/M01 Q1028 YNTN 011130Z AUTO 19008KT //// // ////// 25/03 Q1016 YPBO 011130Z AUTO 15007KT 9999 // NCD 24/01 Q1020 K82V 011135Z AUTO 27005KT 10SM CLR 10/09 A3026 RMK AO2 OEAO 011100Z 18006KT CAVOK 41/M05 Q1008 OEBH 011100Z 30012KT CAVOK 39/05 Q1010 NOSIG MWCB 010000Z 12004KT 9999 FEW018 30/26 Q1014 YPEA 011100Z AUTO 07007KT 9999 // NCD 13/06 Q1024 YPED 011130Z AUTO 08005KT 9999 // BKN055 06/02 Q1028 K5R8 011135Z AUTO 00000KT 5SM -RA SCT017 BKN040 OVC065 24/23 A2995 RMK AO2 LTG DSNT SE P0011 T02410233 YOLW 011130Z AUTO 29003KT //// // ////// 20/17 Q1018 YPDN 011130Z 18004KT CAVOK 26/20 Q1013 RMK SMOKE ALOFT DAUA 011100Z 31009KT CAVOK 46/// Q1009 DAUB 011100Z 15008KT CAVOK 34/15 Q1011 TJIG 011055Z 17006KT 10SM SCT060 27/23 A3001 RMK RWY09 IN USE ATIS A DATM 011100Z 27006KT 1500 HZ NSC 42/16 Q1009 OEDF 011100Z 35008KT CAVOK 44/08 Q0996 NOSIG DAUE 011100Z 09010KT 8000 NSC 39/16 Q1011 UAII 011130Z 06004MPS CAVOK 32/M03 Q1009 R10/0///70 NOSIG RMK QFE721/0962 MWCR 011100Z 10002KT 9999 FEW018 27/26 Q1013 NOSIG DAUG 011100Z 07012KT 040V100 CAVOK 36/11 Q1014 DAUH 011130Z 07012KT CAVOK 39/14 Q1010 YOOD 011130Z AUTO 17005KT //// // ////// 11/M02 Q1027 DAUI 011100Z 14012KT 9000 NSC 46/// Q1008 YNWN 011130Z AUTO 14005KT //// // SCT092 SCT115 21/05 Q1021 OEDM 011100Z 35007KT CAVOK 40/M05 Q1007 DAUK 011100Z 10010KT CAVOK 31/21 Q1011 DAUL 010800Z 11012KT CAVOK 29/15 Q1017 DAUO 011100Z /////KT CAVOK 35/14 Q1011 OEDR 011100Z 07010KT CAVOK 43/13 Q0995 NOSIG MUVR 011052Z 20009KT 9000 FEW020 22/21 Q1015 UBBB 011130Z 05007KT CAVOK 32/18 Q1009 88CLRD70 NOSIG YOOM 011130Z AUTO 18005KT //// // ////// 11/M05 Q1026 UAKD 011100Z VRB03MPS 7000 FEW060 OVC100 28/03 Q1017 R220///65 NOSIG RMK QFE730/0973 DAUT 011000Z 00000KT 7000 NSC 43/// Q1009 DAUU 011100Z 08010KT 8000 NSC 38/12 Q1010 ZGGG 011130Z 34003MPS CAVOK 31/22 Q0999 NOSIG UBBG 011130Z 07010KT 020V100 9999 FEW100 33/01 Q1010 R12/CLRD70 NOSIG ZGHA 011100Z 36004MPS 9999 FEW040 30/22 Q1000 NOSIG DAUZ 011100Z 20004KT 130V260 6000 SCT040 SCT100 44/02 Q1011 UAKK 011130Z VRB01MPS CAVOK 22/05 Q1020 R05/0///70 NOSIG RMK QFE718/0957 TIST 011053Z AUTO 11007KT 10SM CLR 28/25 A2998 RMK AO2 SLP153 T02780250 TSNO UBBL 011100Z 11007KT 9999 SCT100 30/19 Q1009 R33/CLRD70 NOSIG RMK MT OP UBBN 011130Z 15006KT 9999 NSC 35/08 Q1006 R14R/CLRD60 NOSIG RMK MT OP QFE680 K5SM 011136Z AUTO 00000KT 10SM OVC085 09/06 A3055 RMK AO2 LTG DSNT NW TISX 011053Z 07006KT 10SM SCT030 27/24 A3000 RMK AO2 SLP156 T02720239 UBBQ 011100Z 18004KT 9999 FEW100 34/03 Q1010 R16/CLRD70 NOSIG RMK MT OP YPGV 011130Z AUTO 12007KT 9999 // NCD 24/20 Q1015 OEGN 011100Z 26010KT 9000 FEW030 SCT100 38/26 Q1004 NOSIG K7BM 011134Z AUTO 00000KT 10SM OVC020 10/08 A3051 RMK AO2 UBBY 011100Z 14003KT 9999 SCT050 31/06 Q1013 R33/////// NOSIG RMK MT OP OEGS 011100Z 28006KT CAVOK 43/07 Q1005 OEGT 011100Z 26006KT CAVOK 38/04 Q1006 NOSIG K5W8 011135Z AUTO 03008KT 10SM -RA SCT012 BKN075 OVC110 20/19 A3011 RMK AO2 T01950190 OEHL 011100Z 33010KT CAVOK 39/02 Q1009 NOSIG UBEE 011100Z 16008KT 110V200 35/06 Q1008 R30/CLRD70 NOSIG YPKA 011130Z AUTO 33004KT 9999 // NCD 23/14 Q1017 YPKG 011130Z AUTO 13003KT //// // NCD 09/M01 Q1027 TJMZ 312150Z 08005KT 10SM SCT040 BKN060 30/23 A2994 TJNR 011053Z AUTO 09007KT 10SM SCT021 27/23 A3001 RMK AO2 SLP163 T02720233 YPJT 011130Z AUTO 11004KT 9999 // NCD 10/06 Q1024 YPLC 011130Z AUTO 23005KT 9999 // NCD 06/03 Q1029 ZHCC 011100Z 04004MPS 2000 HZ NSC 30/22 Q1004 NOSIG ZGKL 011100Z VRB01MPS 9999 SCT066 29/21 Q1001 NOSIG UAOO 011130Z 07007MPS 030V120 CAVOK 32/02 Q1014 R06/LRD70 NOSIG RMK QFE749/0998 OEJN 011100Z 22012KT CAVOK 39/15 Q1003 NOSIG YPKS 011130Z AUTO 24010KT //// // ////// 06/01 Q1020 YPKT 011130Z AUTO 00000KT //// // ////// 24/21 Q1013 OEKJ 011100Z 01009KT CAVOK 43/02 Q1004 YPKU 011130Z AUTO 14002KT 9999 // OVC115 24/13 Q1014 OEKK 011100Z 29012KT CAVOK 44/14 Q1002 NOSIG YPLM 011130Z AUTO 25006KT 9999 // NCD 20/13 Q1018 OEKM 011100Z 03010KT 9999 SCT025 30/09 Q1019 NOSIG K6R3 011135Z AUTO 33003KT 10SM OVC005 24/23 A2997 RMK AO2 T02370231 TJPS 010950Z 04005KT 10SM FEW030 26/23 A2993 K6R6 011053Z AUTO 07007KT 26/17 A3007 RMK AO1 SLP141 T02610167 OEMA 011100Z 28015KT CAVOK 42/M10 Q1008 NOSIG K8A0 011135Z AUTO 06003KT 4SM BR OVC007 18/18 A3007 RMK AO2 K96D 011135Z AUTO 00000KT 13/13 RMK AO2 PWINO PNO TSNO YPMQ 011130Z AUTO 27009KT 9999 // NCD 14/M02 Q1016 SUAA 011100Z 27002KT 0100 FG VV001 15/15 Q1012 YPOD 011130Z AUTO 21010KT 9999 // NCD 09/M00 Q1023 OEMK 011100Z 20005KT CAVOK 42/16 Q1005 ZGNN 011100Z 18002MPS 140V200 CAVOK 34/24 Q0999 NOSIG OENG 011100Z 34008KT 9000 SCT030 40/07 Q1008 NOSIG UARR 011130Z 34006MPS CAVOK 31/09 Q1014 R04/CLRD70 NOSIG RMK QFE757/1009 TJSJ 011056Z 12003KT 10SM FEW024 SCT060 27/23 A2999 RMK AO2 SLP153 T02670233 $ UASK 011130Z 07003MPS 9999 VCTS BKN034CB BKN087 22/11 Q1016 R12/000060 TEMPO TSRA RMK QFE737/0983 YPPD 011130Z AUTO 21004KT 9999 // NCD 20/11 Q1017 YPPF 011130Z AUTO 06004KT 9999 // SCT057 04/03 Q1028 UATE 011130Z 20008MPS CAVOK 33/M02 Q1012 R12/0///70 NOSIG RMK QFE757/1010 K7L2 011135Z AUTO 10006KT 10SM CLR 13/13 A3007 RMK AO2 YPPH 011130Z 07007KT CAVOK 11/06 Q1024 UASP 011100Z 27004MPS 230V320 9999 SCT036 BKN200 26/04 Q1019 R21/0///70 NOSIG RMK QFE753/1004 UATG 011130Z 20005G10MPS 160V230 CAVOK 33/00 Q1014 R14/CLRD70 NOSIG RMK QFE763/1017 SUCA 011100Z 22005KT 0200 +FG VV002 XX/XX QXXXX OEPA 011100Z 32006KT CAVOK 44/11 Q1007 NOSIG ZGOW 011100Z 23004MPS 8000 FEW033CB SCT060 28/24 Q0999 RETS NOSIG ZHHH 011100Z 04002MPS 360V080 9999 FEW030TCU 28/24 Q1001 NOSIG K8D3 011056Z AUTO 00000KT 14/14 A3005 RMK AO1 SLP161 T01440139 UATT 011130Z 23004MPS 190V250 9999 VCTS SCT038CB BKN088 27/14 Q1012 R31/29//50 NOSIG RMK QFE739/0986 CMGB 011130Z AUTO 18003KT 18/14 RMK AO1 SLP202 T01810138 51012 CMFM 011100Z AUTO 22004KT 13/12 RMK AO1 SLP213 T01300122 53010 UAUU 011130Z 01005MPS 9999 BKN036CB BKN120 OVC200 23/16 Q1014 R33/CLRD70 TEMPO VRB15MPS 2000 TSRA SQ BKN010CB RMK QFE745/0993 OERF 011100Z 31004KT CAVOK 41/02 Q1004 SUDU 011000Z 25004KT 1500 BR 17/16 Q1011 OERK 011100Z 32008KT CAVOK 43/M01 Q1004 NOSIG OESH 011100Z 24010KT 8000 FEW040 42/14 Q1003 NOSIG OERR 011100Z 24006KT CAVOK 43/14 Q1004 NOSIG OETB 011100Z 33006KT CAVOK 38/02 Q1008 NOSIG OESK 011100Z 30010KT CAVOK 41/M04 Q1007 NOSIG YPTN 011130Z AUTO 12005KT 9999 // NCD 24/15 Q1014 UCFM 011130Z 01006MPS CAVOK 30/M04 Q1013 R26/CLRD70 NOSIG UCFO 011130Z 31002MPS 260V350 9999 FEW050CB 31/09 Q1009 R12/CLRD70 NOSIG OETF 011100Z 28022KT CAVOK 33/06 Q1015 NOSIG ZGSZ 011100Z 11006MPS 8000 TS SCT018 FEW020CB BKN040 31/22 Q0998 BECMG 1115 TSRA SCT020 SCT025CB BKN040 TKPK 011100Z 08014KT 9999 FEW017 28/23 Q1016 TKPN 011100Z 08012KT 9999 FEW020 28/23 Q1015 K7R3 010948Z 00000KT 10SM SKC 27/23 A2997 RMK DA014 K7R4 312050Z 13002KT 7SM SCT016 BKN250 30/26 A2999 OETR 011100Z 24006KT CAVOK 38/06 Q1008 SVAC 011100Z 110//KT 9999 FEW017 ///// Q1015 YREN 011130Z AUTO 25005KT //// // ////// 03/01 Q1026 OEWD 011100Z 05004KT CAVOK 43/15 Q1003 NOSIG YPWR 011130Z AUTO 17008KT 9999 // NCD 09/M01 Q1028 OEWJ 011100Z 26010KT CAVOK 34/27 Q1004 NOSIG YPXM 011100Z AUTO 13009KT 9999 // SCT016 BKN022 23/19 Q1014 SVBC 011200Z 00000KT 9999 FEW010 25/25 Q1013 SVBI 010900Z 02004KT 9999 SCT013 SCT070 23/22 Q1012 SVCB 011100Z 11003KT 9999 SCT010 25/// Q1012 SVBM 011100Z 09008KT 9999 SCT016 22/21 Q1016 MYGF 011100Z 00000KT 9999 FEW018 27/24 A2995 SVBS 010900Z /////KT 9999 SCT013 21/20 Q1016 HTAR 011100Z 12015KT 9999 SCT028 21/13 Q1023 K9D7 011135Z AUTO 03004KT 5SM BR CLR 13/12 A3009 RMK AO2 PWINO PNO SVCN 312100Z 00000KT 9999 SCT016 ///// Q1016 OEYN 011100Z 21014KT 9999 FEW040 39/21 Q1002 NOSIG K7W4 011135Z AUTO 00000KT 3SM SCT018 SCT049 OVC110 20/20 A3018 RMK AO1 P0001 T02040199 SVCR 011100Z /////KT 9999 FEW013 27/23 Q1012 SULS 011100Z 25010KT 1500 OVC003 16/16 Q1012 SVCU 011100Z 07008KT CAVOK 24/21 Q1014 HTDA 011000Z 14010KT 9999 BKN028 30/19 Q1018 NOSIG HTBU 011100Z 08008KT 9999 FEW022 FEW024CB 26/17 Q1019 K9F2 011024Z 09004KT 7SM SKC 26/20 A2995 SVCZ 010000Z /////KT 9999 SCT020 29/28 Q1009 SUMU 011100Z 26004KT 2000 BR BKN005 OVC015 16/16 Q1012 HTDO 011100Z 12010KT 9999 BKN027 26/11 Q1020 NOSIG YSBK 011130Z AUTO 31009KT 9999 // NCD 08/01 Q1015 YSCB 011130Z AUTO 35007KT 9999 // SCT048 02/M00 Q1014 TLPC 011000Z 08006KT 9999 SCT023 26/24 Q1014 TEMPO SHRA SVGD 011100Z 00000KT 9999 FEW020 22/21 Q//// SVGI 011100Z /////KT 9999 FEW010 24/23 Q1010 YRMD 011130Z AUTO 17007KT //// // ////// 16/M07 Q1019 TLPL 011100Z 07012KT 9999 BKN022 28/24 Q1013 TEMPO SHRA YSCN 011130Z AUTO 10006KT 9999 // NCD 06/01 Q1015 YSCO 011130Z AUTO 28012KT //// // ////// 10/M01 Q1019 YSCR 011130Z AUTO 10007KT //// // ////// 09/01 Q1025 SVGU 011100Z /////KT 9999 SCT017 25/24 Q1012 MZBZ 011100Z 00000KT 9999 SCT015 26/25 A2991 Q1012 NOSIG RML CBTOP-N YSDU 011130Z AUTO 27006KT 9999 // NCD 05/M01 Q1020 HRYR 011130Z 20005KT 9999 SCT025 28/12 Q1021 NOSIG SVJC 312300Z AUTO 00000KT 9999 FEW013 ///// Q1008 YROM 011130Z AUTO 21008KT 9999 // NCD 14/01 Q1019 YSGE 011130Z AUTO 20013KT //// // ////// 13/M07 Q1021 SVJM 011100Z /////KT CAVOK 19/18 Q1013 MYNN 011055Z 13004KT 9999 FEW014CB SCT016TCU 28/23 A2998 RMKS CB/NE/W TCU/S K9L2 011055Z AUTO 16005KT 10SM CLR 24/06 A2993 RMK AO2 SLP107 T02390061 $ SUSO 011100Z XXXXX 0200 FG SCT007 16/15 Q1012 TNCA 011100Z 09015KT 9999 FEW018 27/24 Q1011 A2985 NOSIG HTIR 011100Z 18006KT 9999 SCT021 25/10 Q1024 TNCB 011100Z 08013KT 050V110 9999 SCT016 27/24 Q1012 NOSIG HTKA 011100Z 24018KT 9999 FEW025 SCT300 27/15 Q1019 TNCC 011100Z 12011KT 9999 FEW016 27/24 Q1012 NOSIG TNCE 011100Z 07009KT 9999 +RA FEW017 28/23 Q1016 SVLF 311600Z 00000KT 9999 SCT030 XX/XX Q1012 DFFD 011100Z 24014KT 9999 FEW020 BKN130 30/24 Q1014 NOSIG YSHK 011130Z AUTO 19009KT //// // ////// 18/12 Q1020 ZJHK 011100Z 24002MPS 9999 FEW016 FEW030TCU 30/25 Q1000 NOSIG SVMC 011100Z /////KT 9999 SCT010 26/24 Q1009 NOSIG HTKJ 011100Z 00000KT 9999 BKN022 Q1020 HSSS 011130Z 20014KT 9999 SCT050 Q1012 SVMD 011100Z 07005KT CAVOK 18/13 Q1020 TNCM 011100Z 09009KT 060V120 9999 SCT017TCU 28/23 Q1016 A3000 NOSIG K8W2 011135Z AUTO 00000KT 5SM SCT055 OVC095 18/17 RMK AO1 T01770172 SVMG 011200Z /////KT 9999 FEW010 28/25 Q1013 NOSIG SVMI 011100Z 14002KT CAVOK 26/23 Q1011 NOSIG YSHT 011130Z AUTO 24008KT //// // ////// 04/02 Q1021 YSHW 011130Z AUTO 30007KT 9999 // NCD 07/02 Q1015 HTMB 011100Z 00000KT 9999 FEW025 23/11 Q//// SVMN 010600Z 02003KT 9999 FEW013 28/// Q1009 UEEE 011130Z 36003MPS 9999 SCT050CB BKN100 19/12 Q1003 TEMPO VRB14MPS -TSRA RMK QFE744 2309//60 HTMG 011100Z 00000KT 9999 SCT025 27/18 Q1019 SVMT 010900Z 00000KT CAVOK 25/25 Q1010 OIAA 011100Z 35008KT CAVOK 47/11 Q0997 K9MN 011132Z AUTO 26003KT 10SM CLR 17/11 A3007 RMK AO1 T01670111 YTAR 011130Z AUTO 19005KT //// // ////// 07/M02 Q1029 YRTI 011130Z AUTO 07009KT //// // ////// 15/07 Q1023 OIAG 011100Z 29006KT CAVOK 45/14 Q0997 OIAH 011100Z 28014KT CAVOK 42/10 Q1004 OIAI 011100Z 22006KT CAVOK 45/14 Q0998 SVPA 010900Z /////KT 9999 SCT013 SCT090 24/24 Q1015 OIBA 011100Z 32008KT 7000 SKC 36/29 Q0995 SVPC 312100Z 08010KT 9999 SCT040 29/XX Q1010 OIBB 011100Z 27010KT 5000 HZ SKC 37/25 Q0996 A2943 HTMT 011100Z 12010KT 9999 SCT025 30/18 Q1017 DGAA 011055Z 21011KT 9999 BKN014 25/23 Q1016 TEMPO 5000 -DZ/-RA BKN009 OVC015 HTMU 010900Z 00000KT 9999 FEW024 SCT300 27/13 Q1020 OIAM 011100Z 18010KT CAVOK 42/22 Q0996 HTMW 011100Z 28012KT 9999 FEW027 27/13 Q1017 NOSIG OIBJ 011000Z 21014KT CAVOK 38/19 Q1003 OIBK 011100Z 23008KT 6000 SKC 38/23 Q0996 SVPM 011100Z 00000KT 7000 DZ OVC015 XX/XX Q1015 OICC 011130Z 20004KT CAVOK 39/M02 Q1010 A2984 NOSIG OIBL 011100Z 22008KT 6000 SKC 37/28 Q0995 OIAW 011130Z 00000KT CAVOK 46/12 Q0996 YSMH 011130Z AUTO 00000KT 9000 // NCD 14/13 Q1017 YSMI 011130Z AUTO 22010KT //// // ////// 03/02 Q1017 OIBP 011100Z 30012KT 4000 SA SKC 40/25 Q0996 A2943 SVPR 011100Z 00000KT CAVOK ///// Q1014 OIBQ 011100Z 28006KT 8000 SKC 37/27 Q0997 OICI 011100Z 15004KT CAVOK 38/M08 Q1009 A2982 OIBS 011100Z 00000KT CAVOK 35/24 Q0996 OICJ 011050Z 18010KT CAVOK 35/05 Q1013 OICK 011125Z 29008KT CAVOK 40/00 Q1007 YTEE 011130Z AUTO 20011KT 9999 // NCD 17/M00 Q1022 OIBV 011100Z 30010KT 6000 SKC 37/25 Q0995 YSNF 011130Z 02012KT 7000 OVC004 18/17 Q1023 YTEF 011100Z AUTO 15008KT //// // ////// 22/02 Q1019 SVSA 011100Z /////KT 9999 FEW020 26/18 Q1012 OICS 011130Z 18008KT 9999 FEW040 39/M03 Q1009 YTEM 011130Z AUTO 26012KT //// // ////// 04/02 Q1020 CPBT 011000Z AUTO 30006KT 14/13 RMK AO1 T01390131 UDSG 011130Z 01005MPS 340V040 9999 FEW050 28/12 Q1013 R02/CLRD70 NOSIG YSNW 011130Z AUTO 28016KT 9999 // NCD 08/00 Q1013 SVSO 011100Z 00000KT 7000 +RA OVC013 18/18 Q1019 SVSR 011100Z /////KT 9999 FEW016 BKN100 24/// Q1013 SVST 011100Z 00000KT CAVOK ///// Q1016 CPEH 011000Z AUTO 27007KT 18/13 RMK AO1 T01770131 YTGM 011130Z AUTO 20008KT //// // ////// 11/M05 Q1024 OIFK 011100Z 09014KT CAVOK 39/09 Q1008 HTTB 011100Z 11008KT 9999 FEW025 28/12 Q1020 OIFM 011130Z 00000KT CAVOK 38/M01 Q1010 A2984 SVSZ 312100Z 09005KT 9999 SCT020 XX/XX Q1006 HTSO 011100Z 17004KT 9999 BKN022 25/13 Q1023 OIGG 011100Z 01008KT 9999 FEW080 30/22 Q1008 YTIB 011130Z AUTO 24008KT //// // ////// 09/M04 Q1025 SVVA 011100Z 20001KT 9000 HZ FEW016 22/21 Q1015 OIFS 011100Z 24010KT CAVOK 35/01 Q1016 OIGK 011051Z 11008KT CAVOK 27/12 Q1019 CPFI 011100Z AUTO 28010KT 17/13 RMK AO1 T01690129 K9V9 011135Z AUTO 00000KT 10SM SCT100 14/13 A3009 RMK AO2 T01440134 HTSU 011100Z 10006KT 9999 SCT022 22/07 Q1025 SVVG 011100Z 00000KT 9999 SCT020 25/25 Q1008 YSRI 011130Z AUTO 21004KT 170V280 9999 // NCD 09/01 Q1016 OIHH 011100Z 30012KT 9999 FEW040 36/02 Q1012 DFOO 011000Z 24010KT 9999 SCT010 BKN130 27/23 Q1015 SVVL 010600Z 20005KT 9999 SCT023 24/14 Q1015 YSRN 011130Z AUTO 05005KT 9999 // SCT120 02/00 Q1016 OIHM 011100Z 15012KT CAVOK 37/03 Q1013 OIIE 011130Z 13012KT CAVOK 37/M01 Q1008 OIII 011130Z 18006KT 9999 FEW040 35/00 Q1010 A2985 NOSIG OIIK 011100Z 12008KT CAVOK 35/06 Q1011 PAAD 011135Z AUTO 15007KT 10SM BKN042 OVC050 05/04 A2992 RMK AO2 YSTH 011130Z AUTO 21005KT //// // ////// 06/00 Q1012 OIIP 011100Z 14016KT 9999 FEW040 35/04 Q1011 OJAI 011100Z 29010KT 8000 NSC 35/05 Q1010 NOSIG OIIS 011100Z 00000KT 9999 FEW035 SCT100 36/08 Q1012 PABA 010701Z AUTO 11013KT 10SM -RA OVC070 06/04 A2999 RMK AO2 SLP155 P0001 T00560044 OIKB 011130Z 19008KT 4000 HZ NSC 37/27 Q0995 A2941 PAAK 011136Z 15012KT 10SM OVC021 11/08 A3017 RMK AO1 OJAM 011100Z 29012KT 6000 HZ NSC 33/07 Q1010 NOSIG YSSY 011130Z 28009KT CAVOK 10/00 Q1015 FM1130 MOD/SEV TURB BLW 5000FT ZJSY 011100Z 21003MPS 9999 SCT050 30/26 Q1001 NOSIG PABE 011141Z 24010KT 3SM -RA BR SCT005 OVC017 12/12 A3023 RMK AO2 P0003 PAAP 010251Z VRB03KT 10SM SCT180 16/12 A3024 RMK LAST NO SPECI OJAQ 011100Z 36010KT CAVOK 37/09 Q1005 NOSIG PAAQ 011053Z AUTO 00000KT 10SM OVC065 14/10 A3028 RMK AO2 SLP254 T01440100 TSNO PABI 011053Z AUTO 22007KT 10SM SCT075 OVC085 17/06 A3015 RMK AO2 SLP205 T01720061 TSNO CPIR 011000Z AUTO 31011KT 18/14 RMK AO1 PK WND 30018/0948 T01810139 50007 OIKK 011100Z 35008KT 9999 FEW040 38/01 Q1012 A2991 PABL 011136Z AUTO 13004KT 6SM OVC012 13/12 A3004 RMK AO1 YSTW 011130Z AUTO 29006KT 9999 // NCD 06/M02 Q1020 PACD 011053Z 00000KT 10SM FEW055 SCT150 OVC250 11/10 A3027 RMK AO2 SLP249 T01110100 PABN 010250Z 04008KT 20SM FEW050 SCT080 SCT120 18/04 A3027 RMK MAX 20.0 NOSPECI LAST OIKO 011050Z 20008KT 6000 SKC 40/26 Q0997 OIKQ 011100Z 15014KT 8000 SKC 41/23 Q0994 PABR 011142Z 24012KT 1/4SM R07/1800V2000FT FG VV002 07/06 A2985 RMK AO2 T00670061 HTZA 011100Z 21012KT 9999 SCT020 BKN080 28/22 Q1017 NOSIG OIMB 011100Z 09008KT CAVOK 35/M06 Q1012 PABT 011053Z 20004KT 5SM -DZ BR BKN035 BKN060 BKN085 12/11 A2999 RMK AO2 RAE40DZB53 SLP162 P0000 T01220111 OIMC 011100Z 36012KT CAVOK 35/M02 Q1011 YTMO 011130Z AUTO 17014KT //// // ////// 16/01 Q1023 OIMD 011100Z 06010KT CAVOK 34/M03 Q1007 PABV 011136Z AUTO 00000KT 10SM FEW044 OVC050 14/12 A3028 RMK AO1 PACM 011137Z AUTO 10SM SCT007 BKN015 OVC100 14/14 A3020 RMK AO2 TSNO $ YTNG 011130Z AUTO 11003KT 9999 // BKN095 13/06 Q1017 PADE 011132Z AUTO 30007KT 4SM BR SCT001 BKN009 OVC018 13/12 A3002 RMK AO2 T01280117 TSNO $ YSWG 011130Z AUTO 26010KT 9999 // NCD 04/02 Q1018 YSWH 011130Z AUTO 25012KT //// // ////// 04/02 Q1023 PADG 311800Z 15004G22KT 2SM -RA BR SCT003 OVC005 10/09 A3008 UDYZ 011130Z 20002MPS 160V230 9999 SKC 33/09 Q1008 R09/000070 NOSIG YTNK 011130Z AUTO 11014KT 9999 // SCT120 22/M03 Q1020 OINB 011100Z 36008KT 9999 FEW030TCU 29/23 Q1007 PADK 011136Z 00000KT 10SM OVC011 12/09 A3016 RMK AO1 PAEC 010247Z 00000KT 15SM SCT022 BKN035 16/10 A3025 RMK NOSPECI PADL 011136Z 00000KT 10SM FEW100 14/13 A3024 RMK AO1 PNO PACV 011140Z 00000KT 4SM R27/2000VP6000FT BCFG FEW002 FEW050 09/09 A3030 RMK AO2 BCFG T00890089 PADM 011120Z AUTO 21006KT 1SM BR OVC004 13/13 A3021 RMK AO2 PWINO TSNO $ PAED 011108Z AUTO 00000KT 10SM BKN034 12/10 A3028 RMK AO2 OIMM 011130Z 04008KT CAVOK 33/M08 Q1013 A2993 OIMN 011100Z 14004KT CAVOK 31/03 Q1014 OINE 011100Z 24010KT CAVOK 37/16 Q1006 OING 011100Z 15006KT 9999 FEW040 35/19 Q1008 PAEG 011053Z AUTO 00000KT 10SM BKN090 OVC110 12/07 A3005 RMK AO2 SLP175 T01170072 TSNO $ OIMQ 011100Z 15010KT CAVOK 34/M04 Q1010 PADQ 011121Z 27005KT 10SM FEW019 SCT028 11/11 A3029 RMK AO2 $ PACZ 011140Z AUTO 18002KT 1/4SM -RA FG VV003 10/10 A3021 RMK AO2 SLP230 PAEH 011055Z AUTO 00000KT 10SM BKN004 12/12 A3029 RMK AO2 SHRAB0952E1046 SLP258 P0002 T01220117 PAEI 011058Z AUTO VRB02KT 10SM -RA CLR 15/12 A3010 RMK AO2 CIG 080 RWY14 SLP195 P0000 T01500120 $ OIMS 311900Z 06014KT CAVOK 24/M01 Q1013 NSFA 011100Z 00000KT 9999 FEW022 SCT290 23/23 Q1014 PAFA 011053Z 20004KT 10SM BKN050 OVC080 17/11 A3008 RMK AO2 SLP189 T01670106 OINK 011050Z 32004KT CAVOK 37/18 Q1005 PAFB 011056Z AUTO 21005KT 10SM BKN060 OVC080 17/12 A3008 RMK SLP189 T01720122 $ VIA AUTODIAL PAEL 010245Z 30010KT 25SM SKC 15/11 A3027 RMK NOSPECI LAST PADU 011056Z 00000KT 1/2SM FG OVC003 09/08 A3030 RMK AO2 SLP265 T00890078 PAEM 011136Z AUTO 27011G15KT 2SM OVC003 13/11 A3013 RMK AO1 OINN 011100Z 04006KT 9999 FEW025TCU 29/20 Q1008 PAEN 011053Z AUTO 18009KT 10SM CLR 12/09 A3028 RMK AO2 SLP254 T01220089 TSNO PAFE 011136Z AUTO 07005KT 10SM CLR 08/07 A3027 RMK AO1 OINR 011100Z 03006KT 9999 FEW025TCU 29/22 Q1007 PAGA 011105Z AUTO 24007KT 10SM BKN007 OVC027 14/13 A3007 RMK AO2 CIG 005V011 PAFM 011136Z AUTO 00000KT 2SM OVC005 12/11 A3004 RMK AO1 OINZ 011100Z 02004KT 9999 FEW035 30/21 Q1008 PAGH 011123Z AUTO 00000KT 2 1/2SM -RA BR OVC008 13/13 A3002 RMK AO2 CIG 005V011 P0001 SYCJ 011100Z 18008KT 6000 SHRA FEW011CB BKN013 BKN080 23/22 Q1015 CB-N-NNE NOSIG PAFS 011137Z AUTO 23007KT 10SM -RA OVC029 14/13 A3016 RMK AO2 TSNO P0004 $ PAGK 011053Z AUTO 16005KT 10SM SCT060 OVC085 12/08 A3023 RMK AO2 SLP233 T01170083 TSNO $ PAGL 011136Z 32003KT 2SM OVC003 16/12 A3008 RMK AO1 PAHC 011116Z AUTO 00000KT 2 1/2SM BR SCT007 OVC011 13/12 A3016 RMK AO2 PWINO TSNO P0001 $ YTRE 011130Z AUTO 28008KT //// // NCD 13/M03 Q1016 PAGM 011136Z 1/2SM OVC002 11/11 A3016 RMK AO1 PAGN 011056Z AUTO 00000KT 10SM CLR 11/11 A3024 RMK AO2 TSNO T01110105 SLP244 $ PAGS 011022Z 00000KT 09/07 A3025 PAHL 011136Z AUTO 23004KT 10SM OVC004 13/11 A3002 RMK AO1 PAHN 011054Z AUTO 00000KT 10SM CLR 10/09 A3025 RMK AO2 SLP247 T01000094 TSNO PAHO 011053Z AUTO 00000KT 4SM HZ CLR 11/07 RMK SLPNO T01060072 TSNO $ VIA AUTODIAL PAGY 011053Z AUTO 04003KT 10SM CLR 10/08 A3027 RMK AO2 SLP249 T01000078 TSNO PAHP 011136Z 29013KT 9SM OVC003 11/M16 A3022 RMK AO1 PAIG 011056Z AUTO 00000KT 10SM CLR 12/11 A3026 RMK AO2 TSNO T01160105 SLP251 $ PAII 011136Z AUTO 16005KT 10SM OVC090 13/10 A3028 RMK AO1 OISA 011052Z 21004KT 9999 SCT040 35/01 Q1015 NTAA 011130Z VRB01KT 9999 FEW020 22/18 Q1014 NOSIG PAIK 011101Z AUTO 00000KT 10SM OVC019 13/13 A3004 RMK AO2 RAB1012E1022 SLP211 P0000 T01330128 PAIL 011053Z AUTO 29004KT 10SM CLR 11/10 A3029 RMK AO2 SLP257 T01110100 TSNO PAJC 011136Z AUTO FEW034 11/08 A3030 RMK AO1 PAIM 010955Z AUTO 27005KT 4SM BR FEW006 OVC021 12/11 A3005 RMK AO2 DZB0855E0923SHRAB0923E0934 SLP176 T01150106 PAIN 011136Z AUTO 00000KT 10SM OVC050 12/11 A3018 RMK AO1 OISF 011050Z 22004KT 9999 FEW040 41/06 Q1005 PAHX 011056Z AUTO 21009KT 9SM -RA OVC004 13/13 A3014 RMK AO2 RAE21B48 SLP209 P0000 T01330133 YTTI 011100Z AUTO 04008KT //// // ////// 25/24 Q1014 PAHY 011136Z AUTO 00000KT 10SM CLR 11/07 A3023 RMK AO1 YTST 011130Z AUTO 05003KT 9999 // NCD 23/16 Q1014 OISL 011100Z 26004KT CAVOK 44/12 Q1001 PAJN 011053Z 00000KT 10SM FEW140 09/08 A3025 RMK AO2 SLP243 T00890078 $ PAIW 011058Z AUTO 19007KT 8SM OVC035 13/12 A3006 RMK AO2 SLP179 T01330117 PNO $ DIAD 010800Z VRB02KT 8000 FEW013 BKN100 24/23 Q1016 NOSIG PAKF 011101Z AUTO 00000KT 10SM CLR 11/10 A3028 RMK AO2 SLP348 T01110100 $ CPRO 011100Z AUTO 36010KT 17/12 RMK AO1 PK WND 34018/1009 T01710124 PAKI 011056Z AUTO 25006KT 10SM FEW009 SCT044 OVC049 12/11 A3028 RMK AO2 TSNO T01160105 RAE08B24E53 P0000 SLP255 $ ZLLL 011100Z 35008MPS 9999 FEW030CB BKN046 28/05 Q1014 NOSIG OISS 011130Z 00000KT 9999 FEW040 39/02 Q1008 A2979 PAKK 011136Z AUTO 20004KT 3/4SM OVC002 12/11 A3001 RMK AO1 OKBK 011100Z 35006KT CAVOK 46/06 Q0997 NOSIG OITL 011130Z 06021KT 9999 FEW035 25/09 Q1014 OITM 011100Z 23006KT 9999 FEW035TCU 34/11 Q1010 SYGO 312200Z 34004KT 9999 SCT016 FEW017CB SCT100 28/24 Q1012 CB ALQDS NOSIG PAKN 011054Z 00000KT 10SM CLR SCT200 11/10 A3025 RMK AO2 SLP242 T01110100 OISY 011100Z 21006KT CAVOK 36/08 Q1014 PAKP 011136Z AUTO 00000KT 5SM BKN003 OVC013 09/07 A2996 RMK AO1 PALG 011116Z AUTO 00000KT 1 1/2SM -RA BR BKN004 OVC011 13/12 A3019 RMK AO2 TSNO P0003 $ PALH 011053Z 00000KT 10SM OVC034 15/11 A3029 RMK AO2 SLP257 T01500106 PAJZ 011056Z AUTO 14006KT 10SM SCT085 13/11 A3029 RMK AO2 TSNO T01330111 SLP243 $ YTWB 011130Z AUTO 23015KT 9999 // NCD 14/M01 Q1018 CPRY 011100Z AUTO 25006KT 13/12 RMK AO1 T01310120 DIAP 010930Z 25008KT 8000 SCT012 27/23 Q1016 NOSIG OITR 011130Z 02008KT 9999 FEW040TCU 32/12 Q1010 PALJ 010050Z 24010KT 40SM SCT060 BKN100 22/13 A3026 RMK 402500100 EST PASS OPEN NOSPECI PAKT 011053Z AUTO 31008KT 10SM CLR 13/11 A3021 RMK AO2 SLP228 T01330111 TSNO PAMB 011133Z AUTO 19003KT 3SM BR BKN003 12/12 A3020 RMK AO2 TSNO $ OITT 011130Z 19004KT 9999 FEW035TCU 35/10 Q1012 A2990 OITU 011050Z 15008KT 9999 FEW035TCU 29/15 Q1012 PAMC 011053Z VRB04KT 5SM -RA BR OVC044 14/12 A3016 RMK AO2 SLP215 P0003 T01390122 PAKU 010245Z 09009KT 10SM R06/P6000FT BKN090 07/06 A3000 CPST 011100Z AUTO 06005KT 15/11 RMK AO1 T01520108 PAKV 011128Z AUTO 20003KT 10SM SCT022 SCT050 OVC085 15/13 A3009 RMK AO1 T01500128 TSNO PAMD 011136Z 24003KT M1/4SM OVC001 09/09 A3031 RMK AO1 PAKW 011053Z AUTO 00000KT 1/4SM FG VV001 11/10 A3023 RMK SLP236 T01060100 TSNO $ VIA AUTODIAL CPSV 011100Z AUTO 09005KT 17/16 RMK AO1 T01710155 PALP 010147Z 11009KT 15SM VCSH BKN009 OVC120 10/06 A2997 RMK VCSH SW OITZ 011100Z 13017KT 9999 FEW035 33/03 Q1012 PAMH 011136Z 13007KT 070V250 10SM 16/11 A3009 RMK AO1 PANA 011139Z AUTO 24008KT 7SM -RA SCT004 BKN015 OVC032 12/11 A3022 RMK AO2 P0002 PAMK 011145Z AUTO 24012KT 1 1/2SM -RA BR SCT005 OVC012 13/13 A3009 RMK AO2 TSNO P0000 $ PANC 011053Z 20004KT 10SM SCT035 BKN120 BKN200 15/10 A3028 RMK AO2 SLP253 T01500100 PALU 011114Z AUTO 23028G32KT 3SM -SHRA BKN002 11/10 A2998 RMK AO2 PK WND 23033/1058 SLP151 PAMM 011136Z AUTO 00000KT 10SM CLR 12/09 A3022 RMK AO1 DIBU 010800Z 24004KT 6000 SCT005 OVC013 23/22 Q1015 TEMPO 4000 BR PAMO 011056Z AUTO 28009KT M1/4SM FG OVC002 13/13 A3020 RMK AO2 PWINO TSNO T01270127 SLP111 $ PAMR 011053Z 00000KT 10SM BKN035 BKN130 BKN200 13/09 A3028 RMK AO2 SLP254 T01330094 PANI 011136Z AUTO 24005KT 3SM OVC005 13/12 A3020 RMK AO1 UHBB 011100Z 19003MPS CAVOK 22/17 Q1000 NOSIG RMK QFE733/0978 36090060 DIDK 010800Z ///// 9999 OVC013 25/23 Q//// NOSIG DIDL 010800Z ///// 4000 DZ BKN006 OVC013 22/22 S1017 BECMG FROM 0830 8000 REDZ PANN 011053Z AUTO 24004KT 10SM OVC090 16/09 A3008 RMK AO2 SLP190 T01560094 TSNO PAMX 010259Z 00000KT 30SM FEW050 17/11 A3023 RMK MAX 24 LAST NOSPECI PAMY 011136Z AUTO 27011KT 10SM 11/06 A3026 RMK AO1 PAOH 011056Z AUTO 00000KT 10SM CLR 08/08 A3027 RMK AO2 TSNO T00770077 SLP250 $ PAPB 011053Z AUTO VRB03KT 10SM OVC065 13/10 A3032 RMK AO2 SLP253 T01330100 TSNO PANT 011053Z 32004KT 10SM CLR 16/15 A3020 RMK AO2 SLP227 T01560150 $ PANV 011136Z AUTO 21007KT 3SM BKN003 OVC010 13/12 A3012 RMK AO1 P0001 PAOM 011119Z 26010KT 5SM BR OVC002 11/11 A3006 RMK T01060106 VIA AISR PANW 011056Z AUTO 21007KT 10SM OVC080 14/11 A3026 RMK AO2 TSNO T01380105 SLP225 $ UGKO 011130Z 12007KT CAVOK 34/20 Q1004 R25/09//70 NOSIG PAOO 011056Z AUTO 28014KT 9SM -RA OVC060 12/11 A3027 RMK AO2 TSNO T01160105 RAB02 P0002 SLP252 $ PAPG 011136Z 00000KT 10SM CLR 08/07 A3023 RMK AO1 PAPH 011136Z AUTO 14006KT 10SM CLR 10/05 A3029 RMK AO1 PAOR 011053Z 00000KT 10SM SCT120 SCT220 08/07 A3014 RMK AO2 SLP206 T00830067 OIZB 011100Z 33019G29KT 6000 SKC 39/03 Q1000 PAOT 011106Z 30006KT 3/4SM R09/2400V4500FT BR VV003 12/12 A3001 RMK AO2 T01170117 DIGA 010800Z 28002KT 8000 OVC011 23/22 Q1016 NOSIG PAOU 011056Z AUTO 00000KT 10SM CLR 12/ A3029 RMK AO2 TSNO T0122 SLP259 $ PAPM 011140Z AUTO 10SM BKN008 OVC018 14/13 A3026 RMK AO2 TSNO $ CPXL 011100Z AUTO 20003KT 17/15 RMK AO1 T01680151 PAPN 011056Z AUTO 18007KT 10SM BKN090 13/09 A3029 RMK AO2 PWINO TSNO T01330094 SLP256 $ PAPO 011136Z AUTO 20010KT 10SM OVC011 09/09 A3002 RMK AO1 PAQH 011142Z AUTO 32005KT 5SM RA BR FEW003 BKN015 OVC022 12/12 A3026 RMK AO2 P0005 OIZH 011130Z 03010KT 7000 NSC 35/M03 Q1009 A2980 OIZI 011100Z 25006KT 6000 NSC 44/17 Q0999 OIZJ 011100Z 22008KT 6000 SKC 33/29 Q0995 PAPT 010057Z 13011KT 25SM FEW025SCT045BKN100 18/15 A3025 RMK NO SPECI PARC 011136Z AUTO 00000KT 10SM BKN075 12/08 A2985 RMK AO1 OIYY 011100Z 33004KT 9999 FEW040 39/M02 Q1010 PASA 011136Z 25015KT 10SM OVC005 12/11 A3014 RMK AO1 PAQT 011053Z AUTO 23006KT 10SM FEW030 OVC036 11/11 A2991 RMK RAB0954E14 SLP130 P0000 T01110106 TSNO VIA AUTODIAL PASC 011131Z 16005KT 4SM -RA BR BKN005 OVC016 08/07 A2989 RMK AO2 P0001 T00780067 PASD 011136Z AUTO 00000KT 10SM OVC055 12/12 A3030 RMK AO1 PNO YWCA 011130Z AUTO 19015KT //// // ////// 10/M01 Q1025 PASH 011136Z AUTO 00000KT 9SM OVC006 11/09 A3009 RMK AO1 PASI 011053Z 00000KT 10SM CLR 13/11 A3026 RMK AO2 SLP247 T01280111 YWBL 011130Z AUTO 21013KT //// // ////// 07/03 Q1022 OLBA 011100Z 25008KT 210V280 8000 SCT026 29/22 Q1008 PATA 011124Z AUTO 23004KT 5SM -RA BR OVC009 13/12 A3008 RMK AO2 CIG 005V012 P0000 T01280122 TSNO PARS 011136Z AUTO 00000KT 4SM BR FEW007 OVC020 13/13 A3017 RMK AO2 TSNO RAE32 P0001 $ PASK 011136Z AUTO 27005KT 10SM OVC004 13/12 A3003 RMK AO1 PATC 011055Z AUTO 22005KT 8SM OVC003 09/09 A3007 RMK AO2 SLP182 T00930089 PASL 011136Z AUTO 00000KT 10SM OVC055 13/07 A3025 RMK AO1 PASM 011136Z AUTO 25007KT 1/2SM OVC001 13/11 A3017 RMK AO1 PASN 011053Z 06004KT 10SM BKN055 12/12 A3033 RMK AO2 SLP270 T01170117 PATE 011111Z AUTO 28007KT 1/4SM FG OVC002 10/10 A3007 RMK AO2 PASO 011053Z AUTO 00000KT 10SM CLR 08/07 A3030 RMK AO2 SLP259 T00780072 TSNO $ YWBR 011200Z AUTO 14004KT //// // ////// 10/00 Q1025 PATG 011136Z AUTO 31003KT 10SM OVC080 14/14 A3023 RMK AO1 PARY 011143Z AUTO 23009KT 3SM BR SCT001 OVC031 12/ A3006 RMK AO2 TSNO $ MSV 011130Z AUTO 25018G28KT 9999 // SCT022 03/M01 Q1013 PATK 011053Z AUTO 00000KT 10SM OVC110 14/08 A3026 RMK AO2 SLP249 T01390083 TSNO PATL 011123Z AUTO 27007KT 10SM -SHRA BKN007 BKN034 12/12 A3018 RMK AO2 SLP217 $ PASV 311455Z AUTO 31004KT 10SM CLR 13/07 A3029 RMK AO2 SLP243 T01250070 52008 PASW 010251Z 00000KT 30SM SCT025 BKN045 19/12 A3026 RMK MAX 24 LAST NOSPECI PATO 011053Z AUTO 11004KT 10SM SCT038 OVC055 11/07 A3029 RMK AO2 SLP258 T01060072 TSNO PASX 011136Z AUTO 00000KT 10SM CLR 09/07 A3026 RMK AO1 UHHH 011130Z 21003MPS 9999 FEW033CB BKN100 BKN200 25/20 Q1004 NOSIG RMK QFE747/0996 23090060 PASY 011133Z AUTO 13012KT 1/2SM FG VV002 10/09 A2999 RMK AO2 TSNO $ PATQ 011056Z AUTO 25010KT 5SM BR OVC006 11/11 A2991 RMK AO2 TSNO T01050105 RAB29E39 P0000 SLP132 $ PAVA 011131Z AUTO 27014KT 2 1/2SM BR OVC003 11/11 A3025 RMK AO2 NSTU 011050Z 12016KT 2 1/2SM SHRA BKN012 OVC035 25/24 A2997 RMK SLP151 T02490237 402900228 PAVC 011056Z AUTO 00000KT 10SM 11/09 A3029 RMK AO2 TSNO T01050094 SLP257 $ PAVD 011136Z 00000KT 10SM OVC043 10/06 A3030 RMK AO1 PAUN 011136Z AUTO 26008KT 1 3/4SM SCT005 OVC012 13/12 A3008 RMK AO1 P0001 UIAA 011130Z 34002MPS 9999 FEW050 SCT100 19/07 Q1007 NOSIG RMK QFE697 29CLRD70 UGSB 011130Z 27007KT 9999 FEW030 29/24 Q1008 R13/CLRD70 NOSIG PAUT 011135Z AUTO 00000KT 1/4SM FG OVC001 08/08 A3029 RMK AO2 T00780078 PAVL 011111Z AUTO 31006KT 3SM BR OVC003 12/11 A3003 RMK AO2 T01170106 TSNO PAWD 011053Z AUTO 36003KT 10SM OVC060 12/11 A3029 RMK AO2 SLP256 T01220106 TSNO $ PAWG 011136Z AUTO 00000KT 10SM CLR 10/07 A3025 RMK AO1 PAWI 011053Z AUTO 23012KT 1/4SM FG VV002 08/07 A2989 RMK AO2 SLP120 T00780072 TSNO $ UIBB 011130Z 23002MPS 9999 SCT040CB BKN100 BKN200 16/09 Q1010 NOSIG RMK QFE715/0953 30CLRD60 UGTB 011130Z 15010KT 090V190 CAVOK 32/07 Q1012 R13R/CLRD80 NOSIG PAWM 011058Z AUTO 17005KT 1/4SM FG OVC001 12/12 A3006 RMK AO2 SLP192 P0001 T01170117 PAWN 011136Z AUTO 30003KT 10SM BKN012 BKN017 OVC025 11/09 A3002 RMK AO1 YWHA 011130Z AUTO 27007KT 9999 // NCD 06/04 Q1028 PAWS 011136Z AUTO 00000KT 10SM BKN046 OVC055 12/07 A3027 RMK AO1 PAYA 011053Z 00000KT 6SM BR CLR 08/07 A3027 RMK SLP250 VIS E 2 T00780072 $ VIA AUTODIAL ZLXY 011100Z 05004MPS 7000 NSC 33/19 Q1003 NOSIG UHMA 010600Z VRB02MPS 9999 FEW040 SCT200 25/15 Q1016 NOSIG RMK QFE758/1011 880///60 YWGT 011130Z AUTO 25014KT //// // ////// 05/02 Q1019 YVRD 011130Z AUTO 16004KT //// // ////// 25/03 Q1014 UHMD 010430Z 16008MPS 9999 SCT010 BKN017 13/11 Q1020 NOSIG RMK QBB510 MT OBSC QFE764/1018 PAZK 011136Z AUTO 25011KT 10SM SCT060 OVC070 08/07 A3026 RMK AO1 UHMM 011100Z 11004MPS 9999 OVC029CB 14/13 Q1011 RMK QFE743 YWIS 011130Z AUTO 05002KT //// // ////// 15/15 Q1018 OMAA 011100Z 33012KT CAVOK 41/16 Q0995 A2940 NOSIG OMAD 011100Z 33011KT 310V010 CAVOK 40/19 Q0996 A2941 NOSIG ZMUB 011130Z VRB01MPS 9999 FEW030CB FEW033 21/08 Q1009 NOSIG RMK QFE650.0 45 MOP OMAL 011100Z 30009KT 270V330 CAVOK 45/08 Q0997 A2947 NOSIG YWLG 011130Z AUTO 26006KT 9999 // NCD 08/M06 Q1022 TQPF 312100Z 10013KT 9999 SCT020 30/24 Q1015 YWLM 011130Z AUTO 28010KT 9999 // NCD 10/M03 Q1016 DITB 010800Z ///// 8000 OVC013 23/23 Q1015 NOSIG UHPP 011100Z 16002MPS 4500 -DZ BR BKN005 OVC011 13/11 Q1013 NOSIG RMK QBB160 QFE756/1009 SC 045 05 05 EBBE 011125Z 14004KT 9999 FEW044 SCT220 24/13 Q1010 BLU BLU DISP 010500Z VRBO02KT 8000 OVC011 23/22 Q1015 NOSIG OMDB 011100Z 33012KT 300V010 CAVOK 39/23 Q0996 NOSIG DISS 010800Z 30004KT 9999 SCT013 BKN100 24/23 Q1015 NOSIG EBBL 011125Z 20004KT 9999 FEW035 25/14 Q1011 BLU EBAW 011120Z 21005KT 140V290 CAVOK 25/13 Q1010 NOSIG UIII 011130Z VRB01MPS 9999 SCT050CB BKN100 OVC200 19/10 Q1010 NOSIG RMK QFE713/0951 30CLRD60 EBCI 011120Z 17005KT 120V240 9999 FEW047 24/13 Q1011 NOSIG EBBR 011120Z 20004KT 120V260 9999 SCT042 24/15 Q1011 NOSIG VAAH 011110Z 17006KT 6000 FEW015 SCT025 32/27 Q0997 NOSIG VABB 011110Z 21010G20KT 3000 HZ FEW012 SCT018 FEW025TCU BKN090 28/25 Q1001 NOSIG OMDW 011100Z 30012KT CAVOK 42/11 Q0997 NOSIG EBCV 011125Z AUTO 20004KT 9999 FEW035/// 25/15 Q1010 BLU UHSS 011100Z 19002MPS 9999 NSC 18/18 Q1008 RMK QFE754/1006 OMFJ 011100Z 09008KT 060V130 6000 NSC 35/25 Q0997 A2944 EBDT 011125Z 13003KT 9999 FEW039 SCT200 25/14 Q1010 BLU BLU EBFN 011125Z 32008KT 9999 FEW033 SCT043 BKN240 21/17 Q1010 BLU BLU EBFS 011125Z AUTO 22005KT 9999 SCT060/// BKN075/// 23/14 Q1011 BLU DIYO 010800Z 26010KT 8000 SCT003 OVC010 24/22 Q1017 NOSIG YWUD 011130Z AUTO 01003KT //// // ////// 02/01 Q1029 YWTN 011130Z AUTO 20006KT //// // ////// 16/M05 Q1020 UHWW 011130Z 06002MPS 9999 SKC 22/21 Q1007 NOSIG RMK QFE754/1006 25CLRD70 TRPG 011100Z 11017KT 9999 HZ SCT024 26/21 Q1016 EBLB 011125Z AUTO 18005G17KT 9999 FEW043/// SCT055/// 22/12 Q1013 BLU EBLG 011120Z VRB01KT 9999 SCT046 24/15 Q1011 NOSIG YWWL 011130Z AUTO 24016KT //// // ////// 05/02 Q1020 UKBB 011130Z 12004MPS 080V160 CAVOK 32/11 Q1014 88CLRD95 NOSIG YWYM 011130Z AUTO 21007KT //// // ////// 28/09 Q1013 CTNK 011100Z AUTO 00000KT 11/10 RMK AO1 SLP182 T01080098 53012 UKDD 011130Z 11006MPS 070V170 CAVOK 36/08 Q1012 08090070 NOSIG UKDE 011130Z 05006MPS 010V110 CAVOK 35/07 Q1011 02CLRD70 TEMPO 10007G12MPS YWYY 011130Z AUTO 24005KT 9999 // NCD 02/M00 Q1015 TTCP 011100Z 00000KT 9999 FEW010CB SCT012 BKN100 26/23 Q1014 NOSIG UIUU 011130Z 33005MPS 9999 BKN029CB BKN100 21/04 Q1008 NOSIG RMK QFE712/0950 26CLRD60 EBOS 011120Z 33005KT 290V010 9999 FEW032 21/15 Q1010 NOSIG UKDR 011130Z 11005MPS 060V150 CAVOK 33/11 Q1011 3609//70 NOSIG OMRK 011100Z 34013KT CAVOK 43/16 Q0995 A2940 CTRA 011100Z AUTO 02003KT 13/12 RMK AO1 SLP155 T01300116 51005 VANP 011110Z 26004KT 6000 FEW025 33/25 Q1000 RMK TEMPO 5000 HZ OMSJ 011100Z 33011KT 290V360 8000 NSC 40/22 Q0996 EDAC 011120Z 07006KT 010V140 CAVOK 26/10 Q1013 EDAH 011150Z 14005KT 100V180 CAVOK 26/11 Q1014 EDBC 011120Z 15007KT 110V180 CAVOK 25/12 Q1013 UKHH 011130Z 12006MPS 080V150 CAVOK 33/01 Q1015 070///65 NOSIG PFCL 011056Z AUTO 17003KT 10SM SCT095 14/12 A3025 RMK AO2 SLP247 T01440122 YYNG 011130Z AUTO 26008KT //// // ////// 04/03 Q1018 ULAA 011130Z 23003MPS 190V280 9999 BKN011CB OVC/// 26/18 Q1009 TEMPO 1000 TSRA BKN003CB RMK QFE755/1007 SC070 EDDB 011120Z 14007KT 110V170 CAVOK 26/12 Q1014 NOSIG EDDC 011120Z 08006KT 9999 BKN048 24/13 Q1013 NOSIG EDDE 011120Z VRB04KT 9999 SCT040 BKN300 24/10 Q1013 NOSIG EDDF 011120Z 11005KT CAVOK 25/14 Q1011 NOSIG EDDG 011120Z 18005KT CAVOK 26/14 Q1010 NOSIG EDDH 011120Z 18007KT 130V240 CAVOK 27/12 Q1012 NOSIG KAAA 011135Z AUTO 00000KT 7SM CLR 17/15 A3006 RMK AO2 LTG DSNT N T01680152 PFEL 011140Z AUTO 34003KT 10SM OVC029 13/12 A3004 RMK AO2 KC09 011135Z AUTO 00000KT 2 1/2SM VCTS BR CLR 17/17 A3009 RMK AO2 LTG DSNT NE AND NW T01670167 EDDK 011120Z 17007KT CAVOK 26/12 Q1011 NOSIG EDDL 011120Z 18004KT 110V220 CAVOK 27/13 Q1010 NOSIG EDDM 011120Z 07007KT 030V100 9999 SCT040 SCT250 23/17 Q1012 NOSIG KAAF 011053Z AUTO 00000KT 10SM CLR 19/18 A2997 RMK AO2 SLP149 T01940183 EDDN 011120Z 13005KT 090V240 9999 FEW045 BKN300 25/10 Q1013 NOSIG VCBI 011110Z 23005KT 190V260 9999 SCT012 BKN016 27/24 Q1008 NOSIG EDDP 011120Z 11006KT CAVOK 25/12 Q1013 NOSIG UKKK 011130Z 11004MPS 070V150 9999 SCT033 32/14 Q1014 08CLRD70 NOSIG EDDR 011120Z 12006KT 070V180 9999 FEW040 25/14 Q1011 NOSIG UKKM 011130Z 12003MPS 020V180 CAVOK 33/05 Q1014 15CLRD70 NOSIG EDDS 011120Z 07004KT 9999 FEW033 BKN300 23/16 Q1012 NOSIG EDDT 011120Z 14005KT 100V160 CAVOK 26/09 Q1014 NOSIG ZPPP 011100Z 03003MPS 9999 FEW009 FEW023TCU SCT023 BKN040 18/18 Q1015 RETS NOSIG EDDV 011120Z 19010KT 140V220 CAVOK 27/14 Q1011 NOSIG KABE 011051Z 03003KT 5SM BR OVC007 19/17 A3018 RMK AO2 SLP216 T01890167 EDFE 011120Z 14004KT 9999 SCT046 25/13 Q1011 EDDW 011120Z 17008KT 130V220 CAVOK 26/12 Q1011 NOSIG KAAO 011054Z AUTO 21006KT 10SM CLR 18/17 A3007 RMK AO2 SLP171 T01830172 UKLI 011100Z 09004MPS 010V150 CAVOK 30/15 Q1013 NOSIG KABH 011056Z AUTO 00000KT 10SM CLR 12/11 A3030 RMK AO2 SLP207 T01170106 PNO $ KABI 011052Z 31003KT 10SM CLR 18/17 A3009 RMK AO2 SLP166 T01830172 EDFH 011120Z 12008KT 070V160 9999 FEW040 23/14 Q1012 UKLL 011130Z 15003MPS 090V190 9999 SCT033 32/09 Q1013 13CLRD80 NOSIG KAAT 011055Z AUTO 20004KT 10SM CLR 14/07 A3014 RMK AO2 SLP157 T01390067 KACB 011134Z AUTO 00000KT 3SM BR CLR 11/10 A3004 RMK AO2 T01100103 KC29 011135Z AUTO 00000KT 10SM CLR 14/13 A3007 RMK AO1 T01360129 UKLN 011130Z 12003MPS 070V160 CAVOK 30/12 Q1012 1509//70 NOSIG EDFM 011120Z 11007KT 060V160 CAVOK 27/13 Q1011 UKLR 011130Z 11006MPS 070V150 9999 SCT033 33/08 Q1013 NOSIG KC35 011135Z AUTO 00000KT 7SM CLR 13/12 A3006 RMK AO2 T01280123 KABQ 011052Z 00000KT 10SM FEW110 SCT150 17/13 A3026 RMK AO2 SLP170 T01720128 KABR 011053Z AUTO 00000KT 6SM BR CLR 10/10 A3008 RMK AO2 SLP182 T01000100 UKLU 011130Z 17001MPS 9999 SCT043 29/18 Q1011 10090070 NOSIG KACJ 011135Z AUTO 03006KT 7SM OVC008 22/21 A3003 RMK AO2 KACK 011053Z 00000KT 10SM CLR 19/18 A3022 RMK AO2 SLP233 T01940183 KADC 011135Z AUTO 18003KT 3SM TSBR SCT060 SCT080 SCT100 16/15 A3006 RMK AO2 LTG DSNT SW KADF 011056Z AUTO 06003KT 8SM BKN027 OVC043 21/20 A3004 RMK AO2 T02050200 BKN V OVC SLP184 KADG 011142Z AUTO 21005KT 4SM BR FEW005 OVC110 17/16 A3011 RMK AO2 T01670156 KABY 011053Z 04005KT 9SM OVC006 23/22 A3000 RMK AO2 SLP156 T02330222 KACP 011135Z AUTO 00000KT 2SM +RA SCT014 BKN022 OVC050 23/22 A2995 RMK AO2 LTG DSNT NE THRU S T02300221 KACQ 011135Z AUTO 00000KT 10SM CLR 10/08 A3009 RMK AO2 KADH 011135Z AUTO 00000KT 1/4SM FG OVC014 17/17 A3008 RMK AO2 EDHI 011150Z 19006KT 140V220 CAVOK 26/12 Q1011 EDGS 011120Z 16005KT 100V230 9999 SCT035 22/14 Q1013 KACT 011051Z 34006KT 10SM OVC016 22/18 A3001 RMK AO2 SLP153 T02220183 EDHK 011120Z 15008KT 120V190 CAVOK 26/11 Q1012 EDHL 011120Z 16008KT 130V210 CAVOK 27/12 Q1013 RMK ATIS NOV KACV 011143Z AUTO 00000KT 2 1/2SM BR OVC002 13/12 A2997 RMK AO2 T01280117 KADM 011135Z AUTO 00000KT 10SM OVC020 20/19 A3006 RMK AO2 T01960191 KAEG 011135Z AUTO 35006KT 10SM CLR 14/12 A3030 RMK AO2 T01400123 KACY 011054Z AUTO 18004KT 9SM CLR 22/19 A3018 RMK AO2 SLP219 T02170194 TSNO $ KADS 011035Z AUTO 02006KT 10SM OVC009 21/20 A3003 RMK AO2 T02110204 KAEJ 011135Z AUTO 00000KT 10SM OVC037 11/10 A3042 RMK AO2 T01110099 EDJA 011120Z 05007KT 020V090 9999 FEW026 22/15 Q1013 DNAA 010900Z 22007KT 8000 BKN007 23/20 Q1018 NOSIG UKON 011130Z 12006MPS 070V160 9999 SCT033 35/08 Q1009 NOSIG KAEL 011133Z AUTO 00000KT 2 1/2SM BR CLR 14/13 A3008 RMK AO2 KADU 011135Z AUTO 00000KT 7SM CLR 14/13 A3010 RMK AO2 UKOO 011130Z 10004MPS 050V140 CAVOK 32/14 Q1009 16090065 NOSIG KADW 011058Z AUTO 17008KT 10SM FEW190 21/20 A3016 RMK AO2 SLP218 T02140198 $ CWAE 010100Z 23002KT 15SM SKC 29/06 A3008 RMK LAST OBS/NEXT 011300UTC WND ESTD SLP173 DENSITY ALT 4100FT KAFF 011058Z AUTO 01005KT 10SM CLR 10/10 A3033 RMK AO2 SLP213 T00980097 CWAF 011100Z AUTO 19003KT 12/11 RMK AO1 T01180110 KAFJ 011135Z AUTO 00000KT 2SM CLR 14/13 A3017 RMK AO1 CWAJ 011100Z AUTO 24002KT 19/18 RMK AO1 SLP186 T01890181 53012 CWBA 011100Z AUTO 18004KT 13/12 RMK AO1 T01260121 KAFK 011135Z AUTO 14008KT 10SM SCT065 18/16 A3005 RMK AO2 T01820161 DNAK 010500Z 00000KT 5000 TS BKN010 FEW020CB 22/22 Q1017 KAGC 011135Z 00000KT 4SM BR CLR 18/16 A3016 RMK AO2 TTPP 011100Z 00000KT 9999 FEW010CB SCT036 25/23 Q1013 NOSIG KAFN 011052Z AUTO 22003KT 4SM BR OVC006 17/17 A3022 RMK AO2 SLP237 T01720167 CWBE 011100Z AUTO 33003KT 15/13 RMK AO1 SLP174 T01490126 53011 KAEX 011124Z AUTO 36005KT 4SM -RA BR BKN006 OVC012 21/21 A2995 RMK AO2 LTG DSNT E AND SE TSE04 CIG 006V009 P0005 T02110206 KAFO 011135Z AUTO 17003KT 10SM CLR 09/06 A3030 RMK AO2 KC75 011135Z AUTO 00000KT 7SM SCT049 SCT070 SCT110 17/16 A3008 RMK AO2 T01720160 KAFP 011135Z AUTO 00000KT 5SM BR OVC009 21/20 A3006 RMK AO2 T02110203 CWAQ 011100Z AUTO 35014G20KT 18/15 RMK AO1 4PAST HR 1009 PK WND 35020/1056 SLP167 P0005 T01790149 50035 CWAR 011100Z AUTO 24007KT 18/18 RMK AO1 SLP265 T01820180 53009 PFKT 011058Z AUTO 28005KT 10SM OVC004 11/10 A3009 RMK AO2 SLP190 T01060100 CWCA 011100Z 00000KT 15SM BKN025 BKN070 13/11 A3006 RMK SC6AC2 SLP181 CWBK 011100Z AUTO 24004KT 17/13 RMK AO1 SLP236 T01690131 53010 PFKW 011109Z AUTO 24007KT 6SM RA BR BKN004 OVC026 12/12 A3022 RMK AO2 CIG 003V011 P0004 $ CWAV 011100Z AUTO 26003KT 12/11 RMK AO1 6002 SLP225 T01170106 50057 KAFW 011053Z 36008KT 10SM OVC009 21/19 A3002 RMK AO2 SLP155 T02060189 CWCF 011100Z AUTO 13003KT 12/08 RMK AO1 SLP172 T01210080 53001 CWBO 011100Z AUTO 02011G16KT 18/13 RMK AO1 PK WND 34020/1003 SLP179 T01810126 50005 CWCI 011100Z AUTO 30002KT 07/07 RMK AO1 SLP169 T00690066 53013 KAIA 011053Z AUTO 00000KT 10SM CLR 10/07 A3017 RMK AO2 SLP182 T01000067 KAGS 011139Z 35009KT 4SM BR OVC005 21/20 A3003 RMK AO2 T02110200 EDMA 011120Z 06006KT 350V120 9999 FEW036 BKN044 23/13 Q1013 RMK ATIS YAN CWDA 011100Z AUTO 17008KT 17/16 RMK AO1 SLP206 T01740157 56001 CWCJ 011100Z AUTO 04001KT 07/07 RMK AO1 3013 SLP169 T00700066 50002 CWBS 011100Z AUTO 19011KT 17/15 RMK AO1 T01700149 KAIB 011135Z AUTO 00000KT 10SM OVC100 17/11 A3028 RMK AO2 CWBT 010900Z AUTO 24003KT 16/16 RMK AO1 SLP185 T01560156 53008 KAID 311456Z 23005KT 10SM SKC 23/16 A3010 CWBU 011100Z AUTO 26005KT 14/13 RMK AO1 SLP172 T01440134 50001 CWCL 011100Z AUTO 00000KT 9SM 11/06 A3018 RMK SLP204 CWBV 011100Z AUTO 33007KT 17/ RMK AO1 SLP232 T0170 53004 KAHN 011138Z AUTO 06006KT 10SM SCT006 OVC027 19/18 A3008 RMK AO2 RAE09 P0000 EDLN 011150Z VRB04KT CAVOK 26/15 Q1010 RMK ATIS M CWCO 010700Z AUTO 20003KT 16/14 RMK AO1 SLP154 T01550139 58002 KAIG 011135Z AUTO 00000KT M1/4SM FG OVC002 11/11 A3006 RMK AO2 T01100110 EDLP 011120Z 15008KT 120V200 CAVOK 25/11 Q1012 RMK ATIS QUE CWBY 011100Z AUTO 19002KT 16/16 RMK AO1 SLP196 T01580158 53014 KAHQ 011135Z AUTO 00000KT 7SM CLR 16/15 A3005 RMK AO2 T01630147 UMBB 011130Z 05003MPS 7000 FEW040CB SCT100 27/17 Q1013 R11/290050 NOSIG CWBZ 011100Z AUTO 20003KT 17/14 RMK AO1 SLP192 T01690137 53008 KD07 011056Z AUTO 13009KT 17/12 A3006 RMK AO1 SLP164 T01670122 OOMS 011050Z 06012KT 7000 NSC 32/28 Q0997 NOSIG CWDJ 011100Z AUTO 11008KT 16/13 RMK AO1 SLP177 T01580132 58005 KAIK 011155Z AUTO 34008KT 10SM OVC003 20/20 A3008 RMK AO2 LTG DSNT SE PNO KBAB 011058Z AUTO 16003KT 10SM CLR 22/11 A2982 RMK AO2 SLP171 T02220109 $ CWEB 011100Z AUTO 30009KT 14/13 RMK AO1 SLP168 T01370131 57002 CWCT 011100Z AUTO 20003KT 13/12 RMK AO1 3PAST HR 3020 PK WND 27022/1026 SLP209 P0032 T01290124 50083 CWDK 011100Z AUTO 33006KT 14/13 RMK AO1 SLP214 T01430127 50006 KBAC 011135Z AUTO 00000KT 10SM SCT065 14/14 A3007 RMK AO2 KBAD 011131Z 08006KT 3SM BR OVC007 20/19 A2997 EDLV 011120Z 20006KT 160V240 CAVOK 27/16 Q1010 CWDM 011100Z AUTO 21004KT 15/15 RMK AO1 2PAST HR 3003 SLP196 P0001 T01480148 50002 PFNO 011124Z AUTO 25004KT 2SM BR OVC002 14/13 A3003 RMK AO2 EDLW 011120Z 21007KT 170V280 CAVOK 26/11 Q1011 RMK ATIS Q CWEE 011100Z AUTO 14/13 RMK AO1 SLP145 T01360134 53007 KBAF 011053Z 00000KT 5SM HZ OVC009 19/17 A3020 RMK AO2 CIG 006V011 SLP224 T01940167 KAIO 011135Z AUTO 00000KT 6SM BR OVC110 16/16 A3007 RMK AO2 EDMO 011120Z 07009KT 020V100 9999 SCT031 22/15 Q1013 CWEF 011100Z AUTO 19002KT 21/12 RMK AO1 SLP231 T02080123 53006 CWDO 011100Z AUTO 22010KT 21/18 RMK AO1 PK WND 23017/1000 SLP233 T02100183 53007 KAJG 011135Z AUTO 00000KT 7SM CLR 15/15 A3010 RMK AO2 CWDQ 011100Z AUTO 16003KT 15/14 RMK AO1 SLP190 T01520141 53011 CWEH 011100Z AUTO 06006KT 17/08 RMK AO1 SLP179 T01650079 55000 EEEI 011050Z 29013KT 9999 SCT046 23/15 Q1013 NOSIG KBAK 011045Z 00000KT 3SM BR SKC 14/14 A3012 KAIT 011134Z AUTO 00000KT 1/4SM HZ OVC001 12/09 A3005 RMK AO2 KBBB 011134Z AUTO 00000KT 2SM BR BKN001 13/12 A3006 RMK AO2 VIS 3/4V5 CWDT 011100Z AUTO 15002KT 13/13 RMK AO1 SLP177 T01310128 52005 CWEK 011100Z AUTO 15003KT 13/ RMK AO1 SLP223 T0130 56003 CWEL 011100Z AUTO 32016KT 21/12 RMK AO1 PK WND 31021/1000 SLP169 T02110122 51006 KBBD 011135Z AUTO 00000KT 10SM CLR 19/17 A3008 RMK NWWW 011130Z AUTO 11004KT 9999 NSC 19/15 Q1020 CWDV 011100Z AUTO 19001KT 08/07 RMK AO1 SLP179 T00790074 53009 CWFD 011128Z AUTO 02004KT 1/8SM OVC065 06/ A2993 RMK VSBY VRBL 0.1V2.0 KBAN 011052Z AUTO 00000KT CLR 09/05 A3031 RMK AO2 SLP170 T00890050 $ DNEN 010900Z 23006KT 8000 BKN009 25/24 Q1016 NOSIG KAJO 011056Z AUTO 27003KT 10SM CLR 19/17 A2992 RMK AO2 T01880172 SLP123 $ KBBF 011135Z AUTO 24010KT 6SM HZ SCT024 SCT029 SCT036 29/24 A2994 RMK A01 CWFF 011100Z AUTO 27005KT 17/15 RMK AO1 SLP182 T01680149 53004 ULLI 011130Z 31004MPS 290V350 9999 SCT046 BKN066 BKN200 26/15 Q1013 NOSIG KBBG 011135Z AUTO 00000KT M1/4SM FG OVC002 18/17 A3011 RMK AO2 KD25 011135Z AUTO 00000KT 7SM SCT002 09/09 A3005 RMK AO2 T00860086 CWEP 011100Z AUTO 21006KT 19/15 RMK AO1 SLP235 T01890150 53009 KAIZ 011135Z AUTO 00000KT 10SM CLR 16/14 A3009 RMK AO1 KAKH 011131Z AUTO 02008KT 350V060 5SM RA BR BKN006 OVC010 19/18 A3009 RMK AO2 CIG 004V008 P0009 T01890183 CWEQ 011100Z AUTO 23006KT 14/13 RMK AO1 SLP173 T01440133 56003 CWDZ 011100Z AUTO 02003KT 17/12 RMK AO1 SLP189 T01710123 51011 CWER 011100Z AUTO 23006KT RMK AO1 CWFJ 011100Z AUTO 23003KT 12/12 RMK AO1 T01200117 KALB 011051Z 20004KT 7SM SCT055CB BKN075 BKN100 BKN250 18/17 A3017 RMK AO2 SLP216 CB S-SW MOV NE T01830167 $ KBCB 011135Z AUTO 10003KT 10SM -RA SCT019 BKN043 OVC100 17/17 RMK AO2 LTG DSNT S P0001 CWGB 011100Z AUTO 27018KT 20/10 RMK AO1 PK WND 27023/1028 SLP168 T02000104 51004 CWEU 011100Z 00000KT 15SM -RA SCT070 OVC080 06/02 A2985 RMK AC3AS5 VIS 10 NNE SLP108 CWGD 011100Z AUTO 17004KT 16/14 RMK AO1 SLP177 T01640144 53013 KBCE 011053Z AUTO 28008KT 10SM CLR 09/08 A3036 RMK AO2 SLP165 T00890083 CWEW 011100Z AUTO 00000KT 15/14 RMK AO1 SLP204 T01480140 53011 KAKO 011053Z AUTO 26006KT 10SM CLR 14/13 A3022 RMK AO2 SLP183 T01440128 KBAX 011136Z AUTO 15003KT 4SM BR CLR 14/14 A3007 RMK AO2 T01390139 KBBP 011135Z AUTO 07005KT 10SM SCT023 BKN032 OVC040 23/23 A3005 RMK AO2 LTG DSNT SE EDOP 011120Z 13008KT 090V180 CAVOK 25/12 Q1013 EDNY 011120Z VRB02KT CAVOK 19/14 Q1012 RMK ATIS Q KBAZ 011051Z AUTO 04004KT 10SM OVC036 25/18 A2999 RMK AO2 SLP144 T02500178 KAKQ 011054Z AUTO 00000KT 4SM -RA BR BKN095 BKN120 21/19 A3016 RMK AO2 RAE01B18 SLP213 P0000 T02060189 TSNO KAJZ 011135Z AUTO 04006KT 10SM SCT080 BKN090 OVC120 20/11 A3020 RMK AO2 T01970106 CWFQ 011100Z AUTO 15005KT 16/14 RMK AO1 T01620142 CWEZ 011100Z AUTO 27002KT 17/11 RMK AO1 SLP168 T01670114 52006 KALI 011053Z AUTO 03004KT 7SM BKN013 OVC022 25/23 A2992 RMK AO2 SLP128 T02500233 KAKR 011054Z AUTO 00000KT 5SM BR CLR 16/14 A3013 RMK AO2 SLP196 T01560139 KAMA 011053Z AUTO 23006KT 10SM CLR 15/13 A3019 RMK AO2 SLP179 T01500128 ULMM 011130Z 25004MPS 9999 FEW030CB SCT080 22/11 Q1001 NOSIG RMK QFE744 31090070 KD39 011133Z AUTO 00000KT 7SM CLR 13/13 A3007 RMK AO2 T01340128 KBCK 011135Z AUTO 00000KT 4SM BR CLR 14/14 A3005 RMK AO2 T01350135 KALK 011056Z AUTO 14010KT 10SM OVC065 19/16 A3023 RMK AO2 SLP144 T01940161 TSNO CWGL 011100Z AUTO 19009KT 18/14 RMK AO1 SLP176 T01770135 53011 KALM 011135Z AUTO 28004KT 7SM -RA FEW027 BKN043 OVC049 18/18 A3020 RMK AO2 P0047 CWGM 011100Z AUTO 23004KT 09/08 RMK AO1 T00900082 KBDE 011053Z AUTO 00000KT 5SM BR FEW002 SCT070 12/12 A3004 RMK AO2 SLP172 T01220117 TSNO $ KBBW 011053Z AUTO 00000KT 9SM CLR 12/11 A3010 RMK AO2 SLP175 T01220111 KALN 011135Z AUTO 00000KT 5SM BR BKN090 16/16 A3009 RMK AO2 T01550155 KALO 011139Z 00000KT 1SM R12/1400V2000FT BR VV003 14/13 A3007 RMK AO2 T01390128 KAMG 011139Z AUTO 00000KT 4SM BR FEW018 SCT025 23/22 A2998 RMK AO2 T02330222 KBDG 011135Z AUTO 36004KT 10SM CLR 15/12 A3030 RMK AO1 T01490118 KBDH 011135Z AUTO 00000KT 5SM BR CLR 14/12 A3008 RMK AO2 NZAA 011130Z AUTO 03014KT 9999 BKN008/// BKN085/// 16/15 Q1026 TEMPO BKN006 OOSA 011050Z AUTO 16007KT 5000 26/23 Q1002 CWGR 012300Z AUTO 20009KT 21/16 RMK AO1 SLP202 T02050160 52008 CWHI 011000Z AUTO 34008KT 14/13 RMK AO1 T01410127 50017 ZSAM 011100Z VRB02MPS 9999 SCT050 FEW050TCU 33/24 Q0997 RETS NOSIG KALS 011052Z AUTO 00000KT 10SM CLR 11/09 A3037 RMK AO2 SLP212 T01060094 KBEA 011135Z AUTO 00000KT 10SM SCT029 SCT042 27/24 A2997 RMK AO2 T02650240 KD50 011135Z AUTO 06004KT 13/13 A3008 RMK AO2 KANB 011126Z AUTO 06005KT 9SM OVC010 21/19 A3005 RMK AO2 T02110189 KBCT 010250Z 18004KT 10SM SCT030 SCT036 26/24 A3000 RMK LAST DNIB 010500Z 20011KT 8000 BKN010 24/22 Q1015 CWGT 011100Z AUTO 29013KT 19/10 RMK AO1 SLP175 T01890103 53006 KBDL 011051Z 17003KT 6SM HZ BKN012 22/18 A3018 RMK AO2 SLP219 T02170183 CWHL 011100Z AUTO 30005KT 12/11 RMK AO1 SLP227 T01160112 57002 KAND 011123Z AUTO 05009KT 10SM -RA BKN008 BKN060 OVC110 19/18 A3009 RMK AO2 P0001 T01890178 KBED 011056Z 6SM BR SCT200 19/18 A3019 RMK AO2 SLP233 T01890183 CWID 011100Z AUTO 19001KT 01/M01 RMK AO1 SLP260 T00051013 58003 CWHM 011100Z AUTO 19005KT 15/14 RMK AO1 T01490144 KALW 011053Z AUTO 00000KT 10SM CLR 27/06 A2993 RMK AO2 SLP124 T02720061 EDQM 011120Z 04004KT CAVOK 22/09 Q1015 KANE 011134Z AUTO 00000KT 10SM CLR 17/16 A3005 RMK AO2 KBDN 011135Z AUTO 19007KT 10SM CLR 18/08 A3011 RMK AO2 KAMN 011135Z AUTO 00000KT 3SM BR CLR 16/15 A3007 RMK AO2 T01570151 CWGW 011100Z AUTO 00000KT 12/08 RMK AO1 SLP206 T01210082 51010 CWHN 010053Z AUTO 28005KT 200V310 9SM FEW041 FEW066 FEW078 FEW093 18/15 A3006 KALX 011135Z AUTO 07003KT 10SM OVC008 24/21 A3004 RMK AO2 T02420208 CWHO 011100Z AUTO 02007KT 13/10 RMK AO1 SLP182 T01280104 55003 CWGX 011100Z AUTO 17004KT 11/09 RMK AO1 SLP162 T01060091 56006 KD55 011135Z AUTO 00000KT 5SM BR CLR 10/09 A3008 RMK AO2 PFSH 011058Z AUTO 22010KT 6SM BR OVC003 13/13 A3004 RMK AO2 SLP186 T01280128 CWHP 011100Z AUTO 22010KT RMK AO1 52007 CWIG 011100Z AUTO 17008KT RMK AO1 CWGY 011100Z AUTO 25003KT 15/14 RMK AO1 SLP199 T01490139 53017 KBEH 011109Z AUTO 00000KT 2SM BR CLR 14/14 A3008 RMK AO2 T01440144 CWGZ 312000Z 26002KT 15SM -RA FEW002 SCT020 OVC050 04/03 A3000 RMK SF0SC2SC6 7.1/2.2/TR/0 LAST OB/NEXT 011200Z SLP162 KBDR 011052Z 26005KT 8SM CLR 23/21 A3018 RMK AO2 SLP219 T02280206 CWHQ 011100Z AUTO 00000KT 14/14 RMK AO1 T01390139 KD57 011135Z AUTO 07005KT 4SM BR CLR 11/11 A3004 RMK AO2 CWII 011100Z AUTO 13004KT 18/14 RMK AO1 T01810138 KANJ 011055Z AUTO 00000KT 9SM FEW080 SCT100 11/09 A3002 RMK AO2 SLP163 T01110094 OPKC 011125Z 24011KT 7000 FEW020 SCT100 35/24 Q0996 NOSIG CWIJ 011100Z AUTO 26010KT 04/01 RMK AO1 6003 SLP215 T00380011 50002 KD60 011135Z AUTO 08006KT 9SM SCT080 13/13 A3011 RMK AO2 KANK 011135Z AUTO 00000KT 10SM SCT014 OVC020 13/12 A3046 RMK AO1 T01260117 EDSB 011120Z 32006KT 280V020 CAVOK 26/15 Q1010 CWJB 011100Z AUTO 24001KT 15/14 RMK AO1 T01500144 CWIK 011100Z AUTO 16002KT 14/13 RMK AO1 SLP186 T01360129 56001 CWHT 011100Z AUTO 08001KT 04/03 RMK AO1 SLP251 T00420030 50002 KBDU 011135Z AUTO 00000KT 10SM CLR 16/07 A3025 RMK AO2 CWJC 011100Z AUTO 35016KT 12/10 RMK AO1 3009 PK WND 35020/1057 SLP180 T01180103 50003 ULOO 011130Z 29002MPS P6000 NSC 26/15 Q1014 NOSIG RMK QFE756 CWIL 011100Z AUTO 28012KT 02/ A2997 RMK SLP158 KBFD 011125Z AUTO 00000KT 2SM BR FEW003 12/12 A3020 RMK AO2 T01220117 DNIM 010500Z 23008KT 5000 RA BKN009 23/23 Q1016 CWJD 011100Z AUTO 22002KT 11/10 RMK AO1 SLP165 T01080098 53003 CWHV 011100Z AUTO 17002KT 10/10 RMK AO1 SLP219 T00960096 53013 UMGG 011130Z 11003MPS 9999 SCT043 BKN200 32/13 Q1016 R28/CLRD// NOSIG KAMW 011053Z AUTO 7SM CLR 13/13 A3008 RMK AO2 SLP178 T01330128 NZAP 011100Z 03009KT 15KM VCSH SCT019 12/11 Q1027 RMK ALT VATSIM USE ONLY KBFF 011053Z AUTO 00000KT 10SM CLR 13/10 A3018 RMK AO2 SLP177 T01280100 CXAF 011100Z AUTO 01007KT 13/12 RMK AO1 T01330115 CXAG 011100Z AUTO 36006KT 12/11 RMK AO1 T01160112 KANQ 011135Z AUTO 00000KT 1/2SM BKN001 14/14 A3010 RMK CWIP 011000Z AUTO 20005KT 16/ RMK AO1 T0156 TUPJ 010100Z 13008KT 9999 SCT021 SCT240 28/24 Q1016 RMK A3002 KAOH 011053Z AUTO 00000KT 6SM BR CLR 16/13 A3012 RMK AO2 SLP193 T01560133 CWJH 010500Z AUTO 07003KT 18/16 RMK AO1 3008 SLP168 T01750163 50037 KBFI 011053Z 00000KT 10SM CLR 19/10 A3003 RMK AO2 SLP168 T01940100 OPLA 011125Z 12005KT 5000 FU SCT040 35/25 Q0998 CWJI 011100Z AUTO 15006KT 18/13 RMK AO1 5020 SLP163 T01820128 50004 KAPA 011053Z 15004KT 10SM SCT085 13/12 A3028 RMK AO2 SLP202 T01330117 PHBK 011056Z AUTO 10005KT 10SM CLR 23/16 A2999 RMK AO2 SLP159 T02330156 TSNO $ EEKA 011050Z 26010KT 200V310 9999 FEW040 24/12 Q1014 CXBA 011100Z AUTO 04008KT 15/14 RMK AO1 PK WND 00021/1013 T01500137 CXAJ 011100Z AUTO 04007KT 12/12 RMK AO1 T01230118 CWIS 011100Z AUTO 21005KT 12/12 RMK AO1 SLP214 T01190117 53011 CXAK 011100Z AUTO 10006KT 15/14 RMK AO1 T01500135 50046 KAPC 011054Z AUTO 34003KT 10SM CLR 12/12 A2989 RMK AO2 SLP112 T01170117 KBFL 011054Z AUTO 12003KT 10SM CLR 28/12 A2985 RMK AO2 SLP100 T02780122 KBFM 011053Z 36003KT 10SM CLR 23/19 A2999 RMK AO2 SLP155 T02280194 KBGD 011051Z AUTO 24004KT 10SM CLR 17/13 A3017 RMK AO2 SLP180 T01720133 CWKD 011100Z AUTO 15005KT 14/12 RMK AO1 SLP166 T01350117 51006 KANW 011135Z AUTO 20004KT 1 1/4SM BR VV007 13/13 A3011 RMK AO2 T01330133 KBGE 011135Z AUTO 00000KT 10SM CLR 23/22 A2998 RMK AO2 CWIW 011100Z AUTO 19002KT 11/11 RMK AO1 SLP184 T01130109 55003 KAPF 011053Z 07004KT 10SM CLR 25/23 A2995 RMK AO2 LTG DSNT SW AND W SLP142 T02500228 KAOO 011144Z AUTO 00000KT 2SM BR CLR 16/15 A3020 RMK AO2 T01560150 EEKE 011050Z AUTO 24010KT 200V260 9999NDV NCD 24/15 Q1014 KBGF 011135Z AUTO 00000KT 6SM CLR 17/16 A3010 RMK DNJO 010900Z 25021KT 2400 BR BKN004 18/18 Q1019 NOSIG CWIX 011100Z AUTO 13013KT 16/14 RMK AO1 T01580135 CWJO 011100Z AUTO 10003KT 15/13 RMK AO1 SLP192 T01470128 53008 NZCH 011130Z AUTO 04007KT 010V080 9999 NCD 14/06 Q1007 NOSIG KAPG 011056Z 00000KT 6SM BR BKN080 OVC150 23/21 A3016 NZCI 011100Z 35011KT 30KM SKC 16/10 Q1023 RMK ALT NZNR VATSIM USE ONLY CWIY 011100Z AUTO 17002KT 15/14 RMK AO1 SLP221 T01450137 53012 CWKG 011100Z AUTO 00000KT 14/13 RMK AO1 SLP243 T01370132 52009 CWKH 011100Z AUTO 20/07 RMK AO1 SLP164 T02010067 53001 CWIZ 011100Z AUTO 15005KT 16/15 RMK AO1 T01610150 EDRZ 011120Z VRB02KT 9999 FEW038 24/16 Q1012 CWJR 011100Z AUTO 06004KT 17/06 RMK AO1 SLP170 T01740057 51010 CXBI 011100Z AUTO 22001KT 12/11 RMK AO1 SLP184 T01210114 53010 CXCA 011100Z AUTO 00000KT 11/10 RMK AO1 SLP166 T01090100 52015 KBHB 011135Z 00000KT 1/4SM OVC002 16/16 A3021 RMK AO1 CWKK 011100Z AUTO 07004KT 14/13 RMK AO1 SLP168 T01420132 53013 CXAT 011100Z AUTO 15015KT 13/10 RMK AO1 PK WND 14019/1057 SLP102 T01310095 56003 CWJT 011100Z AUTO 18001KT 13/13 RMK AO1 SLP192 T01250133 53012 CWLB 011100Z AUTO 04009KT 15/13 RMK AO1 2020 SLP227 T01540134 50002 CXBK 011100Z AUTO 10007KT 15/14 RMK AO1 SLP166 T01480137 58009 KBHC 011135Z AUTO 00000KT 5SM BR SCT016 SCT021 SCT070 24/23 A2998 RMK AO2 LTG DSNT E AND SE NZCM 010555Z 08022KT 9999 IC BKN120 OVC140 M33/M41 A2972 RMK PK WND 08031/2359 SLP071 EDTL 011120Z 34004KT 270V060 9999 FEW032 26/16 Q1010 CWJU 011100Z AUTO 32008KT 12/11 RMK AO1 SLP247 T01240111 57005 CWLC 011100Z AUTO 25004KT 12/ RMK AO1 T0117 KBGM 011053Z 00000KT 8SM CLR 17/14 A3019 RMK AO2 SLP216 T01670144 $ CXCD 011100Z AUTO 01002KT 11/08 RMK AO1 T01090084 CWJV 011100Z AUTO 11007KT 17/09 RMK AO1 SLP167 T01690093 53008 CWKM 011100Z AUTO 13005KT 06/ A2996 RMK SLP151 KAPN 011054Z AUTO 25003KT 10SM FEW070 13/12 A3003 RMK AO2 SLP168 T01330117 KBFW 011134Z AUTO 33003KT 10SM CLR 08/08 A3005 RMK AO2 DNKN 010200Z 24013KT CAVOK 26/22 Q1013 NOSIG CWJW 011100Z AUTO 06003KT 15/11 RMK AO1 SLP207 T01510114 51009 CWLE 011100Z AUTO 06002KT 14/13 RMK AO1 SLP182 T01350130 53003 UMII 011130Z 21004G07MPS CAVOK 31/16 Q1015 R23/CLRD// NOSIG VCRI 011110Z 25020KT 9999 SCT016 31/21 Q1006 NOSIG CXBO 011100Z AUTO 30002KT RMK AO1 CWJX 011100Z AUTO 30003KT 14/12 RMK AO1 SLP179 T01360116 53009 CWKO 011100Z AUTO 08003KT 16/14 RMK AO1 8015 SLP169 T01620144 50020 UNAA 011130Z 20003MPS 9999 SCT033CB OVC066 16/12 Q1015 NOSIG RMK QFE738 52090065 CWKP 011100Z AUTO 27016KT 01/ A2994 RMK SLP167 CXCH 011100Z AUTO 17/14 RMK AO1 T01730135 KBGR 011053Z 12003KT 1 1/2SM R15/2800V5000FT BR OVC002 17/16 A3020 RMK AO2 SLP223 T01720161 CXBR 011100Z AUTO 08003KT 13/10 RMK AO1 T01250101 CWLI 011100Z AUTO 12009KT 02/ A3000 RMK SLP171 KARA 011053Z 12004KT 8SM BKN070 26/23 A2997 RMK AO2 SLP147 T02560233 KARB 011053Z AUTO 00000KT 7SM FEW100 12/12 A3008 RMK AO2 SLP185 T01220117 KBHK 011051Z AUTO 12004KT 10SM CLR 13/09 A3005 RMK AO2 SLP153 T01280089 DNKT 312300Z 28004KT 8000 NSC 26/22 Q1017 CXDB 011100Z AUTO 30007KT 13/12 RMK AO1 T01290118 CXCK 012200Z AUTO 20005KT 20/01 RMK AO1 SLP251 T01960007 58011 NZDN 011100Z 36016KT 30KM BKN043 16/04 Q1000 RMK ALT VATSIM USE ONLY KBHM 011053Z 06006KT 10SM BKN150 21/18 A3005 RMK AO2 SLP169 T02060183 KBID 011135Z AUTO 24006KT 10SM CLR 22/18 A3021 RMK AO1 CWLM 011100Z AUTO 26002KT 13/10 RMK AO1 SLP173 T01320097 53003 KBIE 011135Z AUTO 16006KT 10SM CLR 18/15 A3002 RMK AO2 T01800150 EDVE 011150Z 12007KT 070V160 CAVOK 27/12 Q1012 CXBW 011000Z AUTO 29005KT 17/13 RMK AO1 T01740127 CXDE 011100Z AUTO 05/04 RMK AO1 SLP174 T00540035 56021 CWME 011100Z AUTO 18001KT 15/13 RMK AO1 SLP204 T01510132 56001 KBIF 011141Z 35008KT 10SM -RA FEW007 BKN009 BKN100 19/17 A3018 RMK AO2A CIG 009V012 BKN V SCT CWKW 011100Z AUTO ///// 11/ A3010 RMK SLP211 KAQO 011135Z AUTO 00000KT 10SM CLR 21/17 A3009 RMK AO2 PWINO OPNH 011100Z 13506KTS 6000M SCT035 SCT100 39/27 Q.0995 CWKX 011100Z AUTO 05003KT 03/02 RMK AO1 SLP280 T00310018 53003 KD95 011134Z AUTO 00000KT 3SM BR CLR 14/13 A3008 RMK AO2 T01390134 KAQP 011134Z AUTO 00000KT 5SM BR CLR 14/12 A3006 RMK AO2 KARG 011135Z AUTO 00000KT 3SM SCT034 21/18 A3007 RMK AO1 EDTY 011120Z 11006KT 070V180 9999 FEW048 24/11 Q1012 CXCP 011100Z AUTO 30007KT 13/11 RMK AO1 4PAST HR M P0002 T01290108 50004 CWLP 011100Z AUTO 27012KT 13/12 RMK AO1 SLP206 T01290118 56005 KBIH 011056Z AUTO 31006KT 9SM SCT120 18/07 A3009 RMK AO2 SLP134 T01830072 UNBB 011130Z 34003MPS 9999 SCT033 BKN200 21/09 Q1018 NOSIG RMK QFE741/0988 24CLRD66 KAQR 011135Z AUTO 00000KT 7SM OVC021 21/21 A3006 RMK AO2 OPMT 011056Z 36012KTS 0300 BLDU FEW040 SCT120 39/25 Q0997 TEMPO FEW030CB CXDI 011100Z AUTO 20001KT 12/12 RMK AO1 SLP183 T01230121 53011 KBIJ 011130Z AUTO 00000KT 5SM BR CLR 22/21 A2999 RMK AO2 CXCS 011100Z AUTO 02012KT 17/16 RMK AO1 T01690159 CXEA 011100Z AUTO 13001KT 09/09 RMK AO1 SLP179 T00930090 51007 CWMJ 011000Z AUTO 19003KT 12/12 RMK AO1 SLP177 T01220122 53010 CWLS 011100Z AUTO 18004KT 14/12 RMK AO1 SLP186 T01410115 53011 EDVK 011120Z 14008KT 090V170 CAVOK 25/12 Q1013 RMK ATIS P CXDK 011100Z AUTO 00000KT M00/00 RMK AO1 SLP249 T10030000 58002 KBJC 011135Z AUTO 00000KT 10SM CLR 15/09 A3028 RMK AO2 KBIL 011053Z 22008KT 10SM FEW090 SCT120 18/06 A3013 RMK AO2 SLP165 VIRGA T01830061 KE11 011135Z AUTO 10004KT 10SM CLR 19/16 A3016 RMK AO2 T01900156 CXEC 011100Z AUTO 13/ RMK AO1 T0134 CWNC 011100Z AUTO 00000KT 16/15 RMK AO1 SLP182 T01600146 53009 KASD 011053Z AUTO 00000KT 8SM OVC120 23/21 A2999 RMK AO2 SLP156 T02280206 KCAD 011135Z AUTO 00000KT 4SM BR CLR 11/11 A3006 RMK AO2 T01140113 KAQV 011145Z AUTO VRB03KT 1SM +RA BR OVC006 23/22 A2995 RMK AO2 RAB05 CIG 002V009 P0007 T02280217 KARM 011135Z AUTO 00000KT 10SM SCT016 SCT030 BKN120 23/23 A2998 RMK AO2 T02320226 CWND 011100Z AUTO 10014KT 06/03 RMK AO1 SLP117 T00550033 57016 DNMM 011100Z 22008KT 8000 SCT010 FEW019CB 26/25 Q1017 NOSIG CWMM 011100Z AUTO 00000KT 16/15 RMK AO1 SLP170 T01590151 51002 KASE 011053Z AUTO 34004KT 10SM FEW041 BKN055 OVC065 11/09 A3036 RMK AO2 SLP162 T01110089 KAQW 011052Z AUTO 11004KT 5SM BR FEW055 14/14 A3020 RMK AO2 SLP226 T01440139 KCAE 011115Z 31006KT 5SM HZ OVC006 23/21 A3003 RMK AO2 LTG DSNT N T02330206 DNMN 010500Z 17010KT 9999 SCT010 24/23 Q1013 CWNE 011100Z AUTO 24012KT 19/15 RMK AO1 PK WND 24018/1007 SLP222 T01860152 52010 CWLX 011100Z AUTO 23006KT 07/ A3004 RMK SLP185 KCAG 011053Z AUTO 07008KT 10SM BKN100 12/09 A3024 RMK AO2 LTG DSNT NW SLP177 T01220089 KASG 011048Z 00000KT 10SM OVC027 19/18 A3011 CXDP 011100Z AUTO 30004KT 11/11 RMK AO1 T01130109 CXEG 011100Z AUTO 12/12 RMK AO1 T01210121 CWLY 011100Z AUTO 00000KT 9SM CLR 20/12 A3006 RMK SLP175 DENSITY ALT 1300FT KASH 011051Z AUTO 00000KT 10SM CLR 16/16 A3021 RMK AO2 T01610155 SLP475 KE16 011135Z AUTO 00000KT 10SM CLR 15/12 A2992 RMK AO2 UMKK 011130Z 01004MPS 9999 SCT029 BKN200 25/13 Q1016 NOSIG RMK QFE761/1014 CWMQ 011100Z AUTO 22005KT 14/11 RMK AO1 SLP184 T01380111 53006 CWNH 011100Z AUTO 19004KT 16/14 RMK AO1 SLP199 T01570143 53008 ZSHC 011130Z 34004MPS 310V050 8000 SCT007 BKN030 26/23 Q0998 NOSIG KARR 011120Z AUTO 00000KT 2 1/2SM VCTS BR SCT055 BKN090 BKN110 16/14 A3009 RMK AO2 LTG DSNT SE-SW T01560139 KBJI 011130Z AUTO 00000KT 7SM CLR 14/13 A3005 RMK AO2 T01350129 PFWS 011056Z AUTO 19007KT 10SM CLR 12/09 A3028 RMK AO2 SLP259 T01170094 KBIS 011052Z 06006KT 10SM CLR 14/13 A3007 RMK AO2 SLP176 T01440128 $ VECC 011120Z 17008KT 3500 HZ SCT018 SCT025 FEW030CB BKN100 33/27 Q0997 TEMPO TL1130 1500 TSRA KBJJ 011107Z AUTO 00000KT 4SM BR CLR 13/12 A3015 RMK AO2 T01280117 TSNO KASJ 011135Z AUTO 36003KT 10SM CLR 21/19 A3013 RMK AO2 T02080189 KBKB 011124Z AUTO 00000KT 4SM -RA BR FEW008 SCT020 OVC060 23/22 A2993 RMK AO2 RAB19 P0000 T02330217 KCAK 011051Z 17003KT 5SM HZ FEW200 17/14 A3014 RMK AO2 SLP199 T01670139 KART 011056Z AUTO 00000KT 10SM SCT070 SCT095 BKN120 17/12 A3011 RMK AO2 SLP193 T01720122 CWNK 011100Z AUTO 32003KT 14/12 RMK AO1 T01420119 CWMT 011100Z AUTO 22007KT 08/03 RMK AO1 SLP237 T00760032 57008 CWOB 011100Z AUTO 25008KT 11/ A3006 RMK SLP209 KASL 011135Z AUTO 00000KT 3SM OVC005 20/19 A3000 RMK AO1 T02020190 CWNL 011100Z AUTO 02001KT 16/16 RMK AO1 SLP164 T01560155 53008 CWOC 011000Z AUTO 29002KT 15/14 RMK AO1 SLP205 T01460144 53009 KBIV 011053Z AUTO 18003KT 8SM CLR 16/14 A3007 RMK AO2 SLP178 T01610144 KBKD 011135Z AUTO 00000KT 5SM BR CLR 20/18 A3006 RMK AO2 T01950180 KARV 011130Z AUTO 00000KT 1/4SM HZ VV002 11/08 A3006 RMK AO2 T01100077 CWOD 011100Z AUTO 16007KT 15/14 RMK AO1 3PAST HR 3009 SLP147 P0001 T01520143 50003 CWNM 011100Z AUTO 00000KT 15/11 RMK AO1 SLP169 T01470106 51011 ZSFZ 011100Z 22006MPS 9000 NSC 31/25 Q0996 NOSIG KBKE 011053Z AUTO 00000KT 10SM CLR 11/ A3012 RMK AO2 SLP186 T0111 TSNO $ KARW 011135Z AUTO 36003KT 1/2SM FG OVC002 23/23 A2999 RMK AO2 LTG DSNT E AND SE KASN 011135Z AUTO 07005KT 7SM SCT015 23/21 A3005 RMK AO2 T02270212 KCBE 011140Z AUTO 02003KT 7SM CLR 16/15 A3022 RMK AO1 CWOE 011100Z AUTO 33007KT 17/12 RMK AO1 SLP187 T01720116 53016 CXDW 011100Z AUTO 26006KT 15/13 RMK AO1 T01450131 KCAO 011055Z AUTO 24003KT 10SM OVC050 18/13 A3026 RMK AO2 SLP191 T01780128 KCBF 011135Z AUTO 12007KT 10SM BKN065 BKN095 18/17 A3005 RMK AO2 KBIX 011058Z AUTO 04005KT 10SM OVC120 23/19 A2998 RMK AO2 SLP155 T02330194 KBKF 011058Z 18006KT 10SM SCT220 14/12 A3028 RMK AO2A SLP192 T01380118 KCBG 011135Z AUTO 00000KT 4SM HZ CLR 16/12 A3003 RMK AO2 CWNP 011100Z AUTO 07001KT 15/08 RMK AO1 SLP174 T01470077 51012 CWNQ 012300Z AUTO 23006KT 18/14 RMK AO1 3010 SLP166 T01780137 50227 CWMZ 011100Z AUTO 23012KT 17/15 RMK AO1 SLP168 T01740149 53011 KCAR 011135Z AUTO 18006KT 3/4SM BR OVC002 14/14 A3019 RMK AO2 T01440139 KCCA 011135Z AUTO 00000KT 3SM BR SCT043 OVC050 19/19 A3008 RMK AO2 KAST 011055Z AUTO 17005KT 10SM OVC007 14/12 A3007 RMK AO2 SLP183 T01390122 KCBK 011135Z AUTO 29007KT 10SM CLR 15/13 A3016 RMK AO2 CXET 011100Z AUTO 14004KT 13/12 RMK AO1 SLP180 T01330121 53010 KBKL 011053Z 16003KT 10SM BKN110 19/14 A3010 RMK AO2 SLP189 T01940144 KATL 011052Z 06011KT 9SM OVC006 20/18 A3007 RMK AO2 SLP174 CIG 005V007 T02000183 EFET 011120Z AUTO 23010KT 190V260 9999 FEW048 SCT234 19/08 Q1002 VECO 010930Z 18004KT 6000 FEW025 SCT030 33/28 Q0998 CWPC 011100Z AUTO 20010KT 20/16 RMK AO1 SLP192 T02040157 53007 KCAV 011135Z AUTO 00000KT 10SM FEW065 13/13 A3008 RMK AO2 KCBM 011058Z AUTO 36002KT 10SM SCT140 20/19 A3003 RMK AO2 SLP170 T01950190 $ UMMG 011130Z 35004MPS 9000 SCT010 BKN066 22/19 Q1014 R35/CLRD// NOSIG CXFM 011100Z AUTO 30006KT 16/14 RMK AO1 T01600141 CWPD 011100Z AUTO 17005KT 12/12 RMK AO1 SLP180 T01230116 53009 KBKN 011135Z AUTO 00000KT 1/2SM FG OVC001 17/17 A3008 RMK AO2 KASW 011135Z AUTO 00000KT 5SM BR CLR 15/15 A3011 RMK AO2 CWPE 011100Z AUTO 10004KT 14/14 RMK AO1 SLP235 T01440144 53011 KASX 011053Z AUTO 24003KT 6SM BR CLR 09/09 A3003 RMK AO2 SLP171 T00940089 KBLF 011144Z AUTO 13007KT 10SM OVC009 18/15 A3021 RMK AO2 CIG 008V014 T01830150 KAUG 011053Z AUTO 00000KT 1/4SM FG VV002 16/16 A3020 RMK AO2 SLP225 T01560156 CWPF 011145Z AUTO 00000KT 15/11 RMK AO1 T01470113 KATP 011135Z AUTO 11004KT 8SM FEW033 28/21 A2998 RMK A01 KBLH 011052Z AUTO A2981 RMK AO2 SLPNO PWINO $ KAUH 011135Z AUTO 36004KT 4SM BR CLR 15/15 A3007 RMK AO2 T01480148 PHHI 011058Z AUTO VRB03KT 10SM CLR 23/19 A3001 RMK AO2 SLP150 T02310192 $ NZGS 011100Z 35006KT 35KM SKC 14/09 Q1026 RMK ALT VATSIM USE ONLY CWNZ 011100Z AUTO 29003KT 10/10 RMK AO1 SLP164 T01030096 53017 CXGH 011100Z AUTO 24003KT 15/13 RMK AO1 T01540126 KBLI 011053Z AUTO 18003KT 10SM CLR 14/12 A3004 RMK AO2 SLP176 T01440122 OPPS 011000Z NE-18KT 5000 HZ FEW035TCU SCT040 BKN100 34/25 Q999.2 NZHK 011100Z 07009KT 10KM SHRA BKN041 12/11 Q1016 RMK ALT VATSIM USE ONLY ULWC 011130Z 25003MPS 9999 SCT026CB OVC/// 23/18 Q1015 TEMPO VRB014MPS 2000 TSRA RMK QFE751/1002 SC060 CXFR 011100Z AUTO 04007KT 11/10 RMK AO1 T01100096 KATS 011135Z AUTO 03003KT 10SM BKN065 OVC075 19/19 A3018 RMK AO2 KBKS 011135Z AUTO 12003KT 5SM CLR 18/ A2991 RMK AO1 T0175 KE38 011135Z AUTO 01003KT 10SM OVC050 19/15 A3025 RMK AO2 LTG DSNT S AND SW T01920154 KCDA 011135Z AUTO RMK AO2 PWINO UMMM 011130Z 31003MPS 9999 BKN033CB BKN100 29/14 Q1015 R30/CLRD60 NOSIG RMK QFE741 CXHA 011100Z AUTO 19002KT 17/15 RMK AO1 SLP178 T01680154 53011 EFHA 011120Z AUTO 19009KT 130V240 CAVOK 24/11 Q1010 KATT 011051Z AUTO 35005KT 10SM OVC050 23/18 A3002 RMK AO2 SLP149 T02330183 PFYU 011056Z 23006KT 10SM BKN040 OVC045 14/11 A2995 RMK AO1 KBKT 011135Z AUTO 04003KT 3SM BKN095 OVC120 21/20 A3018 RMK AO1 T02050201 UNEE 011130Z 29002MPS 9999 -SHRA SCT033CB OVC066 17/14 Q1016 NOSIG RMK QFE739 23CLRD60 CWPK 011100Z AUTO 22003KT 14/12 RMK AO1 SLP170 T01390122 53012 KCDC 011053Z AUTO 05005KT 10SM CLR 13/11 A3021 RMK AO2 SLP158 T01330111 KBMC 011135Z AUTO 29005KT 10SM CLR 17/12 A3015 RMK AO1 T01700118 KAVC 011135Z AUTO 02004KT 5SM BR BKN110 21/21 A3021 RMK AO2 LTG DSNT S NZHN 011100Z 35007KT 35KM SCT013 15/14 Q1027 RMK ALT NZTG VATSIM USE ONLY KBKV 011053Z 00000KT 10SM CLR 22/21 A2998 RMK AO2 SLP151 T02170206 KBLM 011135Z AUTO 23004KT 10SM CLR 22/18 A3018 RMK AO1 KCDD 011133Z AUTO 00000KT 4SM BR CLR 07/07 A3007 RMK AO2 KAUM 011135Z AUTO 00000KT 7SM CLR 12/11 A3008 RMK AO2 CXHD 011100Z AUTO 30006KT 13/12 RMK AO1 T01280122 KBKW 011051Z AUTO 13007KT 10SM FEW085 18/14 A3019 RMK AO2 SLP190 T01780144 TSNO KATW 011045Z 00000KT 10SM BKN120 16/14 A3003 KAUN 011135Z AUTO 09009KT 10SM CLR 26/08 A2990 RMK AO1 EDXW 011120Z 18011KT CAVOK 25/13 Q1011 RMK ATIS HOT KAUO 011135Z 06007KT 9SM OVC006 20/18 A3006 RMK AO1 KCCO 011135Z AUTO 08005KT 3SM BR OVC003 20/20 A3006 RMK AO2 T02020202 DNPO 011100Z 24006KT 9999 BKN010 FEW022CB 26/23 Q1016 NOSIG CXHF 011100Z AUTO 14/14 RMK AO1 T01390135 CWPO 011100Z AUTO 24003KT 12/12 RMK AO1 SLP191 T01150118 50003 KBMG 011107Z 00000KT 5SM BR CLR 14/14 A3011 RMK AO2 T01440139 KATY 011053Z AUTO 00000KT 9SM CLR 13/12 A3009 RMK AO2 SLP183 T01280117 EFHF 011120Z 20013KT 170V260 CAVOK 25/14 Q1012 CWOY 011100Z AUTO 19006KT 16/13 RMK AO1 SLP183 T01560134 55001 UMMS 011130Z 19004G08MPS 150V250 CAVOK 32/09 Q1014 R13/CLRD// NOSIG KCDH 011135Z AUTO 00000KT 1 3/4SM -RA SCT002 BKN014 OVC021 19/18 A3004 RMK AO2 NZHS 011100Z 35011KT 30KM SKC 16/10 Q1023 RMK ALT NZNR VATSIM USE ONLY CWQH 011100Z AUTO 07002KT 13/12 RMK AO1 T01270115 KCCR 011053Z 00000KT 9SM CLR 16/14 A2987 RMK AO2 SLP101 T01610139 KBMI 011056Z 18004KT 10SM CLR 18/15 A3010 RMK AO2 T01770150 SLP183 NZHT 011100Z 05015KT 20KM SCT003 13/12 Q1012 RMK ALT VATSIM USE ONLY CWPR 011100Z AUTO 35002KT 11/05 RMK AO1 SLP190 T01140047 51010 KBNA 011053Z 15003KT 7SM FEW065 SCT200 17/16 A3008 RMK AO2 SLP181 T01720161 KAUS 011053Z 01008KT 10SM OVC046 24/18 A3000 RMK AO2 SLP145 T02390183 KCDJ 011052Z AUTO 00000KT 19/17 A3009 RMK AO1 SLP178 T01890167 CWPS 011100Z AUTO 21/17 RMK AO1 SLP182 T02050171 53012 CWRA 011100Z AUTO 24013KT 18/ RMK AO1 PK WND 22018/1012 SLP271 T0184 53002 KAVK 011135Z AUTO 23005KT 10SM BKN035 16/15 A3010 RMK AO2 CWQK 011100Z AUTO 25015KT 10/10 RMK AO1 PK WND 25020/1008 SLP172 T00950103 53006 CXIB 011100Z AUTO 08001KT 20/13 RMK AO1 SLP237 T01950132 53011 KBML 011052Z AUTO 00000KT M1/4SM FG VV002 11/11 A3022 RMK AO2 SLP234 T01110111 KCEC 011056Z AUTO 00000KT 3/4SM BR VV002 13/13 A2998 RMK AO2 SLP153 T01280128 EFHK 011120Z 23016KT 190V260 CAVOK 23/12 Q1012 NOSIG KBLU 011052Z AUTO 05003KT 10SM BKN110 22/03 A3021 RMK AO2 SLP114 T02220033 KAVL 011108Z 04003KT 3SM BKN009 BKN018 OVC070 17/16 A3016 RMK AO2 SFC VIS 10 CIG 005V009 T01720161 KCCU 011136Z AUTO 19011KT 10SM CLR 08/02 A3062 RMK AO2 EEPU 011050Z 22013KT 9999 SCT022 25/15 Q1014 OPRN 011100Z 23006KT 6000 FEW040 31/23 Q1002.0/29.59 KBLV 011123Z 07002KT M1/4SM R14L/1400FT FG BKN000 16/16 A3008 RMK AO2A VIS M1/4V1/2 CXHM 011100Z AUTO 00000KT 15/14 RMK AO1 SLP175 T01460138 53010 KCDN 011135Z AUTO 00000KT 3SM BR OVC004 22/22 A3006 RMK AO2 TSNO PGRO 010950Z 17003KT 7SM FEW025 BKN100 27/25 A2986 RMK LAST KAUW 011054Z AUTO 00000KT 4SM BR CLR 14/13 A3002 RMK AO2 SLP168 T01390133 KCEF 011058Z 22003KT 6SM BR BKN011 OVC014 20/19 A3019 RMK AO2A SLP228 T02010186 CWQO 011100Z AUTO 20009KT 12/ RMK AO1 T0117 CWPX 011100Z AUTO 27008KT 03/ A2997 RMK SLP166 CWRF 011100Z AUTO ///// 13/ A2984 RMK SLP121 PHJH 010345Z 06017G23KT 12SM FEW025 FEW100 27/19 A2995 RMK LAST KAVP 011054Z AUTO 00000KT 7SM CLR 17/15 A3018 RMK AO2 SLP212 T01720150 TSNO KCCY 011135Z AUTO 00000KT M1/4SM FG VV000 14/13 A3008 RMK AO2 KAWG 011135Z AUTO 00000KT 4SM BR BKN060 BKN080 OVC090 16/16 A3007 RMK AO2 CWQP 012300Z AUTO 20010KT 18/16 RMK AO1 SLP171 T01840155 CXHP 011100Z AUTO 04002KT 13/12 RMK AO1 T01260115 KBMQ 011053Z AUTO 00000KT 10SM FEW070 21/17 A3006 RMK AO2 SLP162 T02060172 CWPZ 011100Z AUTO 00000KT 02/01 RMK AO1 SLP235 T00240012 51006 CWRH 011100Z AUTO ///// 08/ A3012 RMK SLP224 KCDR 011053Z AUTO 23004KT 10SM CLR 12/07 A3013 RMK AO2 SLP183 T01170072 OPSK 011100Z 23010KTS 6000 HZ SCT040 SCT100 43/29 QNH.994 RH.45 PC CXHR 011100Z AUTO 34007KT 14/12 RMK AO1 T01440115 CWQR 011100Z AUTO 26007KT 15/ RMK AO1 T0153 KCDS 011053Z AUTO 02003KT 10SM CLR 19/17 A3012 RMK AO2 SLP177 T01940172 KAXA 011135Z AUTO 23004KT 8SM CLR 15/14 A3009 RMK AO2 CWQS 011100Z AUTO 35009KT 14/ RMK AO1 SLP239 T0140 58002 CWRJ 011100Z AUTO 08002KT 14/13 RMK AO1 SLP179 T01390130 53003 CWSA 011136Z AUTO 18013KT 6SM BR FEW120 23/22 A3025 RMK SLP244 DENSITY ALT 500FT EGAA 011120Z 15005KT 120V200 9999 FEW019 SCT025 17/13 Q1004 KBMT 011135Z AUTO 00000KT 10SM SCT014 OVC020 24/24 A2995 RMK AO2 LTG DSNT SE T02410237 CYAB 312100Z 12018KT 25SM FEW020 SCT080 OVC110 14/09 A2990 RMK SC1AC2AS5 SLP127 CWRK 011100Z AUTO 00000KT 11/11 RMK AO1 SLP189 T01110111 53012 KBNL 011135Z AUTO 32004KT 1 1/4SM BR OVC001 23/22 A3003 RMK AO2 LTG DSNT E AND SE EGAC 011120Z 21005KT 130V250 9999 -SHRA FEW018 SCT030 17/12 Q1004 UMOO 011100Z 19004MPS 9999 FEW033 BKN/// 31/12 Q1015 R13/CLRD// NOSIG KAWM 011053Z AUTO 35003KT 10SM BKN090 BKN120 21/21 A3005 RMK AO2 RAE0957 SLP171 P0000 T02060206 $ PGSN 011054Z 00000KT 10SM CLR 27/24 A2985 RMK AO2 SLP129 T02670239 KCFD 011135Z AUTO 32005KT 10SM OVC009 21/20 A2999 RMK AO2 T02140201 CYAD 011130Z 00000KT 10SM -SHRA BKN060 OVC200 12/ RMK SC6CI1 CWRM 011100Z AUTO 31003KT 14/13 RMK AO1 T01400128 53011 CWSD 011100Z AUTO 21007KT 18/15 RMK AO1 SLP229 T01810146 53008 CWQV 011100Z AUTO 04001KT 13/ RMK AO1 T0128 KCDW 011053Z 00000KT 6SM BR OVC008 18/16 A3019 RMK AO2 SLP228 T01780156 KCFE 011135Z AUTO 00000KT 10SM CLR 15/13 A3006 RMK AO2 T01520130 EGAE 011120Z 28007KT 8000 -SHRA FEW009 SCT018 BKN037 16/13 Q1003 CWRN 011100Z AUTO 05003KT 18/ RMK AO1 T0178 KBNO 011053Z AUTO 26008KT 10SM CLR 15/12 A3014 RMK AO2 SLP160 T01500122 KAVX 011051Z AUTO 12005KT 1/4SM FG VV002 17/16 A2995 RMK AO2 SLP116 T01670156 $ KAWO 011135Z AUTO 00000KT 10SM CLR 12/10 A3005 RMK AO1 CWRO 011100Z AUTO 27015KT 12/12 RMK AO1 PK WND 27021/1043 SLP234 T01200117 56005 CWSF 011100Z AUTO 20008KT 18/14 RMK AO1 PK WND 20017/1035 SLP194 T01830135 53011 NZKI 011100Z 05017KT 10KM SHRA BKN095 13/07 Q1011 RMK ALT VATSIM USE ONLY CWSG 011000Z AUTO 19007KT 15/13 RMK AO1 SLP190 T01450131 53010 PHJR 011053Z AUTO 00000KT 10SM FEW055 23/19 A3000 RMK AO2 SLP165 T02330189 TSNO KAXH 011135Z AUTO 00000KT 10SM CLR 23/23 A2996 RMK AO2 T02250225 ORBI 011130Z 28018KT CAVOK 45/09 Q0997 CYAH 011112Z AUTO 11003KT 9SM -RA FEW043 OVC080 13/12 A2990 RMK SLP132 KBOI 011053Z 12005KT 10SM CLR 21/09 A3009 RMK AO2 SLP155 T02060094 PGUA 011058Z AUTO 18005KT 10SM CLR 26/24 A2987 RMK AO2 SLP105 T02580244 $ NZKK 011109Z 01013KT 15KM VCSH BKN008 16/15 Q1026 RMK NZAA VATSIM USE ONLY OPST 011100Z 05004KT 4000 FU FEW040 SCT100 32/25 Q0999 NOSIG RH65 CXKA 011100Z AUTO 24005KT 12/11 RMK AO1 SLP144 T01180111 53017 EFKA 011120Z AUTO 23011KT 9999 FEW047TCU SCT111 24/14 Q1007 KBOK 011139Z AUTO 00000KT 1/2SM FG OVC001 12/12 A2998 RMK AO2 CYBB 312300Z 24010KT 15SM SCT120 25/13 A2988 RMK AC2 26.5/10.5/0.0/0/NIL/LAST OBS/NXT/011200Z SLP119 CWSK 011100Z AUTO 03002KT 15/12 RMK AO1 SLP166 T01450123 51007 CWRT 011100Z AUTO 13004KT 10/10 RMK AO1 T00960096 EGBB 011120Z 19010KT 150V240 9999 SCT036 21/14 Q1007 KCEU 011139Z AUTO 07007KT 10SM SCT008 OVC110 20/17 A3011 RMK AO2 RAE26 P0000 T02000172 KCGC 011135Z AUTO 00000KT 10SM BKN047 BKN055 21/19 A2998 RMK AO2 LTG DSNT S PWINO KBPC 011135Z AUTO 24004KT 10SM CLR 15/13 A3015 RMK AO2 CYBC 311823Z AUTO 13005KT 100V180 9SM SCT020 19/15 A3003 RMK SLP169 DENSITY ALT 300FT CWRU 011100Z AUTO 36028KT 14/11 RMK AO1 PK WND 35033/1014 SLP183 T01350112 56005 CWSL 011100Z AUTO 18003KT 14/11 RMK AO1 SLP177 T01430114 53010 VDPP 011130Z 24007KT 9000 FEW017 SCT040 30/24 Q1004 CYAM 011100Z 00000KT 10SM MIFG BCFG SCT100 BKN140 BKN260 09/09 A3003 RMK AC3AC2CI1 SLP172 CYBD 010100Z 28009G17KT 250V320 15SM SKC 26/12 A3007 RMK TR ACC LAST OBS/NEXT 011300UTC SLP182 DENSITY ALT 1200FT PHKO 011053Z AUTO 12005KT 10SM CLR 26/21 A2995 RMK AO2 SLP141 T02560206 TSNO KCEW 011053Z AUTO 00000KT 5SM BR CLR 18/17 A3000 RMK AO2 SLP155 T01830172 KAXN 011053Z AUTO 00000KT 8SM CLR 17/16 A3007 RMK AO2 SLP178 T01720161 EFIV 011120Z AUTO 21010KT 180V250 9999 FEW034 21/12 Q1002 KBNW 011135Z AUTO 26003KT 10SM CLR 15/14 A3008 RMK AO2 KCGE 011140Z AUTO 00000KT 10SM CLR 22/20 A3017 RMK AO1 KAXO 011015Z 00000KT 7SM SKC 27/20 A2996 CXKE 011100Z AUTO 19003KT 15/13 RMK AO1 SLP188 T01510126 53008 EGBE 011050Z 19010KT 160V220 9999 SCT029 21/15 Q1007 KCGF 011145Z 18006KT 10SM BKN110 20/16 A3013 EFKE 011120Z AUTO 22011KT 190V260 CAVOK 20/14 Q1006 DNSO 312300Z 00000KT CAVOK 25/22 Q1014 CWRX 011100Z AUTO 16019KT 04/ A2997 EFJO 011120Z AUTO 23008KT 180V320 CAVOK 25/11 Q1010 KCEY 011135Z AUTO 00000KT 10SM OVC095 19/18 A3008 RMK AO1 KBPG 011135Z AUTO 05003KT 10SM CLR 20/16 A3015 RMK AO2 T01950157 CWSP 011100Z AUTO 29004KT 11/11 RMK AO1 SLP177 T01070106 53001 CWRY 011100Z AUTO 31008KT 16/13 RMK AO1 SLP191 T01590126 51012 CWTG 011100Z AUTO 26015KT 13/ RMK AO1 PK WND 26018/1010 SLP193 T0129 53016 ZSNB 011100Z 33005MPS 9000 -SHRA FEW009 BKN016 26/25 Q0995 NOSIG CYBG 011100Z 09007KT 25SM FEW070 SCT090 BKN170 14/13 A3008 RMK AC1AC2AS1 SLP189 PHLI 011139Z 06012KT 10SM FEW025 SCT031 25/20 A3001 RMK AO2 $ KCEZ 011053Z AUTO 00000KT 10SM FEW100 16/11 A3024 RMK AO2 SLP160 T01560111 VEGT 010000Z 00000KT 3000 HZ SCT020 BKN100 28/27 Q1001 NOSIG CWRZ 011100Z AUTO 26005KT 17/ RMK AO1 SLP201 T0168 53010 KBPI 011053Z AUTO 00000KT 10SM OVC100 10/07 A3035 RMK AO2 SLP188 T01000072 KCGI 011137Z AUTO 00000KT 4SM BR FEW002 OVC075 17/16 A3008 RMK AO2 T01720161 CWSR 011100Z AUTO 21004KT 17/14 RMK AO1 SLP177 T01650140 50007 CXKI 011100Z AUTO 12/11 RMK AO1 SLP161 T01210112 53015 KCHA 011053Z 00000KT 6SM BR SCT038 BKN250 19/17 A3008 RMK AO2 SLP181 T01940172 EFKI 011120Z 23003KT 9999 VCSH SCT036CB BKN096 22/16 Q1008 KBOS 011054Z 21004KT 10SM FEW200 SCT250 19/17 A3020 RMK AO2 SLP226 T01940172 KCFS 011135Z AUTO 00000KT 4SM BR CLR 16/16 A3006 RMK AO2 T01570157 KAXS 011135Z AUTO 36004KT 2 1/2SM BR CLR 17/16 A3012 RMK AO2 T01690158 NZMC 011100Z 05015KT 20KM SCT003 13/12 Q1012 RMK ALT NZHT VATSIM USE ONLY CYAS 311900Z 07004KT 15SM BKN026 11/08 A3001 RMK SC7 LAST OBS/NEXT 011200UTC SLP170 EGBJ 011120Z 21007KT 180V260 9999 SCT028 22/16 Q1007 CWSS 011100Z AUTO 11001KT 17/17 RMK AO1 SLP227 T01730166 53010 KBPK 011134Z AUTO 00000KT 2 1/2SM BR OVC006 18/18 A3009 RMK AO2 T01780178 KE80 011135Z AUTO 00000KT 10SM CLR 16/14 A3026 RMK AO2 T01610139 CWST 011100Z AUTO 12004KT 15/13 RMK AO1 SLP198 T01520134 53011 CXLB 011100Z AUTO 31003KT 15/14 RMK AO1 SLP241 T01540139 53013 CYCB 011111Z 26012KT 15SM FEW004 BKN015 BKN100 RMK SF1SC2AC1 CYBK 011114Z 34019KT 20SM -RA BKN015 OVC035 11/09 A2988 RMK SC5SC3 SLP121 EFKK 011120Z VRB02KT 9999 -SHRA FEW030CB BKN095 23/15 Q1007 PGUM 011054Z 16003KT 10SM FEW020 SCT047 27/25 A2987 RMK AO2 SLP106 T02670250 KAZC 011135Z AUTO 00000KT 10SM SCT120 18/14 A3020 RMK AO2 T01810138 KCHD 010347Z 03012G20KT 15SM SCT120 BKN200 36/12 A2986 RMK LAST CXLC 011100Z AUTO 23008KT 07/05 RMK AO1 SLP235 T00660051 58004 CYBL 010400Z 28007KT 30SM SKC 24/09 A3005 RMK LAST OBS/NEXT 011300 UTC SLP175 DENSITY ALT 1200FT EGCC 011120Z 20010KT 9000 SCT009 BKN014 BKN024 18/16 Q1006 KCFV 011138Z AUTO 00000KT 3/4SM BR VV004 19/18 A3008 RMK AO2 T01890183 KAXV 011132Z AUTO 00000KT 5SM BR CLR 15/13 A3013 RMK AO2 NZMF 011100Z 06014KT 70KM BKN090 13/04 Q1004 RMK ALT NZQN VATSIM USE ONLY CXKM 011100Z AUTO 21005KT 15/14 RMK AO1 T01460137 CYCD 010400Z VRB02KT 30SM SKC 25/13 A3002 RMK LAST OBS/NEXT 011300 UTC SLP165 DENSITY ALT 1100FT KBOW 011115Z AUTO 00000KT 10SM FEW047 23/23 A2999 RMK AO2 KAZE 011135Z AUTO 00000KT 1/4SM FG OVC002 24/24 A2999 RMK AO2 T02370237 CWTN 012300Z AUTO 11002KT 16/15 RMK AO1 9PAST HR 3020 SLP166 P0007 T01560149 50150 CWSW 010100Z 00000KT 20SM SCT050 SCT080 28/10 A3005 RMK CU3AC1 TCU ASOCTD LAST OBS/NEXT 011300Z SLP157 CYBN 011100Z AUTO 13002KT 8SM FEW093 13/12 A3006 RMK SLP181 CYAW 011100Z 33004KT 15SM FEW120 FEW180 OVC250 18/14 A3024 RMK AC1AC1CI3 DA399FT SLP241 EETN 011120Z 28012KT 9999 BKN041 24/14 Q1013 NOSIG KAXX 011135Z AUTO 14003KT 10SM OVC006 10/09 A3046 RMK AO2 T00970087 ZSNJ 011100Z 03003MPS 010V070 9999 BKN026 BKN046 26/23 Q1001 NOSIG CYAY 011100Z AUTO 21010G15KT 9SM BKN012 19/17 A3012 RMK SLP200 DENSITY ALT 400FT CYCG 010400Z VRB02KT 15SM SKC 24/12 A2995 RMK LAST OBS/NEXT 011300UTC SLP133 DENSITY ALT 3000FT EFJY 011120Z 26004KT 210V290 9999 SCT045 23/14 Q1009 CYBQ 011126Z AUTO 32008KT 2SM BR BKN010 BKN050 BKN070 17/16 A2997 RMK SLP152 DENSITY ALT 1300FT CYAZ 010100Z 28013KT 15SM FEW250 20/12 A3009 RMK CI1 CI TR LAST OBS/NEXT 011300UTC SLP188 DENSITY ALT 500FT TVSC 312100Z 08008KT 9999 FEW020 29/23 Q1014 CYBR 011100Z 35004KT 12SM FEW250 12/12 A3007 RMK CI1 SLP188 PHMK 011054Z AUTO 04011G18KT 10SM CLR 24/23 A2999 RMK AO2 SLP156 T02440228 TSNO $ KAYS 011135Z AUTO 00000KT 7SM CLR 25/24 A2997 RMK AO2 T02470238 KCGS 011140Z AUTO 20003KT 10SM CLR 23/20 A3017 RMK AO1 CYDA 011100Z 08004KT 040V100 20SM SCT090 BKN120 OVC220 09/07 A3014 RMK AC4AC2CI2 OBS FOR MEDEVAC LAST OBS/NEXT 011300 UTC SLP217 KBPT 011053Z AUTO 18003KT 10SM BKN075 OVC100 25/23 A2994 RMK AO2 SLP138 T02500233 EFMA 011120Z 20013KT CAVOK 22/15 Q1011 EFKS 011120Z 22009KT 180V300 9999 BKN045 23/09 Q1006 KCHK 011135Z AUTO 04003KT 1SM BR VV007 16/16 A3009 RMK AO2 KBQK 011135Z AUTO 00000KT 10SM CLR 25/23 A2998 RMK AO1 LTG DSNT E AND SE ZSOF 011100Z 05003MPS 9999 SCT026 26/25 Q1002 NOSIG CWTT 011100Z AUTO 22002KT 13/12 RMK AO1 T01260119 CXKT 011100Z AUTO 12001KT 14/13 RMK AO1 2PAST HR 3011 SLP239 P0001 T01420128 50002 CYCK 011145Z AUTO 21003KT 2 1/2SM BR FEW100 18/17 A3010 RMK SLP192 DENSITY ALT 900FT CYDB 011100Z AUTO 30003KT 9SM CLR 02/02 A3022 RMK SLP258 KCIC 011135Z AUTO 00000KT 10SM CLR 24/10 A2984 RMK AO1 EFKT 011120Z AUTO 25006KT 210V280 9999 BKN049 21/10 Q1003 CYBU 311900Z AUTO 22004KT 190V270 9SM CLR 27/18 A3006 RMK SLP181 DENSITY ALT 2700FT CXLL 011100Z AUTO 10001KT 03/02 RMK AO1 SLP243 T00260015 57009 CWTU 011100Z AUTO 08008KT 16/ A3010 RMK SLP200 CYDC 010100Z VRB07KT 25SM FEW250 34/04 A3001 RMK CI1 CI TR HZ LAST OBS/NEXT 01 1300 UTC SLP146 DENSITY ALT 4800FT KBRD 011135Z AUTO 00000KT 2SM BR FEW002 BKN050 12/12 A3006 RMK AO2 T01220122 EETU 011050Z 23007KT 170V280 9999 SCT048 25/13 Q1014 KCID 011052Z 19003KT 6SM BR CLR 14/14 A3006 RMK AO2 SLP176 T01440139 EFKU 011120Z AUTO 22008KT CAVOK 25/10 Q1009 CYBV 312100Z 29008KT 15SM FEW035 FEW210 24/16 A3003 RMK SC1CS2 LAST OBS/NEXT 011200Z SLP172 CXMD 011100Z AUTO 26002KT 14/12 RMK AO1 SLP164 T01420124 51002 CWVD 011100Z AUTO 30006KT 09/ A3004 RMK SLP202 KCHO 011053Z 21004KT 7SM -RA OVC110 21/18 A3018 RMK AO2 RAB21 SLP211 P0000 T02060183 KAZO 011053Z 23003KT 4SM BR CLR 16/14 A3009 RMK AO2 SLP185 T01610144 EGCN 011120Z 19012KT 9000 SCT029 22/14 Q1007 CYBW 011100Z AUTO 32003KT 9SM CLR 12/10 A3022 RMK RVR MISG SLP231 DENSITY ALT 4100FT PHNG 011057Z 08009G14KT 9SM CLR A3000 RMK AO2 SLP155 $ CWVF 011100Z AUTO 33018KT 21/14 RMK AO1 PK WND 33021/1024 T02100143 CYBX 011118Z 27006KT 1/2SM FG VV002 RMK FG8 CYCO 011100Z 23005KT 15SM FEW020 BKN060 BKN100 05/03 A3002 RMK SC1SC4AC2 SLP169 CYDF 011100Z 21003KT 15SM FEW020 BKN100 BKN200 21/18 A3020 RMK SC1AC4CI1 SLP227 DENSITY ALT 400FT KF05 011135Z AUTO 36003KT 3SM CLR 19/18 A3010 RMK AO1 T01860176 KBQP 011135Z AUTO 09005KT 7SM -RA OVC034 20/19 A3001 RMK AO2 P0006 T01970190 CXMG 011100Z AUTO 31004KT 08/07 RMK AO1 T00780069 CWTY 011100Z AUTO 19006KT 16/14 RMK AO1 SLP197 T01550144 53012 CWUP 011100Z AUTO ///// 10/ A3004 RMK SLP189 CYCP 010100Z 22004KT 15SM FEW080 32/07 A3003 RMK CU1 LAST OBS/NEXT 011300 UTC SLP165 EFLP 011120Z AUTO 20003KT 9999 -SHRA FEW050 SCT060 BKN075 BKN095 22/14 Q1012 KCGZ 011135Z AUTO 20005KT 10SM SCT070 OVC080 25/21 A2999 RMK AO1 CWVH 011100Z AUTO ///// 03/ A2995 RMK SLP159 CYCQ 010100Z 06005KT 340V080 15SM FEW055 FEW120 25/08 A3012 RMK FU1CU1AC1 AC TR FU ALQDS LAST OBS/NEXT 011300Z SLP208 DENSITY ALT 3300FT CWVI 011100Z AUTO 32006KT 14/13 RMK AO1 SLP199 T01380132 53013 CXMI 011100Z AUTO 35004KT 18/14 RMK AO1 SLP238 T01780142 53010 ZSPD 011130Z 34009MPS 9999 BKN016 26/24 Q0995 NOSIG EFMI 011120Z AUTO 26010KT 230V310 CAVOK ///// Q//// KCHS 011056Z 00000KT 7SM FEW035 SCT120 24/22 A3000 RMK AO2 SLP159 CB DSNT SE T02390222 KDAA 011058Z AUTO 15004KT 10SM SCT130 BKN190 22/20 A3017 RMK AO2 SLP219 T02230200 CYCS 312100Z 13013KT 15SM SKC 15/08 A3007 RMK SLP182 CWUS 011100Z AUTO 29008KT 18/M02 RMK AO1 SLP163 T01831015 53008 CWWA 011100Z AUTO 00000KT 18/11 RMK AO1 SLP173 T01830114 53006 PHNL 011053Z 06008KT 10SM FEW025 SCT035 SCT060 26/20 A2999 RMK AO2 SLP154 T02610200 KDAB 010953Z 16006KT 10SM FEW023 FEW080 25/24 A2995 RMK AO2 SLP141 T02500239 $ CWWB 011100Z AUTO 28003KT 18/14 RMK AO1 SLP183 T01820135 53010 KBRL 011140Z AUTO 01010KT 1 3/4SM TSRA BR BKN048 OVC060 18/17 A3009 RMK AO2 RAB13 TSB23 P0009 T01830172 EGEC 011120Z 28006KT 9999 FEW022 SCT048 15/12 Q1004 RESHRA CYDL 011100Z AUTO 05003KT 9SM CLR 04/03 A3029 RMK SLP265 CXMM 011100Z AUTO 33008KT 12/10 RMK AO1 SLP226 T01200099 53015 EGDM 011107Z 19012KT 9999 SCT020 SCT040 BKN130 20/14 Q1008 WHT TEMPO FEW020 BLU CYED 011100Z AUTO 30004KT 9SM CLR 13/12 A3018 RMK SLP222 KCIN 011135Z AUTO 00000KT 9SM CLR 11/10 A3009 RMK AO2 NZNP 011100Z 02017KT 10KM SHRA SCT049 15/14 Q1023 RMK ALT VATSIM USE ONLY CWWE 011100Z AUTO 19001KT 14/14 RMK AO1 SLP242 T01430136 53013 CWVN 011100Z AUTO 24001KT 12/10 RMK AO1 SLP172 T01200097 52002 CWUW 011100Z AUTO 28003KT 9SM FEW040 FEW089 12/ A3006 RMK SLP201 CYDN 011101Z AUTO 26005KT 5SM BR CLR 14/13 A3004 RMK SLP176 DENSITY ALT 1000FT KBRO 011053Z 16008KT 10SM CLR 26/24 A2991 RMK AO2 SLP127 T02610244 PHOG 011054Z AUTO 04012KT 10SM BKN060 25/20 A2998 RMK AO2 SLP158 T02500200 TSNO KBQX 011135Z AUTO 22006KT 9SM SCT110 29/25 A2996 RMK A01 NZOH 011015Z 31007KT 30KM FEW040 BKN065 15/12 Q1021 RMK NZPM VATSIM USE ONLY CWUX 011000Z AUTO 10003KT 11/11 RMK AO1 T01140113 53005 CXMO 011100Z AUTO 02006KT 14/13 RMK AO1 T01410134 50102 VDSR 011130Z 25005KT 9000 FEW017 SCT040 29/25 Q1003 CWWF 011100Z AUTO 12004KT 14/13 RMK AO1 SLP184 T01410127 51003 CYCX 011139Z 23003KT 150V270 2 1/2SM -DZ BR OVC002 RMK SF8 KDAG 011050Z AUTO 27008KT 10SM CLR 29/07 A2990 RMK AO2 SLP089 T02890072 NZNR 011100Z 35011KT 30KM SKC 16/10 Q1023 RMK ALT VATSIM USE ONLY CYDP 011100Z 11003KT 15SM FEW240 10/07 A3011 RMK CI0 SLP198 CWVP 011100Z AUTO 17001KT 14/06 RMK AO1 SLP188 T01420055 53004 CYCY 011100Z AUTO 00000KT CLR 06/04 A3003 RMK WX MISG VIS MISG PCPN MISG SLP172 CYEG 011100Z 00000KT 15SM FEW100 SCT120 BKN160 BKN260 12/12 A3019 RMK ACC1AC3AC2CI1 SLP223 ORER 011100Z 22004KT CAVOK 41/02 Q0999 NZNS 010926Z 36018KT 15KM SCT006 13/12 Q1018 RMK VATSIM USE ONLY CWVQ 011100Z AUTO 04001KT 15/14 RMK AO1 SLP195 T01460135 53010 CYDQ 011100Z AUTO 21003KT 9SM 08/07 A3025 RMK CLD MISG SLP252 KCIR 011135Z AUTO 00000KT 7SM OVC090 18/17 A3008 RMK AO2 T01840172 UNKL 011130Z 27003MPS 9999 SCT026CB OVC083 15/13 Q1010 NOSIG RMK QFE732 29////55 ZSQD 011100Z 05003MPS 020V080 CAVOK 29/22 Q1005 NOSIG KBTA 011135Z AUTO 11003KT 10SM CLR 17/15 A3006 RMK AO2 T01680149 EGDR 011050Z 22007KT 9000 -RA FEW014 SCT024 18/16 Q1007 WHT TEMPO 7000 -SHRA SCT012 SCT018TCU GRN PGWT 010951Z 00000KT 7SM FEW016 SCT100 27/24 A2983 CWXA 011100Z AUTO 00000KT 12/11 RMK AO1 SLP219 T01240114 51001 TVSV 011100Z 06011KT 9999 SCT016 28/24 Q1014 KCKB 011053Z 00000KT 5SM BR CLR 14/13 A3015 RMK AO2 SLP199 T01440133 NZNV 011100Z 33012KT 45KM BKN035 14/06 Q0998 RMK ALT VATSIM USE ONLY CWWK 011100Z AUTO 03001KT 15/14 RMK AO1 SLP170 T01530138 50003 CWVT 011100Z AUTO 34009KT 16/14 RMK AO1 SLP221 T01610135 53016 CYEK 011100Z AUTO 17015KT 9SM CLR 11/08 A2991 RMK SLP128 CYFB 011100Z 00000KT 30SM BKN280 08/05 A3013 RMK CI7 SLP204 KDAL 011053Z 01008KT 10SM OVC011 22/19 A3001 RMK AO2 SLP156 T02170189 KCIU 011135Z AUTO 00000KT 10SM OVC095 13/12 A3003 RMK AO1 KCKC 011133Z AUTO 00000KT 10SM CLR 08/06 A3008 RMK AO2 CWXC 011100Z AUTO 16003KT 14/14 RMK AO1 SLP176 T01400135 53005 CWVU 011100Z AUTO 15010KT 14/13 RMK AO1 SLP253 T01410126 53010 CWWL 011100Z AUTO 36017KT 12/11 RMK AO1 PK WND 00021/1007 SLP220 T01200113 58003 CYFC 011130Z AUTO 20002KT 2SM BR OVC003 15/15 A3023 RMK SLP237 CXNM 011100Z AUTO 26003KT 18/13 RMK AO1 T01750131 KDAN 011053Z AUTO 02005KT 10SM -RA FEW070 BKN110 19/17 A3016 RMK AO2 SLP203 P0003 T01890172 CYEN 011100Z 10002KT 15SM FEW100 BKN250 14/13 A3009 RMK AC1CI0 SLP189 KCKF 011135Z AUTO 05007KT 5SM BR OVC004 24/22 A3001 RMK AO2 LTG DSNT E T02360221 PHNY 011056Z AUTO 07005KT 10SM CLR 21/21 A3004 RMK AO2 TSNO T02050205 SLP150 $ EGEO 011050Z 24005KT 9999 -RA SCT012 SCT020 16/13 Q1004 EGDX 011050Z 17004KT 9999 SCT033 BKN047 20/14 Q1007 BLU EGFF 011120Z 19005KT 130V250 9999 FEW028 BKN040 20/14 Q1007 CXMY 011100Z AUTO 19/18 RMK AO1 T01890183 50038 CXNP 011100Z AUTO 19004KT 14/14 RMK AO1 2PAST HR 3008 SLP237 P0001 T01420139 50002 EGDY 011050Z 17012KT 4500 -SHRA FEW007 SCT015CB BKN030 17/16 Q1008 GRN TEMPO 2500 SHRA SCT008 BKN015CB YLO1 KCKI 011135Z AUTO 00000KT 4SM BR SCT036 SCT046 SCT055 23/22 A3002 RMK AO2 LTG DSNT E AND SE KCJR 011135Z AUTO 00000KT 10SM BKN110 A3018 RMK AO2 CWXI 011100Z AUTO 21020KT 18/16 RMK AO1 PK WND 21024/1047 SLP193 T01810155 55002 KDCA 011052Z 17009KT 9SM FEW050 OVC200 24/19 A3016 RMK AO2 SLP213 T02440194 CYER 011138Z AUTO 30004KT 5/8SM -RA BR OVC004 05/04 A3007 RMK SLP183 CWWS 011100Z AUTO 16007KT 20/14 RMK AO1 3002 SLP159 T01960142 50004 CXPA 011100Z AUTO 03005KT 12/11 RMK AO1 T01230107 NZPM 011015Z 31007KT 30KM FEW040 BKN065 15/12 Q1021 RMK VATSIM USE ONLY KBTL 011053Z 21005KT 5SM BR CLR 16/14 A3008 RMK AO2 SLP183 T01610144 CWWU 011100Z 24008KT 15SM OVC009 23/21 A3032 RMK SF8 SLP266 CXOL 011100Z AUTO 28008KT 12/11 RMK AO1 T01240107 50036 CXPC 011100Z AUTO 16/15 RMK AO1 SLP162 T01600147 52011 CWXL 011100Z AUTO 30002KT 17/15 RMK AO1 T01680146 KBTM 011053Z AUTO 19003KT 10SM CLR 11/04 A3028 RMK AO2 SLP201 T01060039 KCKM 011135Z AUTO 00000KT 5SM BKN070 OVC080 20/20 A3006 RMK AO1 CYEV 011100Z 07005KT 15SM SCT075 BKN110 07/03 A2994 RMK AC3AC4 SLP141 EGGD 011120Z 18010KT 9999 -SHRA FEW011 SCT018 BKN035 18/14 Q1008 KDAW 011051Z AUTO 00000KT 4SM BR CLR 17/16 A3019 RMK AO2 SLP220 T01670156 KCLE 011051Z 17003KT 8SM SCT120 17/14 A3013 RMK AO2 SLP198 T01670139 KCKN 011134Z AUTO 35003KT 1/4SM FG OVC001 14/13 A3006 RMK AO2 KDBN 011135Z AUTO 01005KT 5SM BR OVC007 22/21 A3003 RMK AO2 NZPP 011100Z 05011KT 8000 SHRA SCT033 13/12 Q1020 RMK ALT VATSIM USE ONLY CYGE 010000Z 33004KT 300V020 20SM FEW085 FEW260 32/07 A2998 RMK CU2CI0 FU WIND 300 V 020 LAST OBS/NEXT 011200Z SLP140 KBUF 011054Z 16008KT 10SM FEW055 FEW100 SCT250 17/13 A3010 RMK AO2 SLP192 T01670133 CYFO 011120Z 11003KT 15SM TS BKN030CB RMK CB7 LTGCG BC MOVG E CWWX 011100Z AUTO 01002KT 15/14 RMK AO1 SLP162 T01540143 53010 KBTP 011135Z AUTO 00000KT 4SM CLR 14/13 A3018 RMK AO1 KCKP 011135Z AUTO 00000KT 7SM CLR 12/12 A3009 RMK AO2 T01220122 KDAY 011056Z 00000KT 6SM BR SCT100 16/14 A3014 RMK AO2 SLP199 T01610139 KDBQ 011053Z AUTO 00000KT 10SM CLR 14/13 A3007 RMK AO2 SLP179 T01390133 CYGH 312300Z 27008KT 15SM FEW030 FEW120 15/03 A3015 RMK CU1AC2 15.8/4.8/0/0 LAST OBS/NXT 011300Z SLP214 CWWZ 011100Z AUTO 02008KT 19/16 RMK AO1 3008 SLP181 T01930161 50005 KBTR 011053Z 06005KT 9SM BKN045 OVC070 23/19 A2998 RMK AO2 SLP152 T02280194 KCLI 011135Z AUTO 28003KT 5SM BR CLR 13/13 A3003 RMK AO2 CYFR 312200Z 33010KT 10SM FEW028 FEW120 BKN280 13/07 A3022 RMK SC1AC2CS2 FU PRSNT 14.3/12.0/0/ LAST OBS/NXT011400Z SLP240 CWXR 011100Z AUTO 28014KT 03/ A2996 RMK SLP156 KCMA 011055Z AUTO 00000KT 8SM OVC006 18/16 A2990 RMK AO2 SLP134 T01780156 $ NZRC 011100Z 33012KT 45KM BKN035 14/06 Q0998 RMK ALT NZNV VATSIM USE ONLY CYHA 311900Z 25003KT 15SM -DZ FEW005 FEW012 OVC030 04/04 A3003 RMK SF1ST1SC7 LAST OBS/NEXT 011200 UTC SLP172 CYFS 011100Z 13003KT 15SM FEW070 07/04 A3024 RMK AC2 SLP249 CWZA 011100Z AUTO 32002KT 16/15 RMK AO1 SLP169 T01640147 55000 CWYJ 011100Z AUTO 00000KT 13/10 RMK AO1 SLP169 T01300102 53002 CYFT 011100Z 00000KT 15SM SCT240 16/12 A3006 RMK CI4 SLP182 CWYK 011100Z AUTO 18007KT 14/ A3010 RMK SLP205 CYGK 011140Z 18008KT 12SM BKN059 BKN100 BKN250 19/17 A3012 RMK SC6AC1CI1 CI TR SLP198 DENSITY ALT 500FT KDDC 011052Z AUTO 24006KT 9SM BKN090 18/13 A3013 RMK AO2 SLP176 T01780133 KCLL 011053Z AUTO 32004KT 10SM SCT043 BKN050 OVC060 22/20 A2998 RMK AO2 SLP148 T02220200 NZQN 011100Z 06014KT 70KM BKN090 13/04 Q1004 RMK ALT VATSIM USE ONLY CXPL 011100Z AUTO 01014KT 16/13 RMK AO1 PK WND 32022/1016 T01580131 CYGL 011128Z 00000KT 15SM FEW002 BKN050 BKN220 13/13 A2987 RMK SF1SC5CI2 SF TR TCU ASOCTD SLP121 CWYL 011100Z AUTO 08002KT 08/06 RMK AO1 1005 SLP208 T00820057 50002 KCLM 011053Z AUTO 00000KT 10SM CLR 12/10 A3005 RMK AO2 SLP177 T01220100 KCKV 011052Z AUTO 00000KT 4SM BR CLR 16/14 A3008 RMK AO2 SLP181 T01560144 EFOU 011120Z AUTO 30009KT CAVOK 21/12 Q1007 KBTV 011054Z 00000KT 10SM SCT070 16/14 A3015 RMK AO2 SLP210 T01560139 KCMD 011135Z AUTO 00000KT 19/18 A3008 RMK AO2 T01850180 PWINO KDCM 011135Z AUTO 25004KT 5SM RA OVC003 21/21 A3009 RMK AO2 LTG DSNT SE AND SW P0001 CYHD 011123Z AUTO 05003KT 1/2SM FG SCT002 11/11 A3005 RMK VIS VRB 1/8-3 SLP180 CWYM 011100Z AUTO 25013KT 11/ A3004 RMK SLP199 KBVE 011051Z AUTO 13003KT 10SM CLR 26/21 A2998 RMK AO2 SLP151 T02560211 EGHE 011120Z 24010KT 8000 -RA FEW006 SCT012 BKN035 17/16 Q1007 CYHE 011100Z AUTO 10009KT 9SM CLR 18/14 A3005 RMK SLP174 DENSITY ALT 400FT KF44 011135Z AUTO 36005KT 10SM OVC007 20/20 A2999 RMK AO2 DNYO 010500Z 00000KT 9999 BKN010 25/24 Q1014 CXOX 011100Z AUTO 32003KT 15/14 RMK AO1 5001 SLP181 T01450144 50030 EFPO 011120Z AUTO 23012KT 200V260 9999 FEW031/// 22/14 Q1010 CXOY 011100Z AUTO 29015KT 17/17 RMK AO1 PK WND 28027/1057 T01690166 CWZG 011100Z AUTO 05002KT 15/11 RMK AO1 SLP202 T01470109 51002 CYGP 011100Z 26006KT 15SM SKC 19/14 A3012 RMK SLP201 DENSITY ALT 300FT EGGP 011120Z 17009KT 090V210 9000 FEW015 SCT035 18/16 Q1005 KCMH 011051Z 00000KT 6SM HZ SCT100 18/15 A3012 RMK AO2 SLP192 T01830150 KDDH 011110Z AUTO 00000KT 3SM BR FEW050 SCT070 BKN095 15/14 A3019 RMK AO2 T01500139 KF46 011135Z AUTO 02005KT 7SM OVC005 20/20 A3000 RMK AO2 T02000197 CYHH 011100Z 14003KT 10SM SCT005 BKN016 13/12 A2984 RMK SC4SC2 SLP113 KBVI 011047Z 00000KT 2 1/2SM BR CLR 15/15 A3016 CYGQ 011100Z 34003KT 12SM FEW007 SCT025 BKN090 10/10 A3003 RMK SF2SC2AC2 SLP176 KBUR 011053Z 13004KT 10SM CLR 20/16 A2991 RMK AO2 SLP114 T02000156 KCMI 011053Z 10003KT 6SM BR CLR 16/16 A3010 RMK AO2 SLP187 T01610156 EGHH 011120Z 22012KT 9999 FEW013 SCT026 22/13 Q1008 CYHI 312327Z 26008KT 15SM -RA BKN008 RMK SC6 EGHI 011120Z 20014KT 160V250 9999 SCT024 21/12 Q1009 CYGR 011100Z 23007KT 20SM FEW240 21/16 A3020 RMK CI1 CI TR SLP227 DENSITY ALT 300FT KCLS 011135Z AUTO 21004KT 10SM CLR 15/13 A3006 RMK AO2 KCLT 011137Z 36006KT 6SM RA BR FEW006 BKN014 OVC020 19/18 A3009 RMK AO2 P0013 KCNB 011134Z AUTO 23004KT 10SM CLR 15/12 A3008 RMK AO2 T01500123 CYGT 011100Z 12009KT 5SM BR BKN002 OVC035 03/03 A2994 RMK ST2SC1 SLP144 CXRB 011100Z AUTO 23005KT 01/01 RMK AO1 SLP093 T00070005 53014 KDCU 011053Z AUTO 00000KT 6SM BR CLR 17/17 A3006 RMK AO2 SLP174 T01720167 CYHK 011100Z AUTO 33016KT 7SM -RA SCT055 OVC081 06/05 A2992 RMK PCPN 2.0MM PAST HR SLP137 KDEC 011054Z AUTO 00000KT 10SM CLR 15/13 A3009 RMK AO2 SLP184 T01500133 TSNO KCNC 011135Z AUTO 27005KT 9SM OVC070 16/16 A3008 RMK AO2 KBUU 011135Z AUTO 00000KT 7SM CLR 13/12 A3007 RMK AO2 T01260123 CWZL 011100Z AUTO 27008KT 15/10 RMK AO1 SLP237 T01470104 57004 KDED 011135Z AUTO 00000KT 9SM CLR 25/24 A2999 RMK AO1 KBWD 011135Z AUTO 34003KT 10SM CLR 19/17 A3007 RMK AO2 NZRO 011100Z 35007KT 35KM SCT013 15/14 Q1027 RMK ALT NZTG VATSIM USE ONLY CYHM 011100Z 20003KT 15SM SKC 15/15 A3008 RMK SLP187 DENSITY ALT 800FT CYGV 011145Z AUTO 26008KT 3/4SM BR OVC002 16/16 A3011 RMK VIS VRB 1/4-3 SLP196 PHSF 011056Z AUTO 32004KT 12SM CLR 14/09 A3032 RMK AO2 SLP145 T01380090 KBVN 011135Z AUTO 00000KT 2 1/2SM BR CLR 13/12 A3009 RMK AO2 T01250117 CYGW 312300Z AUTO 01007KT 9SM CLR 16/14 A2991 RMK SLP129 DENSITY ALT 100FT CWZN 011100Z AUTO 18/18 RMK AO1 SLP253 T01840179 53008 EGGW 011120Z 19007KT 130V230 9999 SCT035 23/12 Q1008 KBVO 011146Z AUTO 00000KT 2 1/2SM BR OVC004 18/18 A3009 RMK AO2 T01830183 CWZO 011100Z AUTO 28003KT RMK AO1 CYGX 011100Z 18004KT 15SM OVC080 10/10 A3001 RMK AS6 SLP167 ZSSS 011130Z 35006MPS 9999 BKN016 26/24 Q0996 NOSIG KBWG 011053Z AUTO 00000KT 5SM BR CLR 16/13 A3009 RMK AO2 SLP185 T01560133 KBUY 011054Z AUTO 04005KT 10SM OVC090 19/17 A3013 RMK AO2 RAE17 SLP197 P0001 T01890172 KDCY 011135Z AUTO 00000KT 2 1/2SM BR BKN004 BKN010 BKN100 14/14 A3010 RMK AO2 T01420142 CWYY 011100Z AUTO 06001KT 18/11 RMK AO1 SLP151 T01800106 51010 KDEH 011135Z AUTO 00000KT 10SM CLR 14/13 A3007 RMK AO2 KCNI 311510Z AUTO 07003KT 10SM CLR 23/13 A3012 RMK AO2 EGHQ 011120Z 23008KT 8000 VCSH SCT014 18/15 Q1007 CXRH 011100Z AUTO 18002KT 20/17 RMK AO1 2PAST HR M P0001 T01960169 50002 CWZQ 011140Z AUTO 22003KT 24/14 RMK AO1 T02370144 UNNT 011130Z 32003MPS CAVOK 23/12 Q1018 25090070 16220165 NOSIG RMK QFE753/1005 KCMR 011135Z AUTO 15006KT 10SM FEW095 14/11 A3037 RMK AO1 KBWI 011054Z 00000KT 6SM BR FEW100 BKN150 BKN250 22/20 A3016 RMK AO2 SLP210 T02170200 KBVS 011135Z AUTO 00000KT 10SM CLR 13/11 A3005 RMK A01 P000 KBXA 011135Z AUTO 00000KT 10SM OVC120 23/20 A3002 RMK AO2 LTG DSNT SE T02250200 EGJA 011120Z 21009KT 170V260 9999 FEW015 18/14 Q1010 CWZS 011100Z AUTO 15004KT 15/13 RMK AO1 SLP204 T01520131 52013 EFSA 011120Z AUTO 18008KT 130V230 CAVOK 25/13 Q1011 KCNK 011055Z AUTO 00000KT 10SM CLR 16/13 A3002 RMK AO2 SLP153 T01610133 CYIK 312100Z 06012KT 15SM FEW220 11/07 A3004 RMK CI0 SLP176 EGJB 011120Z 20010KT 9999 FEW020 18/14 Q1010 KBVU 011135Z AUTO 00000KT 10SM CLR 29/10 A2993 RMK AO2 CXSC 011100Z AUTO 28009KT 16/15 RMK AO1 5PAST HR M P0002 T01580146 50005 UNOO 011130Z 14002MPS 080V190 9999 BKN033 26/07 Q1019 25CLRD60 NOSIG RMK QFE756 CXRL 011100Z AUTO 14/12 RMK AO1 T01380123 50023 CYHU 011100Z AUTO 19005KT 9SM BKN100 16/13 A3012 RMK SLP200 KCNM 011053Z AUTO 33014KT 10SM OVC050 22/18 A3015 RMK AO2 SLP159 T02170178 $ KCOD 011135Z AUTO 20004KT 10SM CLR 17/04 A3023 RMK AO1 CWZV 011100Z AUTO 32016KT 13/12 RMK AO1 PK WND 32021/1002 SLP228 T01290117 58003 KDEN 011053Z 21006KT 10SM FEW120 SCT200 15/12 A3026 RMK AO2 SLP174 T01500117 $ KCOE 011135Z AUTO 11004KT 10SM CLR 13/08 A3004 RMK AO1 NZTG 011100Z 35007KT 35KM SCT013 15/14 Q1027 RMK ALT VATSIM USE ONLY NZSP 010550Z 11008KT 9999 IC SKC M72/ A2845 RMK AURBO CLN AIR 0809KT ALL WNDS GRID CXSE 011100Z AUTO 26009KT 01/01 RMK AO1 SLP109 T00120006 56004 CWZW 011100Z AUTO 01002KT 04/03 RMK AO1 SLP269 T00360031 54000 CYIN 011100Z AUTO 00000KT 9SM CLR 08/05 A3019 RMK SLP210 KCNO 011053Z AUTO 00000KT 6SM BR CLR 18/17 A2993 RMK AO2 SLP127 T01830172 KCMX 011053Z AUTO 00000KT 10SM CLR 09/07 A3002 RMK AO2 SLP168 T00890072 KBVX 011135Z AUTO 00000KT 2SM SCT049 OVC060 19/18 A3008 RMK AO1 KCOF 011058Z AUTO 19005KT 10SM CLR 26/24 A2998 RMK AO2 SLP156 T02580239 CYJF 312100Z 36010KT 10SM SCT030 OVC070 12/06 A3031 RMK SC4AC4 SLP269 CYIO 011100Z AUTO 13005KT 9SM OVC035 13/10 A2997 RMK SLP153 KBVY 011053Z 22005KT 6SM BR SCT250 19/17 A3020 RMK AO2 SLP219 T01940172 EFRO 011120Z AUTO 20013KT CAVOK 21/09 Q1005 KCMY 011135Z AUTO 00000KT 10SM BKN055 BKN080 BKN110 13/12 A3007 RMK AO2 T01310124 KBWP 011130Z AUTO 31003KT 7SM CLR 14/12 A3006 RMK AO1 ZUCK 011100Z 24003MPS 190V300 CAVOK 31/22 Q1003 NOSIG CYHY 011100Z 21003KT 15SM FEW030 07/04 A3030 RMK SC1 SLP269 KDEQ 011142Z AUTO 00000KT 1 3/4SM -RA BR OVC005 19/19 A3002 RMK AO2 RAB16 T01940189 PNO CXSH 011100Z AUTO 16002KT 14/14 RMK AO1 SLP196 T01370136 52011 CWZZ 011100Z AUTO 07005KT 15/ A3011 RMK SLP211 CYHZ 011100Z 01003KT 15SM FEW080 BKN270 17/14 A3025 RMK AC1CI5 SLP243 KDFI 011053Z AUTO 4SM BR CLR 16/14 A3011 RMK AO2 SLP192 T01610144 EFSI 011120Z AUTO 24007KT 140V300 9999 SCT046 23/13 Q1008 EGKA 011120Z 21013KT 9999 FEW010 SCT016 19/16 Q1009 EGJJ 011120Z 24009KT 190V270 9999 FEW024 21/13 Q1010 NOSIG CYKA 011100Z 08003KT 40SM SKC 19/10 A3006 RMK SLP175 DENSITY ALT 1600FT KDET 011053Z 24004KT 8SM CLR 19/14 A3008 RMK AO2 SLP185 T01890144 KBXK 011135Z AUTO 04013KT 10SM BKN065 BKN075 OVC120 26/20 A2992 RMK AO1 KF70 011135Z AUTO 00000KT 10SM CLR 19/17 A2993 RMK AO1 EGKB 011120Z 20010KT 160V240 9999 SCT025 20/12 Q1009 KCNU 011052Z AUTO 11003KT 1/4SM FG VV002 16/16 A3009 RMK AO2 SLP179 T01610156 EHAK 011125Z AUTO 18014KT 9999 FEW009/// 19/17 Q1008 KCPC 011135Z AUTO 04003KT 1 1/2SM +RA BKN005 BKN011 OVC017 22/21 A3005 RMK AO2 P0018 T02180210 CXSL 011100Z AUTO 05004KT 14/13 RMK AO1 T01410131 50004 KCOM 011135Z AUTO 00000KT 10SM CLR 19/16 A3008 RMK AO2 T01850163 CYKD 312300Z 03006KT 15SM FEW020 FEW260 11/06 A3013 RMK SF1CI1 11.8/3.4/0.0/LAST OBS/NXT 011300Z SLP202 CXTD 011100Z AUTO 04001KT 19/19 RMK AO1 3006 SLP245 T01940189 50036 CYIV 011100Z 00000KT 12SM SCT250 13/11 A3005 RMK CI0 FU SLP179 KDEW 011053Z AUTO 00000KT 10SM CLR 14/05 A3003 RMK AO2 SLP151 T01390050 PHTO 011119Z 24004KT 10SM SCT023 BKN044 OVC050 24/22 A2999 RMK AO2 RAE19 P0001 T02440222 KCON 011051Z AUTO 00000KT M1/4SM FG VV002 15/15 A3020 RMK AO2 SLP227 T01500150 KCNW 010350Z 36008G14KT 10SM OVC026 24/18 A3000 EHAM 011125Z 20006KT 140V290 9999 FEW040 24/15 Q1010 NOSIG CZBF 011100Z VRB02KT 10SM FEW220 15/13 A3017 RMK CI1 CI TR SLP216 CYKF 011133Z AUTO 00000KT 6SM BR CLR 15/14 A3011 RMK SLP193 KBYG 011053Z AUTO 30008KT 10SM CLR 19/02 A3019 RMK AO2 SLP165 T01890017 KCNY 011053Z AUTO 23005KT 10SM FEW120 18/15 A3012 RMK AO2 SLP140 T01830150 $ KBYH 312050Z 00000KT 10SM SCT024 BKN037 OVC085 25/19 A3009 CYKG 312100Z 03006KT 3/4SM BR VV004 06/06 A3004 RMK FG8 VIS S-W 11/2 LAST OBS/NEXT 011200 UTC VIA CZNB SLP182 CXSP 011100Z AUTO 34004KT 14/13 RMK AO1 T01350131 KCOQ 011136Z AUTO 32003KT 7SM CLR 12/11 A3005 RMK AO2 VEPT 011050Z 08007KT 5000 HZ FEW018 SCT100 35/26 Q0996 NOSIG CXTH 011100Z AUTO 34006KT 14/13 RMK AO1 T01410130 KBYI 011053Z AUTO 23004KT 10SM CLR 14/09 A3013 RMK AO2 SLP157 T01440089 CXSR 011100Z AUTO 08005KT 11/09 RMK AO1 SLP241 T01060091 54000 KCOS 011054Z 36004KT 9SM FEW180 FEW220 13/11 A3032 RMK AO2 SLP205 HZ ALQDS T01280111 NZTU 011100Z 29004KT 35KM BKN080 12/02 Q1005 RMK ALT VATSIM USE ONLY CYLA 311900Z 24015G20KT 15SM FEW022 FEW230 19/11 A3002 RMK CU1CI0 LASTOBS/NXT 011200Z SLP167 CYKJ 011130Z AUTO 36007KT 3SM HZ BKN016 BKN032 15/12 A3011 RMK SLP203 DENSITY ALT 1800FT KCOT 011053Z AUTO 08008KT 10SM CLR 27/22 A2994 RMK AO2 SLP131 T02720222 $ KCPK 011135Z AUTO 00000KT 5SM BR CLR 21/20 A3016 RMK AO2 KCQB 011135Z AUTO 00000KT 3/4SM BR BKN001 OVC013 19/19 A3009 RMK AO2 CYJT 011100Z 18003KT 15SM FEW018 SCT025 BKN080 21/17 A3021 RMK SC1SC2AC2 SLP231 EGKK 011120Z 19011KT 150V240 9999 SCT022 21/15 Q1009 KCQC 011140Z AUTO 11006KT 10SM FEW003 OVC010 13/12 A3036 RMK AO2 CIG 005V013 T01280122 KCOU 011054Z AUTO 16004KT 10SM CLR 17/16 A3007 RMK AO2 SLP175 T01670156 EHBK 011125Z AUTO 26005KT 170V340 9999 NCD 25/14 Q1011 NOSIG CYLC 011100Z 00000KT 3/8SM FG VV004 07/07 A3014 RMK FG8 VV 8.9/5.5/0.0/0 SLP209 EGLC 011120Z 21007KT 140V250 9999 SCT036 23/13 Q1008 CYKL 011100Z AUTO 00000KT 9SM BKN070 OVC085 15/12 A3002 RMK SLP173 DENSITY ALT 1900FT CYLD 011134Z 00000KT 15SM OVC008 RMK SC8 KDFW 011133Z 02010KT 10SM OVC009 22/19 A3002 RMK AO2 T02170189 $ KCQF 011135Z AUTO 03003KT 10SM CLR 21/18 A2998 RMK AO2 CYKO 311900Z 14005KT 15SM BKN040 OVC220 14/09 A3003 RMK SC6CI2 LAST OB NEXT 011200 UTC REDUCED PROGRAM SLP172 EGLF 011120Z 20011KT 9999 FEW020 SCT048 23/13 Q1008 CXTO 011100Z AUTO 17/14 RMK AO1 SLP186 T01730143 53011 CXTP 011100Z AUTO 23008KT 21/20 RMK AO1 SLP249 T02110196 53010 OSDI 011100Z 22006KT CAVOK 39/06 Q1007 EFTP 011120Z AUTO 22013KT 9999 FEW041 BKN085 23/13 Q1011 CYKQ 312100Z 24006KT 12SM FEW025 SCT030CB BKN050 OVC080 15/14 A2985 RMK SF1CB2SC3AC2 CB W LAST OBS/NEXT 011300 UTC SLP109 DENSITY ALT 200FT KCPR 011053Z 28003KT 10SM CLR 11/04 A3022 RMK AO2 SLP173 T01110044 CYLH 011100Z AUTO 21003KT 9SM OVC033 10/09 A3002 RMK SLP175 NZWB 010926Z 36018KT 15KM SCT006 13/12 Q1018 RMK NZNS VATSIM USE ONLY KCPS 011137Z 00000KT 4SM BR CLR 16/15 A3008 RMK AO2 T01560150 KBYS 011055Z AUTO 26005KT 10SM CLR 29/07 A2993 RMK AO2 SLP069 T02880069 $ CYLJ 010000Z 32003KT 15SM FEW045TCU SCT090 SCT250 27/20 A3004 RMK TCU1AC2CI1 CI TR LAST OB/NXT 011200 UTC SLP174 DENSITY ALT 3100FT CYMA 011100Z 35004KT 20SM FEW050 OVC080 10/06 A3016 RMK SC2AS6 SLP227 EFVA 011120Z AUTO 24013KT 210V270 9999 FEW031/// 24/13 Q1007 KCPT 011135Z AUTO 33003KT 10SM BKN009 OVC012 21/20 A3004 RMK AO2 CZDB 011100Z AUTO 02001KT 11/10 RMK AO1 SLP242 T01130096 53008 CYLK 010000Z 29009G15KT 4SM FU OVC030 14/07 A3013 RMK SC8 15.0/13.0/0 LAST OB/NEXT 011400Z SLP210 ORMM 011100Z 28014KT CAVOK 47/04 Q0997 NOSIG CYLL 011142Z AUTO 06010G17KT 9SM SCT095 OVC140 16/15 A3013 RMK LTNG DIST NE E PRESFR PCPN 0.5MM PAST HR SLP202 DENSITY ALT 2500FT EGLL 011120Z 19008KT 150V230 9999 FEW031 SCT046 23/14 Q1008 EGMC 011120Z 19009KT 9999 FEW030 22/13 Q1008 EFTU 011120Z AUTO 24010KT 200V290 9999 SCT039/// 23/13 Q1011 KCQM 011135Z AUTO 00000KT 4SM BR SCT001 08/08 A3006 RMK AO2 EGMD 011120Z 21016KT 9999 FEW016 SCT020 21/16 Q1010 CXTV 011100Z AUTO 07005KT 04/03 RMK AO1 SLP138 T00440033 58020 KCRE 011107Z 17004KT 10SM FEW017 SCT022 OVC110 26/22 A3003 RMK AO2 T02560217 KDHN 011053Z 05003KT 7SM CLR 20/19 A3002 RMK AO2 SLP160 T02000189 $ KDGW 011053Z AUTO 00000KT 10SM CLR 12/07 A3022 RMK AO2 SLP180 T01170067 KBZN 011056Z AUTO 00000KT 10SM CLR 10/06 A3021 RMK AO2 SLP195 T01000061 KCRG 010953Z 00000KT 9SM CLR 25/23 A2994 RMK AO2 SLP138 T02500233 KBYY 011135Z AUTO 19004KT 10SM SCT025 SCT038 OVC120 23/23 A2996 RMK AO2 P0003 T02340234 CZCP 011118Z AUTO 31011KT 9SM BKN012 OVC021 03/ A2999 CYKY 011100Z 33005KT 15SM BKN050 BKN260 14/14 A3009 RMK SC6CI1 SLP184 DENSITY ALT 2500FT KCRH 011135Z AUTO 20007KT 10SM CLR 29/22 A2997 RMK A01 ORNI 011100Z 35018KT CAVOK 45/03 Q0998 NOSIG CYMH 011100Z 26011G17KT 15SM FEW020 FEW120 21/15 A3007 RMK CF1AC1 SLP184 DENSITY ALT 500FT CYKZ 011100Z 04002KT 15SM FEW080 15/13 A3009 RMK AC1 AC TR SLP188 NZWK 011100Z 35007KT 35KM SCT013 15/14 Q1027 RMK ALT NZTG VATSIM USE ONLY CZCR 011100Z AUTO 29001KT 16/14 RMK AO1 SLP213 T01570140 53012 KDIJ 011056Z AUTO 00000KT 10SM CLR 10/05 A3029 RMK AO2 T01000050 SLP171 CYMJ 011100Z 09005KT 12SM FEW060 BKN260 16/15 A3004 RMK SC1CI6 SLP171 KDHT 011053Z AUTO 24004KT 9SM BKN075 OVC120 19/14 A3022 RMK AO2 SLP180 T01890144 CYNA 011100Z AUTO 29007KT 1/4SM FG VV002 17/16 A3010 RMK SLP192 KCQT 011147Z AUTO 00000KT 7SM CLR 19/17 A2991 RMK AO2 SLP125 T01940167 10200 20189 55000 KDIK 011056Z AUTO 17007KT 10SM CLR 14/12 A3003 RMK AO2 SLP153 T01390117 CYLT 311900Z 14002KT 15SM FEW020 SCT100 03/01 A3010 RMK SC1AC4 LAST OBS/NXT 011200 UTC SLP197 EFUT 011120Z 20011KT 160V230 9999 FEW041CB BKN080 24/14 Q1011 CYNC 312000Z 04007KT 10SM -SHRA BKN020TCU BKN040 17/13 A2987 RMK TCU3SC1 LAST OBS/NEXT 011300 UTC SLP117 CYLU 312100Z 05005KT 15SM FEW038 FEW120 21/11 A3007 RMK CU1AC1 LAST OBS/NEXT 011200Z SLP184 EGNC 011120Z 17002KT 9999 -RA FEW014 SCT022 OVC040 16/13 Q1005 NZWN 011130Z AUTO 36029G42KT 3500 -RA BR OVC013/// 14/14 Q1017 RERA TEMPO 9999 SCT013 TXKF 011055Z 09007KT 9999 FEW020 27/22 Q1023  EHDL 011125Z AUTO 21007KT 9999 SCT039 25/16 Q1010 BLU CXVM 011100Z AUTO 04005KT 17/15 RMK AO1 PK WND 05018/1004 T01680147 50179 CYND 011100Z 06003KT 8SM BKN045 BKN090 14/14 A3010 RMK SC5AC2 SLP193 CYMM 011100Z AUTO 33008KT 3SM BR OVC018 12/10 A3025 RMK SLP249 KCQW 011135Z AUTO 00000KT 5SM BR BKN022 22/21 A3005 RMK AO2 LTG DSNT S NZWP 011109Z 01013KT 15KM VCSH BKN008 16/15 Q1026 RMK NZAA VATSIM USE ONLY CXVN 011100Z AUTO 20006KT 19/16 RMK AO1 3007 SLP172 T01880157 50017 CYNE 011100Z AUTO 14005KT 9SM CLR 14/08 A3002 RMK SLP173 CYLW 011100Z AUTO 03002KT 9SM CLR 14/10 A3005 RMK SLP169 KCQX 011052Z AUTO 00000KT 10SM CLR 21/18 A3023 RMK AO2 SLP236 T02110178 CYMO 011100Z AUTO 31006KT 9SM OVC075 12/11 A2991 RMK SLP129 KCSG 011136Z AUTO 08007KT 10SM OVC009 22/19 A3002 RMK AO2 KCRP 011051Z 00000KT 10SM FEW011 BKN250 25/23 A2993 RMK AO2 SLP133 T02500233 NZWR 011109Z 01013KT 15KM VCSH BKN008 16/15 Q1026 RMK NZAA VATSIM USE ONLY KCRQ 011053Z AUTO 00000KT 10SM OVC010 21/17 A2990 RMK AO2 SLP122 T02060172 TSNO NZWS 011100Z 09008KT 2000 DZ SCT009 12/11 Q1017 RMK ALT VATSIM USE ONLY EGNH 011120Z 19016G28KT 160V230 4000 RA FEW002 SCT010 BKN014 17/16 Q1005 EHEH 011125Z AUTO 25004KT 9999 NCD 25/16 Q1010 BLU 24003KT 9999 SCT035 SCT300 KCRS 011053Z AUTO 35008KT 10SM OVC006 21/19 A3000 RMK AO2 SLP155 T02110194 EFVR 011120Z AUTO 21007KT 130V290 CAVOK 25/11 Q1010 NZWU 011015Z 31007KT 30KM FEW040 BKN065 15/12 Q1021 RMK NZPM VATSIM USE ONLY CYOA 011100Z 25006KT 15SM BKN040 BKN220 06/04 A3014 RMK SC5CI1 9.4/5.6/0 SLP230 CZFA 010100Z 27007KT 220V310 30SM FEW060 FEW080 FEW220 18/M00 A3023 RMK CU1AC1CI1 AC TR CI TR CLIMAT 18.2/5.1/0.0 LAST OBS/NEXT 011300UTC SLP256 DENSITY ALT 2900FT EGNJ 011120Z 21011KT 7000 FEW030 SCT036 22/15 Q1007 KCTB 011056Z AUTO 29008KT 10SM CLR 13/12 A3018 RMK AO2 SLP186 T01330117 KDKB 011135Z AUTO 00000KT 7SM TS CLR 15/13 A3010 RMK AO2 LTG DSNT SE AND S T01500131 CYMT 011100Z 23007KT 8SM -RA BKN005 OVC015 13/12 A2993 RMK SF3ST5 SLP138 CYMU 312100Z 26003KT 15SM FEW020 BKN045 BKN070 19/17 A2993 RMK SC2SC3AC2 LAST OBS/ NEXT 011200Z SLP137 CYOC 312000Z 24007KT 35SM FEW026 FEW040 BKN200 18/05 A3008 RMK CF1SC1CI6 CF TR SC TR CLIMAT 18.0/1.5/0.0 MM/LAST OBS/NEXT 011300 UTC SLP197 DENSITY ALT 1100FT CZEL 011100Z AUTO 06002KT 12/11 RMK AO1 SLP191 T01180110 53011 KCSM 011053Z AUTO 28004KT 10SM CLR 18/17 A3012 RMK AO2 SLP181 T01780167 CZEM 311300Z 11005KT 15SM SCT050 BKN070 BKN220 17/12 A2984 RMK SC4AC0CI0 LAST OBS/NEXT 031400 UTC SLP105 CXWM 011100Z AUTO 31007KT 15/13 RMK AO1 T01520133 CYNM 011100Z AUTO 23008KT 9SM OVC003 12/11 A2992 RMK ICG MISG SLP138 CYOD 011100Z 01008KT 15SM BKN120 BKN180 16/14 A3016 RMK AC5AC1 SLP215 EGNM 011120Z 19008KT 160V220 9999 SCT020 BKN030 17/14 Q1006 EHDV 011125Z AUTO 21015KT 170V240 9999 FEW007/// 18/17 Q1008 EHFD 011125Z AUTO 19012KT 9999 FEW010/// 20/17 Q1009 KCRW 011054Z 00000KT 4SM BR FEW002 BKN090 17/17 A3012 RMK AO2 SLP190 VLY FG T01720167 CXVW 011100Z AUTO 36006KT 11/11 RMK AO1 T01100107 CXWN 011100Z AUTO 33001KT 17/12 RMK AO1 SLP171 T01730123 52006 KCRX 011135Z AUTO 00000KT 5SM BR FEW085 19/18 A3006 RMK AO2 EGNO 011120Z 19011KT 8000 RA SCT008 BKN014 18/17 Q1004 CYMX 011100Z 10002KT 25SM SCT080 14/14 A3013 RMK AC3 ACC ASOCTD SLP203 KEBG 011135Z AUTO 16006KT 7SM CLR 27/24 A2990 RMK AO2 T02710236 KCSQ 011135Z AUTO 00000KT 9SM CLR 17/16 A3009 RMK AO2 UNTT 011130Z 21003MPS 9999 FEW030CB SCT050 OVC066 20/16 Q1015 NOSIG RMK QFE746 21190055 KEAR 011135Z AUTO 27005KT 4SM CLR 14/13 A3009 RMK AO1 EGNR 011120Z 16009KT 9000 FEW015 19/16 Q1005 KCTJ 011135Z AUTO 00000KT 4SM BR OVC003 20/19 A3007 RMK AO2 CYPA 011100Z 31007KT 15SM FEW050CB SCT110 BKN160 BKN250 16/15 A3007 RMK CB1AC3AC2CI1 CB DIST N MOVG E PRESRR SLP185 DENSITY ALT 1600FT CYOJ 011120Z AUTO 34004KT 9SM BKN019 08/07 A3030 RMK SLP272 KCUB 011053Z AUTO 00000KT 6SM BR OVC007 23/21 A3004 RMK AO2 LTG DSNT NW SLP169 T02280206 KDKK 011053Z AUTO 20011G20KT 10SM CLR 18/13 A3011 RMK AO2 SLP193 T01830133 EGNS 011120Z 19004KT 9999 FEW003 SCT012 BKN017 14/13 Q1004 NOSIG EGPA 011120Z 08010KT 9999 FEW012 16/13 Q1005 KEAT 011055Z AUTO 31005KT 10SM CLR 24/12 A2996 RMK AO2 SLP132 T02440117 EGPB 011120Z 06009KT 9999 FEW020 15/12 Q1007 EGNT 011120Z 00000KT 9000 -RA SCT017 BKN040 16/14 Q1005 KEAU 011056Z 23004KT 10SM CLR 17/16 A3003 RMK AO2 SLP165 T01670161 CYPC 312300Z 30014KT 10SM -RA OVC007 05/03 A3014 RMK SC8 CIG RAG 5.7/3.3/1.2MM LAST OB/NEXT 011300Z SLP207 ZUGY 011100Z 17002MPS 130V200 9999 SCT033 23/20 Q1008 RETS NOSIG KCSV 011053Z AUTO 00000KT 4SM BR CLR 16/14 A3014 RMK AO2 SLP188 T01560139 EGPC 011120Z 06011KT 9999 FEW012 SCT016 14/12 Q1005 CZFM 312300Z 01004KT 290V060 35SM FEW100 16/06 A3008 RMK AC1 16.4/1.6/0.0/ LAST OBS/NXT 011300Z SLP189 EGNV 011120Z 17012KT 7000 -SHRA FEW015 BKN025 18/16 Q1005 CZEV 011100Z AUTO 08006KT 07/03 RMK AO1 SLP143 T00680034 58019 EGOM 011050Z 19005KT 9999 -RA FEW010 SCT022 BKN040 14/12 Q1005 WHT CYPD 011100Z AUTO VRB02KT 9SM BKN004 OVC032 19/18 A3023 RMK SLP238 DENSITY ALT 500FT EGPD 011120Z 17007KT 9999 FEW015 SCT031 17/14 Q1004 NOSIG CZFN 312300Z 21004KT 30SM FEW045 14/05 A3022 RMK CU2 14.5/11.0/0 LAST OB/NEXT 011500Z SLP238 CYPE 011100Z 36008KT 10SM SKC 12/10 A3025 RMK FU SLP251 KDLF 011058Z AUTO 05006KT 10SM BKN200 25/19 A2998 RMK AO2 SLP138 T02530189 $ EGPE 011120Z 00000KT 9999 -RA FEW002 SCT006 BKN011 14/14 Q1004 CYOO 011100Z AUTO 07002KT 9SM BKN090 15/14 A3008 RMK SLP186 EGPF 011120Z 23007KT 9999 SCT022 BKN038 17/12 Q1004 EGNX 011120Z 19013KT 9999 SCT028 SCT036 21/14 Q1007 KECG 011054Z 06006KT 10SM CLR 23/21 A3013 RMK AO2 SLP203 T02330206 CYPG 011100Z 23002KT 8SM FEW200 16/13 A3006 RMK CI1 FST OBS FU SLP181 EGOP 011050Z 20013KT 5000 RA FEW005 BKN060 16/15 Q1006 WHT EHGG 011125Z AUTO 17008KT 110V220 9999 NSC 26/13 Q1010 NOSIG KDLH 011139Z 07003KT 6SM BR FEW001 14/12 A3006 RMK AO2 T01390117 KCUH 011135Z AUTO 00000KT M1/4SM FG OVC001 17/17 A3009 RMK AO2 CXYH 011100Z AUTO 32001KT 03/03 RMK AO1 SLP230 T00300026 58006 CYPH 011100Z AUTO 04011KT 9SM CLR 13/11 A2994 RMK SLP140 EGPH 011120Z 18004KT 130V230 9999 FEW026 17/11 Q1004 KDKR 011135Z AUTO 31003KT 4SM BR FEW004 BKN010 BKN013 23/23 A2999 RMK AO2 KEBS 011135Z AUTO 24005KT 6SM BR BKN080 13/13 A3008 RMK AO2 KDMA 011124Z AUTO 36007KT 10SM -RA FEW021 24/20 A3007 RMK AO2 LTG DSNT SW EGPI 011120Z 25008KT 220V280 9999 FEW020 16/12 Q1004 EGQA 010750Z 10005KT 9999 FEW008 SCT025 15/// Q1005 BLU CZFS 011100Z AUTO 17002KT 06/03 RMK AO1 SLP249 T00600031 56009 EGOS 011122Z 17011KT 8000 HZ FEW008 FEW018TCU BKN080 18/16 Q1006 BLU TEMPO 7000 -SHRA SCT012 GRN CYQA 011101Z AUTO 13002KT 6SM BR CLR 11/11 A3006 RMK SLP182 EHFS 011125Z AUTO VRB02KT 9999 NSC 22/16 Q1010 KCVB 011135Z AUTO 05004KT 10SM SCT034 25/16 A3002 RMK AO2 T02540162 CYQB 011100Z 00000KT 20SM VCFG FEW008 FEW080 14/14 A3014 RMK ST1AC1 AC TR SLP206 EGPK 011120Z 28006KT 9999 FEW021 SCT045 17/12 Q1004 KEDC 011135Z AUTO 33008KT 10SM SCT050 OVC065 22/18 A3002 RMK AO2 KCUL 011135Z AUTO 00000KT 1/4SM FG VV002 17/16 A3009 RMK AO2 KCVC 011135Z AUTO 07005KT 10SM BKN007 OVC022 20/18 A3006 RMK AO2 KDLL 011135Z AUTO 00000KT 10SM CLR 15/13 A3006 RMK AO2 T01530129 CXZC 011100Z AUTO 31005KT 12/12 RMK AO1 2PAST HR 3014 SLP128 P0001 T01220116 50002 CYPL 011100Z 15005KT 15SM BCFG FEW020 SCT080 SCT270 10/09 A3002 RMK SC2AC1CI1 SLP174 EGPL 011120Z 12005KT 9999 9000NE VCSH SCT008 BKN012 14/12 Q1003 VGEG 011050Z 20006KT 6000 SCT016 BKN100 30/26 Q0999 NOSIG CYQD 011100Z 15004KT 12SM SCT045 SCT070 OVC080 OVC220 15/15 A2999 RMK SC3AC1AS0CS0 TR AC SLP157 KDLN 011053Z AUTO 20006KT 10SM CLR 11/06 A3024 RMK AO2 SLP192 T01060056 EGPM 011120Z 07011KT 9999 FEW019 14/10 Q1007 KEDE 011135Z AUTO 00000KT 7SM RA SCT044 SCT065 SCT075 22/21 A3011 RMK AO2 T02170205 EGOV 011134Z 27007KT 4000 -RADZ FEW004 SCT009 BKN016 15/14 Q1005 GRN BECMG 9999 NSW SCT016 WHT EGPN 011120Z 23004KT 200V260 9999 SCT017 SCT030 19/14 Q1004 CYOW 011100Z 20002KT 15SM FEW050 BKN100 16/14 A3009 RMK SC2AC4 SLP191 CYQF 011100Z 03005KT 15SM FEW030 FEW140 BKN200 15/14 A3018 RMK SC1AC1CI5 SLP217 DENSITY ALT 3300FT KECP 011053Z 00000KT 10SM CLR 21/18 A2996 RMK AO2 SLP156 T02060183 KCVG 011052Z 00000KT 4SM BR FEW100 18/17 A3012 RMK AO2 SLP189 PTCHY MIFG SW N-NE T01830167 KCTY 011053Z AUTO 00000KT 20/19 A2997 RMK AO1 SLP148 T02000189 EGPO 011120Z 15006KT 9999 SCT011 SCT016 16/12 Q1004 KDLP 011135Z AUTO VRB03KT 10SM CLR 27/20 A2998 RMK A01 CYOY 011100Z AUTO 00000KT 1/8SM VV001 13/13 A3013 RMK SLP206 CYQG 011100Z 22004KT 7SM FEW270 17/15 A3008 RMK CI1 SLP185 KCVH 011130Z AUTO 20004KT 7SM CLR 13/13 A2991 RMK AO1 KDMH 011054Z AUTO 23/20 A3016 RMK AO1 SLP213 T02330200 KCTZ 011135Z AUTO 07003KT A3008 RMK AO2 PWINO CYPQ 011100Z AUTO 00000KT 9SM CLR 12/12 A3010 RMK SLP192 CYQH 011100Z 00000KT 30SM FEW030 10/05 A3024 RMK SC2 SLP255 EHFZ 011125Z AUTO 20012KT 9999 NSC 19/16 Q1010 CYQI 011100Z 00000KT 12SM BKN120 BKN250 15/15 A3025 RMK AC5CI2 SLP244 CYPR 011009Z AUTO 26005KT 3/8SM FG OVC002 12/12 A3021 RMK SLP229 KDLS 011053Z AUTO 32010G20KT 10SM CLR 24/14 A2992 RMK AO2 PK WND 32026/1006 SLP129 T02440139 KCWA 011105Z 00000KT 1SM BR OVC002 13/13 A3005 KEDJ 011125Z AUTO 00000KT 8SM CLR 14/14 A3012 RMK A01 P000 KECS 011135Z AUTO 10SM CLR 15/06 A3019 RMK AO2 EHGR 011125Z AUTO 19005KT 9999 FEW150 25/15 Q1010 BLU 24005KT CAVOK CYRA 010000Z 00000KT 15SM -RA BKN025 10/05 A3022 RMK SC5 12.2/6.1/1.2/0 INTMT -RA LAST OBS/NEXT 011400Z SLP243 KCUT 011053Z AUTO 26005KT 10SM FEW120 14/06 A3026 RMK AO2 SLP197 T01390061 EGQK 011103Z 30005KT 9999 -RADZ SCT020 BKN060 14/14 Q1003 WHT CYQK 011100Z 05006KT 12SM MIFG FEW060 BKN240 15/11 A3005 RMK SC1CI5 SLP177 DENSITY ALT 1400FT CYRB 011100Z 18004KT 1/4SM R35/1600FT FG VV002 01/01 A2982 RMK FG8 SLP103 KCWC 011135Z AUTO 00000KT 10SM CLR 20/19 A3008 RMK AO2 T01950192 KECU 011130Z AUTO 04007KT 10SM OVC029 22/17 A3010 RMK AO2 CYQL 011100Z AUTO 29015KT 9SM FEW130 17/14 A3016 RMK MAX WND 29017KT AT 1038Z PRESRR SLP200 DENSITY ALT 3600FT EGQL 011050Z 24007KT 9999 -RA FEW019 BKN060 BKN090 18/12 Q1004 BLU NOSIG KEED 011056Z AUTO 20012KT 10SM CLR 35/14 A2983 RMK AO2 SLP061 T03500139 EGPU 011120Z 23011KT 9999 SCT020 15/12 Q1003 KCVN 010615Z 10005KT 10SM CLR 18/12 A3027 RMK AO1 CYQM 011100Z 18005KT 15SM FEW240 16/12 A3021 RMK CI1 SLP229 KDMN 011053Z AUTO 11006KT 10SM -RA SCT021 BKN055 OVC110 18/17 A3021 RMK AO2 SLP153 P0002 T01830172 EGQM 011050Z AUTO 23006KT 9999 -SHRA FEW042/// BKN050/// 17/13 Q1005 CYPW 010200Z 28005KT 50SM FEW035 26/14 A3005 RMK CF1 CF TR LAST OBS/NEXT 011300 UTC SLP174 DENSITY ALT 1600FT KDMO 011053Z AUTO 20003KT 10SM FEW070 17/14 A3008 RMK AO2 SLP178 T01670139 KCWF 011100Z 21004KT 10SM TS OVC110 27/21 A2995 RMK LTG DSNT NE KCVO 011135Z AUTO 30010KT 10SM 16/13 A3000 RMK AO1 CYPX 011100Z AUTO 06006KT 9SM CLR 10/09 A3002 RMK SLP165 CYPY 011128Z AUTO 31004KT 5SM BR CLR 08/06 A3029 RMK SLP265 KDLZ 011136Z AUTO 00000KT 4SM BR CLR 15/15 A3014 RMK AO2 CYQQ 011100Z 31003KT 20SM SKC 16/07 A3006 RMK SLP179 KCWI 011135Z AUTO 21007KT 9SM CLR 17/15 A3010 RMK AO1 LTG DSNT S KCVS 011058Z AUTO 00000KT 10SM OVC080 18/13 A3023 RMK AO2 SLP181 T01750127 $ CYQR 011100Z 11009KT 15SM BKN270 16/14 A3008 RMK CI7 AC TR SLP184 DENSITY ALT 2300FT CYRJ 011100Z 22006G15KT 190V260 40SM FEW030 BKN070 16/13 A3002 RMK SC1AC7 SC TR SLP169 DENSITY ALT 600FT EGQS 011050Z 26004KT 9999 -DZ FEW015 OVC060 16/13 Q1003 BLU TEMPO 7000 RADZ SCT012 GRN EHJA 011125Z AUTO 18009KT 9999 NSC 19/16 Q1009 CYSB 011100Z 28003KT 20SM VCFG BKN080 BKN120 12/12 A3002 RMK AC5AC2 SLP169 CYQT 011100Z 26004KT 20SM BKN060 10/10 A3003 RMK SC5 SLP173 KDNL 011142Z AUTO 36009KT 10SM OVC006 21/19 A3005 RMK AO2 T02060189 KEDU 011135Z AUTO 00000KT 10SM CLR 17/14 A2982 RMK AO1 OTBD 010930Z 07008KT 020V110 7000 NSC 39/26 Q0998 NOSIG EGSC 011120Z 17009KT 130V260 9999 SCT032 23/14 Q1008 KEFD 011050Z 23005KT 8SM SCT050 BKN250 24/23 A2996 CXZU 011100Z AUTO 12/12 RMK AO1 SLP226 T01220117 50004 CYSC 011100Z AUTO 00000KT 9SM CLR 13/12 A3017 RMK SLP219 CYRL 011124Z 00000KT 15SM FEW220 08/08 A3006 RMK CI1 SLP187 CYQU 011100Z 04005KT 6SM FU SCT090 13/11 A3023 RMK FU2AC2 SLP241 CYSD 312100Z 06006KT 25SM FEW070TCU FEW250 33/10 A3004 RMK TCU1CI1 DA5145FT CB TOP NE SE SLP160 CYQV 311900Z AUTO VRB02KT 9SM CLR 27/13 A3008 RMK SLP187 DENSITY ALT 3100FT EGSD 011120Z 14008KT 9999 SCT030 22/18 Q1008 CXZV 011100Z AUTO 22002KT 15/15 RMK AO1 SLP188 T01480148 51013 KEEN 011135Z AUTO 00000KT 6SM OVC008 16/11 A3023 RMK AO1 KCWN 011056Z AUTO 28003KT 10SM BKN070 13/08 A3033 RMK AO2 SLP214 T01310082 KCVW 011135Z AUTO 26005G15KT 10SM FEW029 FEW043 OVC095 28/24 A2995 RMK A01 KCXE 011135Z AUTO 36003KT 4SM SCT070 OVC110 21/21 A3017 RMK AO1 P0002 T02100210 KDNN 011135Z AUTO 00000KT 7SM OVC110 18/18 A3009 RMK AO2 KDMW 011140Z AUTO 14004KT 7SM CLR 21/20 A3018 RMK AO2 KEDW 011058Z AUTO 20008KT 10SM CLR 24/07 A2992 RMK AO2 SLP101 T02440069 $ CYQW 011100Z AUTO 29008KT 8SM 16/15 A3014 RMK LTNG DIST W PRESRR CLD MISG SLP208 DENSITY ALT 2000FT KEEO 011053Z AUTO 05004KT 10SM CLR 12/09 A3025 RMK AO2 SLP161 T01220089 KCVX 011135Z AUTO 00000KT 4SM BR CLR 13/13 A3007 RMK AO2 T01340134 CYQX 011125Z 21011KT 20SM -SHRA FEW017 BKN062 BKN090 OVC130 21/20 A3026 RMK SC1SC4AC2AC1 SLP245 DENSITY ALT 900FT CYSF 011100Z AUTO 33003KT 300V010 8SM BKN032 15/10 A3014 RMK SLP212 CZHY 011100Z AUTO 22002KT 07/04 RMK AO1 SLP262 T00680035 55000 CYQY 011124Z 17003KT 4SM BR BKN004 OVC032 RMK ST5SC3 CYRQ 011100Z AUTO 00000KT 9SM BKN100 13/12 A3012 RMK SLP199 CYQZ 011100Z AUTO VRB02KT 9SM CLR 11/09 A3015 RMK SLP212 EGSH 011120Z 20009KT 150V240 9999 FEW030 22/16 Q1008 NOSIG KDPA 011052Z 00000KT 5SM BR CLR 17/16 A3007 RMK AO2 LTG DSNT SE AND S SLP178 T01670156 KDNS 011135Z AUTO 03003KT 5SM BR CLR 13/13 A3007 RMK AO2 CYSJ 011100Z 17004KT 1/2SM R23/3500V5000FT/N FG OVC002 14/14 A3025 RMK SF8 SLP243 KEET 011053Z AUTO 00000KT 7SM CLR 21/19 A3003 RMK AO2 SLP162 T02110194 KEFK 011135Z AUTO 00000KT 10SM SCT075 BKN090 16/14 A3020 RMK AO2 T01590143 CYSK 312200Z 01016KT 15SM FEW040 11/08 A2996 RMK SC2 11.9/7.8/M/M LAST OBS/NEXT 011200UTC SLP148 CYRT 011100Z 14009KT 15SM FEW250 09/07 A2995 RMK CI2 SLP145 EGTC 011120Z 20011KT 160V230 9999 SCT035 22/14 1008 KCWV 011135Z AUTO 00000KT 1/4SM FG OVC001 A3000 RMK AO2 LTG DSNT E AND SE KDNV 011135Z AUTO 00000KT 4SM BR CLR 14/14 A3008 RMK AO2 T01430139 CYSM 011100Z 00000KT 1SM BR FU SKC 07/06 A3030 RMK FU2 SLP267 CYRV 011100Z AUTO 00000KT 9SM CLR 15/12 A3009 RMK SLP182 DENSITY ALT 1600FT KEGE 011135Z AUTO 05003KT 10SM BKN065 OVC085 12/11 A3033 RMK AO1 EHKD 011125Z AUTO 24009KT 9999 NCD 22/16 Q1010 BLU 220009KT CAVOK CYTE 011000Z AUTO 10006KT 9SM CLR 12/09 A3005 RMK SLP178 CYSN 011100Z 18007KT 15SM FEW053 SCT110 18/16 A3007 RMK SC1AC2 SLP183 DENSITY ALT 500FT KCXO 011100Z AUTO 32008KT 10SM SCT014 OVC022 23/22 A2997 RMK AO2 T02330217 EGTE 011120Z 18010KT 9999 FEW020 SCT035 19/16 Q1007 KCXP 011135Z AUTO 35003KT 10SM BKN110 18/08 A3017 RMK AO2 CYSP 312100Z 24002KT 12SM BKN006 BKN012 BKN024 14/12 A2991 RMK SC5SC2SC1 CIG RAG LAST OBS/NEXT 011200UTC SLP136 CYTH 011127Z 05003KT 6SM -SHRA BR FEW020 SCT065CB BKN110 BKN220 RMK SC1CB2AC2CI2 KEGI 011058Z AUTO 36002KT 10SM CLR 18/18 A2998 RMK AO2 SLP153 T01830182 $ EHJR 011125Z AUTO 17007G08KT //// ///////// 19/16 Q1009 W19/H6 OSLK 011100Z 24010KT 9999 FEW026 30/23 Q1007 KEHA 011128Z AUTO 26006KT 16/12 RMK AO1 PK WND 09 000 T01610117 CYUA 011122Z AUTO 10002KT 9SM -RA FEW001 BKN027 BKN066 07/ A2995 RMK ICG EGSS 011120Z 18009KT 9999 FEW034 SCT045 22/14 Q1008 KEFT 011130Z AUTO 21004KT 10SM VCTS CLR 16/13 A3007 RMK AO2 EGTK 011120Z 20010KT 170V240 9999 FEW034 21/13 Q1007 CYUB 010500Z 06008KT 15SM BKN014 BKN220 05/01 A3009 RMK SC6CI1 6.6/3.7/TR/LAST OBS/NXT 011300UTC SLP190 EGUB 011050Z 18009KT 9999 FEW030 OVC050 21/12 Q1008 BLU NOSIG KEHC 011135Z AUTO 24010KT 10SM 30/23 A2996 RMK A01 KDPL 011135Z AUTO 00000KT 5SM RA SCT055 OVC100 22/20 A3011 RMK AO2 T02150202 CYTL 011100Z AUTO 06003KT 020V090 9SM FEW007 OVC021 11/09 A3004 RMK SLP179 KDOV 011058Z AUTO 17007KT 10SM BKN140 21/20 A3016 RMK AO2 SLP216 T02120201 KCXY 011056Z 00000KT 6SM BR FEW100 18/17 A3016 RMK AO2 SLP212 T01830172 CYSY 312300Z 34019KT 10SM BCFG BKN012 03/02 A3003 RMK SC7 3.2/0.6/TR/TR/ LAST OBS/NXT 011300Z SLP178 VGHS 011050Z 18009KT 5000 HZ SCT015 BKN100 32/24 Q0997 NOSIG KDQH 011135Z AUTO 06003KT 10SM BKN065 OVC080 25/22 A3000 RMK AO2 LTG DSNT E CYTQ 312100Z 06005KT 15SM FEW024 SCT034 19/12 A3002 RMK CU2SC2 LAST OBS/NXT 011200Z SLP166 CYTR 011100Z 20005KT 15SM FEW058 SCT098 SCT220 19/16 A3009 RMK SC2AC2CI1 SLP190 KCYS 011053Z AUTO 27009KT 10SM CLR 11/08 A3029 RMK AO2 SLP182 T01060078 KDRA 011052Z AUTO 04013KT 10SM CLR 28/09 A2999 RMK AO2 SLP095 T02780089 CYTS 011130Z 26003KT 6SM BR SCT003 OVC008 12/11 A3000 RMK SF3SC5 SLP163 EGVA 011123Z AUTO 23011KT 9999 FEW032 SCT048 BKN065 22/13 A2974 RMK AO2 EHMA 011125Z AUTO 32007KT 9999 NSC 20/17 Q1010 EICK 011130Z 19003KT 150V220 9999 SCT018 BKN080 16/12 Q1005 NOSIG CYVC 011100Z 30005KT 15SM FEW015 BKN060 BKN250 15/15 A3007 RMK CU1SC5CI1 SLP185 DENSITY ALT 1300FT CYUL 011100Z 11004KT 30SM FEW080 16/13 A3012 RMK AC1 SLP199 EGUL 011058Z AUTO 18009KT 9999 FEW034 23/15 A2975 RMK AO2 SLP077 T02310152 KEGV 011135Z AUTO 00000KT 1SM BR VV007 09/09 A3006 RMK AO2 T00850085 CZMD 011100Z AUTO 00000KT 9SM CLR 09/07 A3003 RMK SLP176 EHKV 011125Z AUTO 20008KT 9999 NSC 20/17 Q1010 KEHO 011135Z AUTO 36007KT 5SM RA BKN006 BKN018 OVC060 18/17 A3011 RMK AO2 T01770172 EGUN 011058Z AUTO 21008KT 9999 SCT034 SCT043 22/16 A2976 RMK AO2 SLP081 T02240163 EGUO 011050Z 21014KT 9000 VCSH SCT008 BKN025 17/15 Q1009 GRN EHMG 011125Z AUTO 22012KT 9999 NCD 19/17 Q1010 CYTZ 011100Z AUTO 00000KT 9SM CLR 17/15 A3008 RMK SLP185 DENSITY ALT 300FT KEHR 011135Z AUTO 00000KT 1/2SM BKN100 16/14 A3008 RMK AO1 KDRI 011135Z AUTO 00000KT 3SM BR SCT012 BKN075 OVC110 25/24 A2996 RMK AO2 T02450236 CZMJ 011100Z AUTO 09005KT 15/14 RMK AO1 SLP173 T01490139 58016 CYUS 011147Z AUTO 31012KT OVC002 OVC024 OVC036 03/ A2989 CYWA 011127Z AUTO 12003KT 9SM FEW035 FEW057 OVC070 16/14 A3005 KEIK 011135Z AUTO 00000KT 10SM CLR 13/11 A3025 RMK AO2 T01260111 KCZT 011135Z AUTO 08007KT 10SM CLR 27/22 A2994 RMK AO2 CYUT 312100Z 12014KT 25SM FEW008 FEW015 SCT075 09/06 A3007 RMK ST1SC2AS2 ST TR 10.9/5.9/0.0/0 LASTOBS/NEXTOB 011400 SLP185 EIDL 011100Z VRB03KT CAVOK 15/12 Q1005 EGWC 011050Z 18010KT 7000 HZ FEW008 BKN022 19/16 Q1007 WHT KDRM 011134Z AUTO 00000KT M1/4SM FG OVC001 13/13 A3003 RMK AO2 T01290129 CYVM 011100Z AUTO 21008KT 9SM CLR 07/06 A3007 RMK SLP183 KDRO 011053Z AUTO 06005KT 10SM BKN055 15/11 A3031 RMK AO2 LTG DSNT NE SLP174 T01500106 CYWE 011100Z AUTO 22009KT 9SM OVC060 08/04 A3016 RMK SLP233 EGVN 011050Z 20007KT 9999 FEW030 SCT050 BKN250 21/13 Q1008 BECMG SCT020 EGUW 011050Z 19008KT 9999 FEW023 BKN250 21/14 Q1008 BLU NOSIG EHLW 011140Z AUTO 21008KT 9999 SCT049 25/13 Q1010 BLU 21008KT 9999 SCT040 KFAF 011125Z AUTO 02001KT 10SM CLR 22/22 A3014 RMK AO2 DZB1056E1125 $ CYUX 011100Z AUTO 21010KT 9SM CLR 07/06 A2996 RMK SLP146 CYVO 011128Z 20004KT 3SM -RA BR SCT009 OVC032 12/12 A3000 RMK SF4SC4 SLP168 EGVO 011050Z 20011KT 9999 SCT028 SCT060 22/13 Q1008 BLU NOSIG KEHY 011135Z AUTO 00000KT 10SM OVC018 08/04 A3032 RMK AO2 EGUY 011050Z 19007KT 9999 SCT032 BKN180 22/14 Q1008 BLU CYWG 011100Z 29004KT 15SM FEW100 SCT230 12/12 A3006 RMK AC2CI1 FU SLP180 EGVP 011050Z 22008KT 9999 -SHRA SCT017 BKN042 BKN060 19/15 Q1008 WHT BECMG SCT025 BLU CYUY 011100Z 22005KT 10SM -SHRA BKN004 BKN015 OVC035 12/12 A2999 RMK SF5SC2SC1 SLP161 CYVP 011100Z 35003KT 15SM FEW050 SCT095 SCT150 BKN240 14/11 A3001 RMK CU1AC3AC1CI3 CU TR SLP164 KCZZ 011052Z AUTO 03004KT 18/12 A2996 RMK AO1 SLP107 T01780117 CYWH 010400Z 20002KT 15SM FEW250 19/09 A3002 RMK CI0 LAST OBS/NEXT 011300 UTC SLP165 CYVQ 011100Z 06005KT 30SM SCT040 BKN090 BKN200 09/03 A3002 RMK SC4AC2CI1 SLP168 KEIR 011135Z AUTO 00000KT 10SM 28/22 A2998 RMK A01 CYVR 011100Z 05005KT 30SM SKC 18/15 A3003 RMK SLP170 DENSITY ALT 100FT KDTA 011135Z AUTO 13004KT 10SM CLR 16/10 A3017 RMK AO1 T01600099 CYWJ 312300Z 30013G19KT 40SM SCT030 12/01 A3020 RMK SC4 12.5/3.8/0 LAST OBS/NEXT 011300 UTC SLP240 KDRT 011053Z AUTO 00000KT 10SM CLR 26/19 A2998 RMK AO2 SLP132 T02560194 CYWK 011129Z 21004KT 130V240 10SM BKN006 BKN017 15/14 A3003 RMK SF5SC2 SLP176 DENSITY ALT 2100FT CZMT 010000Z 34009KT 15SM BKN200 16/13 A3026 RMK CI1 CONTRAILS LAST OBS/NEXT 011300 UTC SLP247 CYVT 010400Z 33009KT 290V350 12SM TS FEW010 OVC020 21/17 A3004 RMK ST1SC7 OCNL LTG ICCCCG W-NE LAST STFD OBS/NEXT 011200UTC SLP177 DENSITY ALT 2300FT KH21 011135Z AUTO 20003KT 1SM BR VV007 16/16 A3010 RMK AO2 CZMU 011000Z AUTO 34005KT 13/12 RMK AO1 T01310115 CYWL 011100Z 00000KT 15SM SKC 13/08 A3017 RMK SLP211 DENSITY ALT 3200FT CYXC 011100Z 22005KT 25SM FEW210 15/03 A3012 RMK CI2 SLP174 DENSITY ALT 3600FT KDSM 011054Z 00000KT 6SM BR FEW065 SCT080 17/16 A3007 RMK AO2 SLP177 T01720156 KFAM 011135Z AUTO 00000KT M1/4SM OVC002 18/17 A3012 RMK AO1 EGXC 011050Z 19010KT 9999 SCT035 BKN200 22/12 Q1007 BLU NOSIG CYVV 011100Z 17006KT 10SM SKC 14/14 A3004 RMK HAZE SLP174 CYXD 011100Z AUTO 29005KT 9SM CLR 14/12 A3019 RMK SLP222 EGXD 011050Z 18010KT 8000 -RA FEW018 OVC070 18/15 Q1006 RERA BLU TEMPO 7000 RA WHT EGXE 011050Z 17012KT 8000 -RA FEW018 OVC070 18/15 Q1005 BLU TEMPO 7000 BKN018 WHT CYXE 011100Z 33004KT 330V050 15SM FEW140 SCT300 15/14 A3011 RMK AC2CI2 SLP198 DENSITY ALT 1700FT EIDW 011130Z 27009KT 220V300 9999 -SHRA FEW018 SCT025 BKN030 16/12 Q1004 NOSIG KFBG 011058Z AUTO 01001KT 10SM FEW060 22/21 A3007 RMK AO2 SLP183 T02180205 $ CYXH 011100Z AUTO 11005KT 110V200 9SM BKN140 BKN160 18/15 A3009 RMK PRESRR SLP176 DENSITY ALT 3000FT KFAR 011053Z 29003KT 8SM CLR 16/14 A3003 RMK AO2 SLP168 T01560139 KDUA 011135Z AUTO 04005KT 7SM BKN006 OVC012 20/19 A3005 RMK AO2 CYXJ 011100Z 35006KT 15SM FEW110 10/08 A3026 RMK AC1 SLP255 KFAT 011053Z 31004KT 10SM BKN250 27/10 A2982 RMK AO2 SLP094 T02670100 KDUB 011135Z AUTO 30009KT 10SM SCT095 SCT120 08/03 A3037 RMK AO2 CYYB 011100Z 24006KT 15SM SCT010 BKN090 14/13 A3003 RMK CF4AC1 SLP172 DENSITY ALT 1300FT KFBL 011134Z AUTO 00000KT 10SM CLR 14/11 A3007 RMK AO2 KDTL 011134Z AUTO 00000KT 7SM CLR 17/16 A3007 RMK AO2 KDUC 011135Z AUTO 00000KT 10SM OVC029 19/19 A3007 RMK AO2 PWINO TSNO CZOL 011100Z AUTO 33002KT 11/11 RMK AO1 T01140106 EGWU 011050Z 22007KT 9999 SCT032 BKN200 23/14 Q1008 NOSIG CYXL 011100Z 00000KT 15SM BKN210 09/09 A3004 RMK CI6 SLP180 CYYC 011100Z 24003KT 15SM FEW090 SCT240 16/10 A3020 RMK AC1CI3 SLP219 DENSITY ALT 4100FT CZPC 011100Z AUTO 26008KT 9SM CLR 12/11 A3023 RMK SLP240 DENSITY ALT 4000FT KELD 011144Z AUTO 05006KT 2SM +RA BR OVC023 18/18 A3002 RMK AO2 P0013 T01830183 KEKM 011050Z 00000KT 2 1/2SM CLR 16/15 A3010 RMK AO2 KDSV 011054Z AUTO 12008KT 8SM CLR 14/12 A3015 RMK AO2 SLP218 T01390122 EGYD 011050Z 21014KT 9999 SCT030 SCT048 BKN250 22/13 Q1007 BLU NOSIG CYYD 011100Z AUTO 00000KT 9SM CLR 08/06 A3022 RMK SLP234 KDTN 011053Z AUTO 05003KT 5SM BR OVC008 19/18 A2997 RMK AO2 RAB08E17 CIG 005V010 SLP146 P0001 T01940183 $ KEKN 011132Z AUTO 00000KT 4SM BR SCT003 BKN065 14/12 A3022 RMK AO2 T01390122 TSNO CYXN 312100Z 18012KT 15SM FU SKC 14/09 A3006 RMK 16.0/11.0/0.0MM/LAST OB/NEXT 011300Z SLP178 EGYE 011050Z 21012KT 9999 SCT030 BKN250 ///// Q1007 BLU CYYE 011100Z VRB02KT 15SM SCT080 10/09 A3026 RMK AC3 SLP255 KDTO 011053Z 36007KT 10SM OVC010 21/19 A3003 RMK AO2 SLP160 T02060189 KEKO 011056Z AUTO 08005KT 10SM CLR 13/10 A3023 RMK AO2 SLP201 T01330100 KDUG 011056Z AUTO 12010KT 5SM RA BR BKN090 OVC110 19/17 A3018 RMK AO2 SLP146 P0013 T01890172 $ CYYF 011100Z 01006KT 15SM SKC 17/03 A3003 RMK SLP163 DENSITY ALT 1400FT KFAY 011053Z AUTO 03004KT 8SM FEW075 BKN095 22/21 A3005 RMK AO2 SLP171 T02220206 OTHH 011100Z 08010KT 9000 NSC 36/26 Q0996 NOSIG CYWY 312200Z 00000KT 15SM SCT030TCU 14/07 A3028 RMK TCU3 14.6/3.5/0/0/LAST OBS/NXT 011400Z SLP261 CYXP 312100Z 25012KT 15SM FEW050 13/09 A3009 RMK SC1 CI TR SLP192 EGXP 011050Z AUTO 20013KT 9999 // FEW028/// 21/13 Q1007 CYYG 011100Z 22007KT 15SM SCT330 18/14 A3022 RMK CI3 CONTRAILS SLP235 DENSITY ALT 200FT KDUH 011135Z AUTO 00000KT 5SM BR CLR 17/16 A3011 RMK AO2 KEKQ 011120Z AUTO 00000KT 2SM BR CLR 14/14 A3012 RMK AO2 VIS 1 3/4V3 EHPG 011125Z AUTO 19010KT 130V270 9999 FEW009/// 18/16 Q1010 CYXQ 312200Z 33004KT 30SM FEW045 BKN210 20/07 A3022 RMK CU1CI1 CLIMAT 20.5/5.0/0/LAST OBS/NEXT011600UTC SLP253 EGYH 010950Z 21010KT 9999 SCT040 BKN200 21/16 Q1008 BLU CYYH 011100Z 32008KT 15SM -RA FEW008 BKN040 OVC080 08/06 A2986 RMK ST1SC6AS0 SLP115 KFCI 011055Z AUTO 00000KT 5SM FEW090 OVC110 A3018 RMK AO1 KFBR 011135Z AUTO 29005KT CLR 13/06 A3035 RMK AO2 T01320063 PWINO KDUJ 011133Z AUTO 07003KT 2 1/2SM BR CLR 16/14 A3019 RMK AO2 T01560144 KDTS 011053Z AUTO 01003KT 10SM CLR 23/20 A2997 RMK AO2 SLP147 T02330200 TSNO CYXR 011100Z AUTO 00000KT 9SM SCT032 BKN075 OVC095 12/12 A3000 RMK SLP164 EGXS 011050Z 20011KT 9999 SCT030 BKN300 22/15 Q1007 BLU CYYJ 011100Z 24003KT 30SM SKC 13/11 A3004 RMK SLP173 CYXS 011100Z AUTO 00000KT 9SM CLR 07/05 A3016 RMK SLP218 KELK 011135Z AUTO 31003KT 7SM CLR 17/17 A3017 RMK AO2 CYXT 011100Z 01008KT 15SM FEW240 12/07 A3020 RMK CI1 CI TR SLP228 EGXT 011050Z AUTO 18011KT 9999 FEW025/// 21/14 Q1007 EGXU 011050Z 19009KT 9999 -RA SCT024 BKN060 OVC080 19/14 Q1006 WHT TEMPO 7000 RA WHT CYXU 011100Z 10002KT 4SM BR PRFG FEW100 13/13 A3010 RMK AC1 AC TR VIS LWR NE-SE SLP191 CYYL 011100Z AUTO 31006KT 9SM SCT055 15/15 A3001 RMK SLP167 DENSITY ALT 1300FT KFCM 011053Z 23004KT 9SM CLR 16/15 A3004 RMK AO2 SLP167 T01610150 KELM 011117Z 00000KT M1/4SM FG VV001 13/13 A3018 RMK AO2 TWR VIS 1/4 RVRNO EGYM 011050Z 19009KT 9999 SCT035 SCT140 22/15 Q1008 BLU NOSIG KELN 011053Z AUTO 00000KT 10SM CLR 19/12 A3000 RMK AO2 SLP141 T01940122 $ KDTW 011053Z 18003KT 6SM BR SCT110 BKN220 16/14 A3009 RMK AO2 SLP185 T01610144 EGXV 011050Z AUTO 23011KT 9999 SCT027/// 21/14 Q1006 CYYN 011100Z AUTO 28003KT 9SM CLR 14/11 A3009 RMK SLP177 DENSITY ALT 2900FT CYZE 011100Z AUTO 20003KT 130V210 8SM SCT002 BKN100 12/12 A3003 RMK SLP170 KELO 011132Z AUTO 00000KT 10SM CLR 08/07 A3006 RMK AO2 EHQE 011125Z AUTO 20009KT 9999 SCT006/// BKN008/// BKN010/// 18/16 Q//// EGXW 011050Z 21014KT 9999 FEW035 BKN045 21/13 Q1007 BLU NOSIG CYZF 011100Z 29004KT 15SM FEW100 06/03 A3025 RMK AC1 FU SLP254 CYXX 011100Z VRB02KT 15SM SKC 14/14 A3004 RMK SLP172 KELP 011121Z 01013KT 10SM SCT009 OVC100 19/17 A3017 RMK AO2 T01890167 CYZG 312100Z 05010KT 15SM FEW180 BKN240 13/07 A3005 RMK AC2CI2 LAST OBS/NEXT 011200 UTC SLP189 CYXY 011100Z 20003KT 15SM FEW240 07/04 A3025 RMK CI1 SLP262 EGYP 011050Z 26012KT 9999 FEW003 BKN007 04/04 Q0998 GRN BECMG BKN017 WHT CYZH 011100Z AUTO 16003KT 9SM CLR 13/12 A3022 RMK SLP238 CYYQ 011100Z 18009KT 15SM SCT100 12/10 A2997 RMK AC3 SLP148 CYXZ 011100Z 00000KT 5SM BR MIFG BKN010 OVC030 10/10 A3003 RMK ST2SC3 SLP177 EGXZ 011050Z 17011KT 8000 -DZ SCT020 BKN050 18/15 Q1006 WHT CYYR 011142Z 28006KT 8SM TSRA FEW017 BKN058CB BKN100 OVC250 RMK SC2CB3AC2CI1 LTNG DTCTRS REP STRIKES 16 NM S KFCS 011058Z AUTO 32005KT 10SM OVC080 13/11 A3030 RMK AO2 SLP227 T01320105 KFDK 011045Z 00000KT 5SM BR HZ SKC 18/18 A3018 CZPS 011100Z AUTO 03005KT 14/12 RMK AO1 T01430124 KDVK 011135Z AUTO 00000KT 7SM CLR 14/13 A3012 RMK AO2 CYYT 011144Z 24017KT 15SM BKN014 BKN140 23/21 A3034 RMK SC6AC1 SLP272 DENSITY ALT 1000FT KDVL 011135Z AUTO 06003KT 5SM CLR 15/12 A3006 RMK AO1 CYYU 011100Z 27005KT 12SM FEW003 BKN015 12/11 A2998 RMK SF2SC5 SLP159 KEMM 011135Z AUTO 35010KT 10SM CLR 09/03 A3035 RMK AO2 KEND 011055Z 31005KT 4SM R35C/2800FT BR SCT060 16/16 A3008 RMK AO2A SLP178 KDVN 011121Z AUTO 20006KT 10SM FEW065 19/14 A3009 RMK AO2 LTG DSNT E AND S T01890139 EHRD 011125Z AUTO 20008KT 130V290 9999 SCT037 25/15 Q1010 NOSIG KDVO 011135Z AUTO 00000KT 10SM CLR 12/11 A2990 RMK AO2 KDUX 011135Z AUTO 25006KT 10SM CLR 15/13 A3020 RMK AO2 T01480126 KEMP 011053Z AUTO 23005KT 10SM SCT090 BKN100 18/17 A3007 RMK AO2 SLP173 T01780167 KDVP 011134Z AUTO 00000KT 7SM CLR 13/13 A3011 RMK AO2 T01270125 KELY 011053Z AUTO 16007KT 10SM CLR 08/06 A3029 RMK AO2 SLP174 T00830056 CYYY 011100Z 21011KT 15SM SKC 17/13 A3011 RMK SLP198 CYZP 011100Z AUTO 25013KT 9SM CLR 13/11 A3021 RMK SLP230 KDWH 011142Z 33004KT 8SM OVC010 24/23 A2996 RMK AO2 CIG 005V011 KELZ 011056Z AUTO 22006KT 10SM CLR 17/13 A3020 RMK AO2 SLP219 T01720133 CYYZ 011100Z 23004KT 12SM SKC 18/14 A3008 RMK SLP186 DENSITY ALT 800FT KFDR 011053Z AUTO 01006KT 6SM BR CLR 18/18 A3005 RMK AO2 SLP163 T01830183 CYZR 011100Z AUTO 16003KT 3SM BR FEW060 15/14 A3008 RMK SLP183 KFFA 011135Z AUTO 08004KT 10SM CLR 25/21 A3012 RMK AO2 T02450206 CYZS 011124Z 25003KT 8SM VCFG SCT003 BKN030 RMK ST3SC2 EHSA 011125Z AUTO 20010G12KT 9999 ///////// 18/16 Q1010 W18/H5 KEMT 010245Z 20008KT 10SM CLR 26/15 A2987 KDVT 011053Z AUTO 11008KT 10SM CLR 28/18 A2995 RMK AO2 RAE0956 SLP113 P0000 T02830178 CYZT 011100Z 21003KT 15SM FEW070 07/07 A3016 RMK AC1 SLP212 KFFC 011110Z AUTO VRB06KT 6SM BR OVC005 20/19 A3007 RMK AO2 T02000194 KENL 011135Z AUTO 00000KT M1/4SM FG OVC001 15/14 A3010 RMK AO2 T01450136 TSNO CYZU 010400Z 35003KT 15SM SCT050CB BKN100 BKN240 16/13 A3017 RMK CB3AC2CI2 LAST OBS/NEXT 011200Z SLP218 DENSITY ALT 3000FT EHSC 011125Z AUTO 23010G11KT 9999 ///////// 18/15 Q1010 W20/H4 KEMV 011135Z AUTO 32004KT 4SM BR SCT036 SCT100 SCT120 20/19 A3017 RMK AO2 LTG DSNT S CYZV 011100Z 19002KT 30SM FEW004 SCT020 BKN030 15/15 A3009 RMK SF2CU1SC4 SLP190 KFDW 011135Z AUTO 31004KT 2 1/2SM RA OVC003 20/20 A3006 RMK AO1 KEOE 011135Z AUTO 35005KT 10SM RA SCT007 BKN019 OVC044 18/18 A3011 RMK AO2 LTG DSNT SE P0009 CYZW 010100Z 26010KT 20SM BKN035 18/06 A3023 RMK SC7 CLIMAT 18.0/9.0/0.0MM/LAST OBS/NEXT 011300Z SLP252 CYZX 011100Z 00000KT 15SM BKN190 BKN220 13/12 A3025 RMK AC5CI1 WNDY HILL 22002KT FG OVR RIVER SLP243 KFDY 011053Z AUTO 19004KT 8SM CLR 16/14 A3010 RMK AO2 SLP186 T01560139 KFEP 011135Z AUTO 21004KT 7SM CLR 14/13 A3010 RMK AO2 T01410131 CZRP 011100Z AUTO 25011KT 03/02 RMK AO1 SLP088 T00340024 51002 CYZY 011100Z AUTO 00000KT 9SM CLR 07/06 A3020 RMK SLP234 KDYA 011135Z AUTO 00000KT 7SM CLR 18/ A3002 RMK AO2 T0184 CZSJ 011100Z AUTO 00000KT 8SM CLR 10/09 A3004 RMK SLP178 KDYB 011135Z AUTO 00000KT 7SM SCT001 SCT010 22/22 A3002 RMK AO1 LTG DSNT NE THRU SE KEOK 011135Z AUTO 00000KT 9SM FEW110 17/16 A3007 RMK AO2 KFET 011135Z AUTO 00000KT 10SM CLR 18/16 A3006 RMK AO2 T01750157 CZTB 011100Z AUTO 27004KT 10/10 RMK AO1 SLP172 T01010097 53011 KFFL 011135Z AUTO 15003KT 10SM CLR 16/15 A3007 RMK AO2 KENV 011135Z 04006KT 10SM CLR 17/07 A3014 RMK AO1 KFFM 011134Z AUTO 00000KT 5SM BR CLR 16/14 A3006 RMK AO2 CZSM 011100Z AUTO 05003KT 05/04 RMK AO1 SLP262 T00540044 51009 KENW 011053Z AUTO 24005KT 10SM CLR 14/13 A3006 RMK AO2 SLP176 T01440133 KFEW 011056Z AUTO 29005KT 10SM CLR 09/07 A3026 RMK AO2 SLP185 T00850066 VHHH 011130Z 20006KT 120V250 9999 -TSRA FEW010CB SCT022 BKN045 32/26 Q0999 TEMPO VRB20G30KT 2500 TSRA SHRA FEW010CB SCT020 KDWX 011135Z AUTO 05003KT 10SM CLR 11/04 A3031 RMK AO2 T01130040 KFFO 011058Z AUTO 34003KT 10SM SCT100 16/15 A3012 RMK AO2 VIS 1/4 RWY05L SLP198 T01570149 PLCH 010800Z 18010KT 9999 FEW020 27/23 Q1010 CZSP 011100Z AUTO 21007KT 18/14 RMK AO1 SLP239 T01840139 53009 KEPH 011053Z AUTO 03003KT 10SM CLR 21/06 A2994 RMK AO2 SLP125 T02110061 ZUUU 011100Z 24002MPS 200V270 CAVOK 28/22 Q1004 NOSIG KDXR 011053Z AUTO 00000KT 3SM BR CLR 19/17 A3021 RMK AO2 SLP225 T01940172 KH78 011100Z 00000KT 12SM SCT010 27/20 A2999 RMK SEAS 0-1 KEQA 011135Z AUTO 18005KT 4SM BR BKN090 18/17 A3008 RMK AO2 KFFT 011053Z AUTO 00000KT 7SM CLR 15/14 A3010 RMK AO2 SLP188 T01500139 KDZB 011135Z AUTO 00000KT 10SM OVC050 22/17 A3005 RMK AO2 T02170169 KFHB 011135Z AUTO 00000KT 10SM CLR 26/24 A2996 RMK AO1 LTG DSNT NE CZST 010100Z 21004KT 15SM SKC 21/10 A3016 RMK LAST OBS/NEXT011300Z SLP214 KDYL 011134Z AUTO 00000KT 10SM SCT012 21/19 A3019 RMK AO2 T02060194 FABL 011100Z 34005KT 260V060 CAVOK 20/M01 Q1027 NOSIG FABM 010640Z 04001KT CAVOK 06/M00 Q1029 KFGN 011134Z AUTO 04003KT 10SM CLR 18/15 A3003 RMK AO2 EIKN 011130Z 28003KT 9999 FEW020 BKN031 BKN069 16/10 Q1004 NOSIG KDXX 011134Z AUTO 00000KT 10SM CLR 14/13 A3007 RMK AO2 KFFX 011135Z AUTO 00000KT 2SM BR CLR 14/14 A3005 RMK AO2 T01400140 KFFZ 010250Z 36015G25KT 20SM BKN130 BKN200 36/12 A2985 PKMJ 010759Z VRB04KT 15SM SCT015 SCT120 OVC300 28/25 A2984 KDYR 011135Z 00000KT 10SM OVC110 21/14 A3009 RMK AO1 KDYS 011058Z AUTO 30003KT 10SM CLR 18/17 A3008 RMK AO2 SLP149 T01810166 $ KDYT 011133Z AUTO 05008KT 10SM SCT060 16/13 A3005 RMK AO2 CZUM 011100Z AUTO 00000KT 9SM FEW038 BKN065 OVC082 16/14 A3004 RMK SLP176 DENSITY ALT 1700FT EIME 011130Z 23006KT 9999 FEW011 BKN042 16/13 Q1004 KFGX 011135Z AUTO 00000KT 7SM SCT002 SCT090 16/15 A3014 RMK AO2 T01550148 KFIG 011054Z AUTO 35003KT M1/4SM FG VV002 13/13 A3019 RMK AO2 SLP220 T01330133 EIKY 011130Z 18006KT 120V200 9999 SCT020 18/13 Q1004 PKMR 011050Z 00000KT 15SM FEW015 SCT300 28/24 A2988 RMK SLP119 T02830244 KFHR 011053Z AUTO 00000KT 10SM CLR 11/09 A3005 RMK AO2 SLP173 T01060094 KERI 011051Z 19004KT 10SM SCT110 19/13 A3011 RMK AO2 SLP193 T01890133 KESC 011135Z AUTO 00000KT 10SM OVC075 12/09 A3003 RMK AO1 EHVK 011125Z AUTO 19004KT 9999 SCT039 25/15 Q1010 BLU 21004KT CAVOK KFHU 011124Z 17006KT 10SM VCTS OVC070CB 20/16 A3022 RMK LTG DSNT S-SW TS W STNRY FACT 011100Z VRB04KT 9999 FEW020 17/11 Q1018 NOSIG CZVL 011100Z AUTO 29005KT 9SM CLR 13/12 A3020 RMK PRESRR SLP225 KGAD 011135Z 05007KT 9SM OVC008 20/18 A3006 RMK AO1 EHVL 011125Z AUTO 26009KT 9999 NCD 23/17 Q1010 BLU FACV 011036Z 31008KT CAVOK 23/M04 Q1021 KESF 011131Z AUTO 10004KT 7SM -RA FEW028 OVC041 21/19 A2997 RMK AO2 LTG DSNT SE AND S P0031 T02110194 KGAF 011135Z AUTO 32004KT 6SM BR CLR 15/14 A3005 RMK AO2 VIAR 011100Z VRB03KT 5000 HZ SCT035 SCT090 33/27 Q0999 KEQY 011053Z AUTO 03009KT 6SM BR OVC006 20/19 A3007 RMK AO2 RAB21E39 SLP183 P0000 T02000189 KGAG 011053Z AUTO 22003KT 8SM CLR 14/14 A3013 RMK AO2 SLP183 T01440139 KI16 011135Z AUTO 7SM SCT085 OVC120 17/17 A3021 RMK AO2 T01700170 KGAI 011135Z AUTO 15005KT 10SM CLR 22/19 A3021 RMK AO1 KFKA 011131Z AUTO 28004KT 10SM CLR 16/13 A3008 RMK AO2 LTG DSNT SE T01550132 KFIT 011139Z AUTO 00000KT 8SM BKN017 22/18 A3022 RMK AO2 T02170178 KETB 011135Z AUTO 00000KT 7SM CLR 15/13 A3006 RMK AO2 VIBN 010930Z 10004KT 5000 HZ SCT025 SCT030 35/27 Q0997 KETC 011135Z AUTO 00000KT 10SM CLR 22/19 A3014 RMK AO2 T02150194 FAEL 011100Z 09009KT 9999 SCT013 BKN020 BKN030 18/13 Q1023 KGBD 011135Z AUTO 22009KT 10SM 17/13 A3006 RMK AO1 KERV 011135Z AUTO 05004KT 10SM BKN037 BKN045 BKN060 23/18 A3006 RMK AO2 T02260176 KESN 011055Z 00000KT 10SM OVC120 23/23 A3020 EINN 011130Z 21003KT 9999 FEW020 BKN032 17/11 Q1004 NOSIG FAEO 010756Z 16003KT CAVOK 14/M01 Q1030 KERY 011135Z AUTO 28003KT 10SM OVC100 13/12 A3003 RMK AO2 T01300117 KGBG 011135Z AUTO 00000KT 10SM VCTS SCT075 SCT120 17/16 A3008 RMK AO2 LTG DSNT W THRU N T01700160 EHWO 011125Z AUTO 18003KT 9999 SCT037 24/15 Q1010 BLU 23005KT 9999 FEW040 FADY 010750Z 32007KT CAVOK 16/00 Q1025 KETH 011136Z AUTO 00000KT 10SM SCT065 14/13 A3008 RMK AO2 KEST 011052Z AUTO 24003KT 10SM CLR 14/13 A3007 RMK AO2 SLP179 T01390133 KGBK 011135Z AUTO VRB05KT 10SM SCT014 SCT019 BKN025 27/25 A2997 RMK A01 KGCC 011053Z AUTO 19013KT 10SM CLR 17/06 A3013 RMK AO2 SLP153 T01720056 KFKL 011135Z AUTO 16004KT 5SM CLR 15/13 A3019 RMK AO1 FAGC 011000Z AUTO 14009KT //// // ////// 19/M07 Q1029 KFLD 011053Z AUTO 00000KT 10SM SCT055 16/14 A3004 RMK AO2 SLP170 T01610139 KGCD 011135Z AUTO 10004KT 10SM CLR 22/08 A3011 RMK AO2 T02200075 KFKN 011135Z AUTO 04003KT 7SM CLR 20/ A3014 RMK AO1 KEUF 011058Z AUTO 04003KT 10SM OVC012 23/21 A2999 RMK AO2 SLP151 T02330206 $ KEUG 011054Z AUTO 26005KT 10SM FEW100 19/17 A3000 RMK AO2 LTG DSNT E SLP154 T01890172 KFLG 011057Z AUTO 00000KT 10SM FEW075 11/11 A3035 RMK AO2 SLP201 T01110106 TSNO KI35 011135Z AUTO 3SM OVC001 16/16 A3014 RMK AO1 FAGG 011100Z 11010KT 9999 SCT005 BKN011 16/14 Q1020 KFKR 011135Z AUTO 00000KT 2 1/2SM BR CLR A3013 RMK AO2 LTG DSNT NW KFKS 011136Z AUTO 00000KT 7SM CLR 13/11 A3004 RMK AO2 T01250108 KEVB 011050Z 00000KT 10SM SKC 24/24 A2998 RMK FIRST KGCK 011054Z AUTO 29004KT 7SM CLR 14/13 A3014 RMK AO2 SLP180 T01390128 KGDB 011134Z AUTO 00000KT 10SM CLR 13/12 A3009 RMK AO2 T01320122 KI39 011135Z AUTO 00000KT 7SM CLR 16/14 A3011 RMK AO2 KFLL 011053Z 15004KT 10SM FEW025 SCT100 SCT250 28/24 A2995 RMK AO2 SLP140 T02830239 KEUL 011135Z AUTO 12005KT 10SM CLR 16/08 A3009 RMK AO1 KGCM 011135Z AUTO 00000KT 1 3/4SM BR BKN026 BKN120 18/18 A3011 RMK AO2 FAGM 311600Z 22006KT CAVOK 13/M04 Q1027 VIDP 011100Z 11006KT 5000 HZ SCT035 FEW040CB SCT100 36/24 Q0998 NOSIG KGCN 011054Z 00000KT 10SM BKN100 14/11 A3030 RMK AO2 LTG DSNT E SLP159 T01390111 KFME 011139Z AUTO 00000KT 5SM CLR 20/18 A3020 RMK AO1 KFLO 011113Z 10006KT 7SM BKN005 OVC018 23/22 A3003 RMK AO2 T02280217 KFLP 011135Z AUTO 02003KT M1/4SM OVC002 18/17 A3010 RMK AO1 KFMH 011135Z AUTO 00000KT 10SM CLR 21/19 A3022 RMK AO2 KGDJ 011135Z AUTO 00000KT 10SM OVC035 21/19 A3005 RMK AO2 T02120185 CZZJ 011100Z AUTO 29002KT 13/11 RMK AO1 SLP233 T01250113 51006 KFNB 011053Z AUTO 08004KT 10SM OVC085 18/17 A3005 RMK AO2 SLP168 T01830167 KEWB 011053Z 00000KT 10SM FEW002 19/18 A3020 RMK AO2 SLP225 T01890178 URFF 011130Z 06010MPS 030V090 9999 FEW050TCU 33/12 Q1007 01010065 NOSIG KEVM 011132Z AUTO 00000KT M1/4SM FG OVC001 07/07 A3006 RMK AO2 KGED 011054Z AUTO 15006KT 6SM BR CLR 21/18 A3018 RMK AO2 SLP218 T02060183 KFMM 011135Z AUTO 29007KT 10SM CLR 12/11 A3022 RMK AO2 T01210111 PWINO KFMN 011053Z AUTO 04003KT 10SM FEW120 18/12 A3022 RMK AO2 SLP166 T01780117 KGEG 011053Z 16005KT 10SM FEW150 BKN250 22/02 A3002 RMK AO2 SLP141 T02220022 KFLY 011135Z AUTO 35004KT 10SM CLR 11/08 A3036 RMK AO2 T01050081 KGDP 011051Z AUTO 05021KT 9SM BKN037 OVC055 18/15 RMK AO2 RAB20E35 SLPNO P0000 T01780150 $ KGFA 011056Z AUTO 25007KT 10SM CLR 17/07 A3015 RMK AO2 SLP185 T01720071 KFOA 011135Z AUTO 00000KT M1/4SM FG OVC001 14/13 A3010 RMK AO2 T01350134 KEWK 011135Z AUTO 21006KT 10SM CLR 17/14 A3010 RMK AO1 FAJB 011100Z AUTO 14004KT //// // ////// 21/M08 Q1028 KFNL 011135Z AUTO 36004KT 10SM CLR 13/09 A3026 RMK AO1 KEVV 011054Z 00000KT 6SM BR FEW065 18/16 A3009 RMK AO2 SLP186 T01780156 KFOD 011135Z AUTO 00000KT 2 1/2SM CLR 13/12 A3009 RMK AO1 KGDV 011135Z AUTO 04004KT 10SM CLR 18/12 A3002 RMK AO1 DRRM 011100Z VRB02KT CAVOK 26/23 Q1013 KFOE 011053Z 15003KT 10SM SCT100 18/15 A3007 RMK AO2 SLP173 T01780150 KEVW 011053Z AUTO 09005KT 10SM CLR 12/06 A3032 RMK AO2 SLP178 T01170061 KEWN 011129Z 06007KT 10SM SCT023 BKN029 OVC042 24/21 A3008 RMK AO2 RAB1058E20 P0000 DRRN 011100Z 25012KT 9999 SCT020 30/23 Q1013 NOSIG KFMY 011053Z 00000KT 10SM CLR 24/24 A2996 RMK AO2 LTG DSNT SW SLP147 T02440239 EISG 011130Z 30005KT 260V330 9999 FEW030 BKN049 16/12 Q1004 KEWR 011051Z 25006KT 10SM FEW160 BKN220 22/19 A3018 RMK AO2 SLP218 T02170189 EKAH 011120Z AUTO 18008KT 140V260 9999NDV SCT069/// 22/13 Q1013 KFOK 011053Z AUTO 22003KT 3SM BR CLR 21/19 A3020 RMK AO2 SLP226 T02060194 TSNO KFNT 011053Z 21003KT 6SM HZ CLR 17/14 A3007 RMK AO2 SLP178 T01670139 KGFK 011053Z 30003KT 6SM BR FEW055 14/14 A3004 RMK AO2 SLP171 T01440139 $ KI69 011134Z AUTO 00000KT 3SM BR CLR 17/16 A3013 RMK AO1 DRRT 011100Z 28010KT 8000 NSC 31/19 Q1013 KGEU 010247Z 34015G21KT 20SM FEW120 SCT150 BKN180 BKN250 37/13 A2983 RMK LAST KGFL 011053Z AUTO 00000KT 1/4SM FG VV002 15/14 A3017 RMK AO2 SLP217 T01500144 KGEV 011135Z AUTO 00000KT 1SM RA OVC019 14/13 A3022 RMK AO2 T01350125 KEYE 011053Z AUTO 00000KT 6SM BR CLR 16/14 A3011 RMK AO2 SLP190 T01610144 KGGE 011135Z AUTO 12005KT 10SM TS BKN065 BKN100 BKN120 23/23 A3002 RMK AO2 LTG DSNT E THRU S KEYF 011135Z AUTO 09006KT 7SM SCT005 BKN033 OVC050 22/22 A3007 RMK AO2 T02210221 KGEY 011053Z AUTO 18003KT 10SM CLR 16/06 A3013 RMK AO2 SLP164 T01560061 KGGG 011053Z 00000KT 1SM R13/P6000FT BR OVC003 20/18 A2996 RMK AO2 TWR VIS 2 SLP141 P0001 T02000183 $ KI75 011135Z AUTO 25003KT 10SM -RA SCT036 SCT047 SCT060 18/16 A3008 RMK AO2 T01750158 KGEZ 011053Z AUTO 06003KT 4SM BR CLR 15/13 A3011 RMK AO2 SLP191 T01500133 KGGI 011135Z AUTO 00000KT 10SM CLR 15/13 A3009 RMK AO2 T01490133 EKBI 011120Z 17007KT 110V230 9999 SCT035TCU SCT062 23/15 Q1012 KFPK 011135Z AUTO 00000KT 4SM BR CLR 15/14 A3007 RMK AO2 T01530141 KGHB 011135Z AUTO VRB04KT 10SM FEW026 FEW043 29/23 A2996 RMK A01 KFOT 011135Z AUTO 00000KT 5SM OVC003 12/12 A2997 RMK AO1 FALA 011100Z 11008KT 060V160 CAVOK 22/M08 Q1028 NOSIG KFQD 011135Z AUTO 02007KT 5SM RA BKN023 BKN055 OVC070 17/17 A3014 RMK AO2 P0002 T01710165 FAKM 010830Z 01011KT CAVOK 18/M01 Q1027 EKAV 011120Z AUTO 18018KT 9999NDV FEW055/// FEW095/// 21/17 Q1014 KEZF 011135Z AUTO 16003KT 7SM SCT120 22/22 A3017 RMK AO2 T02200215 KEXX 011135Z AUTO 04004KT 3SM RA SCT007 BKN038 OVC065 18/18 A3012 RMK AO2 P0010 T01770177 FAKN 011100Z 15005KT CAVOK 25/M06 Q1024 NOSIG FALE 011100Z 18010KT 9999 FEW025 SCT030 22/14 Q1022 NOSIG KGGP 011135Z AUTO 00000KT 4SM BR CLR 13/12 A3012 RMK AO2 KGHG 011135Z AUTO 22004KT 10SM CLR 21/19 A3023 RMK AO2 KFOZ 011121Z AUTO 06000KT 7SM SCT060 11/09 A3005 RMK AO2 WAAA 011130Z 03004KT 8000 FEW020 27/24 Q1009 NOSIG PKWA 011140Z AUTO 00000KT 10SM CLR 28/22 A2991 KFPR 011053Z 00000KT 8SM CLR 24/23 A2997 RMK AO2 SLP147 T02390228 EKCH 011120Z 16013KT 9999 FEW040 24/16 Q1014 NOSIG KGIC 011135Z AUTO 11005KT 10SM CLR 21/06 A3010 RMK AO1 T02100062 KEZM 011135Z AUTO 03004KT 1 1/2SM BR OVC002 23/23 A3003 RMK AO2 T02260226 FALM 010800Z 34005KT 8000 NSC 21/// Q1027 KEYW 011053Z 14008KT 10SM FEW100 29/23 A2995 RMK AO2 SLP142 T02940233 KGGW 011053Z AUTO 07004KT 10SM CLR 19/14 A3002 RMK AO2 SLP148 T01890139 KGIF 011053Z AUTO 00000KT 10SM CLR 24/22 A2999 RMK AO2 SLP152 T02440217 TSNO KFRG 011053Z 25007KT 10SM CLR 22/20 A3018 RMK AO2 SLP221 T02220200 URKA 011130Z 27005MPS 240V300 9999 FEW030 31/23 Q1007 NOSIG RMK QFE751/1001 SC070 WABB 011000Z 07003KT 9999 FEW018 28/25 Q1008 NOSIG KFRI 011058Z AUTO 19004KT 10SM SCT095 20/15 A3004 RMK AO2 SLP163 T01950154 KEZS 011135Z AUTO 00000KT 7SM CLR 14/13 A3004 RMK AO2 T01380130 EKEB 011120Z AUTO 17006KT 130V220 9999NDV FEW033/// 24/15 Q1011 KFRM 011135Z AUTO 25003KT 10SM CLR 15/12 A3008 RMK AO1 KFSD 011056Z 00000KT 6SM R03/3500VP6000FT BR CLR 13/12 A3008 RMK AO2 SLP183 T01280122 VIJP 011030Z 22011KT 2500 RA SCT025 FEW040CB SCT090 27/24 Q0999 TEMPO 1500 TSRA KGHW 011134Z AUTO 28005KT 7SM CLR 17/14 A3008 RMK AO2 LTG DSNT N KFSE 011135Z AUTO 00000KT 3/4SM BR VV005 13/12 A3006 RMK AO2 KHAE 011135Z AUTO 00000KT 10SM CLR 18/16 A3008 RMK AO2 FAMM 011100Z 19005KT CAVOK 23/M00 Q1026 NOSIG KHAF 011135Z AUTO 06004KT 3SM BR OVC003 14/13 A2992 RMK AO2 PMDY 011056Z AUTO 07006KT 10SM FEW017 OVC041 27/23 A3004 RMK AO2 TSNO T02660233 403110255 SLP477 $ FALW 011100Z AUTO 33004KT //// // ////// 16/10 Q1017 EIWF 011130Z 23008KT 190V280 9999 FEW017 SCT030 18/13 Q1005 URKK 011130Z 08007G10MPS CAVOK 33/17 Q1008 NOSIG RMK QFE753 SC070 KHAI 011135Z AUTO 00000KT 3SM BR CLR 17/17 A3010 RMK AO2 T01660166 KFRR 011135Z AUTO 00000KT 7SM OVC110 17/16 A3016 RMK AO1 KFSI 011058Z AUTO 02003KT 10SM CLR 19/18 A3007 RMK AO2 SLP176 T01860180 USCC 011130Z 01003MPS 9999 BKN013 OVC070 15/12 Q1017 27000070 NOSIG RMK QFE743 FAOB 011000Z 12012KT 4000 DZ OVC004 15/// Q1020 KFSM 011053Z 06003KT 7SM OVC034 21/19 A3005 RMK AO2 SLP172 T02060194 KHAO 011103Z AUTO 00000KT 4SM BR CLR 15/14 A3013 RMK AO2 T01500144 KFSO 011135Z AUTO 15004KT 10SM CLR 17/15 A3015 RMK AO2 T01700147 KFTG 011136Z AUTO 19003KT 10SM CLR 15/12 A3027 RMK AO2 KHBG 011053Z AUTO 01003KT 6SM BR FEW055 SCT090 BKN120 22/21 A3001 RMK AO2 RAB0956E49 SLP159 P0001 T02170206 VILK 011100Z 09007KT 5000 HZ FEW020 SCT025 BKN090 36/28 Q0996 NOSIG KHBI 011135Z AUTO 35003KT 4SM +RA SCT019 BKN025 OVC046 19/19 A3014 RMK AO2 P0012 T01850185 KGKJ 011053Z AUTO VRB03KT 10SM CLR 17/14 A3016 RMK AO2 SLP205 T01670139 TSNO WADD 011130Z 09007KT 9999 FEW017 27/24 Q1011 NOSIG USCM 011130Z 10003MPS 060V130 8000 VCTS SCT026CB 21/15 Q1014 TEMPO VRB18MPS 2000 TSRA SQ BKN005 19290157 RMK QFE723 KFST 011053Z AUTO 09008KT 10SM SCT060 22/16 A3012 RMK AO2 SLP152 T02220156 $ KGJT 011053Z AUTO 24003KT 10SM BKN110 18/11 A3015 RMK AO2 SLP141 T01830111 KFTK 011058Z AUTO 01002KT 10SM CLR 15/14 A3009 RMK AO2 SLP188 T01450137 EKGC 011120Z AUTO 21014KT 9999NDV 19/16 Q1010 KGLD 011053Z AUTO 35004KT 10SM CLR 13/11 A3018 RMK AO2 SLP180 T01280111 KHCD 011133Z AUTO 00000KT 7SM CLR 15/14 A3007 RMK AO2 T01450139 KFTN 011235Z AUTO 07005KT 10SM CLR 27/20 A2994 RMK AO1 KGLE 011135Z AUTO 36005KT 10SM OVC020 20/19 A3007 RMK AO2 T01950185 KFSW 011135Z AUTO 01005KT 7SM OVC085 18/17 A3009 RMK AO2 FAPE 011142Z 08009KT 9999 BKN018 OVC022 16/13 Q1022 NOSIG EKGF 011120Z 19012KT CAVOK 19/16 Q1010 KGLH 011053Z AUTO 00000KT 5SM BR FEW060 OVC075 21/20 A3003 RMK AO2 SLP174 T02110200 KHBR 011053Z AUTO 33003KT 4SM BR CLR 16/16 A3010 RMK AO2 SLP180 T01610156 URML 011130Z 11006MPS 9999 SCT100 29/20 Q1010 NOSIG RMK QFE757/1010 SC070 WADL 011130Z 13005KT 7000 SCT016 26/22 Q1012 NOSIG FAOR 011130Z 10010KT 060V140 CAVOK 19/M05 Q1029 NOSIG DRZA 011100Z 34016KT 3500 DU NSC 36/17 Q1013 URMM 011130Z 11007G12MPS 9999 SCT050 32/13 Q1010 R12/CLRD70 NOSIG RMK QFE729/0973 EKHA 011120Z AUTO 19014KT 9999NDV 19/17 Q1010 KGKT 011135Z AUTO 00000KT 4SM CLR 17/17 A3011 RMK URMN 011130Z 08002MPS 9999 FEW030 28/15 Q1011 NOSIG RMK QFE722 SC07 KFUL 011053Z 00000KT 10SM OVC010 21/17 A2990 RMK AO2 SLP125 T02060172 KHDC 011135Z AUTO 00000KT 10SM SCT033 BKN041 23/19 A3001 RMK AO2 FBFT 011100Z VRB02KT CAVOK 25/01 Q1025 URMO 011130Z 33002MPS 270V020 9999 SCT050 BKN100 28/15 Q1011 NOSIG RMK QFE715/0953 SC070 KHBV 011135Z AUTO 00000KT 5SM BR BKN015 25/23 A2994 RMK AO2 T02450225 ZWSH 011100Z 12004MPS 6000 NSC 30/10 Q1010 NOSIG KFTW 011053Z 01006KT 10SM OVC009 22/19 A3001 RMK AO2 SLP156 T02170189 EKHD 011120Z AUTO 19017KT 9999NDV 20/17 Q1008 KFVE 011053Z AUTO 17004KT M1/4SM FG VV002 12/12 A3016 RMK AO2 SLP214 T01220122 $ KHDE 011135Z AUTO 33006KT 4SM BR CLR 15/14 A3009 RMK AO2 T01460140 KHCO 011133Z AUTO 00000KT 4SM BR CLR 13/13 A3005 RMK AO2 KFTY 011053Z 06008KT 10SM OVC009 20/18 A3007 RMK AO2 SLP173 T02000183 KGKY 011053Z AUTO 01008KT 10SM OVC012 22/18 A3001 RMK AO2 SLP154 T02170183 FAPP 011100Z 22003KT CAVOK 21/M05 Q1025 NOSIG URMT 011130Z 10013G18MPS CAVOK 31/08 Q1011 NOSIG RMK QFE719 SC070 KGLR 011053Z AUTO 00000KT 7SM CLR 12/11 A3004 RMK AO2 SLP172 T01170106 KGLS 011118Z 27009KT 10SM BKN017 OVC100 25/23 A2996 RMK AO2 LTG DSNT SW T02500228 KFWA 011054Z 21003KT 7SM CLR 16/14 A3012 RMK AO2 SLP194 T01560139 KGNA 011056Z AUTO 00000KT 12/10 A3004 RMK AO1 SLP172 T01220100 KGMJ 011135Z AUTO 00000KT 5SM BR SCT007 BKN012 OVC023 18/18 A3010 RMK AO2 KFWB 011135Z AUTO 00000KT 1 1/2SM BR SCT005 OVC012 18/18 A3010 RMK AO2 KFWC 011135Z AUTO 00000KT 1/2SM FG BKN001 OVC100 16/16 A3009 RMK AO2 KGNC 011135Z AUTO 00000KT 10SM SCT120 18/15 A3018 RMK AO2 T01830148 KHDN 011135Z AUTO 10008KT 10SM CLR 13/06 A3027 RMK AO1 LTG DSNT NW KGLW 011135Z AUTO 00000KT 3SM BR CLR 15/15 A3010 RMK AO2 T01510151 KHDO 011051Z AUTO 06008KT 10SM CLR 24/17 A3001 RMK AO2 SLP144 T02440172 $ EKHN 011120Z AUTO 15012KT 9999NDV NCD 20/15 Q1013 KGNF 011135Z AUTO 00000KT 5SM CLR 19/19 A3005 RMK AO2 KHEF 011050Z 15004KT 10SM CLR 21/21 A3016 KGLY 011135Z AUTO 00000KT M1/4SM FG BKN017 14/14 A3008 RMK AO2 ZYCC 011100Z 24002MPS 6000 SCT026 28/21 Q1007 NOSIG KHEI 011053Z AUTO 00000KT 10SM CLR 12/11 A3007 RMK AO2 SLP165 T01220106 DRZR 011100Z 02016KT 9999 FEW030 BKN300 26/21 Q1015 EKHR 011120Z AUTO 16009KT 9999NDV FEW210/// 20/18 Q1011 FASB 010731Z 10002KT CAVOK 18/04 Q1022 KGMU 011053Z AUTO 05013KT 10SM -RA OVC090 17/16 A3010 RMK AO2 SLP186 P0002 T01720161 $ KHFD 011131Z 00000KT 5SM BR FEW016 21/19 A3019 RMK AO2 T02110194 KFWN 011107Z AUTO 00000KT 6SM BR BKN014 17/16 A3019 RMK AO2 T01720156 KFXE 011053Z 00000KT 10SM CLR 26/25 A2995 RMK AO2 SLP144 T02560250 KHFF 011129Z AUTO 06005KT 6SM -SHRA FEW006 BKN038 22/21 A3008 RMK AO2 LTG DSNT S AND NW KFVX 011135Z AUTO 00000KT 7SM -RA SCT021 SCT026 OVC090 20/19 A3017 RMK AO2 P0003 KHEQ 011135Z AUTO 28004KT 10SM CLR 15/12 A3016 RMK AO2 KGNR 011056Z AUTO 00000KT 15/14 A3018 RMK AO1 SLP222 T01500144 KFWS 312250Z 36007G15KT 10SM OVC025 24/18 A3002 FASI 011100Z AUTO /////KT //// // ////// 18/M07 Q1028 KHFJ 011135Z AUTO 00000KT 1/4SM FG OVC001 16/16 A3011 RMK AO2 DTKA 010800Z VRB02KT CAVOK 29/14 Q1013 NOSIG EKKA 011120Z 20008KT 160V250 9999 SCT045TCU 25/14 Q1011 TEMPO -SHRA FEW025CB KGOK 011053Z AUTO 00000KT 1/4SM FG VV002 18/17 A3008 RMK AO2 SLP179 T01780172 FCBB 011100Z 24006KT 190V280 8000 FEW016 BKN023 26/17 Q1017 NOSIG KGNV 011031Z 36003KT 1 3/4SM BR OVC002 24/24 A2996 RMK AO2 T02440239 KGON 011056Z 00000KT 5SM BR CLR 20/19 A3019 RMK AO2 SLP222 T02000194 FBKE 011100Z 08010KT 060V140 9999 BKN030 27/04 Q1023 USHH 011130Z 05003G07MPS 9999 BKN006CB OVC080 13/11 Q1021 NOSIG RMK QBB190 QFE762 06////60 KGOO 011135Z AUTO 09005KT 10SM CLR 27/03 A3003 RMK AO1 KHEY 011053Z AUTO 01003KT 8SM CLR 20/19 A2999 RMK AO2 SLP042 T02000189 KFYG 011135Z AUTO 00000KT 8SM CLR 15/ A3008 RMK AO2 KGOP 011135Z AUTO 35004KT 9SM OVC009 20/18 A3006 RMK AO2 KGPH 011135Z AUTO 00000KT 10SM OVC090 18/17 A3008 RMK AO2 KHEZ 011135Z AUTO 00000KT 10SM SCT037 BKN049 OVC070 22/19 A3000 RMK AO1 P0001 KFWZ 011135Z AUTO 00000KT 10SM 13/M02 A3038 RMK AO2 KGPI 011055Z AUTO 00000KT 10SM CLR 13/09 A3009 RMK AO2 SLP168 T01330094 KFYJ 011135Z AUTO 00000KT 3SM SCT031 BKN060 OVC120 22/20 A3018 RMK AO2 T02200202 KFYM 011135Z AUTO 04008G21KT 10SM CLR 17/16 A3008 RMK KGPM 011135Z AUTO 35007KT 10SM OVC011 21/18 A3003 RMK AO2 T02130181 KGOV 011135Z AUTO 00000KT 5SM BR CLR 11/11 A3006 RMK AO2 T01080108 KHHF 011135Z AUTO 00000KT 10SM CLR 16/15 A3014 RMK AO2 T01550150 KFXY 011135Z AUTO 00000KT 1/2SM FG BKN002 12/12 A3008 RMK AO2 KFZG 011135Z AUTO 05003KT 2 1/2SM BR OVC002 24/22 A3001 RMK AO2 T02360221 KHHG 011135Z AUTO 00000KT 7SM CLR 16/15 A3012 RMK AO2 T01570148 UTAA 011100Z 03004MPS 330V090 9999 SKC 35/M05 Q1010 NOSIG KHGR 011053Z 00000KT 8SM CLR 19/16 A3016 RMK AO2 SLP218 T01890161 KHIB 011114Z AUTO 00000KT 6SM BR FEW070 09/08 A3006 RMK AO2 T00890078 KGPT 011053Z 05004KT 10SM BKN120 25/18 A2997 RMK AO2 SLP149 T02500183 KGRB 011137Z 00000KT 3SM BR CLR 15/14 A3004 RMK AO2 T01500144 $ DTMB 010830Z 35005KT 320V030 CAVOK 28/17 Q1013 NOSIG KFYV 011053Z 00000KT 8SM OVC028 18/18 A3009 RMK AO2 SLP179 T01830178 KGRD 011134Z AUTO 01007KT 7SM -RA FEW005 BKN060 OVC100 19/18 A3010 RMK AO2 P0007 T01890178 KHIE 011108Z AUTO 00000KT 7SM SCT001 BKN095 11/09 A3021 RMK AO2 T01060094 KHIF 011058Z AUTO 11012KT 10SM OVC170 18/11 A3016 RMK AO2 SLP153 T01830106 KGRF 011058Z AUTO 29001KT 10SM CLR 16/10 A3004 RMK AO2 SLP175 T01600097 PWINO $ URRR 011130Z 09009G12MPS CAVOK 33/08 Q1012 04CLRD70 NOSIG KGPZ 011135Z AUTO 00000KT 2 1/2SM BKN060 13/12 A3005 RMK AO1 FAUP 011100Z 34013KT CAVOK 26/00 Q1022 NOSIG UTAK 011100Z 18004MPS CAVOK 35/M02 Q1010 NOSIG KGRI 011053Z AUTO 32005KT 7SM CLR 14/13 A3007 RMK AO2 SLP168 T01440133 KHHR 011113Z AUTO 26003KT 10SM FEW009 SCT015 19/18 A2991 RMK AO2 KHII 011130Z AUTO 16010KT 10SM CLR 33/14 A2984 RMK AO2 ZWWW 011130Z 34004MPS 300V360 CAVOK 27/06 Q1013 NOSIG UTAM 011100Z 35005MPS CAVOK 34/M03 Q1008 NOSIG KGRK 011136Z 34008KT 7SM OVC008 19/18 A3004 KGSB 011058Z AUTO 03006KT 10SM SCT120 22/22 A3006 RMK AO2 SLP181 T02180215 $ KIAB 011058Z AUTO 17006KT 10SM CLR 17/17 A3008 RMK AO2 SLP178 T01710171 PNO $ FAWB 312000Z AUTO 15002KT //// // ////// 07/00 Q1026 FAUT 011100Z 35003KT 7000 SCT020 18/09 Q1023 KIAD 011052Z 17003KT 10SM BKN140 OVC200 21/18 A3016 RMK AO2 SLP210 T02110183 KHHV 011135Z AUTO 21007G15KT 150V240 10SM FEW026 29/23 A2996 RMK A01 KHHW 011135Z AUTO 05003KT 3SM BKN003 OVC007 20/19 A3003 RMK AO2 T01980186 PWINO FBMN 011100Z 08007KT CAVOK 26/03 Q1024 KHIO 011053Z AUTO 31008KT 10SM SCT100 SCT120 18/14 A2999 RMK AO2 LTG DSNT NE TSE04 SLP152 T01830139 $ KIAG 011102Z 18003KT 10SM FEW090 FEW170 17/15 A3009 RMK AO2 T01670150 KFZY 011054Z AUTO 00000KT 8SM FEW120 16/14 A3013 RMK AO2 SLP202 T01610144 URSS 011130Z 28003G06MPS 250V320 9999 FEW060 31/16 Q1006 NOSIG RMK R06/28005MPS QFE753 02000070 06000070 ZYHB 011100Z VRB01MPS 4000 BR BKN030 27/23 Q1006 NOSIG KGSH 011053Z AUTO 00000KT 5SM BR CLR 17/15 A3010 RMK AO2 SLP187 T01670150 KIAH 011137Z 29005KT 10SM FEW008 SCT023 24/23 A2995 RMK AO2 KHJH 011135Z AUTO 00000KT 4SM BR CLR 15/13 A3004 RMK AO2 T01460129 UTAT 011100Z 02005MPS CAVOK 32/10 Q1012 NOSIG KGRR 011053Z 19004KT 4SM BR SCT250 16/15 A3006 RMK AO2 SLP177 T01610150 KHKA 011053Z AUTO 03003KT 9SM OVC090 21/20 A3007 RMK AO2 SLP180 T02060200 $ UTAV 011100Z 36004MPS CAVOK 34/M01 Q1007 NOSIG KGTB 011058Z AUTO 15006KT 10SM CLR 15/14 A3012 RMK AO2 SLP199 T01450138 FAWK 312000Z AUTO 15004KT //// // ////// 10/M01 Q1028 EKOD 011050Z 21010KT 160V250 CAVOK 26/11 Q1012 FAVV 011100Z AUTO 13004KT //// // ////// 18/M09 Q1029 KGTF 011053Z 26008KT 10SM CLR 12/07 A3014 RMK AO2 SLP185 T01170067 KHJO 011053Z AUTO 00000KT 10SM CLR 23/13 A2982 RMK AO2 SLP098 T02280133 KGSO 011130Z 04007KT 2SM RA BR FEW005 BKN020 OVC049 18/18 A3014 RMK AO2 P0007 KGSP 011053Z 03008KT 10SM -RA FEW006 SCT047 OVC085 17/17 A3009 RMK AO2 RAB0956 SLP182 P0002 T01720167 KGRY 011135Z AUTO 00000KT 10SM 28/21 A2998 RMK A01 WALL 011130Z 24003KT 9999 FEW020 28/25 Q1009 NOSIG UTDD 011130Z 28005MPS 250V330 9999 SKC 33/06 Q1006 09CLRD70 NOSIG RMK QFE688/0917 KGUC 011135Z AUTO 02004KT 10SM CLR 11/07 A3041 RMK AO1 KHLC 011053Z AUTO 29004KT 10SM CLR 15/12 A3008 RMK AO2 SLP163 T01500117 KIBM 011135Z AUTO 28005KT 10SM CLR 12/09 A3022 RMK AO2 T01150090 KHLG 011144Z 00000KT 2 1/2SM R03/2800VP6000FT BR CLR 16/15 A3016 RMK AO2 T01610150 URWA 011130Z 13006G09MPS CAVOK 33/00 Q1014 NOSIG RMK QFE762/1016 SC070 KGTR 011145Z 00000KT 10SM SCT070 19/17 A3004 UTDL 011130Z 25009MPS 9999 FEW200 32/03 Q1008 NOSIG RMK QFE718/0958 88CLRD70 KHKS 011053Z AUTO 14003KT 10SM OVC080 22/18 A3002 RMK AO2 SLP157 T02220178 KIDA 011053Z AUTO 34004KT 10SM CLR 11/08 A3019 RMK AO2 SLP181 T01060078 WAMM 011130Z 13004KT 9999 FEW022 27/23 Q1009 NOSIG KGTU 011135Z 34005KT 10SM BKN017 OVC065 22/18 A3004 RMK AO1 KGUL 011135Z AUTO 9SM 28/23 A2996 RMK A01 KICL 011135Z AUTO 00000KT 10SM FEW049 SCT075 OVC090 18/17 A3008 RMK AO2 KHME 011050Z 11010KT CAVOK 36/M07 Q1011 KHLN 011053Z AUTO 00000KT 10SM CLR 16/05 A3017 RMK AO2 SLP193 T01610050 KGVE 011135Z AUTO 00000KT 5SM OVC110 20/19 A3017 RMK AO1 P0001 T01990192 URWI 011130Z 12008G21MPS 9999 SKC 34/M00 Q1012 NOSIG RMK SC065 KGUP 011053Z AUTO 00000KT 10SM CLR 14/13 A3028 RMK AO2 SLP118 T01440128 KHKY 011118Z 36004KT 7SM -RA SCT015 OVC070 18/17 A3014 RMK AO2 P0000 UTFA 011100Z 24003MPS 180V280 9999 FEW060CB 33/09 Q1007 R88/09//70 KICR 011053Z AUTO 16004KT 10SM CLR 17/16 A3008 RMK AO2 SLP169 T01720156 KIDI 011135Z AUTO 00000KT 4SM BR CLR 15/15 A3022 RMK A01 KHLR 011056Z 34006KT 10SM OVC014 22/18 A3003 RMK AO2 SLPNO T02220178 $ KGUR 011135Z AUTO 00000KT 10SM CLR 16/13 A3021 RMK AO2 T01590130 PWINO KGUS 011058Z AUTO 16002KT 10SM CLR 15/15 A3011 RMK AO2 SLP195 T01500150 KICT 011053Z 18005KT 7SM SCT095 SCT250 16/16 A3007 RMK AO2 SLP171 T01610156 KGWB 011135Z AUTO 00000KT 5SM BR CLR 17/15 A3012 RMK AO2 USNN 011130Z 04003MPS 9999 OVC014 16/13 Q1021 NOSIG RMK QFE762 030///65 KGVL 011142Z AUTO 06006KT 10SM SCT006 SCT032 BKN110 18/18 A3012 RMK AO2 T01830178 UTFF 011100Z 34003MPS 290V360 9999 NSC 33/08 Q1007 R18/CLRD70 KHND 011056Z AUTO 27003KT 10SM CLR 30/11 A2995 RMK AO2 T03000111 SLP107 KHMN 011058Z AUTO 00000KT 9SM CLR 18/18 A3018 RMK AO2 SLP152 P0009 KHLX 011135Z AUTO 11003KT 7SM -RA OVC095 15/14 A3022 RMK AO2 LTG DSNT S P0004 T01470139 KGUY 011053Z AUTO 26005KT 10SM CLR 16/13 A3016 RMK AO2 SLP173 T01560133 KIDP 011135Z AUTO 00000KT 1/4SM FG OVC001 17/17 A3008 RMK AO2 WBGB 011100Z 00000KT 9999 FEW016 SCT150 BKN300 26/25 Q1008 KIFA 011135Z AUTO 24003KT 7SM CLR 13/12 A3009 RMK AO2 T01300120 KGVT 011110Z AUTO 02003KT 4SM BR OVC002 20/18 A3001 RMK AO2 KHOB 010955Z AUTO 09006KT 10SM CLR 19/14 A3019 RMK AO2 EKSB 011050Z 17009KT 120V200 9999 FEW048 26/12 Q1012 URWW 011130Z 14006G09MPS 110V170 CAVOK 34/02 Q1015 NOSIG RMK SC070 EKRK 011120Z AUTO 19009G19KT 150V240 9999NDV FEW050/// 26/13 Q1013 WAOO 011130Z 13007KT 9999 FEW017 28/24 Q1008 NOSIG WBGG 011130Z 20002KT 8000 -RA SCT020 BKN150 25/23 Q1008 NOSIG KIEN 011052Z AUTO 10003KT 10SM FEW110 09/08 A3014 RMK AO2 SLP186 T00890078 KHOE 011135Z AUTO 00000KT 7SM CLR 23/22 A2997 RMK AO2 LTG DSNT E EKRN 011120Z AUTO 19007KT 9999NDV NCD 23/15 Q1016 KGWO 011053Z AUTO 00000KT 5SM BR OVC090 21/19 A3003 RMK AO2 SLP166 T02060194 TSNO KGVX 011135Z AUTO VRB05G15KT 10SM SCT022 SCT029 BKN110 29/25 A2996 RMK A01 KGXF 010255Z 24012G18KT 10SM FEW080 BKN130 BKN250 38/15 A2981 RMK CB 13W-13NW STNRY DSIPTD SLP071 53007 KIER 311310Z AUTO 13003KT 10SM BKN100 22/19 A3005 RMK AO2 T02220191 KGWR 011135Z AUTO 26006KT 10SM CLR 16/15 A3008 RMK A01 P000 KHNR 011135Z AUTO 02003KT 3SM BR CLR 15/15 A3011 RMK AO2 DTTA 011100Z 08005KT 040V140 9999 FEW030 31/17 Q1012 NOSIG KGYB 011135Z AUTO 35004KT 10SM OVC041 24/19 A3004 RMK AO2 T02350185 FBSK 011100Z VRB04KT CAVOK 24/M02 Q1025 NOSIG DTTB 011100Z 35010KT 320V040 CAVOK 31/16 Q1012 FDBB 011100Z AUTO /////KT //// // ////// 28/05 Q//// DTTD 011100Z 09008KT 040V140 CAVOK 33/11 Q1014 WAPP 011000Z 00000KT 9999 BKN016 26/23 Q1010 NOSIG USPP 011130Z 06002MPS 020V110 9999 OVC028 16/11 Q1020 03090060 NOSIG RMK QFE754/1006 KHON 011055Z AUTO 00000KT 8SM CLR 13/12 A3007 RMK AO2 SLP178 T01280122 KGWW 011135Z AUTO 04004KT 7SM BKN110 21/20 A3010 RMK AO2 T02100201 EKSN 011050Z 21009KT 9999 FEW030 23/12 Q1012 EKTE 011120Z AUTO 19013KT 9999NDV 19/16 Q1010 WBGR 011100Z 20001KT 9999 FEW014 SCT150 BKN300 27/22 Q1008 DTTF 010800Z 05005KT 010V090 CAVOK 27/15 Q1012 NOSIG KIFP 011135Z AUTO 23004KT 10SM CLR 33/13 A2985 RMK AO2 KHOP 011058Z AUTO 02004KT 7SM CLR 15/15 A3008 RMK AO2 SLP184 T01510151 FBSP 011100Z 11009KT CAVOK 26/08 Q1024 WBGS 011100Z 27005KT 9999 SCT018 BKN150 29/25 Q1008 DTTG 011100Z 09012KT CAVOK 34/16 Q1012 NOSIG KGYH 011128Z 05010KTS 10SM -DZ SCT007 BKN110 18/18 A3011 EKSP 011120Z 20007KT 160V260 CAVOK 26/13 Q1012 NOSIG RMK SCT050 KHNZ 011135Z AUTO 01003KT 3SM BR SCT021 SCT034 BKN110 21/20 A3016 RMK AO2 T02050195 KGYI 011135Z AUTO 03005KT 3SM BR OVC005 20/19 A3006 RMK AO2 T01990187 DTTJ 010830Z 10004KT 050V130 CAVOK 31/17 Q1012 NOSIG KHOT 011053Z AUTO 00000KT 10SM OVC050 19/18 A3005 RMK AO2 SLP170 T01940183 DTTK 011100Z 17002KT CAVOK 35/10 Q1012 KHOU 011053Z 24007KT 10SM BKN080 OVC110 24/22 A2994 RMK AO2 RAB0957E26 SLP145 P0000 T02390222 $ KGYL 011134Z AUTO 00000KT 7SM CLR 15/13 A3006 RMK AO2 T01530131 DTTL 011100Z VRB06KT CAVOK 32/16 Q1012 KIGM 011051Z AUTO 11012KT 10SM FEW120 27/11 A3004 RMK AO2 SLP090 T02670106 WBGY 011100Z 00000KT 6000 FEW022 SCT150 BKN300 30/27 Q1007 KHPN 011056Z 00000KT 6SM BR CLR 20/19 A3019 RMK AO2 SLP217 T02000189 DTTN 011100Z 27004KT CAVOK 34/18 Q1011 KGZH 011053Z AUTO 00000KT 8SM CLR 21/19 A3000 RMK AO2 SLP154 T02110189 KIGQ 011135Z AUTO 19004KT 5SM BR CLR 17/16 A3009 RMK AO2 LTG DSNT W T01690164 KGYR 010347Z 36013G18KT 10SM BKN100 BKN200 BKN250 36/13 A2984 RMK LTG DSNT W-NW LAST KHQI 011135Z AUTO 19009KT M1/4SM HZ 29/23 A2997 RMK A01 DTTR 011000Z 09016KT 6000 NSC 35/14 Q1013 RMK SIROCCO KIIB 011135Z AUTO 00000KT 3SM BR CLR 13/12 A3007 RMK AO2 KGZL 011135Z AUTO 00000KT 9SM SCT008 BKN015 OVC021 20/19 A3007 RMK AO2 KHQM 011053Z AUTO 00000KT 7SM CLR 13/11 A3006 RMK AO2 SLP182 T01280106 EKVD 011050Z 24003KT 9999 SCT030 22/15 Q1012 WARQ 011100Z 23008KT 6000 FEW017 27/21 Q1010 NSG KIGX 011056Z AUTO 03007KT 9SM OVC090 21/19 A3014 RMK AO2 RAE12 SLP199 P0001 T02060194 WARR 011130Z 10008KT 9000 FEW020 27/21 Q1010 USRR 011130Z 07003MPS 7000 BKN016 15/12 Q1021 NOSIG RMK QFE761 07////60 DTTX 010800Z 27003KT 220V360 CAVOK 29/18 Q1013 NOSIG KGYY 011045Z 21003KT 4SM BR FEW100 16/15 A3008 WARS 011130Z 30006KT 7000 SCT020 29/23 Q1009 NOSIG EKVG 011120Z AUTO 35009KT 9999NDV BKN032/// 12/06 Q1009 RMK BKN043/// WIND 850FT 02005KT 340V070 DTTZ 010800Z 10017KT CAVOK 28/18 Q1013 NOSIG KHRI 011053Z AUTO 21005KT 10SM CLR 20/11 A2990 RMK AO2 SLP119 T02000106 KHSA 010151Z 00000KT 10SM CLR A3000 KHRJ 011135Z AUTO 02003KT 10SM OVC070 22/21 A3010 RMK AO2 T02200208 EKVJ 011050Z 20012KT 9999 SCT030 24/17 Q1012 KHSB 011135Z AUTO 00000KT M1/4SM FG OVC001 16/16 A3010 RMK AO2 T01560156 KJAC 011135Z AUTO 00000KT 10SM CLR 09/06 A3034 RMK AO1 KHRL 011052Z 10003KT 9SM SCT020 26/24 A2991 RMK AO2 SLP128 T02560239 KHQU 011135Z AUTO 02006KT 10SM OVC005 21/21 A3010 RMK AO1 T02070207 KIJD 011122Z AUTO 00000KT 7SM SCT013 19/17 A3021 RMK AO2 T01890172 KHSE 011051Z AUTO 07006KT 10SM CLR 26/23 A3010 RMK AO2 SLP191 T02560228 TSNO KHRO 011129Z AUTO 00000KT 1/4SM FG BKN002 OVC024 18/18 A3010 RMK AO2 T01780178 ELLX 011120Z VRB03KT 9999 FEW045 25/14 Q1011 NOSIG USSS 011130Z 33003MPS 9999 OVC015 13/12 Q1018 760///60 260///70 NOSIG RMK QFE743 KHQZ 011035Z AUTO 01005KT 7SM OVC007 20/20 A3001 RMK AO1 T02030195 WBKK 011130Z 13009KT 6000 -TSRA FEW013 FEW016CB SCT040 BKN130 26/23 Q1009 NOSIG KHSI 011053Z AUTO 34005KT 7SM CLR 16/13 A3006 RMK AO2 SLP165 T01560133 WBKL 011100Z 24003KT 8000 FEW013 SCT130 BKN280 29/25 Q1008 KL18 011135Z AUTO 00000KT 7SM OVC005 18/17 A2991 RMK AO2 KHRT 011058Z AUTO 02005KT 10SM CLR 20/17 A2996 RMK AO2 SLP147 T02000166 $ UUBP 011100Z 09004MPS 340V140 9999 BKN026 BKN100 34/11 Q1016 NOSIG RMK QFE744 KJAN 011054Z 00000KT 10SM OVC080 22/19 A3002 RMK AO2 RAE15 SLP160 P0000 T02170194 KHRX 011135Z AUTO 00000KT 10SM CLR 17/16 A3022 RMK AO2 T01720157 USTR 011130Z 29002MPS 260V020 9999 BKN005 OVC012 15/14 Q1017 TEMPO 1500 RA BR BKN003 RMK QBB170 QFE752/1003 03290060 12290060 KHSP 011135Z AUTO 15004KT M1/4SM FG OVC001 14/13 A3028 RMK AO2 LTG DSNT S T01400131 KIIY 011135Z AUTO 03004KT 2 1/2SM +RA OVC006 20/ A3007 RMK AO2 WBKS 011100Z 12005KT 9999 FEW016 FEW017CB SCT140 BKN270 29/26 Q1007 WATT 011130Z 09006KT 8000 FEW018 25/21 Q1013 NOSIG WBKT 011100Z 27011KT 230V300 6000 FEW014 SCT034 BKN280 28/24 Q1007 KHUA 311955Z 00000KT 7SM SKC 27/16 A3008 KJAS 011135Z AUTO 00000KT 10SM SCT007 OVC014 22/22 A2997 RMK AO2 T02230216 UUDD 011130Z VRB02MPS CAVOK 33/08 Q1017 NOSIG KHST 011058Z AUTO 12003KT 10SM CLR 26/24 A2995 RMK AO2 SLP145 T02600238 KIKK 011135Z AUTO 00000KT 10SM VCTS CLR 16/15 A3010 RMK AO2 LTG DSNT N AND NW T01550145 UUBW 011130Z VRB02MPS CAVOK 34/07 Q1016 NOSIG WBKW 011100Z 06003KT 9999 FEW017 BKN300 27/25 Q1007 KHTL 011136Z AUTO 00000KT 6SM BR SCT003 11/11 A3006 RMK AO2 T01060106 KHSV 011053Z 10003KT 7SM BKN170 20/18 A3006 RMK AO2 SLP171 FIRST T02000178 KILE 011135Z AUTO 34007KT 10SM FEW012 20/15 A3002 RMK AO1 KHTO 011050Z 00000KT 10SM SKC 21/20 A3020 KHUF 011143Z 00000KT 4SM BR CLR 15/14 A3011 RMK AO2 T01500139 $ KJAX 011056Z 00000KT 8SM FEW020 FEW150 BKN250 23/23 A2995 RMK AO2 SLP143 CB DSNT NE T02330233 KIJX 011135Z AUTO 12003KT 10SM CLR 18/16 A3008 RMK AO2 T01760163 KILG 011051Z AUTO 18004KT 9SM CLR 23/20 A3018 RMK AO2 SLP217 T02280200 KL35 011135Z AUTO 00000KT 10SM CLR 10/03 A3030 RMK AO2 KJBR 011119Z AUTO 00000KT 10SM BKN027 OVC050 21/19 A3007 RMK AO2 UUDL 011130Z 29001MPS CAVOK 33/10 Q1016 NOSIG RMK QFE754 23000060 KHTS 011131Z 00000KT 1 1/4SM BR FEW002 OVC085 16/16 A3011 RMK AO2 T01610161 KL38 011135Z AUTO 00000KT 10SM SCT039 23/23 A2998 RMK AO2 LTG DSNT SW AND NW T02300230 KIKT 011135Z AUTO 08005KT 10SM CLR 28/20 A2997 RMK A01 UUEE 011130Z 13003MPS CAVOK 32/10 Q1016 NOSIG KHUL 011053Z AUTO 22005KT 5SM BR OVC003 16/15 A3018 RMK AO2 SLP221 T01560150 KHUM 011055Z AUTO 00000KT 7SM CLR 24/21 A2997 RMK AO2 T02360213 KILM 011053Z 12005KT 4SM RA BR BKN060 BKN075 OVC110 23/22 A3005 RMK AO2 LTG DSNT NW-E SLP175 P0023 T02330217 KJDD 011135Z AUTO 00000KT 10SM BKN006 OVC011 20/20 A3001 RMK AO2 KIKV 011135Z AUTO 00000KT 8SM CLR 13/13 A3009 RMK AO2 KIKW 011134Z AUTO 00000KT 7SM CLR 15/14 A3005 RMK AO2 T01470137 KILN 011104Z AUTO 00000KT 1SM BR CLR 15/14 A3012 RMK AO2 T01500144 KHVE 011135Z AUTO 13003KT 10SM CLR 17/15 A3015 RMK AO2 FCPP 011100Z 20010KT 9999 SCT013 BKN023 25/19 Q1016 NOSIG OYAA 011100Z 25020KT 7000 NSC 33/20 Q1002 KJCT 011051Z AUTO 05004KT 10SM OVC055 23/17 A3007 RMK AO2 SLP143 T02280172 KHUT 011052Z AUTO 19003KT 10SM CLR 17/14 A3007 RMK AO2 SLP162 T01720139 UTNN 011130Z 36007MPS CAVOK 32/01 Q1012 R33/CLRD60 NOSIG EKYT 011120Z 28005KT 250V310 9999 -SHRA FEW028CB BKN040 18/15 Q1012 RETS KIML 011053Z AUTO 00000KT 10SM CLR 15/12 A3014 RMK AO2 SLP179 T01500117 KIMM 011135Z AUTO 00000KT 7SM CLR 23/ A2998 RMK A01 P000 KHWD 011054Z 33003KT 10SM CLR 17/14 A2989 RMK AO2 SLP131 T01670144 KIND 011054Z 00000KT 6SM BCFG FEW250 17/16 A3010 RMK AO2 SLP189 T01670156 KJDN 011048Z AUTO 30007KT 16/06 A3004 RMK AO1 SLP155 T01610056 KHVN 011053Z 00000KT 6SM HZ SCT250 23/20 A3018 RMK AO2 SLP220 T02280200 KJEF 011053Z 12003KT 10SM FEW030 17/15 A3007 RMK AO2 SLP167 T01670150 KINF 011135Z AUTO 00000KT 10SM OVC049 22/18 A2999 RMK AO2 LTG DSNT S ZYTL 011130Z 11003MPS 8000 NSC 25/22 Q1006 NOSIG KHVR 011053Z AUTO 10003KT 10SM CLR 14/08 A3008 RMK AO2 SLP165 T01440083 UTNU 011130Z 04005MPS 010V070 8000 NSC 32/05 Q1011 R13/CLRD70 NOSIG KHVS 011135Z AUTO 07005KT 3SM OVC003 22/22 A3005 RMK AO2 KINJ 011135Z AUTO 36004KT 10SM BKN012 OVC037 21/18 A3002 RMK AO2 T02130183 KIMT 011054Z AUTO 00000KT 8SM FEW065 10/09 A3002 RMK AO2 SLP164 T01000089 TSNO KINK 011053Z AUTO 10008KT 10SM CLR 23/17 A3012 RMK AO2 SLP152 T02280167 KIOB 011135Z AUTO 00000KT 7SM SCT060 SCT080 BKN090 15/15 A3013 RMK AO2 KINL 011135Z AUTO 00000KT 4SM BR CLR 09/08 A3004 RMK AO2 T00890083 KHXD 011050Z 35004KT 7SM FEW005 24/24 A2999 KHWO 011053Z 00000KT 10SM CLR 26/24 A2996 RMK AO2 SLP146 T02560244 OYAR 011000Z 34008KT 9999 FEW025CB SCT030 28/10 Q//// KJER 011053Z AUTO 02007KT 10SM CLR 17/10 A3014 RMK AO2 SLP163 T01670100 OYAT 010900Z 14007KT CAVOK 34/12 Q1012 KINS 011058Z AUTO 12005KT 10SM SCT160 27/07 A3000 RMK AO2 SLP101 T02690071 VISNO RWY08 $ KHYA 011056Z 00000KT 10SM CLR 22/18 A3020 RMK AO2 SLP227 T02170178 KJES 011135Z AUTO 00000KT 2 1/2SM BR CLR 25/23 A2998 RMK AO2 KJFK 011051Z 24006KT 10SM SCT220 BKN260 22/19 A3018 RMK AO2 SLP220 T02220194 $ KINT 011054Z 02007KT 9SM -RA BKN075 BKN095 OVC110 18/16 A3015 RMK AO2 SLP201 P0008 T01780161 ZYTX 011130Z 24002MPS 9999 SCT040 28/24 Q1006 NOSIG ENAL 011120Z 24008KT 9999 VCSH SCT023 BKN044 15/10 Q1008 KHWV 011056Z AUTO 00000KT 5SM BR CLR 22/21 A3019 RMK AO2 SLP221 T02170206 TSNO KINW 011056Z AUTO 00000KT 10SM OVC110 20/11 A3021 RMK AO2 SLP157 T02000106 ENAN 011120Z 20009KT 9999 -SHRA FEW015 SCT030 BKN050 15/11 Q1002 TEMPO SHRA BKN015CB KHWY 011135Z AUTO 19004KT 10SM OVC120 23/22 A3017 RMK AO2 T02250216 KJGG 011135Z AUTO 00000KT 7SM CLR 23/21 A3017 RMK AO1 KHYI 011135Z 01005KT 10SM OVC041 24/17 A3003 RMK AO1 FDJR 011000Z AUTO 26004KT //// // ////// ///// Q1024 KIPJ 011135Z AUTO 04010G15KT 5SM +RA BKN009 OVC013 18/17 A3010 RMK AO2 P0010 T01810172 FDLB 011100Z AUTO 11003KT //// // ////// 29/02 Q//// ENAT 011050Z 34013KT 9999 FEW035TCU SCT052 18/10 Q1001 RMK WIND 700FT 33018KT KIPL 011053Z AUTO 13012KT 10SM CLR 31/24 A2977 RMK AO2 SLP082 T03110239 ENBL 011120Z 26005KT 220V300 9999 FEW006 SCT015 BKN026 13/10 Q1008 KIOW 011052Z AUTO 00000KT 10SM CLR 16/16 A3008 RMK AO2 SLP181 T01610156 KHZE 011135Z AUTO 05005KT 5SM BR FEW095 13/12 A3006 RMK AO2 KIPN 011135Z AUTO 12004KT 10SM CLR 27/20 A2998 RMK A01 ENBN 011050Z 21011KT 9999 VCSH FEW010 SCT023 BKN040 14/11 Q1006 KJFX 011135Z AUTO 00000KT 3SM BR CLR 18/18 A3005 RMK A02 P-128 ENBO 011120Z 23016KT 9999 VCSH FEW020TCU BKN060 14/10 Q1004 NOSIG UTSA 011130Z 01006MPS 9999 NSC 34/M02 Q1008 R07/CLRD70 NOSIG KJFZ 011135Z AUTO 10003KT 10SM SCT070 20/16 A3018 RMK AO2 T01970160 UTSB 011130Z 36006MPS CAVOK 34/M01 Q1008 R01/CLRD70 NOSIG WBSB 011130Z 23004KT 7000 FEW015 BKN280 29/25 Q1009 NOSIG KHYR 011053Z AUTO 02004KT 1/2SM FG VV002 12/12 A3004 RMK AO2 SLP171 T01170117 ENBR 011120Z 22006KT 9999 FEW020TCU SCT030 SCT080 17/11 Q1009 NOSIG RMK WIND 1200FT 23008KT KHYS 011135Z 29005KT 10SM CLR 15/12 A3007 RMK AO1 ENBS 011050Z 23009KT 9999 -SHRA SCT038 BKN070 17/06 Q1000 KIPT 011140Z 01003KT 3/4SM BR OVC002 17/16 A3017 RMK AO2 T01670156 OYDM 011000Z 35010KT 9999 SCT030TCU 22/10 Q//// KHZL 011135Z AUTO 00000KT 7SM CLR 18/17 A3024 RMK AO2 ENBV 011050Z VRB02KT 9999 SCT040 15/09 Q1000 KHYW 011135Z AUTO 05003KT VCTS 23/23 A3003 RMK AO2 LTG DSNT SE AND S FDLM 011000Z AUTO 00000KT //// // ////// 23/M00 Q//// ENCN 011120Z 19011KT 9999 SCT030 SCT080 20/14 Q1011 KHYX 011134Z AUTO 23005KT 7SM CLR 17/17 A3005 RMK AO2 UTSK 011130Z 27004MPS CAVOK 34/02 Q1007 R16/CLRD70 KHZR 011135Z AUTO 00000KT 10SM BKN029 BKN036 OVC070 23/20 A2998 RMK AO2 LTG DSNT W AND NW T02330197 KIRK 011055Z AUTO 25003KT 10SM CLR 17/15 A3008 RMK AO2 SLP184 T01670150 KJHW 011135Z AUTO 18005KT 6SM CLR 14/13 A3017 RMK AO1 FDND 011100Z AUTO /////KT //// // ////// 28/02 Q//// KHZX 011127Z AUTO 00000KT 7SM CLR 11/11 A3006 RMK AO2 KHZY 011053Z AUTO 00000KT 7SM BKN110 16/14 A3013 RMK AO2 SLP200 T01560139 UTSS 011130Z 08006MPS 060V120 9999 NSC 32/01 Q1009 R88/CLRD70 NOSIG UTST 011130Z 29006MPS CAVOK 34/03 Q1005 R88/CLRD70 NOSIG FDNH 011000Z AUTO 00000KT //// // ////// ///// Q//// ENDR 011120Z AUTO 23027KT 13/07 Q1006 KIRS 011134Z AUTO 00000KT 4SM BR CLR 16/15 A3010 RMK AO2 KJKA 011135Z AUTO 00000KT 10SM CLR 21/19 A2998 RMK AO2 T02050187 FDMS 011100Z 19005KT CAVOK 27/01 Q1022 NOSIG KM19 011056Z AUTO 04004KT 5SM BR OVC043 21/20 A3008 RMK AO2 T02050200 SLP183 ENFB 011120Z AUTO VRB05KT 9999NDV FEW025/// ///// Q//// W///S4 ENEK 011120Z 17012KT 9999 FEW015TCU SCT065 19/16 Q1008 W18/S3 ENDU 011120Z 23009KT 170V290 9999 FEW040 SCT050 18/07 Q1002 NOSIG KISM 011050Z 00000KT 10SM SKC 24/23 A2998 RMK FIRST KISN 011052Z AUTO VRB03KT 10SM CLR 19/14 A3003 RMK AO2 SLP157 T01890139 KISO 011056Z AUTO 03005KT 5SM BR CLR 22/21 A3009 RMK AO2 FEFF 011100Z 36006KT 330V030 6000 TSRA OVC005 FEW033CB 23/22 Q1014 NOSIG KM25 011135Z AUTO 00000KT 10SM OVC110 18/18 A3009 RMK AO2 KISP 011056Z 23005KT 9SM FEW150 BKN190 BKN250 23/20 A3017 RMK AO2 SLP214 T02330200 LBBG 011130Z 09008MPS 9999 FEW018 SCT034 29/21 Q1006 NOSIG ENFG 011120Z 27009KT 210V310 9999 FEW035 BKN046 16/03 Q1008 KISQ 011134Z AUTO 00000KT 10SM CLR 09/09 A3003 RMK AO2 T00910088 KITH 011056Z 13004KT 7SM CLR 14/14 A3018 RMK AO2 T01440144 SLP218 UTTT 011130Z 26003MPS 210V310 CAVOK 33/01 Q1008 R08R/CLRD70 NOSIG KJKJ 011135Z AUTO 00000KT 5SM BR CLR 15/15 A3006 RMK AO2 KM30 011135Z AUTO 00000KT 5SM BR BKN090 BKN110 17/16 A3008 RMK AO2 T01680163 OYHD 011000Z 24014KT CAVOK 34/27 Q1005 KJKL 011053Z AUTO 11003KT 10SM CLR 18/15 A3012 RMK AO2 SLP187 T01780150 ENFL 011050Z 27004KT 9999 VCSH FEW015 SCT020TCU SCT040 15/11 Q1009 ENGC 011120Z 13005KT 9999 FEW025 15/09 Q1008 W14/S4 ENEV 011050Z 22013KT 190V250 9999 SCT042 17/09 Q1003 RMK WIND 1400FT 24027KT KISW 011137Z AUTO 00000KT 3SM BR CLR 14/14 A3006 RMK AO2 T01440139 FDNY 011100Z AUTO 07003KT //// // ////// 30/M02 Q1030 OYHJ 011000Z 28007KT 9999 SCT025 24/20 Q//// KITR 011053Z AUTO 26006KT 10SM CLR 13/11 A3020 RMK AO2 SLP183 T01330106 OYIB 010900Z 33004KT 9999 FEW025 24/15 Q1017 KM40 011135Z AUTO 00000KT 5SM HZ CLR 19/11 A3004 RMK AO2 FEFT 010700Z 28008KT 9999 OVC003 23/22 Q1013 FDOT 011100Z AUTO /////KT //// // ////// 29/M08 Q1022 UUMO 011130Z 25004MPS CAVOK 33/08 Q1016 NOSIG RMK QFE747/0996 SC060 ENGM 011120Z 22007KT 180V290 9999 BKN049 20/09 Q1008 NOSIG ENHD 011120Z 21011KT 9999 FEW025TCU SCT090 18/12 Q1009 KJLN 011102Z 00000KT 1/2SM FG VV002 18/18 A3009 RMK AO2 T01780178 ENHE 011120Z 27022KT 9999 BKN022 13/10 Q1003 W///S4 ENHF 011050Z 20004KT 9999 FEW006 SCT012 BKN022 11/10 Q1001 RESHRA RMK WIND 1254FT 27015KT UUOB 011130Z 10004MPS CAVOK 32/02 Q1016 NOSIG RMK SC060 KIWA 010647Z 33009KT 20SM FEW150 BKN250 34/13 A2993 RMK OCNL LTG SE-W LAST ENHK 010520Z 32005KT 9999 BKN007 12/10 Q0998